ENHM 051550Z 17029KT 9000 BKN050 08/07 Q1016 W08/S4 UUOK 051530Z 09004MPS 9999 SCT033 14/07 Q1014 R12/CLRD70 NOSIG RMK QFE743/0990 KIWI 051553Z AUTO VRB05KT 10SM OVC012 08/06 A2984 RMK AO2 SLP103 T00830061 TSNO KJMR 051558Z AUTO 00000KT 10SM SCT100 13/M01 A3004 RMK AO2 KIXA 051550Z AUTO 04006G14KT 1 1/2SM -RA OVC015 13/11 A2956 RMK AO2 PPIT 051556Z AUTO 10008KT 10SM CLR 04/02 A2967 RMK AO2 SLP048 T00440017 KJMS 051556Z AUTO 25017KT 10SM CLR 26/05 A2989 RMK AO2 SLP117 T02610050 UUOO 051530Z 36004MPS 9999 -SHRA BKN050CB 12/07 Q1013 R30/290150 TEMPO -TSRA RMK QFE746 KIXD 051553Z VRB06KT 10SM CLR 18/07 A3011 RMK AO2 SLP191 T01830067 ENHV 051550Z 24005KT 9999 SCT028 BKN046 09/01 Q1020 KM63 051458Z AUTO 31005KT 8SM FEW120 22/M07 A3015 RMK AO2 SLP147 T02231071 52012 PPIZ 051556Z AUTO 07014KT 10SM BKN014 BKN028 M04/M06 A2991 RMK AO2 TSNO T10441055 SLP131 $ KIYA 051555Z AUTO 35006KT 10SM CLR 24/12 A3000 RMK AO2 T02400115 ENKB 051550Z 16009KT 120V200 CAVOK 17/00 Q1017 FDSK 051600Z 05007KT CAVOK 23/12 Q1020 NOSIG KJNX 051550Z AUTO 04006KT 7SM RA OVC008 15/14 A2954 RMK AO2 LTG DSNT ALQS P0004 VLPS 051200Z 32002KT 6000 SCT030 SCT200 31/22 Q1007 NOSIG KIZA 051530Z AUTO 00000KT 10SM SCT045 SCT110 15/09 A2990 RMK AO2 LTG DSNT S ENLA 051550Z AUTO 17029KT 9999NDV FEW240/// 08/06 Q1019 W///S4 KJOT 051535Z AUTO 35010KT 10SM CLR 13/06 A3001 RMK AO2 T01310056 FDST 051500Z AUTO 09002KT //// // ////// ///// Q1022 KJQF 051555Z 36012G18KT 10SM OVC049 14/06 A2968 LBGO 051530Z AUTO 29010KT 9999 SCT040/// 14/11 Q1014 NOSIG KIZG 051554Z AUTO 02009G16KT 10SM OVC015 09/05 A2983 RMK AO2 SLP106 T00890050 ENKR 051550Z 20005KT 9999 VCSH FEW039 BKN051 10/01 Q1022 RMK WIND 731FT 21007KT ENLK 051550Z 15006KT 9999 FEW040 BKN050 08/04 Q1019 KM91 051555Z AUTO 35013G20KT 10SM SCT026 BKN032 OVC040 11/05 A2989 RMK A01 KN03 051555Z AUTO 02005KT 10SM SCT020 BKN026 OVC033 11/07 A2977 RMK AO2 ENMH 051450Z 19007KT 9999 FEW045 BKN065 08/02 Q1020 VLSK 051200Z 18002KT 6000 SCT020 BKN100 36/22 Q1007 NOSIG KLAA 051553Z AUTO 00000KT 10SM CLR 19/07 A3009 RMK AO2 SLP154 T01940067 TSNO FDUS 051200Z AUTO 08005KT //// // ////// 26/08 Q//// ENNA 051550Z 18011KT 9999 FEW045 BKN100 10/M01 Q1021 RMK WIND 1800FT 24010KT ENML 051550Z 22014KT CAVOK 15/03 Q1017 ENNE 051550Z 16026KT 9999 VCSH BKN030 08/05 Q1016 W///S5 KLAF 051554Z 01009KT 10SM OVC012 08/05 A2996 RMK AO2 SLP147 T00830050 ENMS 051550Z 18010KT CAVOK 13/M02 Q1019 RMK WIND 412FT 17007KT 010V240 KLBB 051553Z 21011KT 10SM FEW250 26/M01 A3015 RMK AO2 SLP167 T02611006 ENOA 051550Z 18035KT 6000 FEW010 BKN050 08/07 Q1016 W///S5 ENNK 051250Z VRB02KT 9999 FEW060 SCT100 BKN200 13/M01 Q1020 KJSL 051540Z AUTO 00000KT 10SM CLR 26/17 A3002 RMK A01 KJTC 051555Z AUTO 16023G28KT 10SM CLR 21/M02 A3019 RMK AO2 KLAL 051545Z 32015G21KT 10SM BKN045 24/14 A2983 KLAM 051555Z AUTO 10006KT 10SM CLR 16/M25 A3032 RMK AO2 T01601253 ENNM 051550Z 25005KT CAVOK 14/01 Q1019 KLAN 051553Z 03009KT 10SM BKN018 14/08 A2993 RMK AO2 SLP135 T01390083 $ KLBE 051545Z VRB03KT 10SM FEW017 SCT024 BKN034 13/10 A2970 KLBF 051553Z AUTO VRB05KT 10SM CLR 21/10 A3009 RMK AO2 SLP176 T02060100 KJSO 051555Z AUTO 00000KT 10SM CLR 21/06 A3010 RMK AO2 T02170061 LATI 051550Z 02007KT 9999 SCT085 BKN130 21/06 Q1013 NOSIG KLAR 051553Z AUTO 22011KT 10SM CLR 14/00 A3022 RMK AO2 SLP155 T01440000 VMMC 051530Z 17010KT 6000 FEW006 SCT015 27/26 Q1009 TEMPO 4000 BR KLAS 051556Z 13005KT 10SM BKN250 24/01 A2979 RMK AO2 SLP062 T02440006 KJST 051554Z AUTO 07005KT 10SM BKN021 OVC027 11/05 A2968 RMK AO2 SLP053 T01060050 KLBL 051555Z 16009KT 10SM CLR 20/10 A3014 RMK AO1 ENOL 051550Z 13012KT CAVOK 16/M01 Q1018 NOSIG KJSV 051555Z AUTO 25005KT 10SM CLR 21/07 A3009 RMK AO2 KLAW 051553Z AUTO VRB04KT 10SM CLR 24/08 A3013 RMK AO2 SLP196 T02390078 TSNO KLAX 051553Z 20004KT 9SM FEW018 SCT028 BKN050 16/11 A2992 RMK AO2 SLP129 SCT028 V BKN T01610111 $ KLCG 051555Z AUTO 24005KT 10SM CLR 21/06 A3008 RMK AO2 T02060056 KLCH 051553Z 03007KT 10SM CLR 24/09 A3001 RMK AO2 SLP171 T02440089 KLCI 051555Z AUTO 06010KT 10SM OVC017 09/04 A2981 RMK AO1 KN38 051555Z AUTO 02013KT 10SM BKN020 OVC024 11/07 A2972 RMK AO2 ENQA 051550Z AUTO 17038KT 8000NDV FEW051/// OVC072/// 09/06 Q1017 W06/S5 KLBT 051554Z AUTO 30015KT 10SM BKN022 BKN028 OVC070 18/12 A2955 RMK AO2 SLP006 T01780117 KLCK 051555Z AUTO 32007KT 10SM OVC010 09/06 A2980 RMK AO2 T00850063 ENQC 051550Z AUTO 16032KT 8000NDV FEW012/// 09/07 Q1016 W///S5 ENOV 051550Z 26010G21KT 9999 FEW059 BKN062 14/02 Q1017 RMK WIND 2175FT 16030KT KLBX 051553Z AUTO 31004KT 10SM CLR 27/14 A3004 RMK AO2 SLP173 T02670144 KLCQ 051555Z AUTO 28016G21KT 10SM CLR 22/06 A2980 RMK AO2 VLVT 051530Z 12002KT 3000 BR NSC 30/24 Q1007 NOSIG KKLS 051555Z AUTO 29006KT 10SM CLR 12/06 A3006 RMK AO1 ENRA 051550Z 13005KT CAVOK 13/M02 Q1020 KLEB 051553Z 34006KT 10SM BKN013 OVC022 12/07 A2980 RMK AO2 SLP091 T01170072 KJVL 051545Z 02007KT 10SM SKC 13/03 A3004 KLDM 051555Z AUTO 32005KT 10SM CLR 12/06 A2999 RMK AO2 T01200063 KLEE 051553Z 29011KT 10SM CLR 24/08 A2981 RMK AO2 SLP094 T02440083 KJWG 051555Z AUTO 00000KT 10SM CLR 22/08 A3014 RMK AO2 T02240075 ENQR 051550Z AUTO 17035KT 7000NDV BKN011/// BKN033/// 09/07 Q1013 W///S6 KN60 051552Z AUTO 22010KT 25/07 A2987 RMK AO1 SLP109 T02500067 UUWW 051530Z 02007MPS 9999 SCT039 12/05 Q1017 R06/000070 NOSIG ENSB 051550Z 12021KT 9999 FEW025 SCT070 M02/M07 Q1021 RMK WIND 1400FT 12022KT ENRM 051550Z 17005KT CAVOK 13/02 Q1019 ENSD 051550Z 19010KT 120V240 9999 SCT051 BKN054 13/02 Q1019 RMK WIND 1138FT 17008KT UWGG 051530Z 28002MPS 9999 SCT033 15/06 Q1016 R36L/090060 NOSIG RMK QFE755 KJVW 051555Z AUTO 34007G13KT 320V040 9SM CLR 21/18 A3000 RMK AO2 KJWN 051555Z AUTO 33014KT 310V020 10SM SCT041 OVC047 13/04 A2986 RMK LCEN 051520Z 29007KT 9999 FEW025CB SCT030 16/12 Q1010 NOSIG ENSE 051550Z AUTO 19034KT 8000NDV FEW011/// SCT017/// BKN046/// 09/07 Q1013 W///S5 ENSF 051550Z AUTO 19038KT 7000NDV BKN012/// 09/07 Q1013 W///S5 ENRO 051550Z 16010KT 130V200 CAVOK 11/M02 Q1020 ENSG 051550Z VRB03KT 9999 BKN047 10/01 Q1021 RMK WIND 3806FT 17016KT ENSH 051550Z 27005KT 9999 -RA FEW025 BKN037 09/04 Q1020 KJXI 051537Z AUTO 00000KT 10SM CLR 21/07 A3008 RMK AO2 KLFI 051558Z AUTO 04010KT 10SM OVC008 12/11 A2960 RMK AO2 SLP030 T01200106 $ KLGA 051551Z 07012KT 10SM OVC022 12/07 A2970 RMK AO2 SLP056 T01170067 $ ENRS 051550Z 15013KT CAVOK 09/03 Q1018 KLFK 051553Z AUTO VRB04KT 10SM CLR 23/08 A3006 RMK AO2 SLP177 T02330078 KLGB 051553Z 22006KT 10SM OVC055 16/12 A2992 RMK AO2 SLP131 T01610117 ENSK 051550Z 22007KT 9999 -SHRA FEW025 BKN036 08/05 Q1020 KLGC 051555Z AUTO 32015G20KT 10SM SCT060 18/07 A2985 RMK AO2 T01770065 ENSL 051550Z 19028KT 8000 BKN050 08/07 Q1017 W06/S4 ENTC 051550Z 24011KT 9999 FEW055 BKN076 OVC096 10/01 Q1019 NOSIG RMK WIND 2600FT 21020KT KLGD 051555Z AUTO 33007KT 10SM OVC110 14/06 A2991 RMK AO1 LBPD 051530Z AUTO 23006KT 200V260 9999 -RA OVC050/// 12/11 Q1014 NOSIG KJXN 051556Z 36010KT 10SM CLR 14/08 A2989 RMK AO2 SLP126 T01440078 KLEW 051555Z AUTO 03013G17KT 10SM OVC012 07/04 A2982 RMK AO1 KLEX 051554Z 36008KT 10SM OVC026 09/04 A2983 RMK AO2 SLP102 T00940039 ENSO 051020Z 18018G30KT 9999 SCT050 12/04 Q1022 KJYG 051555Z AUTO 22008KT 10SM CLR 16/M01 A3007 RMK AO2 KJWY 051555Z AUTO 00000KT 10SM CLR 23/07 A3012 RMK AO2 T02280074 ENRY 051550Z 19013KT 160V220 CAVOK 11/04 Q1026 ENSR 051220Z VRB03KT 9999 FEW055 BKN075 13/01 Q1020 WIND 1119FT 26004KT ENSS 051050Z 25011KT 9999 FEW020 09/04 Q1022 RMK WIND 500FT 25009KT KLFT 051553Z 03010KT 10SM CLR 24/10 A2999 RMK AO2 SLP156 T02440100 $ KLHB 051555Z AUTO 00000KT 10SM CLR 25/09 A3009 RMK AO2 T02470094 ENST 051550Z 20009KT 170V230 CAVOK 13/01 Q1019 RMK WIND 300FT 19011KT KJYL 051535Z AUTO 30014G23KT 10SM SCT044 20/09 A2970 RMK AO2 T01960090 KJYM 051555Z AUTO 02008KT 10SM CLR 14/05 A2988 RMK AO2 T01420052 UUYY 051530Z 02006MPS CAVOK 14/M01 Q1019 R01/CLRD61 NOSIG RMK QFE755/1006 EPCE 051530Z 07010KT CAVOK 17/03 Q1026 RMK 173 040 1/1 = KJYO 051555Z AUTO 03007KT 3SM BR OVC015 12/11 A2969 RMK AO2 ENTO 051550Z 20014KT CAVOK 12/01 Q1026 ENUG 051550Z AUTO 19013KT 9999NDV -SHRA OVC035/// 07/04 Q1018 W06/S5 KJZI 051555Z AUTO 27015G24KT 10SM CLR 20/08 A2962 RMK AO2 KJYR 051555Z AUTO 25005KT 10SM CLR 20/00 A3011 RMK AO2 EPDA 051530Z 36006KT 290V060 CAVOK 11/07 Q1027 RMK 114 074 0/0 = ENVA 051550Z 15009KT CAVOK 16/M01 Q1019 NOSIG RMK WIND 670FT 16013KT FGBT 051500Z 22010KT 9999 TS SCT010 FEW020CB BKN100 30/26 Q1010 KLGU 051551Z AUTO 36003KT 10SM CLR 13/07 A2998 RMK AO2 SLP120 T01330067 KLIC 051555Z AUTO 00000KT 10SM CLR 19/06 A3017 RMK AO2 SLP163 T01890056 KLHM 051555Z AUTO 13008KT 10SM OVC055 15/08 A2983 RMK AO1 ENVD 051550Z 14003KT 9999 FEW030 BKN060 08/04 Q1022 EPDE 051530Z 36012KT 9999 SCT050 SCT100 18/06 Q1021 RMK 179 046 4/3= KJZP 051535Z AUTO 33018G24KT 10SM SCT027 SCT034 BKN041 13/M02 A2983 RMK AO2 T01281023 KLHQ 051553Z AUTO 32007KT 10SM OVC007 09/07 A2980 RMK AO2 CIG 006V011 SLP092 T00890067 EPBY 051530Z 05006KT 010V080 CAVOK 21/00 Q1024 ENVH 051550Z AUTO 17026KT 9999NDV NCD 10/07 Q1021 W///S3 UWKD 051530Z 14002MPS CAVOK 17/08 Q1014 R11/CLRD70 NOSIG RMK QFE751/1001 UWKE 051530Z 34004MPS 9999 SCT033CB 17/03 Q1015 R21/090070 NOSIG RMK QFE744/0992 KMAE 051553Z AUTO 34006KT 10SM OVC060 17/10 A2988 RMK AO2 SLP115 T01670100 KLHW 051558Z AUTO 28020G27KT 10SM CLR 20/04 A2970 RMK AO2 PK WND 28027/11 SLP060 T02000038 VOBG 051500Z 07006KT 6000 RA SCT015 FEW030 BKN080 25/20 Q1015 KMAF 051553Z 17008KT 10SM CLR 26/01 A3016 RMK AO2 SLP172 T02610006 KLHX 051553Z AUTO VRB05KT 10SM CLR 18/07 A3012 RMK AO2 SLP153 T01830067 KLJF 051553Z AUTO 19004KT 10SM CLR 20/M02 A3003 RMK AO2 LBSF 051530Z 32008KT 290V350 9999 -SHRA FEW030 FEW050TCU BKN065 12/10 Q1016 RESHRA NOSIG DXNG 051500Z 18006KT 130V210 9999 FEW010 33/21 Q1012 NOSIG KLHZ 051510Z AUTO 02005KT 7SM OVC010 13/12 A2959 RMK AO2 VOCB 051530Z 18005KT 4000 HZ SCT015 SCT080 27/22 Q1011 NOSIG KMAI 051553Z AUTO 34014KT 10SM CLR 22/06 A2987 RMK AO1 SLP112 T02170056 ENVR 050550Z 16011KT CAVOK 07/04 Q1020 VOBL 051530Z 12014KT 6000 -DZ SCT015 FEW025CB BKN080 22/21 Q1016 TEMPO 3000 TSRA/RA VOBM 051300Z 27008KT 6000 NSC 31/21 Q1011 KLIT 051553Z 31010KT 10SM CLR 22/05 A3003 RMK AO2 SLP170 T02170050 $ KO22 051535Z AUTO 30003KT 10SM FEW009 OVC023 12/09 A2986 RMK AO1 KMAN 051555Z AUTO 29007KT 10SM CLR 16/07 A2987 RMK A01 KMAO 051555Z AUTO 30014G19KT 10SM BKN034 BKN080 18/10 A2957 RMK AO2 VOCI 051530Z 08003KT 5000 HZ SCT015 FEW025CB BKN090 25/23 Q1010 NOSIG KMBG 051552Z AUTO 14013KT 10SM CLR 22/09 A2991 RMK AO2 SLP122 T02170094 UWKS 051530Z 06002MPS 030V120 9999 SCT020CB 16/04 Q1015 R06/010060 NOSIG RMK QFE746 VNKT 051550Z 16005KT 6000 FEW020 FEW025CB SCT030 BKN100 20/15 Q1015 NOSIG CB TO S SW AND NE VOCL 051530Z 04004KT 6000 FEW015 FEW025CB 28/20 Q1009 NOSIG KMCB 051553Z AUTO 36009G17KT 10SM CLR 22/08 A2998 RMK AO2 SLP146 T02220083 KMBL 051555Z AUTO 32008KT 10SM CLR 09/04 A3001 RMK AO1 KMCC 051555Z AUTO 20007KT 9SM BKN055 17/09 A2985 RMK AO2 KMCD 051556Z AUTO 26003KT 10SM CLR 08/05 A2998 RMK AO2 T00760047 KMCE 051553Z AUTO 35004KT 10SM OVC060 16/10 A2987 RMK AO2 SLP112 T01610100 EPGD 051530Z 05010KT 010V090 CAVOK 16/02 Q1026 KMBO 051555Z AUTO 34007G15KT 10SM CLR 20/06 A2999 RMK AO2 KMCF 051558Z AUTO 33011G17KT 10SM FEW050 27/15 A2983 RMK AO2 SLP104 T02660148 $ VOBZ 051600Z 18005KT 2000 HZ FEW020 30/24 Q1007 NOSIG KLKR 051555Z AUTO 29007KT 10SM SCT045 SCT060 16/05 A2964 RMK AO2 PWINO KMCI 051553Z 06003KT 10SM BKN250 18/03 A3010 RMK AO2 SLP187 T01830033 KMBS 051553Z 05009KT 10SM CLR 14/09 A2995 RMK AO2 SLP143 T01440089 KLLJ 051555Z AUTO 04003KT 10SM CLR 14/02 A2999 RMK AO2 SLP113 T01390017 KMCJ 051555Z AUTO 36006KT 10SM CLR 27/07 A3002 RMK AO1 KMCK 051553Z AUTO 21003KT 10SM CLR 21/11 A3010 RMK AO2 SLP178 T02060106 LCLK 051530Z 29008KT 250V320 9999 FEW018 FEW025TCU SCT060 20/11 Q1011 NOSIG UWLW 051500Z 09001MPS 8000 FEW030CB 16/08 Q1014 R02/CLRD60 NOSIG RMK QFE753 KLKU 051555Z AUTO 06007G14KT 10SM SCT010 OVC021 13/12 A2964 RMK AO2 KLKV 051555Z 00000KT 10SM OVC090 10/06 A2992 RMK AO1 KMDD 051535Z AUTO 19005KT 10SM CLR 25/01 A3017 RMK AO2 T02540005 KMCN 051553Z 31014G24KT 10SM SCT050 18/05 A2980 RMK AO2 SLP086 T01830050 KMCO 051553Z 28014G21KT 10SM FEW049 25/12 A2980 RMK AO2 SLP090 T02500122 KMDH 051552Z 35014G20KT 10SM SCT030 12/05 A2999 RMK AO2 SLP155 T01220050 KLLQ 051553Z AUTO 30007KT 10SM CLR 21/04 A3002 RMK AO2 SLP164 T02110044 KMDJ 051555Z AUTO 31015KT 10SM CLR 23/17 A2995 RMK A01 KMEB 051552Z AUTO 35015G20KT 10SM BKN022 OVC028 16/11 A2959 RMK AO2 RAE02 SLP018 P0000 T01560106 KLNC 051555Z AUTO 09004KT 10SM CLR 23/04 A3011 RMK AO2 T02300042 KLND 051553Z AUTO VRB04KT 10SM CLR 17/03 A3008 RMK AO2 SLP129 T01670033 KMCW 051553Z AUTO VRB04KT 9SM FEW100 A3010 RMK AO2 SLPNO $ KLMO 051554Z AUTO 00000KT 10SM CLR 21/03 A3014 RMK AO2 T02110029 KMCX 051555Z AUTO 02009KT 10SM OVC009 09/05 A2995 RMK AO2 T00860054 KO54 051535Z AUTO 00000KT 10SM OVC008 11/09 A2986 RMK AO1 KMEH 050256Z AUTO 00000KT 10SM -RA OVC060 11/08 A2996 RMK AO2 RAB28 SLP137 P0006 60006 T01060083 53016 KMDQ 051555Z AUTO 31011G19KT 10SM SCT070 16/01 A2984 RMK AO2 KMEI 051558Z 34012G18KT 10SM CLR 21/04 A2996 RMK AO2 SLP143 T02060039 KMDS 051550Z AUTO 23011KT 10SM CLR 20/05 A3004 RMK AO2 KMDT 051556Z 08006KT 10SM OVC024 13/07 A2969 RMK AO2 SLP054 T01280072 KLMT 051553Z 00000KT 10SM CLR 10/07 A2991 RMK AO2 SLP110 T01000072 KLNK 051554Z 00000KT 10SM CLR 21/04 A3011 RMK AO2 SLP192 T02060039 LDDU 051530Z 30007KT 260V340 9999 FEW075 19/09 Q1015 NOSIG KLNL 051530Z AUTO 32004KT 10SM CLR 13/M03 A3003 RMK AO2 T01311027 TSNO UWOO 051530Z 31002MPS 9999 BKN040CB 16/09 Q1013 R26/CLRD65 NOSIG RMK QFE749/0999 KMFD 051552Z 35009KT 2 1/2SM BR OVC007 10/09 A2979 RMK AO2 CIG 006V010 SLP092 T01000089 $ KMEM 051554Z 31011KT 10SM FEW250 20/06 A2997 RMK AO2 SLP147 T02000061 KMDW 051553Z 02011KT 10SM CLR 12/04 A3001 RMK AO2 SLP166 T01220044 $ KMFE 051553Z 20007KT 10SM CLR 31/13 A3007 RMK AO2 SLP180 T03060128 ENZV 051550Z 18017KT CAVOK 14/02 Q1023 NOSIG LBWN 051530Z 36008KT 330V040 4400 -RA BR FEW017 SCT026 BKN030 13/11 Q1011 NOSIG KLNN 051555Z AUTO 04012G17KT OVC005 10/09 A2981 RMK AO1 P0010 T00950089 UWOR 051500Z 12005MPS 9999 SCT050CB BKN100 16/06 Q1013 R07/CLRD65 NOSIG RMK QFE735/0980 KLNP 051555Z AUTO 31006KT 10SM BKN012 BKN019 OVC034 07/01 A2976 RMK AO2 KMDZ 051555Z AUTO 29004KT 10SM CLR 12/02 A3004 RMK AO2 T01160021 KMER 051550Z VRB04KT 7SM OVC055 17/11 A2987 KMFI 051554Z AUTO 28006KT 10SM CLR 14/02 A3004 RMK AO2 SLP178 T01390017 KLNR 051556Z AUTO 32005KT 10SM 13/03 A3007 RMK AO2 SLP179 T01330033 $ VOHB 050700Z 34005KT CAVOK 37/17 Q1014 EPIR 051530Z 31004KT CAVOK 22/01 Q1024 RMK 219 026 2/2 = KLNS 051553Z 06009KT 10SM OVC023 12/07 A2969 RMK AO2 SLP054 T01170072 KO69 051555Z AUTO 33004KT 8SM FEW021 OVC029 14/11 A2988 RMK AO1 DXSK 051200Z 22004KT 9999 SCT016 BKN260 34/22 Q//// KLOL 051553Z AUTO 04010KT 10SM BKN110 17/04 A2982 RMK AO2 SLP070 T01670039 KLPC 051556Z AUTO 09004KT 10SM BKN120 16/10 A2990 RMK AO2 SLP129 T01560100 KMGC 051555Z AUTO 34008G15KT 10SM OVC007 06/06 A3000 RMK AO2 VOGO 051200Z 31012KT 6000 FEW018 FEW090 32/24 Q1005 NOSIG KLOM 051555Z AUTO 05005KT 10SM OVC019 11/07 A2968 RMK AO1 KMEV 051555Z AUTO 01003KT 4SM -TSRA FEW021 SCT032 OVC048 08/08 A2990 RMK AO2 LTG DSNT N AND SE AND NW P0003 KMGE 051458Z 28016KT 10SM SCT025 14/06 A2980 RMK AO2A SLP089 T01420060 51009 $ KMGG 051558Z AUTO 16006KT 10SM CLR 18/01 A3004 RMK AO2 T01780012 KMEZ 051555Z AUTO 34007KT 10SM CLR 21/02 A3008 RMK AO2 LCPH 051530Z 09003KT 060V130 9999 FEW030 BKN060 17/15 Q1010 KMFR 051553Z 00000KT 5SM BR OVC005 13/11 A2992 RMK AO2 SLP128 T01330111 KLOR 051553Z AUTO 34012G22KT 10SM CLR 22/02 A2988 RMK AO2 SLP115 T02170022 KMGJ 051554Z AUTO 02016G21KT 10SM OVC025 13/07 A2971 RMK AO2 SLP061 T01280072 TSNO KLOT 051535Z AUTO 02012KT 10SM CLR 12/05 A3000 RMK AO2 T01220054 KLOU 051553Z 01009G15KT 330V030 10SM OVC029 10/04 A2988 RMK AO2 SLP118 T01000039 EPKK 051530Z 21006KT 9999 FEW040CB 15/10 Q1022 EPLB 051530Z 34006KT 9999 FEW065TCU 18/05 Q1020 KMGM 051553Z 35018G26KT 10SM CLR 21/02 A2991 RMK AO2 PK WND 34026/1552 SLP127 T02060022 KMFV 051555Z AUTO 03007KT 10SM OVC010 A2961 RMK AO2 KMHE 051553Z AUTO 22009KT 10SM CLR 23/06 A3002 RMK AO2 SLP163 T02280061 KMGN 051554Z AUTO 23007KT 10SM CLR 07/05 A2999 RMK AO2 T00790048 FHAW 051550Z 13014KT 9999 FEW024 29/22 Q1013 BLU NOSIG KLOZ 051553Z AUTO VRB06KT 10SM SCT013 BKN022 BKN029 09/06 A2979 RMK AO2 RAE34 SLP087 P0000 T00940056 KO86 051550Z AUTO 06003KT 10SM OVC006 12/09 A2987 RMK AO1 VOHS 051530Z 12006KT 6000 FEW020 SCT100 29/21 Q1011 NOSIG KLPR 051553Z AUTO 04013KT 6SM BR OVC005 09/08 A2982 RMK AO2 SLP099 T00940078 TSNO KMGR 051535Z AUTO 32012G17KT 10SM CLR 20/03 A2984 RMK AO2 KMIA 051553Z 33012G21KT 280V010 10SM FEW045 25/11 A2983 RMK AO2 SLP102 T02500111 $ LCRA 051550Z 30006KT 9999 FEW025 BKN080 17/14 Q1010 NOSIG EPKS 051530Z 33004KT CAVOK 20/04 Q1024 RMK 196 036 3/3= KMHK 051552Z 14003KT 10SM CLR 21/07 A3011 RMK AO2 SLP194 T02110072 KLQK 051555Z AUTO 31012G17KT CLR 16/02 A2969 RMK AO2 T01590015 PWINO KMIB 051558Z AUTO 21009KT 10SM CLR 27/08 A2981 RMK AO2 SLP093 T02650077 CHINO RWY11 EPMB 051530Z AUTO 03014KT 9999 17/01 Q1025 RMK 172 034 ///= EPLK 051530Z 34003KT CAVOK 19/07 Q1023 RMK 193 044 4/2= KMIC 051553Z 21009KT 10SM CLR 17/M01 A3002 RMK AO2 SLP169 T01721006 KMHL 051555Z AUTO 01006KT 10SM CLR 19/03 A3010 RMK AO2 EPKT 051530Z 34011G21KT 300V010 9999 FEW050CB 19/07 Q1022 KLRD 051556Z 26004KT 10SM CLR 27/14 A3009 RMK AO2 SLP188 T02670139 EPLL 051530Z 31010KT 270V350 CAVOK 20/06 Q1023 VOHY 051530Z VRB03KT 5000 HZ FEW020 30/18 Q1011 NOSIG KMGW 051553Z 00000KT 10SM BKN007 BKN012 OVC025 12/08 A2971 RMK AO2 RAE27 SLP059 P0001 T01170083 KMIE 051553Z 03009KT 10SM OVC018 11/07 A2988 RMK AO2 SLP119 T01110067 KLRF 051558Z AUTO 32008G15KT 10SM CLR 21/05 A3002 RMK AO2 SLP167 T02070054 KMGY 051553Z AUTO 33009KT 10SM BKN012 OVC018 08/04 A2984 RMK AO2 SLP106 T00830044 KMHR 051545Z 19012KT 10SM BKN120 17/09 A2985 EPMI 051530Z 34008KT 9999 FEW050 20/05 Q1025 RMK 198 038 1/1= KMHS 051456Z AUTO 00000KT 10SM CLR 13/08 A2988 RMK AO2 SLP119 T01280078 55003 KP08 051555Z AUTO 17008KT 10SM CLR 30/M04 A2990 RMK AO2 KLRJ 051555Z AUTO 16005KT 10SM CLR 19/04 A3008 RMK AO2 LEAB 051500Z 15008KT 9999 DZ FEW030 13/09 Q1014 TEMPO SHRA SCT035TCU KMHT 051553Z 04009KT 10SM BKN016 OVC021 09/06 A2978 RMK AO2 SLP101 T00940061 KLSB 051555Z AUTO 11019G25KT 10SM CLR 24/M04 A3010 RMK AO2 KMHV 051540Z AUTO 21015G21KT CLR 15/05 A2985 RMK A01 EPMM 051530Z 02008KT 9999 SCT050 SCT070 20/05 Q1022 RMK 201 037 4/3 = KLSE 051553Z VRB04KT 10SM CLR 13/02 A3007 RMK AO2 SLP184 T01330017 KLRO 051555Z AUTO 29010G20KT 020V030 10SM FEW042 20/09 A2960 RMK AO2 KLSF 051558Z AUTO 32017G24KT 10SM CLR 19/02 A2985 RMK AO2 SLP110 T01910017 LEAG 051530Z AUTO 13009KT 100V160 9999 -RA OVC027 17/15 Q1013 EPMO 051530Z 02012KT 350V050 CAVOK 20/02 Q1022 EPLY 051530Z 35006KT 310V030 CAVOK 20/05 Q1024 RMK 203 037 2/2= UWSS 051530Z 09004MPS 9999 FEW050CB 18/04 Q1012 R12/010095 NOSIG RMK QFE747 LEBA 051500Z 03003KT 340V090 9999 FEW045 BKN060 21/09 Q1010 KMIS 050510Z AUTO 32016KT 10SM CLR 25/12 A2989 RMK A01 LEBB 051530Z 30007KT 260V320 CAVOK 21/12 Q1008 NOSIG KNAK 051554Z AUTO 04005KT 10SM BKN018 OVC026 11/08 A2968 RMK AO2 SLP051 T01110083 $ LEAL 051530Z 06004KT 020V080 9999 -RA NSC 17/08 Q1013 NOSIG KMKC 051554Z VRB03KT 10SM CLR 19/02 A3009 RMK AO2 SLP186 T01890022 $ KNBC 051556Z 29014G18KT 10SM FEW040 21/07 A2966 RMK AO2 SLP045 T02060067 KLRU 051555Z AUTO 10010KT 10SM BKN110 22/M04 A3017 RMK AO2 T02191044 LEAM 051530Z 11015KT 080V140 9999 FEW030 23/10 Q1011 KMIV 051554Z AUTO 05008KT 10SM OVC013 11/07 A2966 RMK AO2 SLP043 T01060072 KMKE 051552Z 01007KT 10SM CLR 10/04 A3004 RMK AO2 SLP177 T01000039 KMIW 051553Z AUTO 05006KT 10SM BKN110 14/01 A3010 RMK AO2 SLP194 T01390011 LEAO 051500Z 34006KT CAVOK 18/07 Q1012 LEBG 051500Z 04009KT 9999 FEW050 19/11 Q1011 KNBG 051555Z 34007G14KT 10SM CLR 25/11 A2995 RMK AO2 SLP140 T02500106 $ KMKG 051555Z 32006KT 10SM CLR 15/06 A2997 RMK AO2 SLP152 T01500061 $ KMJQ 051553Z AUTO 23006KT 10SM CLR 18/M03 A3007 RMK AO2 LEAS 051530Z 29009KT 270V330 CAVOK 16/13 Q1010 NOSIG KP28 051556Z AUTO VRB04KT 22/06 A3013 RMK AO1 SLP194 T02220061 KNCA 051556Z 04006KT 10SM FEW032 21/13 A2950 RMK AO2 SLP992 T02060133 KLUA 051555Z AUTO 03009KT 10SM -RA SCT010 BKN014 OVC032 11/11 A2966 RMK AO2 KMKJ 051555Z AUTO 31006G20KT 10SM OVC029 08/02 A2973 RMK AO2 T00790016 KMLB 051553Z 29015G25KT 10SM CLR 26/12 A2979 RMK AO2 SLP088 T02560122 VOMD 051530Z 18010KT 5000 HZ FEW020 FEW025TCU 32/22 Q1010 NOSIG EPOK 051530Z VRB05KT CAVOK 13/03 Q1026 RMK 125 054 0/0 = LEBL 051530Z 07013KT 040V100 9999 FEW011 17/11 Q1015 NOSIG KMLC 051553Z AUTO 01005KT 10SM FEW100 22/06 A3012 RMK AO2 SLP193 T02170056 KMKL 051553Z 33018G23KT 10SM CLR 18/03 A2993 RMK AO2 SLP134 T01830033 KLUD 051555Z AUTO 00000KT 10SM CLR 23/06 A3013 RMK AO2 T02290064 KLSV 051458Z AUTO 13010KT 10SM CLR 24/01 A2980 RMK AO2 SLP069 T02410014 52014 $ KMKN 051555Z AUTO 10005KT 10SM CLR 24/11 A3013 RMK AO2 T02350111 KMLE 051555Z AUTO 24003KT 10SM CLR 20/05 A3009 RMK AO2 T02030051 KMKO 051553Z AUTO 00000KT 10SM CLR 21/07 A3012 RMK AO2 SLP194 T02110067 KMLF 051552Z AUTO 20008KT 10SM CLR 19/01 A2996 RMK AO2 SLP094 T01940011 KMJX 051555Z AUTO 04013G16KT 10SM OVC014 10/06 A2969 RMK AO1 KLUF 051458Z AUTO 06006KT 10SM CLR 25/03 A2984 RMK AO2 SLP092 T02450032 52018 $ LECH 051530Z 13008KT 100V160 CAVOK 16/11 Q1014 KMLI 051552Z 03007KT 10SM CLR 13/03 A3007 RMK AO2 SLP182 T01280028 UWUU 051530Z 32002MPS 290V350 CAVOK 18/M04 Q1013 R32R/0///60 NOSIG RMK QFE749/0998 KMKS 051555Z AUTO 30006KT 7SM SCT041 SCT047 SCT050 18/06 A2961 RMK AO2 KMLJ 051555Z AUTO 31009G17KT 280V360 10SM SCT050 18/04 A2977 RMK AO2 VOML 051530Z 24003KT 6000 FEW015 FEW025CB 30/25 Q1010 NOSIG KLTS 051558Z AUTO 12006KT 10SM CLR 23/06 A3013 RMK AO2 SLP193 T02280059 $ VOND 050400Z 12010KT 6000 NSC 31/19 Q1014 LEBT 051500Z AUTO 12007KT 080V160 9999 // NCD 18/09 Q1014 KLUK 051553Z 35007G15KT 10SM OVC037 11/04 A2985 RMK AO2 SLP110 T01110044 KMKT 051555Z 20007KT 10SM CLR 17/M02 A3008 RMK AO1 KNBT 051556Z AUTO 01009KT 10SM BKN013 OVC021 A2952 RMK AO2 SLP002 PNO $ VOMM 051530Z 17005KT 6000 FEW020 31/26 Q1008 NOSIG KLUM 051555Z AUTO 20006KT 10SM CLR 17/00 A3007 RMK AO2 T01660003 LECO 051530Z VRB02KT 9999 FEW035 17/14 Q1011 NOSIG KMLP 051553Z AUTO 00000KT 10SM CLR 09/05 A3001 RMK AO2 SLP084 T00940050 KMKY 051555Z AUTO 35008G16KT 10SM CLR 26/12 A2985 RMK AO1 DXXX 051600Z 19013KT 9999 FEW015 FEW020CB 31/26 Q1010 NOSIG EPPO 051530Z 36004KT 320V040 CAVOK 20/05 Q1025 LEBZ 051545Z VRB01KT 8000 -RA FEW015 SCT040 BKN048 15/13 Q1011 KMMH 051555Z AUTO 13003KT 10SM CLR 10/02 A2991 RMK AO2 T01020017 KMMI 051555Z AUTO 24006KT 10SM FEW080 12/06 A2982 RMK EPPR 051530Z 04012KT CAVOK 16/02 Q1026 RMK 163 038 0/0= KMLS 051553Z AUTO 14004KT 10SM CLR 21/08 A2987 RMK AO2 SLP098 T02110083 KLVJ 051553Z AUTO 00000KT 10SM CLR 27/12 A3005 RMK AO2 SLP176 T02670117 KLWA 051559Z AUTO 31009KT 10SM CLR 10/06 A2997 RMK AO2 T01010062 KMMK 051553Z AUTO 03013G21KT 10SM OVC022 11/05 A2972 RMK AO2 SLP063 T01110050 TSNO KMLT 051553Z AUTO 03012G19KT 10SM BKN015 OVC041 07/03 A2992 RMK AO2 SLP139 T00670033 KLVK 051553Z VRB05KT 10SM SCT060 BKN100 16/09 A2985 RMK AO2 SLP108 T01560094 KLWB 051555Z AUTO 30005KT 10SM -RA SCT014 BKN022 OVC030 06/05 A2969 RMK AO2 P0003 T00620047 EPRA 051530Z 34008KT 9999 FEW060CB 19/07 Q1022 LEEC 051300Z VRB02KT CAVOK 21/09 Q1011 KMLU 051553Z 34010KT 10SM CLR 22/08 A3003 RMK AO2 SLP167 T02220083 KLWC 051552Z AUTO VRB04KT 10SM CLR 19/07 A3010 RMK AO2 SLP191 T01940072 KMML 051556Z AUTO VRB05KT 10SM CLR 22/02 A3003 RMK AO2 SLP169 T02220022 KLVL 051555Z AUTO 04005KT 5SM OVC006 12/11 A2958 RMK AO1 T01170112 LECV 051500Z 14009KT 9999 SCT060 16/05 Q1013 KLVM 051553Z AUTO 23007KT 10SM CLR 21/02 A2997 RMK AO2 SLP113 T02110017 KLWD 051553Z AUTO 00000KT 10SM CLR 16/02 A3009 RMK AO2 SLP191 T01560017 KLVN 051531Z AUTO 26007KT 213V283 10SM CLR 16/00 A3005 RMK AO2 VOMY 050700Z 21005KT 9999 SCT015 SCT020 34/19 Q1014 KP53 051556Z AUTO 03006KT 07/03 A3003 RMK AO1 SLP176 T00670028 KMNE 051535Z AUTO 35005KT 10SM CLR 22/08 A3006 RMK AO2 T02190076 EPPW 051530Z 34006KT CAVOK 19/01 Q1024 RMK 194 029 3/3 = KLUX 051555Z AUTO 34010G19KT 10SM SCT050 SCT090 16/03 A2968 RMK AO2 KMNH 051556Z AUTO 31008KT 10SM CLR 19/M03 A3025 RMK AO2 VOPB 050500Z 04006KT 4500 HZ FEW014 33/25 Q1010 NOSIG KMNI 051555Z AUTO 29010G15KT 250V320 10SM SCT038 SCT047 18/08 A2961 RMK AO2 KP58 051551Z AUTO 34008KT 08/06 A2993 RMK AO1 SLP138 T00830061 KLVS 051553Z AUTO VRB05KT 10SM CLR 19/M03 A3027 RMK AO2 SLP167 T01941028 KP59 051551Z AUTO 08003KT 07/02 A2999 RMK AO1 SLP161 T00720017 KP60 051556Z AUTO 00000KT 07/M02 A3020 RMK AO1 SLP193 T00671017 KMOB 051556Z 10SM CLR 22/12 A2994 RMK AO2 SLP134 T02220122 KMMT 051558Z 32011G18KT 10SM BKN046 19/07 A2963 RMK AO2A SLP035 T01900068 UWWW 051530Z 35002MPS 9999 SCT033 BKN100 16/07 Q1014 R05/CLRD60 NOSIG RMK QFE747/0996 KMMU 051545Z 02007G15KT 10SM OVC017 12/07 A2970 KNEL 051500Z AUTO 06008KT 5SM BR OVC010 09/07 A2968 RMK AO2 SLP048 T00940072 58002 KMOD 051553Z 01004KT 10SM FEW029 OVC060 17/10 A2987 RMK AO2 SLP114 T01670100 KMMV 051553Z AUTO 00000KT 10SM OVC035 13/09 A3002 RMK AO2 SLP165 T01280089 KLWM 051554Z 06013KT 9SM OVC013 09/06 A2980 RMK AO2 SLP091 T00890056 KMNM 051555Z 10007KT 7SM CLR 11/02 A3005 RMK AO2 SLP301 PWINO PNO FZRANO RVRNO EPSC 051530Z 01009KT 340V050 CAVOK 18/04 Q1026 KMNN 051553Z AUTO 01012KT 4SM BR OVC009 10/08 A2981 RMK AO2 CIG 008V013 SLP099 T01000078 TSNO KNFE 051553Z AUTO 04011G21KT 10SM OVC010 14/10 A2958 RMK AO2 KNFG 051554Z 00000KT 7SM FEW030 BKN048 17/12 A2992 RMK AO2 SLP132 T01670117 KNDZ 051556Z 34013KT 10SM FEW030 23/11 A2991 RMK AO2 SLP113 FU NE-E T02330106 $ LEGA 051500Z 20006KT 9999 FEW060 BKN120 21/10 Q1012 KP68 051553Z AUTO 18014KT 18/M02 A2991 RMK AO1 SLP054 T01831022 KLWS 051556Z VRB04KT 10SM CLR 18/11 A2990 RMK AO2 SLP120 T01780111 KP69 051552Z AUTO 00000KT 17/12 A2990 RMK AO1 SLP114 T01720117 KLWT 051554Z AUTO 08004KT 10SM CLR 21/03 A2992 RMK AO2 SLP101 T02060033 KLXL 051554Z AUTO 18009KT 10SM CLR 19/M01 A3001 RMK AO2 KNFL 051556Z 33006KT 10SM FEW050 SCT070 BKN110 BKN160 OVC250 16/05 A2982 RMK AO2 SLP076 SH DSNT NE-SE T01610050 FGSL 051500Z 00000KT 8000 TS SCT006 FEW020CB BKN040 27/25 Q1011 NOSIG KLWV 051553Z AUTO 02014KT 10SM BKN030 13/06 A2995 RMK AO2 SLP141 T01280061 KMNV 051555Z AUTO VRB04KT 10SM FEW021 SCT028 BKN038 11/07 A2980 RMK A01 LEGE 051530Z 15011KT 110V170 9999 FEW060 19/09 Q1015 KNEW 051553Z 36008KT 10SM 22/14 A2996 RMK AO2 SLP139 T02220144 KLXN 051555Z AUTO 21011KT 10SM CLR 23/06 A3010 RMK AO2 T02340063 EPSN 051530Z 02008KT CAVOK 18/04 Q1026 RMK 179 040 1/1 = KMOP 051555Z AUTO 34006KT 14/08 A2994 RMK AO2 T01420082 PWINO KLYH 051554Z 01005KT 8SM -RA BKN009 OVC012 11/11 A2963 RMK AO2 SLP032 P0011 T01110106 KMNZ 051555Z AUTO 05004KT 10SM CLR 24/11 A3014 RMK AO2 T02410106 KMOR 051550Z AUTO 35004KT 10SM FEW034 FEW045 SCT090 09/06 A2976 RMK A01 EPRZ 051530Z 03005KT 360V070 9999 -TSRA SCT030CB 14/09 Q1021 LDOS 051530Z 24009KT 9999 FEW023 SCT033TCU BKN037 16/13 Q1018 RETSRA KLXT 051553Z AUTO 00000KT 10SM CLR 18/03 A3010 RMK AO2 SLP190 T01780033 KMOT 051554Z 23014KT 10SM CLR 28/06 A2983 RMK AO2 SLP092 T02780061 KMQB 051555Z AUTO 36011KT 10SM CLR 13/04 A3008 RMK AO2 T01300038 LEHC 051500Z 09009KT 060V140 CAVOK 21/07 Q1012 LDPL 051530Z VRB06KT CAVOK 19/09 Q1020 NOSIG KLXV 051553Z AUTO 21005KT 10SM CLR 11/M07 A3039 RMK AO2 SLP166 T01061067 EPTM 051530Z 32014KT CAVOK 20/06 Q1022 RMK 196 042 2/2= KNFW 051552Z 00000KT 10SM CLR 23/06 A3012 RMK AO2 SLP182 T02330061 CHINO N VISNO N $ KMQE 051554Z AUTO 05017G28KT 06/06 A2973 RMK AO1 PK WND 05030/1532 SLP082 T00560056 KMPO 051553Z AUTO 03010KT 10SM OVC012 07/05 A2970 RMK AO2 SLP064 T00720050 TSNO KMOX 051553Z AUTO 20008G14KT 10SM CLR 22/04 A2997 RMK AO2 KNGP 051556Z 29007KT 10SM FEW250 26/16 A3007 RMK AO2 SLP183 T02610156 KLXY 051555Z AUTO 35004KT 10SM CLR 23/08 A3010 RMK AO2 T02300076 EPSY 051530Z 36015KT CAVOK 20/03 Q1023 LEGR 051530Z 27005KT 230V020 9999 FEW045 SCT090 22/10 Q1011 KMQI 051550Z AUTO 03015G23KT 10SM OVC006 12/11 A2955 RMK AO2 T01220111 LEGT 051500Z 13010KT 090V190 9999 -RA SCT040 BKN050 18/06 Q1012 LEIB 051530Z 06011KT 020V080 9999 FEW035TCU 18/13 Q1013 NOSIG KMRB 051553Z 36008KT 10SM OVC020 12/08 A2968 RMK AO2 SLP051 T01170083 KNHK 051552Z 04012KT 10SM OVC015 11/08 A2965 RMK AO2 SLP040 T01110078 $ KMRC 051555Z AUTO 31010KT 290V360 10SM SCT050 16/06 A2984 RMK KNGU 051459Z 05013G21KT 9SM OVC009 12/10 A2962 RMK AO2 SLP029 T01220100 58003 KMPV 051551Z AUTO 04006KT 10SM OVC023 10/05 A2985 RMK AO2 SLP115 T01000050 KLYV 051557Z AUTO 22007KT 10SM CLR 19/00 A3006 RMK AO2 KP92 051553Z AUTO VRB04KT 25/13 A2996 RMK AO1 SLP144 T02500133 KNID 051556Z 16010KT 10SM FEW100 SCT170 BKN280 17/03 A2983 RMK AO2 SLP087 T01720028 $ KMRF 051556Z AUTO 14012KT 10SM CLR 23/M04 A3025 RMK AO2 SLP195 T02281044 KMRH 051558Z AUTO 01014KT 10SM BKN019 19/14 A2951 RMK AO2 SLP992 T01890139 TSNO KMPZ 051535Z AUTO 35007KT 10SM CLR 14/04 A3008 RMK AO2 T01410040 LDRI 051530Z 26005KT 210V290 9999 FEW050 20/09 Q1020 KMQS 051555Z AUTO 10SM OVC016 10/10 A2969 RMK AO2 KMRJ 051535Z AUTO 00000KT 10SM CLR 12/03 A3006 RMK AO2 EPWA 051530Z 36012KT 320V030 CAVOK 22/04 Q1022 NOSIG KLZU 051545Z 30008G18KT 10SM BKN045 14/04 A2978 RMK BK KMRN 051550Z AUTO 34009G15KT 10SM SCT110 15/00 A2971 RMK AO2 T01480001 VORY 051230Z 18006KT 8000 FEW025 SCT200 34/22 Q1005 KNIP 051553Z 30013G26KT 10SM FEW040 24/03 A2977 RMK AO2 PK WND 30026/1543 SLP077 T02390028 KMQY 051556Z 34016G23KT 10SM OVC046 14/04 A2986 RMK AO2 T01440044 PK WND 36026/1527 SLP118 KLZZ 051555Z AUTO 00000KT 10SM CLR 24/13 A3012 RMK AO2 T02420134 VOTK 051100Z 13010KT 7000 FEW020 34/22 Q1006 LFBA 051530Z AUTO 11010KT 090V150 CAVOK 26/08 Q1009 NOSIG KOAJ 051556Z AUTO 03005KT 9SM BKN023 BKN028 OVC048 19/14 A2951 RMK AO2 SLP998 T01890144 TSNO KOAK 051553Z 23006KT 10SM SCT010 OVC048 17/11 A2987 RMK AO2 SLP114 T01670106 KNJK 051556Z 26026G34KT 2 1/2SM BLDU BKN280 21/07 A2981 RMK AO2 PK WND 27037/1536 SFC VIS 3 SLP108 VIS NW-N 1 1/2 VIS NE-E 1 1/2 T02110067 KMRT 051545Z AUTO 36006KT 5SM OVC005 09/08 A2981 RMK AO2 KMSL 051553Z AUTO 33014G30KT 10SM CLR 19/02 A2989 RMK AO2 PK WND 29030/1551 SLP117 T01890017 KMTC 051558Z AUTO 02015G19KT 10SM FEW039 16/08 A2985 RMK AO2 SLP112 T01590081 LFBC 051530Z AUTO 14003KT 070V200 CAVOK 30/05 Q1008 LFBD 051530Z AUTO 11009KT 060V130 CAVOK 27/04 Q1009 NOSIG KNJM 051557Z AUTO 01007KT 10SM FEW023 SCT120 22/13 A2951 RMK AO2 SLP996 T02170133 VOTP 051530Z 23014KT 7000 FEW020 SCT100 33/23 Q1008 LFBE 051530Z AUTO 16008KT 130V190 CAVOK 27/08 Q1009 NOSIG KMSN 051553Z 01003KT 10SM CLR 12/02 A3005 RMK AO2 SLP180 T01170022 KOBE 051555Z AUTO 32011G18KT 10SM CLR 25/12 A2983 RMK AO2 KMSO 051553Z 10004KT 10SM CLR 16/06 A2995 RMK AO2 SLP133 T01560061 VOTR 051530Z 14009KT 6000 FEW016 32/24 Q1009 NOSIG KMSP 051553Z 22009KT 10SM FEW140 FEW250 16/M02 A3005 RMK AO2 SLP176 T01611017 KMRY 051554Z 00000KT 10SM OVC050 15/10 A2988 RMK AO2 SLP130 T01500100 LDSP 051530Z 31007KT 9999 SCT050 20/08 Q1016 NOSIG LFBG 051530Z AUTO 10006KT 060V160 CAVOK 28/M00 Q1009 LFAQ 051530Z AUTO 10011KT CAVOK 19/04 Q1018 LFBH 051530Z AUTO 08009KT 050V110 CAVOK 26/09 Q1010 NOSIG KMTH 051553Z AUTO 34010KT 10SM CLR 27/17 A2985 RMK AO2 SLP108 T02670167 LFBI 051530Z AUTO 06010KT 030V100 CAVOK 24/06 Q1011 NOSIG LEJR 051600Z 19013KT 150V220 9999 FEW020TCU SCT022 BKN030 21/16 Q1010 KMTJ 051553Z AUTO 10010KT 10SM CLR 21/M02 A3018 RMK AO2 SLP152 T02061022 KMSS 051553Z AUTO 06018G24KT 10SM FEW033 14/04 A2987 RMK AO2 SLP115 T01440044 EPWR 051530Z 35007KT CAVOK 17/05 Q1025 VOTV 051530Z 00000KT 4000 -RA SCT015 FEW025CB SCT090 29/25 Q1009 NOSIG LFAT 051530Z AUTO 12011KT CAVOK 20/03 Q1017 LELC 051500Z 03014KT CAVOK 19/09 Q1013 NOSIG LFBL 051530Z AUTO 10004KT 020V150 CAVOK 25/01 Q1011 NOSIG KNLC 051556Z 35007KT 10SM OVC060 17/09 A2988 RMK AO2 SLP119 RH/60 T01670089 PNO KMSV 051555Z AUTO 08006KT 10SM SCT019 BKN027 BKN034 10/07 A2973 RMK AO1 70017 LFBM 051530Z AUTO 11010KT 080V140 CAVOK 28/08 Q1008 KMTN 051545Z 04005KT 5SM BR SCT006 BKN013 12/10 A2970 LFBO 051530Z AUTO 12023KT CAVOK 23/02 Q1011 TEMPO 14017G27KT KMTO 051553Z AUTO 36011KT 10SM BKN016 11/06 A2998 RMK AO2 SLP153 T01110061 KOCF 051550Z 31008G16KT 10SM CLR 24/07 A2981 LFBP 051530Z AUTO 07009KT 040V100 CAVOK 26/09 Q1008 NOSIG KMSY 051553Z 02010KT 10SM CLR 24/14 A2996 RMK AO2 SLP148 T02390139 KMTP 051454Z AUTO 04010G20KT 09/06 A2970 RMK AO1 SLP055 T00890061 58004 KOCH 051555Z AUTO 02006KT 10SM CLR 23/07 A3006 RMK AO1 KMUI 051558Z AUTO 04006KT 10SM OVC025 12/07 A2969 RMK AO2 SLP057 T01220072 LFCK 051530Z AUTO 12031G43KT CAVOK 21/04 Q1012 NOSIG LFBT 051530Z AUTO 05008KT 020V100 CAVOK 25/09 Q1009 NOSIG KNKT 051554Z 04008KT 10SM OVC021 18/13 A2952 RMK AO2 SLP995 T01830133 LELL 051530Z 13010KT 080V160 CAVOK 18/10 Q1015 LFBU 051530Z AUTO 10005KT 040V170 CAVOK 28/M01 Q1010 NOSIG LEMD 051530Z 15011KT 110V210 9999 FEW050 SCT080 19/04 Q1012 NOSIG KMTV 051535Z AUTO 33005KT 10SM -RA OVC055 09/07 A2968 RMK AO2 T00850065 LELN 051500Z 20005KT 150V270 9999 FEW035TCU 22/04 Q1010 KMVE 051552Z AUTO 20007KT 10SM CLR 22/03 A3002 RMK AO2 KMTW 051556Z AUTO VRB05G15KT 10SM CLR 11/03 A3004 RMK AO2 SLP195 T01110033 LELO 051500Z 09011KT CAVOK 22/07 Q1010 KMUO 051358Z AUTO 31010KT 10SM FEW200 14/06 A2987 RMK AO2 SLP095 T01400062 $ KNKX 051555Z 20004KT 10SM SCT020 BKN026 BKN047 18/10 A2993 RMK AO2 SLP129 T01830100 LEMG 051530Z 14007KT 100V190 9999 FEW040 BKN050 20/12 Q1013 NOSIG LFBY 051530Z AUTO 11008KT 080V140 9999 // ////// 29/09 Q1007 LEMH 051530Z 10011KT 070V130 9999 FEW015 17/12 Q1015 LFBZ 051530Z AUTO 05008KT 020V080 CAVOK 28/10 Q1007 NOSIG KMVH 051555Z AUTO 00000KT 10SM CLR 22/04 A2996 RMK AO2 EPZG 051530Z VRB02KT CAVOK 21/06 Q1025 KOCQ 051535Z AUTO 28003KT 10SM CLR 10/02 A3004 RMK AO1 T01000021 LFCR 051530Z AUTO 15019KT CAVOK 20/02 Q1014 NOSIG KMWA 051549Z 35010G15KT 20SM BKN027 13/06 A2999 KOEB 051555Z AUTO 36007KT 10SM CLR 14/09 A2990 RMK AO2 T01430087 KMUT 051555Z AUTO 03008KT 10SM CLR 13/04 A3009 RMK AO2 KMVL 051554Z AUTO VRB06KT 10SM OVC029 12/05 A2983 RMK AO2 SLP107 T01170050 KMWC 051545Z 07005KT 10SM SKC 12/02 A3004 KNMM 051556Z 33013KT 10SM CLR 21/01 A2997 RMK AO2 SLP156 T02060011 $ KOCW 051550Z AUTO 03008KT 10SM OVC010 14/12 A2954 RMK AO2 T01410120 KMVN 051555Z AUTO 35005KT 10SM BKN026 BKN032 11/04 A3000 RMK AO1 VOVZ 051500Z 20008KT 6000 -TSRA FEW016 FEW025CB SCT220 30/26 Q1006 TEMPO 5000 -TSRA KODO 051553Z AUTO 18008KT 10SM CLR 24/01 A3018 RMK AO2 SLP177 T02440006 LEMO 051600Z 25008KT 220V300 9999 FEW030TCU BKN041 23/15 Q1010 NOSIG KMWH 051552Z 00000KT 10SM SCT009 BKN049 OVC100 16/13 A2993 RMK AO2 SLP132 T01560128 KMWK 051550Z AUTO 32004KT 7SM -RA SCT026 SCT035 OVC045 09/08 A2968 RMK AO2 P0010 T00930077 KMWL 051553Z AUTO 11003KT 10SM CLR 23/10 A3012 RMK AO2 SLP188 T02330100 KMWM 051555Z AUTO 00000KT 10SM CLR 19/02 A3006 RMK AO2 KMWN 051549Z 04026KT 1/16SM FG VV001 00/00 RMK FZDZE05 SUN DMLY VSBL KODX 051553Z AUTO 18009KT 10SM CLR 20/04 A3008 RMK AO2 SLP186 T02000044 TSNO KOFF 051558Z AUTO VRB02KT 10SM CLR 19/06 A3008 RMK AO2 SLP189 T01870062 KMXF 051558Z AUTO 32014G19KT 10SM FEW070 19/03 A2990 RMK AO2 SLP127 T01860029 KMWO 051555Z AUTO 34004KT 10SM BKN017 OVC023 10/04 A2987 RMK AO2 T00960041 KOEO 051555Z AUTO 21008KT 10SM SCT110 15/02 A3006 RMK AO2 T01490021 KMVY 051553Z 03016G28KT 10SM OVC006 08/07 A2967 RMK AO2 PK WND 04029/1503 RAB16E48 CIG 005V009 SLP047 P0003 T00780067 KNOG 051556Z AUTO 05004KT 10SM CLR 29/13 A3009 RMK AO2 SLP168 T02890128 $ KNPA 051456Z 01007KT 10SM CLR 23/09 A2990 RMK SLP125 T02280094 51014 LEPA 051530Z 26009KT 230V290 9999 FEW060 18/13 Q1014 NOSIG LFGA 051530Z AUTO 05006KT 360V090 CAVOK 21/05 Q1017 PTKK 051450Z 04008KT 15SM FEW014 SCT290 29/24 A2982 RMK SLP101 8/101 T02860244 57015 KOGA 051555Z AUTO 20009G15KT 10SM CLR 22/05 A3008 RMK AO2 T02200054 KOGB 051553Z AUTO 32011KT 270V340 10SM SCT060 20/06 A2964 RMK AO2 SLP036 T02000061 KMWT 051553Z AUTO 35006KT 10SM CLR 22/04 A3004 RMK AO2 SLP169 T02170039 KOFK 051556Z AUTO 24008KT 10SM CLR 21/02 A3008 RMK AO2 SLP183 T02060022 KOGD 051553Z 18005KT 10SM CLR 19/03 A2994 RMK AO2 SLP093 T01940028 KMYF 051553Z 17004KT 10SM SCT018 OVC046 17/10 A2993 RMK AO2 SLP132 T01670100 KMXO 051555Z AUTO 33009KT 10SM CLR 14/03 A3008 RMK AO2 KOFP 051554Z AUTO VRB04KT 10SM -RA BKN008 OVC013 11/10 A2964 RMK AO2 SLP037 P0004 T01110100 GABG 051500Z 00000KT 9999 NST030 39/21 Q//// PTKR 051550Z 09007KT 15SM FEW017 SCT300 28/24 A2983 RMK SLP102 T02800238 KMYJ 051535Z AUTO 34011G16KT 7SM CLR 15/06 A3007 RMK AO2 PWINO LFGJ 051530Z AUTO 02009KT CAVOK 20/06 Q1015 NOSIG KNQA 051550Z 31012KT 10SM FEW250 19/07 A2997 LDZA 051530Z 02006KT 340V070 9999 FEW045 19/08 Q1020 NOSIG KMYL 051551Z AUTO 32005KT 10SM CLR 14/06 A2992 RMK AO2 SLP103 T01390056 LDZD 051530Z 06010KT 010V110 9999 FEW040 20/06 Q1018 NOSIG KNOW 051555Z AUTO 34003KT 10SM SCT070 11/08 A3007 RMK AO2 T01060075 LEPP 051530Z 20010KT 170V240 CAVOK 23/04 Q1010 ESCF 051550Z AUTO 28009KT 9999 NCD 17/M01 Q1026 KMYP 051555Z AUTO 26009G17KT 10SM CLR 05/M08 A3063 RMK AO2 KMZG 051555Z AUTO 27014KT 10SM CLR 25/19 A3006 RMK A01 KMZH 051554Z AUTO 22008KT 10SM SCT120 16/00 A2997 RMK AO2 KMYR 051545Z 27012KT 10SM FEW020 22/10 A2956 KNQI 051556Z 25005KT 10SM FEW250 28/15 A3007 RMK AO2 SLP179 T02830150 $ GABS 051530Z 15006KT 110V210 9999 FEW033 FEW040TCU 41/10 Q1009 TEMPO TS KNRB 051552Z 29012G24KT 250V310 10SM CLR 22/04 A2975 RMK AO2 PK WND 29028/1534 SLP073 T02220039 KMYV 051553Z AUTO 13010G17KT 10SM OVC055 16/10 A2983 RMK AO2 SLP105 T01610100 ESDF 051550Z AUTO 16007KT 9999 NCD 16/05 Q1027 FJDG 051555Z 00000KT 9999 FEW020 SCT080 BKN250 30/26 A2984 RMK SLP102 T02960255 KMYZ 051530Z AUTO 33004KT 10SM CLR 18/08 A3012 RMK AO2 LERI 051500Z 05005KT 020V080 CAVOK 18/06 Q1013 NOSIG WIBB 051530Z 00000KT 8000 SCT018 27/25 Q1009 LESA 051550Z 24010KT 8000 -TSRA SCT040CB BKN045 15/12 Q1011 KOJA 051555Z AUTO 22003KT 10SM CLR 22/05 A3014 RMK AO2 KOJC 051553Z 00000KT 10SM CLR 18/04 A3010 RMK AO2 SLP186 T01830044 LGAD 051550Z 28006KT 9999 FEW020 19/10 Q1012 KPAE 051553Z 33007KT 10SM FEW080 12/07 A3005 RMK AO2 SLP175 T01170072 KNSE 051456Z 01010KT 10SM CLR 21/10 A2991 RMK AO2 SLP116 T02060100 51018 $ KNQX 051553Z 32014KT 10SM SCT038 27/16 A2987 RMK AO2 SLP112 T02670161 $ KPAH 051553Z 36012KT 10SM BKN042 16/06 A2994 RMK AO2 SLP138 T01560056 FIMP 051600Z 26003KT 9999 SCT019 24/22 Q1013 KMZZ 051555Z AUTO 36012G15KT 10SM OVC021 11/07 A2991 RMK AO2 T01090073 KNSI 051557Z 07005KT 10SM FEW009 SCT015 OVC041 14/12 A2991 RMK AO2 SLP126 T01440117 $ FIMR 051500Z 22009KT 9999 BKN018 26/23 Q1012 LERS 051530Z 14004KT 060V200 9999 FEW030 19/12 Q1014 KNRS 051556Z VRB03KT 10SM BKN050 19/11 A2993 RMK AO2 SLP134 T01940106 $ LERT 051500Z 17015KT 140V200 9999 BKN040 19/16 Q1011 NOSIG LFKB 051530Z 35006KT 320V030 9999 FEW030 21/07 Q1018 NOSIG KOKB 051552Z AUTO 13003KT 10SM OVC049 17/11 A2992 RMK AO2 SLP130 T01670106 LFJL 051530Z AUTO 08013KT CAVOK 19/08 Q1018 TEMPO 08015G25KT LFKC 051530Z 04011KT 360V100 9999 FEW046 SCT073 20/11 Q1017 NOSIG KOKC 051552Z 00000KT 10SM CLR 22/03 A3013 RMK AO2 SLP192 T02220028 LGAL 051550Z 00000KT 9999 FEW018 BKN035 15/11 Q1011 KNTD 051556Z 00000KT 10SM FEW012 FEW025 BKN048 16/12 A2992 RMK AO2 SLP133 T01610117 $ KPAM 051558Z AUTO 36006KT 10SM CLR 23/10 A2987 RMK AO2 SLP118 T02310098 $ KPAN 051555Z AUTO 18008G15KT 130V210 10SM CLR 22/M04 A3010 RMK AO2 KPAO 051547Z 00000KT 10SM OVC040 17/12 A2982 LESO 051530Z 33006KT 300V020 CAVOK 22/10 Q1007 LFKF 051530Z AUTO 06013KT 9999 NCD 21/05 Q1017 NOSIG KPBF 051553Z AUTO 33010KT 10SM CLR 21/03 A3003 RMK AO2 SLP167 T02060028 KPBG 051553Z AUTO 03010KT 10SM BKN041 OVC080 13/06 A2984 RMK AO2 SLP105 T01330056 KPBH 051555Z AUTO 22006KT 10SM CLR 12/00 A3003 RMK AO2 T01230001 LFJR 051530Z AUTO 07011KT CAVOK 23/04 Q1013 NOSIG KPBI 051553Z 32015KT 10SM CLR 25/10 A2982 RMK AO2 SLP097 T02500100 LFKJ 051530Z VRB03KT 9999 SCT046 SCT073 22/07 Q1017 NOSIG WIDD 051500Z 11003KT 9999 FEW015CB 29/26 Q1012 NOSIG LEST 051530Z 27004KT 220V320 9999 -RA FEW040 16/13 Q1012 NOSIG LFLB 051530Z 34006KT CAVOK 21/07 Q1015 NOSIG KOKK 051555Z AUTO 35012KT 10SM OVC016 11/07 A2991 RMK AO1 KNUC 051456Z 23005KT 10SM SCT008 BKN048 16/13 A2994 RMK SLP135 T01560128 53006 LESU 051530Z 22015KT 9999 FEW075 23/05 Q1012 LETL 051530Z AUTO 14011KT CAVOK 17/02 Q1013 LFLC 051530Z AUTO 02006KT 350V060 CAVOK 23/09 Q1013 NOSIG LGBL 051550Z 08006KT 9999 SCT030 19/10 Q1012 NOSIG PTPN 050250Z 09012KT 15SM SCT018 BKN300 32/26 A2983 RMK LAST LGAV 051550Z 02011KT 9999 FEW025 SCT035 18/06 Q1013 NOSIG KOKM 051555Z AUTO 16004KT 10SM CLR 21/08 A3011 RMK AO2 T02060082 KOLE 051555Z AUTO 06007KT 10SM SCT021 OVC029 10/06 A2976 RMK AO2 LETO 051500Z 16008KT 120V200 9999 FEW050 19/05 Q1013 NOSIG KOLF 051553Z AUTO 24004KT 10SM CLR 23/09 A2982 RMK AO2 SLP093 T02330094 KOLG 051535Z AUTO 21012G15KT 10SM CLR 13/M01 A3000 RMK AO1 ESGG 051550Z 24007KT 220V290 CAVOK 13/M02 Q1027 KNUI 051553Z AUTO 03010G17KT 10SM OVC012 12/08 A2964 RMK AO2 SLP036 T01170083 KOMA 051552Z 12003KT 10SM SCT250 19/07 A3009 RMK AO2 SLP187 T01890067 LFKS 051530Z AUTO VRB03KT CAVOK 19/10 Q1018 ESGJ 051550Z 34003KT 250V010 CAVOK 17/M03 Q1026 WIEE 051530Z VRB02KT 8000 BKN020 28/26 Q1010 LEVC 051530Z 13003KT 100V180 9999 FEW040 18/10 Q1014 NOSIG LFLL 051530Z 18008KT 140V210 CAVOK 23/06 Q1014 NOSIG KNTU 051556Z 05017KT 10SM OVC009 13/09 A2958 RMK AO2 CIG 006V011 SLP020 T01330089 KPDC 051535Z AUTO 33007KT 10SM CLR 13/01 A3008 RMK AO2 T01270011 LFMC 051530Z AUTO 11015KT 9999 ////// 20/06 Q1018 LEVD 051530Z 35003KT 310V030 CAVOK 21/08 Q1010 LFMD 051530Z AUTO 13007KT 090V160 CAVOK 20/10 Q1019 NOSIG KOLM 051554Z 03006KT 10SM FEW060 12/08 A3005 RMK AO2 SLP174 T01220078 KOKV 051555Z AUTO 03003KT 7SM OVC016 11/09 A2968 RMK AO2 KPCM 051555Z AUTO 30015G21KT 10SM SCT050 SCT065 26/14 A2984 RMK AO2 P0001 LFLN 051530Z AUTO 06008KT 030V090 CAVOK 21/07 Q1014 NOSIG KPBX 051555Z AUTO 29005KT 10SM SCT023 SCT032 OVC040 08/04 A2977 RMK AO2 T00830042 LFLP 051530Z AUTO 30004KT 240V030 CAVOK 21/04 Q1016 NOSIG LFMH 051530Z 07007KT 030V090 CAVOK 23/06 Q1014 NOSIG ESGP 051550Z 21005KT 140V240 CAVOK 14/M00 Q1027 KNUQ 051556Z 14004KT 10SM FEW022 OVC047 16/11 A2987 RMK AO2 SLP117 T01610106 KOKZ 051555Z AUTO 31015G21KT 10SM SCT050 18/05 A2975 RMK AO2 T01810053 KOMH 051555Z AUTO 06004KT 10SM DZ SCT006 BKN014 OVC021 11/11 A2968 RMK AO2 PTSA 042350Z 08008KT 10SM BKN022 BKN300 31/25 A2986 RMK LAST LFMI 051530Z AUTO 15018KT CAVOK 22/08 Q1016 TEMPO 18018G28KT LFLS 051530Z AUTO 22006KT 150V290 CAVOK 22/07 Q1015 NOSIG ESGR 051550Z AUTO 26007KT 230V320 9999 NCD 17/M04 Q1026 KOLS 051554Z AUTO 16014G22KT 10SM CLR 26/M02 A3003 RMK AO2 SLP101 T02561022 KONA 051554Z AUTO 00000KT 10SM CLR 13/01 A3008 RMK AO2 KPEA 051515Z AUTO 00000KT 10SM CLR 14/02 A3011 RMK AO2 T01390015 LFMK 051530Z AUTO 09023KT CAVOK 19/06 Q1014 BECMG 09020G35KT KPDK 051553Z 32020G26KT 10SM FEW046 SCT060 16/04 A2979 RMK AO2 PK WND 31028/1456 SLP086 T01610044 KOMK 051553Z AUTO 34010G18KT 10SM -RA SCT044 OVC070 13/11 A2996 RMK AO2 RAB00 SLP143 P0002 T01330106 ESGT 041950Z 26005KT 230V360 CAVOK 09/03 Q1028 LFLU 051530Z AUTO 22017KT CAVOK 24/04 Q1014 LFML 051530Z 17015KT CAVOK 23/07 Q1016 NOSIG ESIB 051550Z AUTO 26009KT 9999 NCD 15/02 Q1026 KOLU 051555Z AUTO 23007KT 10SM CLR 20/05 A3011 RMK AO2 RVRNO KOLV 051450Z 34010G16KT 10SM SKC 17/06 A2996 KOMN 051450Z 30012KT 10SM SKC 22/09 A2979 LFLW 051530Z AUTO 17011KT CAVOK 23/05 Q1013 NOSIG LFMN 051530Z 10011KT CAVOK 19/12 Q1019 NOSIG PTRO 051550Z 06006KT 15SM SCT015 BKN290 27/24 A2983 KNUW 051556Z 27007KT 10SM FEW025 SCT090 SCT180 OVC250 12/08 A3009 RMK AO2 SLP190 T01220083 $ LFLX 051530Z AUTO 05013KT CAVOK 20/07 Q1013 TEMPO 09015G25KT LFMO 051530Z AUTO 19013KT CAVOK 23/04 Q1016 LFLY 051530Z AUTO 06004KT 320V130 CAVOK 22/06 Q1014 NOSIG LFMP 051530Z AUTO 10017KT CAVOK 18/09 Q1015 NOSIG KOLY 051535Z AUTO 35012G20KT 10SM BKN025 OVC030 10/06 A2998 RMK AO2 KPCZ 051555Z AUTO 00000KT 10SM CLR 13/02 A3005 RMK AO2 T01320019 KOLZ 051555Z AUTO 32006KT 10SM FEW120 14/02 A3009 RMK AO2 LEVS 051530Z 12006KT 070V150 9999 -RA FEW050 17/05 Q1013 KOOA 051535Z AUTO 02008KT 10SM CLR 14/01 A3010 RMK AO2 T01390009 LFOA 051530Z AUTO 10009KT 070V130 CAVOK 22/05 Q1014 LEVT 051530Z 10005KT 060V140 9999 FEW045 23/11 Q1010 LFOB 051530Z AUTO 09011KT CAVOK 19/03 Q1017 NOSIG LFMT 051530Z 17008KT 140V200 CAVOK 19/12 Q1017 NOSIG KPDT 051553Z 26004KT 10SM CLR 15/11 A2991 RMK AO2 SLP121 T01500111 LFMU 051530Z AUTO 11011KT 080V150 CAVOK 18/11 Q1017 NOSIG LGEL 051550Z 33009KT 9999 SCT025 20/03 Q1012 KONL 051555Z AUTO 22010KT 10SM CLR 22/05 A3007 RMK AO2 T02210048 LFOC 051530Z AUTO 07013KT CAVOK 20/04 Q1015 LFMV 051530Z AUTO 20012KT CAVOK 24/03 Q1016 BECMG VRB02KT KONM 051555Z AUTO 10003KT 10SM CLR 20/M04 A3019 RMK AO2 T02021043 ETAD 051558Z AUTO 06014G21KT 9999 CLR 17/05 A3011 RMK AO2 SLP189 T01730048 $ LFOE 051530Z AUTO 09012KT CAVOK 20/01 Q1016 LEVX 051530Z 03004KT 360V060 5000 -DZ FEW006 SCT046 15/14 Q1012 NOSIG KPEO 051553Z AUTO 01007KT 330V040 10SM BKN025 OVC049 12/06 A2979 RMK AO2 SLP088 T01220061 TSNO KPDX 051553Z 32006KT 10SM OVC027 13/07 A3001 RMK AO2 SLP161 T01280072 KONO 051553Z AUTO 25006KT 10SM CLR 18/08 A2987 RMK AO2 SLP105 T01830083 KNXF 051556Z AUTO 17004KT 7SM FEW021 OVC055 18/12 A2992 RMK AO2 SLP218 T01780122 $ RCKH 051530Z 17010KT 130V210 9999 FEW009 SCT016 29/25 Q1011 NOSIG RMK A2988 KONP 051555Z AUTO 35011G16KT 318V018 7SM BKN047 11/07 A3006 RMK AO2 LFMY 051530Z AUTO 19013KT 160V220 CAVOK 23/06 Q1016 LFOH 051530Z AUTO 10008KT 050V140 CAVOK 20/04 Q1015 KPEQ 051555Z AUTO 03003KT 10SM CLR 23/M02 A3014 RMK AO2 T02281016 LEXJ 051530Z 30003KT 250V350 CAVOK 21/13 Q1008 KPGA 051553Z AUTO VRB03KT 10SM CLR 21/M02 A3001 RMK AO2 SLP103 T02111017 TSNO LFOJ 051530Z AUTO 06019KT CAVOK 20/06 Q1014 GAKA 051500Z 30004KT CAVOK 41/17 Q1006 LFPB 051530Z AUTO 07012KT 040V100 CAVOK 19/03 Q1016 NOSIG LFOK 051530Z AUTO 07012KT CAVOK 20/02 Q1017 KONT 051553Z 25004KT 10SM FEW021 BKN030 OVC050 15/09 A2992 RMK AO2 SLP126 T01500094 KNYC 051551Z AUTO 06009KT 10SM OVC022 11/05 A2972 RMK AO2 SLP057 T01110050 $ LFPC 051530Z AUTO 09011KT 070V130 CAVOK 20/02 Q1016 KPGD 051553Z 31013G18KT 10SM FEW055 27/13 A2986 RMK AO2 SLP111 T02670133 GAKD 051500Z 04008KT 8000 NSC 44/17 Q1007 WIHH 051200Z 00000KT 5000 HZ FEW020 27/24 Q1009 NOSIG KOPF 051553Z 34016G23KT 10SM CLR 25/10 A2983 RMK AO2 SLP101 T02500100 PTTP 051553Z 06004KT 15SM FEW018 SCT130 BKN300 28/24 A2982 RMK SLP098 T02780239 KPEX 051553Z AUTO 18011KT 10SM CLR 20/M01 A3003 RMK AO2 T01951014 LFOP 051530Z AUTO 10013KT 070V130 CAVOK 19/04 Q1016 LFPG 051530Z 09011KT CAVOK 20/01 Q1016 NOSIG KNYG 051556Z 05010KT 10SM BKN013 OVC020 12/09 A2968 RMK AO2 SLP050 T01220094 KNXP 051556Z 33004KT 10SM SCT120 BKN160 BKN220 20/02 A2986 RMK AO2 SLP080 T02000022 KONZ 051554Z AUTO 04015G19KT 10SM CLR 17/07 A2984 RMK AO2 KPEZ 051555Z AUTO 00000KT 7SM CLR 27/10 A3010 RMK AO2 T02650104 LFQA 051530Z AUTO 11011KT CAVOK 20/04 Q1017 ETAR 051558Z AUTO 09013G19KT 9999 CLR 19/05 A3009 RMK AO2 SLP197 T01920052 $ LFOT 051530Z AUTO 06011KT 040V100 CAVOK 22/04 Q1013 NOSIG LFQB 051530Z AUTO 06010KT 030V090 CAVOK 21/03 Q1016 KNYL 051557Z 16015KT 10SM FEW200 BKN250 25/09 A2979 RMK AO2 SLP085 T02500094 $ KOPL 051555Z AUTO 01008KT 10SM CLR 23/11 A3000 RMK AO2 T02290107 PWINO LFPM 051530Z AUTO 09012KT CAVOK 20/04 Q1016 LFOV 051530Z AUTO 08013KT CAVOK 22/07 Q1013 KPHD 051553Z AUTO 01005KT 10SM BKN019 BKN023 OVC028 13/08 A2976 RMK AO2 SLP078 T01280083 KQA2 051455Z AUTO 31007G13KT 8SM CLR 24/02 A2981 RMK AO2 SLP078 WND DATA ESTMD T02380023 56006 LFPN 051530Z AUTO 10011KT CAVOK 19/03 Q1016 NOSIG ESKM 051550Z AUTO 21007KT 180V250 9999 NCD 17/M00 Q1022 KOPN 051555Z AUTO 35011G19KT 10SM BKN048 BKN060 16/01 A2983 RMK AO2 LFPO 051530Z 09013KT CAVOK 19/03 Q1016 NOSIG ESKN 051550Z 25011KT CAVOK 18/M05 Q1025 KPHF 051554Z 05012KT 10SM OVC010 12/10 A2961 RMK AO2 SLP025 T01220100 GAKO 051500Z 24004KT 9999 FEW030 FEW040CB 41/19 Q//// LFQG 051530Z AUTO 06005KT 010V110 CAVOK 22/05 Q1014 LEZG 051530Z 10011KT 9999 FEW060 24/09 Q1010 WIII 051530Z 06002KT 5000 BR BKN020 27/25 Q1010 NOSIG LGHI 051550Z 36014KT 9999 FEW020 SCT180 18/09 Q1010 KPIA 051554Z 02011G17KT 10SM CLR 12/05 A3004 RMK AO2 SLP174 T01220050 LFPT 051530Z AUTO 10010KT 070V130 CAVOK 20/01 Q1016 LFRB 051530Z 03010KT 360V060 CAVOK 19/08 Q1012 NOSIG KORB 051553Z AUTO 22006KT 10SM CLR 18/M02 A2987 RMK AO2 KPIB 051555Z AUTO 33007G16KT 10SM CLR 22/08 A2998 RMK AO1 GAKT 051500Z 28004KT 9999 FEW030 42/16 Q//// GAMB 051500Z VRB02KT 9999 SCT030 Q1007 LEZL 051530Z 29006KT 250V340 9999 FEW045 22/10 Q1010 TEMPO 4000 SHRA SCT020TCU LFRC 051530Z AUTO 08013KT CAVOK 15/05 Q1015 NOSIG KPHL 051554Z 05010KT 10SM OVC021 13/07 A2968 RMK AO2 SLP052 T01280067 KORC 051535Z AUTO 00000KT 10SM CLR 18/02 A3007 RMK AO2 LFRD 051530Z AUTO 10010KT 060V130 9999 NCD 22/06 Q1013 NOSIG KORD 051551Z 04013KT 10SM CLR 12/04 A3001 RMK AO2 SLP164 T01220044 KPGV 051605Z AUTO 03008KT 7SM OVC013 15/12 A2958 RMK AO2 LFPV 051530Z AUTO 08011KT 050V110 CAVOK 19/01 Q1016 KPIE 051553Z 30013G21KT 10SM BKN048 BKN060 25/14 A2984 RMK AO2 SLP103 T02500144 KORE 051552Z AUTO 04010KT 10SM OVC017 09/06 A2976 RMK AO2 SLP082 T00940056 KPHN 051556Z AUTO 02008G15KT 340V040 10SM CLR 15/07 A2987 RMK AO2 KORF 051551Z AUTO 05012G20KT 10SM OVC009 12/09 A2959 RMK AO2 SLP020 T01220094 TSNO RCMQ 051500Z 17004KT 9999 FEW006 SCT030 BKN060 26/23 Q1011 RMK A2988 LFRG 051530Z AUTO 14009KT 110V190 CAVOK 19/06 Q1015 NOSIG KPHP 051555Z AUTO 19006KT 10SM CLR 22/10 A2993 RMK AO2 SLP126 T02220100 KORG 051555Z AUTO 06004KT 10SM CLR 24/07 A3004 RMK AO2 T02410066 LFRH 051530Z AUTO 16008KT CAVOK 21/07 Q1012 NOSIG LFQQ 051530Z AUTO 08010KT 040V100 CAVOK 20/02 Q1018 NOSIG KPIH 051553Z VRB03KT 10SM CLR 18/07 A2995 RMK AO2 SLP108 T01780067 KORH 051554Z 04010G19KT 10SM BKN004 OVC010 07/05 A2974 RMK AO2 RAB32E51 CIG 003V007 SLP077 P0000 T00670050 LFRI 051530Z AUTO 08009KT 050V110 CAVOK 24/09 Q1011 KOSA 051555Z AUTO 01006KT 10SM CLR 23/05 A3010 RMK AO1 T02300045 LFRJ 051530Z AUTO 04013KT CAVOK 18/10 Q1012 LFSB 051530Z 12010KT 090V160 CAVOK 20/02 Q1017 NOSIG LFRK 051530Z AUTO 11010KT CAVOK 20/08 Q1015 NOSIG KOQT 051553Z AUTO VRB03KT 10SM FEW014 BKN034 OVC070 11/06 A2980 RMK AO2 RAB01E25 SLP093 P0001 T01060061 KOQU 051550Z 06020G30KT 12SM BKN011 OVC014 09/05 A2972 KORL 051553Z 32013G22KT 10SM FEW055 26/11 A2980 RMK AO2 SLP095 T02610106 ESMK 051550Z AUTO 14007KT 9999 NCD 16/07 Q1026 KPIL 051553Z AUTO 23008KT 10SM CLR 28/13 A3006 RMK AO2 SLP178 T02830133 KOSC 051554Z AUTO 06011KT 10SM CLR 14/06 A2994 RMK AO2 T01420058 ETEB 051558Z AUTO 09011G21KT 9999 SCT048 16/07 A3017 RMK AO2 SLP235 LFRL 051530Z AUTO 19006KT 160V260 CAVOK 21/05 Q1012 RCNN 051500Z 16007KT 9999 FEW012 SCT100 26/23 Q1011 RMK A2988 LFSD 051530Z AUTO 03008KT 360V080 CAVOK 20/05 Q1016 LFRM 051530Z AUTO 08012KT 040V110 CAVOK 22/03 Q1014 KPIM 051555Z AUTO 31010G17KT 270V330 10SM SCT055 17/04 A2984 RMK AO2 LTG DSNT W T01720042 LFRN 051530Z AUTO 10012KT 9999 NCD 23/05 Q1012 NOSIG ESND 051550Z AUTO 23008KT 180V270 9999 FEW210/// 16/M02 Q1021 LFRO 051530Z AUTO 01010KT 340V050 CAVOK 17/08 Q1013 NOSIG KPHX 051551Z 13007KT 10SM FEW250 27/M01 A2985 RMK AO2 SLP090 T02721006 LGIO 051550Z AUTO /////KT //// // ////// 18/04 Q1012 RE// LFSG 051530Z AUTO 07011KT CAVOK 19/06 Q1017 KNZY 051552Z 17004KT 10SM FEW025 BKN045 17/12 A2992 RMK AO2 SLP132 T01670122 $ LFRQ 051530Z AUTO 16006KT 130V220 CAVOK 21/05 Q1012 NOSIG KOSH 051553Z 10SM CLR 11/03 A3004 RMK AO2 SLP177 T01110028 ESNG 051550Z 20005KT CAVOK 11/M04 Q1020 LGIR 051550Z 31013KT 9999 FEW018TCU SCT025 18/12 Q1011 NOSIG LFSI 051530Z AUTO 11010KT 070V150 CAVOK 20/03 Q1017 KPIR 051553Z AUTO 16012KT 10SM CLR 24/09 A2994 RMK AO2 SLP131 T02390089 ESMQ 051550Z 18009KT CAVOK 16/04 Q1027 PTYA 051450Z VRB05KT 12SM SCT017 SCT130 BKN300 28/24 A2985 RMK SLP110 8/171 T02780243 403410265 57002 LFRS 051530Z 11010KT CAVOK 24/05 Q1011 NOSIG KORS 051555Z AUTO 34014G20KT 10SM CLR 12/08 A3005 RMK AO2 LFRT 051530Z AUTO 06012KT CAVOK 18/07 Q1013 KPKB 051553Z 31004KT 10SM OVC009 10/08 A2978 RMK AO2 SLP084 T01000083 KPIT 051551Z 01009KT 10SM SCT018 BKN032 OVC050 14/09 A2971 RMK AO2 SLP068 BINOVC T01390089 ESMS 051550Z 31008KT CAVOK 17/01 Q1026 GANK 051500Z 08002KT 9000 FEW030 45/12 Q//// LGKC 051450Z 04007KT 9999 SCT018 16/11 Q1014 LFRU 051530Z AUTO 06013KT CAVOK 20/08 Q1012 LFSL 051530Z AUTO 14009KT 090V180 CAVOK 27/01 Q1011 NOSIG ESNK 051550Z AUTO 15014KT 9999 FEW130/// 14/03 Q1020 ESMT 051550Z 31010KT CAVOK 14/02 Q1027 LHBC 051445Z 01011KT CAVOK 23/05 Q1017 LFRV 051530Z AUTO 09010KT 060V130 9999 NCD 22/06 Q1012 KPKD 051553Z AUTO 21012KT 10SM CLR 22/01 A2994 RMK AO2 SLP139 T02170006 ESNL 051550Z AUTO 14008KT 9999 NCD 16/M01 Q1020 LFSN 051530Z AUTO 06014KT CAVOK 19/08 Q1018 KQD3 051456Z 05009KT 9999 BKN210 33/25 A2968 RMK AO2A SLP048 T03280249 53001 LGKF 051550Z 34014KT 9999 FEW018 20/12 Q1012 ESNN 051550Z AUTO 12008KT 9999 NCD 13/01 Q1021 ESOE 051550Z AUTO 24010KT 210V280 9999 NCD 16/M01 Q1026 KQBF 051455Z AUTO VRB06KT 9999 FEW190 39/16 A2972 RMK AO2 SLP035 WND DATA ESTMD T03940156 57026 LFSO 051530Z AUTO 08011KT 040V120 CAVOK 19/05 Q1017 ESNO 051550Z AUTO 18007KT 9999 NCD 13/03 Q1021 ESMX 051550Z 24006KT 200V280 CAVOK 19/01 Q1026 KOTG 051556Z AUTO 22006KT 10SM CLR 18/02 A3008 RMK AO2 SLP188 T01780017 KQBG 051455Z AUTO 22011G18KT 220V330 10SM CLR 31/21 A2987 RMK AO2 SLP108 WND DATA ESTMD T03120213 53011 KS25 051535Z AUTO 00000KT 10SM CLR 24/08 A2986 RMK AO2 LFTH 051530Z AUTO 09011KT CAVOK 19/11 Q1018 NOSIG LFRZ 051530Z AUTO 13009KT 9999 NCD 23/07 Q1011 NOSIG KOTH 051555Z 01017G24KT 10SM OVC025 12/09 A3003 RMK AO1 ESNQ 051550Z AUTO 21008KT 9999 SCT094/// 09/M02 Q1020 GANR 051500Z 04004KT 340V160 1000 DU NSC 42/13 Q1008 KQAT 051556Z AUTO M 5000 M FEW150 28/03 A2986 RMK AO2 SLP111 T02750029 $ LFST 051530Z AUTO 06008KT 030V090 CAVOK 21/04 Q1018 NOSIG ESPA 051550Z 19005KT CAVOK 09/M01 Q1023 ESNS 051550Z AUTO 15008KT 9999 NCD 14/M03 Q1022 KOSU 051553Z 36008KT 8SM OVC009 10/08 A2980 RMK AO2 RAE12 CIG 006V012 SLP092 P0000 T01000078 ESOK 051520Z 24010KT 210V270 CAVOK 16/M01 Q1025 LGKL 051550Z 00000KT 9999 FEW020TCU SCT025 19/12 Q1013 KQBL 051556Z AUTO 00000KT 10SM CLR 22/10 A2992 RMK AO2 SLP134 T02240098 ESNU 051550Z 17010KT CAVOK 10/03 Q1022 KOTM 051553Z AUTO 34006KT 10SM CLR 14/02 A3009 RMK AO2 SLP189 T01440017 ESNV 051550Z AUTO 21005KT 9999 NCD 15/M02 Q1019 LFSX 051530Z AUTO 11011G25KT 070V140 CAVOK 20/M00 Q1016 ESPE 051550Z AUTO 18003KT 150V230 9999 SCT200/// 15/M01 Q1020 LGKO 051550Z 31012KT 9999 FEW018 17/10 Q1010 ESNX 051550Z 14007KT CAVOK 14/M02 Q1020 LGKP 051550Z 30017KT 9999 SCT025 19/11 Q1010 KQAY 051356Z AUTO M 9000 M CLR 38/06 A2970 RMK AO2 SLP058 T03820057 $ LHBP 051539Z 32011KT CAVOK 17/09 Q1020 NOSIG ETGG 051520Z 08011KT 9999 FEW040 15/02 Q1026 BLU+ LGKR 051550Z 29007KT 9999 FEW020 21/10 Q1012 NOSIG ESNZ 051550Z 25009KT CAVOK 13/M02 Q1020 ETHA 051520Z AUTO 08015KT //// // ////// 14/05 Q1020 /// VRMM 051500Z 220109KT 9999 FEW017TCU BKN120 30/26 Q1009 TEMPO 5000 -TSRA WIMM 051530Z 21005KT 5000 SCT017 27/25 Q1010 NOSIG KS39 051600Z AUTO 00000KT 10SM CLR 11/08 A2993 RMK AO2 KQCL 051555Z AUTO 27002KT 9999 CLR 20/12 A3004 RMK AO2 SLP132 WND DATA ESTMD T02000118 ETHB 051520Z AUTO 12011KT 9999 // ////// 18/05 Q1023 /// LHDC 051515Z 05012KT CAVOK 20/05 Q1018 TEMPO SHRA BKN040CB ETHC 051520Z AUTO 09010KT 9999 // ////// 18/03 Q1024 /// KPKV 051555Z AUTO 30005KT 10SM CLR 26/17 A3007 RMK AO2 T02600170 KPMD 051553Z AUTO 23015G21KT 10SM CLR 14/04 A2986 RMK AO2 SLP097 T01440044 LGKV 051550Z 13006KT 9999 SCT020 17/09 Q1012 LGLM 051550Z 34003KT 9999 FEW018 SCT030 BKN100 16/11 Q1012 LFTW 051530Z AUTO 18016KT CAVOK 20/09 Q1017 NOSIG KOVE 051553Z AUTO 16014KT 10SM OVC050 17/09 A2984 RMK AO2 SLP105 T01670094 KPLN 051554Z AUTO VRB05KT 10SM CLR 13/07 A2998 RMK AO2 SLP156 T01330067 KOUN 051535Z AUTO 00000KT 10SM CLR 21/06 A3014 RMK AO2 ETHE 051520Z AUTO 11009KT //// // ////// 19/04 Q1022 /// ESOW 051550Z 23011KT 200V260 CAVOK 17/M02 Q1025 ETHF 051520Z 08010KT 9999 FEW050 18/05 Q1022 BLU+ KQDG 051556Z AUTO 27008G16KT 9999 CLR 12/06 A2990 RMK AO2 SLP127 T01230060 $ LGKZ 051150Z 32010KT 9999 FEW020 SCT070 15/03 Q1014 ETGQ 050420Z AUTO VRB03KT //// // ////// 04/01 Q1027 /// LGLR 051450Z 32005KT 9999 FEW020TCU SCT030 20/07 Q1012 RMK FEW080 BLU KOWA 051555Z AUTO 19008KT 10SM SCT100 16/M02 A3007 RMK AO2 KPNA 051535Z AUTO 17007KT 10SM BKN110 15/00 A3019 RMK AO2 LGMK 051550Z 34013KT 9999 SCT015 SCT180 16/10 Q1011 KOWB 051556Z 35012KT 10SM SCT021 BKN025 11/04 A2993 RMK AO2 T01050044 SLP134 KQEB 051455Z AUTO 07003KT 10SM CLR 22/14 RMK AO2 SLPNO WND DATA ESTMD T02240142 55004 TSNO $ KPNC 051553Z AUTO 31004KT 10SM CLR 21/08 A3012 RMK AO2 SLP195 T02060078 TSNO KOVL 051554Z AUTO 20007KT 170V230 10SM CLR 20/00 A3002 RMK AO2 KPLU 051555Z AUTO VRB04KT 10SM CLR 13/08 A3004 RMK AO2 ETHL 051520Z 09012KT 9999 FEW040 16/06 Q1020 BLU+ KOWD 051553Z 05015G29KT 8SM OVC011 08/06 A2976 RMK AO2 PK WND 05029/1553 SLP077 T00780056 ETIC 051558Z AUTO VRB05KT 9999 FEW044 17/06 A3019 RMK AO2 SLP226 KPNE 051554Z 05009KT 10SM OVC018 12/08 A2969 RMK AO2 SLP055 T01220078 ETHN 051520Z 10013KT 9999 FEW050 17/06 Q1021 BLU+ LFVP 051600Z 08017KT 9999 -RA BKN020 OVC048 03/03 Q1018 NOSIG KPMP 051553Z 33016G24KT 10SM CLR 26/10 A2982 RMK AO2 SLP097 T02560100 KQEI 051550Z AUTO 01002KT 9999 BKN055 BKN085 12/09 A2988 RMK A02 TSNO ETIH 051558Z AUTO 11005KT 9999 FEW044 17/07 A3019 RMK AO2 SLP225 KOVS 051553Z AUTO 26003KT 10SM CLR 14/02 A3007 RMK AO2 SLP187 T01440022 KQEJ 051550Z AUTO 00000KT 9999 OVC050 13/10 A2983 RMK A02 TSNO ETHS 051520Z 10010KT 9999 FEW065 18/01 Q1024 BLU+ ESSA 051550Z 24013KT CAVOK 17/M06 Q1024 NOSIG KOXB 051553Z AUTO 04015G22KT 10SM OVC011 10/08 A2964 RMK AO2 SLP036 T01000078 TSNO KQFB 051550Z AUTO 12001KT 9999 FEW120 BKN220 18/06 A2996 RMK A02 TSNO LGMT 051550Z 32012G22KT 300V040 9999 FEW020 SCT180 16/08 Q1012 KPOB 051558Z AUTO 32012KT 10SM -RA SCT010 BKN070 BKN210 13/12 A2957 RMK AO2 LTG DSNT N RAB15 TSE53 SLP015 P0034 T01340119 KPOC 051547Z 00000KT 10SM SCT042 OVC050 14/09 A2995 ESSB 051550Z 27012KT CAVOK 18/M10 Q1025 KQEL 051550Z AUTO 11001KT 9999 BKN042 14/11 A2989 RMK A02 TSNO KOXC 051550Z 04010G19KT 10SM OVC015 09/04 A2972 KPMU 051555Z AUTO 00000KT 10SM CLR 20/05 A2998 RMK AO2 T02010046 ETIK 051458Z AUTO VRB06KT 9999 SCT055 17/06 A3018 RMK AO2 SLP227 T01710063 57018 KPNM 051554Z AUTO 19008KT 10SM 18/M01 A3002 RMK AO2 KPMV 051555Z AUTO 00000KT 10SM CLR 20/04 A3010 RMK AO2 T02040039 ESSD 051550Z AUTO 25010KT 9999 NCD 17/M01 Q1023 KQEN 051550Z AUTO 16011G18KT 9999 CLR 15/02 A2985 RMK A02 TSNO KPOE 051558Z AUTO 36009KT 240V120 9SM CLR 23/07 A3002 RMK AO2 SLP166 T02250070 $ KPOF 051553Z AUTO 35015KT 10SM CLR 17/03 A2998 RMK AO2 SLP152 T01720033 KOWP 051555Z AUTO 29004KT 10SM CLR 22/05 A3012 RMK AO2 T02200048 KQFG 051555Z AUTO 08001KT 9999 CLR 28/10 A2993 RMK AO2 SLP101 T02780101 GASG 051500Z 28004KT 9999 SCT030 42/18 Q//// KQEQ 051550Z AUTO 17003KT 2400 -SHRA BR CLR 14/12 A2965 RMK A02 TSNO RCSS 051530Z VRB02KT 9999 FEW020 24/22 Q1011 NOSIG RMK A2986 KQER 051550Z AUTO 03002KT 9000 BKN040 13/11 A2979 RMK A02 TSNO KOXI 051555Z AUTO 34012KT 10SM BKN012 09/04 A2996 RMK AO1 KQES 051550Z AUTO 17018G28KT 9999 /CLR 18/13 A2981 RMK A02 TSNO KPNS 051553Z 34010KT 10SM CLR 23/10 A2990 RMK AO2 SLP128 T02280100 LGPA 051550Z AUTO 33017KT //// // ////// 17/09 Q1012 RE// KPPA 051555Z AUTO 18009G16KT 10SM CLR 23/08 A3016 RMK AO2 T02300078 ESTA 051550Z 29012KT CAVOK 14/04 Q1027 KPNT 051555Z AUTO 35010KT 10SM CLR 13/08 A3001 RMK AO2 T01340075 GASK 051500Z 18006KT 9999 FEW030 38/20 Q//// ESSL 051550Z AUTO 27006KT 220V320 9999 NCD 18/M03 Q1026 KQEV 051550Z AUTO 25005G10KT 9999 CLR 21/11 A2984 RMK A02 TSNO WIPP 051530Z 07002KT 9999 SCT012 27/25 Q1010 FKKD 051500Z 26005KT 9999 TS SCT016 SCT020CB BKN120 29/25 Q1010 NOSIG KQEW 051550Z AUTO 30002KT 9999 OVC095 16/10 A2987 RMK A02 TSNO GASN 051500Z 00000KT 9999 BKN030 42/20 Q//// LGNX 051050Z 36014KT 9999 FEW020TCU SCT025 18/11 Q1011 RCTP 051530Z 16006KT 120V210 9999 FEW018 BKN028 BKN120 27/23 Q1010 NOSIG RMK A2985 KPPF 051552Z AUTO 31009KT 10SM CLR 21/06 A3011 RMK AO2 SLP193 T02110061 KQEX 051550Z AUTO 20013G20KT 9999 CLR 19/06 A2990 RMK A02 TSNO KQEY 051550Z AUTO 15005KT 9999 BKN120 20/09 A2987 RMK A02 TSNO KQFQ 050555Z 9999 FEW190 25/02 A2986 RMK AO2A SLP109 T02520020 $ ESSP 051550Z 24010KT CAVOK 17/M05 Q1026 KOXR 051551Z 04003KT 10SM OVC050 17/12 A2991 RMK AO2 SLP128 T01670117 KOZA 051535Z AUTO 19005KT 10SM CLR 23/03 A3019 RMK AO2 KQFT 051550Z AUTO 10001KT 9999 BKN013 BKN015 15/12 A2982 RMK A02 TSNO ESST 051550Z AUTO 21011KT 180V250 9999 NCD 15/02 Q1024 KQFU 051550Z AUTO 04002KT 3200 HZ CLR 15/12 A2981 RMK A02 TSNO KPOU 051553Z AUTO 01010G18KT 10SM OVC026 13/06 A2972 RMK AO2 SLP060 T01280061 TSNO KQFV 051550Z AUTO 31003KT 1200 /CLR 13/11 A2982 RMK A02 TSNO ESTL 051550Z AUTO 30012KT 9999NDV NCD 16/01 Q1027 KPOV 051557Z AUTO 33004KT 10SM BKN019 BKN035 OVC044 14/08 A2977 RMK AO2 T01360076 KOXV 051555Z AUTO VRB04KT 10SM BKN120 14/01 A3009 RMK AO2 ESSV 051550Z 31004KT CAVOK 16/M02 Q1026 ESUD 051550Z AUTO 20008KT 9999 NCD 15/01 Q1019 FKKN 051500Z 26002KT 9999 TS BKN020 FEW023CB 27/19 Q1015 KQFX 051550Z AUTO 06001KT 9999 BKN017 BKN021 15/12 A2985 RMK A02 TSNO KPPO 051555Z AUTO 36013KT 10SM SCT009 10/08 A2998 RMK AO2 T00960081 KPOY 051555Z AUTO 14008KT 10SM CLR 17/M02 A3001 RMK AO2 KPPQ 051555Z AUTO 01008G14KT 330V030 10SM CLR 13/05 A3007 RMK AO2 T01310047 LFYR 051530Z AUTO 04010KT 360V070 CAVOK 23/02 Q1013 KPQI 051556Z AUTO 05009KT 10SM OVC020 07/02 A2997 RMK AO2 SLP193 T00670017 FKKR 051500Z 26006KT 9999 FEW026 FEW030CB 40/18 Q1006 NOSIG KPRB 051553Z AUTO VRB03KT 10SM OVC040 15/09 A2989 RMK AO2 SLP119 T01500094 TSNO KPQL 051553Z 02008KT 10SM CLR 23/12 A2993 RMK AO2 SLP135 T02330122 KPRC 051553Z 14016KT 10SM CLR 22/M06 A3003 RMK AO2 SLP093 T02171056 KQHN 051455Z 28010KT 9999 SCT240 29/00 A2988 RMK SLP058 Q1012 DA5777 50003 KPQN 051553Z AUTO 23008KT 10SM CLR 19/01 A3005 RMK AO2 KQGX 051456Z 01012KT 9999 CLR 32/18 A2969 RMK AO2A SLP056 WND DATA ESTMD T03170181 53008 KPRG 051535Z AUTO 34006KT 10SM OVC014 09/06 A2997 RMK AO2 T00900062 ESUP 051550Z AUTO 26004KT 9999 NCD 12/M04 Q1021 LGPZ 051550Z 27010KT 9999 FEW025 19/09 Q1013 KOZR 051558Z AUTO 33015G20KT 10SM CLR 21/03 A2988 RMK AO2 PK WND 33027/49 SLP119 T02060030 LGSA 051520Z 31006KT 9999 FEW020TCU BKN025 17/12 Q1012 KOZS 051555Z AUTO 32010G14KT 10SM CLR 17/00 A3008 RMK AO2 VTBD 051530Z 20010KT 170V230 9999 FEW030 31/25 Q1008 NOSIG ESUT 051550Z AUTO 27003KT 9999 NCD 10/M02 Q1020 KPSC 051553Z 29004KT 10SM CLR 18/13 A2992 RMK AO2 SLP129 T01780128 KRAC 051553Z AUTO 01015KT 10SM CLR 09/03 A3005 RMK AO2 SLP178 T00940033 KQHU 051555Z 00000KT 6000 DUHZ SCT100 BKN200 BKN250 28/07 A2984 RMK SLP105 WND DATA/ALSTG/SLP ESTMD KOZW 051554Z AUTO 35007G14KT 10SM SCT014 13/08 A2990 RMK AO2 T01270083 KPRN 051556Z AUTO 36009G18KT 10SM CLR 20/M01 A2991 RMK AO2 SLP124 T02001006 ETMN 051520Z 09008KT 9999 BKN250 18/01 Q1025 BLU+ KPSF 051554Z AUTO 04012KT 10SM OVC017 09/05 A2974 RMK AO2 SLP065 T00890050 KPRO 051555Z AUTO 00000KT 10SM CLR 16/00 A3010 RMK AO2 T01591002 KQL5 050757Z VRB04KT 9000 FEW100 30/10 A2992 RMK SLP103 LGRP 051550Z 27015KT 9999 FEW018 SCT020 19/12 Q1008 NOSIG KQHY 051556Z AUTO 36006KT 10SM CLR 22/11 A2992 RMK AO2 SLP134 T02220105 ETNG 041750Z 08008KT 9999 FEW040 SCT300 14/01 Q1027 ETNH 051520Z AUTO 10006KT 9999 // ////// 17/00 Q1026 /// VTCC 051500Z 00000KT 9999 FEW040 29/20 Q1009 A2982 NOSIG LIBA 051455Z 31010KT 9999 FEW030 19/08 Q1016 RMK FEW VIS MIN 9999 WIND THR29 31013KT BLU KPRS 051555Z AUTO 05007KT 10SM CLR 25/02 A3014 RMK AO2 T02530017 LGSK 051550Z 20004KT 9999 FEW018 BKN025 BKN080 17/12 Q1013 KPSK 051555Z AUTO 32008KT 10SM -RA BKN016 OVC026 07/05 A2970 RMK AO2 T00700050 KPTB 051555Z AUTO 02009KT 10SM OVC008 13/13 A2961 RMK AO2 T01300127 KT20 051535Z AUTO 02003KT 10SM CLR 26/14 A3008 RMK AO2 T02580141 LIBC 051450Z 36007KT 9999 SCT040 18/09 Q1015 KRAL 051553Z VRB03KT 10SM BKN016 OVC041 16/11 A2992 RMK AO2 SLP120 T01560106 ETNL 051520Z 06006KT 9999 FEW050 17/00 Q1026 BLU+ VTBO 051100Z 18015KT 9999 FEW022 SCT300 32/26 Q1007 LIBD 051550Z 36012KT CAVOK 18/10 Q1016 KPSM 051558Z AUTO 02010KT 5SM -DZ BR SCT005 BKN009 OVC016 08/06 A2979 RMK AO2 DZB01E22DZB51 CIG 009V016 BKN V SCT SLP091 P0000 T00830064 $ KRBD 051553Z 36003KT 10SM CLR 24/04 A3010 RMK AO2 SLP188 T02390044 LGSM 051550Z 35006KT 9999 FEW025 17/12 Q1009 LHKE 051545Z 02017KT 350V050 9999 FEW060TCU SCT117 21/06 Q1018 NOSIG RMK BLU KPSN 051555Z AUTO 33004KT 10SM CLR 23/05 A3010 RMK AO2 T02330058 VTCH 051200Z VRB04KT 9999 TS FEW025CB SCT028 34/15 Q1005 A2969 LIBF 051450Z 36017KT 9999 FEW025 18/09 Q1017 ETNN 051520Z AUTO 08008KT 9999 // ////// 19/05 Q1020 /// LGRX 051550Z 28005KT 9999 FEW020 21/11 Q1012 LGSO 051550Z AUTO 34011KT 320V040 //// // ////// 17/07 Q1012 RE// KPRX 051555Z 02008KT 10SM CLR 22/05 A3010 RMK AO1 KPSO 051555Z AUTO 00000KT 10SM CLR 17/M07 A3032 RMK AO2 T01671075 LIBG 051450Z 02011KT 350V050 9999 FEW030 21/04 Q1014 KRAP 051552Z 15005KT 10SM CLR 21/11 A2995 RMK AO2 SLP130 T02060106 KPSP 051553Z 27010G21KT 10SM FEW060 BKN150 21/08 A2979 RMK AO2 WSHFT 1445 SLP087 T02110078 KRBG 051553Z AUTO 36008KT 10SM SCT021 BKN029 OVC046 13/09 A2997 RMK AO2 SLP148 T01330089 KQKG 051555Z AUTO 33002KT 10SM CLR 23/16 A3009 RMK AO2 SLP135 WND DATA ESTMD T02260159 $ LGTG 051420Z 35006KT 9999 FEW030 18/05 Q1013 RMK FEW080 BLU LIBH 051355Z 36011KT 9999 SCT026 22/05 Q1015 RMK SCT QUK 1 QUL 1 NW VIS MAR 25 KM VIS MIN 9999 VTBS 051530Z 19011KT CAVOK 31/24 Q1009 NOSIG LGSR 051550Z 32012KT 9999 FEW018TCU SCT020 17/09 Q1011 VTCL 051200Z 06002KT 9999 FEW025 32/22 Q1004 A2967 VTBU 051530Z 19006KT 9000 FEW020 31/24 Q1009 A2981 NOSIG LICA 051450Z 26009KT 9999 FEW010TCU SCT025 19/11 Q1016 KRCA 051558Z AUTO 20005KT 10SM CLR 22/09 A2994 RMK AO2 SLP126 T02200093 $ KRAS 051535Z AUTO 28005KT 10SM CLR 25/15 A3007 RMK AO2 T02470149 ETNS 051520Z AUTO 06012KT 7000 // ////// 16/04 Q1026 /// LICB 051450Z 20008KT 130V240 CAVOK 21/06 Q1016 KPTK 051553Z 35011G15KT 10SM FEW031 15/07 A2987 RMK AO2 SLP116 T01500072 KPUB 051553Z 12003KT 10SM CLR 20/04 A3013 RMK AO2 SLP158 T02000039 ETNT 051520Z 10013KT 9999 FEW050 BKN230 17/02 Q1024 BLU+ VTCN 051200Z 32002KT CAVOK 31/20 Q1004 A2966 LICC 051550Z 08010KT 9999 FEW050 18/10 Q1016 KPUC 051553Z AUTO 15005KT 10SM CLR 18/M01 A3012 RMK AO2 SLP147 T01831011 KRBL 051554Z AUTO 18006KT 10SM FEW013 16/12 A2982 RMK AO2 SLP096 T01610117 LICD 051350Z 13005KT 010V160 9999 FEW020 18/13 Q1016 KQN2 051555Z AUTO VRB03KT 10SM FEW120 22/20 A2991 RMK AO2 SLP110 WND DATA ESTMD T02180198 TSNO $ KRCE 051535Z AUTO 00000KT 10SM CLR 21/04 A3015 RMK AO2 VTCP 051500Z AUTO VRB02KT 5000 // ////// 33/17 Q1006 LIBN 051455Z 01015KT CAVOK 19/05 Q1014 RMK SKC VIS MIN 9999 WIND THR14 36014KT WIND THR32 36015KT BLU KQN3 051556Z AUTO 10003KT 9999 CLR 42/13 A2973 RMK AO2 SLP054 T04230133 GAYE 051500Z 04014KT 3000 DU NSC 44/08 Q//// ETNW 051520Z AUTO 10012KT 6000 // ////// 18/04 Q1024 /// LICF 051355Z 32005KT 9999 FEW025 21/12 Q1016 RMK SCT QUK 1 QUL 0 VIS MAR 20 KM MON LIB NC VIS MIN 9999 KPSX 051553Z AUTO 27008KT 10SM CLR 27/14 A3005 RMK AO2 SLP176 T02720144 KRBO 051535Z AUTO 33003KT 10SM CLR 26/14 A3008 RMK AO2 T02580137 LICG 051455Z /////KT CAVOK 18/14 Q1015 LIBP 051450Z 01007KT 340V050 9999 SCT040 18/10 Q1019 LGSY 051450Z 28008KT 9999 FEW025 18/07 Q1011 RMK FEW080 BLU KT35 051555Z AUTO 04003KT 10SM CLR 25/10 A3009 RMK AO2 T02490098 LIBQ 050755Z 02005KT 0000 FG VV/// 04/04 Q1013 RMK MON INVIS VAL INVIS VIS MIN 0000 VTCT 051500Z 20004KT 8000 NSC 26/23 Q1008 A2977 LIBR 051545Z 33012KT CAVOK 18/13 Q1015 NOSIG KQKR 051556Z AUTO 32005KT 9999 CLR 40/18 A2973 RMK AO2 SLPNO T03960176 LICJ 051550Z 05018KT CAVOK 19/14 Q1015 KPTS 051555Z AUTO 34006KT 300V360 10SM CLR 21/08 A3008 RMK AO2 T02100082 LGTS 051550Z 32008KT 9999 FEW020TCU BKN030 19/06 Q1012 NOSIG KPUJ 051555Z AUTO 32014G21KT 10SM 17/08 A2982 RMK AO2 KPVB 051555Z AUTO 01006KT 10SM CLR 12/04 A3007 RMK AO1 T01220039 KPTT 051555Z AUTO 20004KT 10SM CLR 20/06 A3014 RMK AO2 T01960059 LICL 051355Z 26004KT 9999 FEW022 19/15 Q1015 RMK FEW QUK 1 QUL 0 VIS MAR 20 KM VIS MIN 9999 KPVC 051556Z AUTO 04017G24KT 8SM OVC004 07/06 A2975 RMK AO2 PK WND 03026/1523 SLP073 T00720061 LIBV 051455Z 34009KT 9999 SCT040 15/04 Q1016 RMK SCT VIS MIN 9999 WIND THR32 35012KT WIND THR14 35012KT BLU KPVD 051551Z 04018G28KT 10SM OVC013 08/05 A2973 RMK AO2 PK WND 02029/1458 SLP069 T00830050 KRDD 051553Z 20005KT 10SM CLR 18/13 A2980 RMK AO2 SLP087 T01780128 KRCM 051555Z AUTO 35005KT 10SM CLR 18/02 A3009 RMK AO2 KPTV 051556Z AUTO 22010KT 10SM OVC047 16/09 A2989 RMK AO2 SLP131 T01610089 ETOU 051458Z 10006KT 9999 FEW050 20/04 A3018 RMK SLP222 WND DATA ESTMD ALSTG/SLP222 ESTMD LAST GCGM 051500Z VRB05KT 9999 SCT040 21/12 Q1017 RMK R09/15003KT 090V230 ARP/17004KT 120V230 GCFV 051530Z 30015G25KT 270V340 9999 FEW035 BKN045 23/13 Q1016 KPTW 051554Z AUTO 01007KT 10SM OVC023 11/07 A2970 RMK AO2 SLP055 T01110067 KPVE 051555Z AUTO 34011KT 10SM CLR 17/02 A2989 RMK KRBW 051555Z AUTO 29015G19KT 10SM BKN048 BKN055 20/06 A2965 RMK AO2 KPVF 051555Z AUTO 22003KT 10SM BKN007 BKN013 09/07 A2988 RMK AO1 LIBY 051355Z 35009KT 9999 FEW020 18/04 Q1014 RMK FEW QUK 3 QUL 1 N VIS MAR 20 KM VIS MAX 20 KM VIS MIN 9999 KPVG 051555Z AUTO 06007KT OVC008 13/10 A2961 RMK AO1 KRDG 051554Z AUTO 06006KT 10SM OVC024 12/06 A2969 RMK AO2 SLP057 T01220061 LICR 051450Z 34013KT CAVOK 21/09 Q1016 KRCR 051555Z AUTO 36010G15KT 10SM BKN014 13/09 A2993 RMK AO2 GCHI 051500Z 36018KT 9999 FEW025 SCT040 21/13 Q1017 LIEA 051550Z 01011KT 9999 FEW045 22/10 Q1015 KPWA 051553Z 00000KT 10SM CLR 22/05 A3013 RMK AO2 SLP194 T02220050 KPVJ 051555Z AUTO 00000KT 10SM CLR 20/07 A3012 RMK AO2 T02040073 LIEB 051355Z 07009KT CAVOK 18/16 Q1017 RMK SKC QUK 2 QUL 0 VIS MAR 30 KM MON LIB VIS MIN 9999 LICT 051455Z 34011KT 9999 FEW025 19/16 Q1015 KQMK 051455Z AUTO 16006G14KT CLR 30/23 A2983 RMK AO2 SLP101 WND DATA ESTMD T02960225 52005 PWINO TSNO $ KRDK 051555Z AUTO 18004KT 10SM CLR 18/02 A3010 RMK AO2 LIEC 051355Z 06017KT CAVOK 20/14 Q1016 RMK BKN FEW080 SCT200 QUK 3 QUL 0 VIS MAR 25 KM VIS MIN 9999 KPWC 051553Z AUTO 23008KT 10SM CLR 19/02 A2999 RMK AO2 LIED 051455Z 18017KT 9999 FEW060 23/07 Q1015 RMK BKN SCT200 VIS MIN 9999 WIND THR35 17016KT WIND THR17 17016KT BLU KRCV 051225Z AUTO 28008KT 10SM CLR 05/M04 A3035 RMK AO2 T00461040 KRDM 051556Z 32004KT 10SM CLR 11/09 A2993 RMK AO2 SLP130 T01110089 LIEE 051550Z 15012KT CAVOK 22/09 Q1015 KPUW 051553Z AUTO 02005KT 10SM SCT017 16/11 A2994 RMK AO2 SLP130 T01610106 FLHN 051200Z 11010KT CAVOK 27/11 Q1021 NOSIG KRCX 051555Z AUTO 00000KT 10SM CLR 14/01 A3006 RMK AO2 T01350012 KPWG 051556Z AUTO 04006KT 10SM CLR 24/11 A3011 RMK AO2 SLP204 T02390106 KRCZ 051550Z AUTO 36007KT 10SM BKN009 OVC070 12/11 A2961 RMK AO2 P0006 T01180106 LICZ 051455Z 09013KT 9999 FEW030 SCT090 21/07 Q1016 RMK SCT VIS MIN 9999 WIND THR28 08015KT A3002 BLU KRDR 051558Z AUTO 28018G23KT 10SM CLR 28/06 A2982 RMK AO2 PK WND 29026/06 SLP100 ETSA 051520Z 06013KT 9999 FEW040 15/05 Q1020 BLU+ KPWK 051552Z 35009G15KT 10SM CLR 12/05 A3003 RMK AO2 SLP170 T01220050 ETSB 051520Z AUTO 10009KT 9999 // ////// 16/05 Q1020 /// KRDU 051551Z 02009G15KT 10SM TS SCT011CB BKN019 OVC030 13/10 A2957 RMK AO2 SLP012 FRQ LTGICCG E-S-SW TS E-S-SW MOV NE T01330100 KPVU 051547Z 09006KT 10SM SCT150 BKN200 22/03 A2996 KPWM 051551Z 02013KT 10SM OVC012 08/06 A2983 RMK AO2 SLP100 T00830061 KRFD 051554Z 02009KT 10SM CLR 13/04 A3006 RMK AO2 SLP181 T01330039 KPVW 051555Z AUTO 22005KT 10SM CLR 24/02 A3015 RMK AO2 T02390023 KPXE 051555Z AUTO 33014G19KT 10SM CLR 20/02 A2981 RMK AO2 T01980015 LIEO 051550Z 04010KT CAVOK 19/13 Q1018 KREO 051552Z AUTO 04011KT 16/04 A2991 RMK AO1 SLP103 T01610044 KT65 051535Z AUTO 20008KT 5SM HZ CLR 30/11 A3006 RMK AO2 T02960108 ETSH 051520Z 12007KT 9999 FEW050 19/06 Q1025 BLU+ KRFI 051535Z AUTO 07004KT 10SM CLR 22/07 A3008 RMK AO2 T02230065 ETSI 051520Z AUTO 09010G20KT 9999 // ////// 16/07 Q1022 /// LHPA 051545Z 33010KT 9999 FEW027TCU SCT200 17/11 Q1021 NOSIG RMK BLU KPWT 051555Z AUTO 02008KT 10SM OVC080 12/07 A3007 RMK AO1 KT70 051558Z AUTO 10008KT 10SM CLR 27/09 A3006 RMK AO2 SLP170 T02650086 $ ETSL 051520Z AUTO 06016KT 8000 // ////// 15/05 Q1020 /// ETSN 051520Z 08012KT 9999 FEW043 16/06 Q1021 BLU+ LGZA 051550Z 06004KT 9999 FEW020 20/07 Q1012 GCLA 051530Z 05004KT 350V100 9999 BKN035 21/13 Q1017 KRGK 051555Z AUTO 18003KT 10SM CLR 14/02 A3007 RMK AO2 FLKK 051200Z 09014KT 9999 SCT035 23/15 Q1024 NOSIG KPYM 051552Z AUTO 03017G24KT 9SM OVC005 07/06 A2974 RMK AO2 PK WND 03028/1524 SLP071 T00670061 TSNO KT82 051535Z AUTO 00000KT 10SM CLR 24/08 A3013 RMK AO2 T02370076 LHPP 051515Z 01014KT 9999 TSRA BKN046CB 15/10 Q1020 FMCH 051500Z 19019G29KT 9999 FEW020 SCT030 27/22 Q1012 NOSIG KRHI 051553Z AUTO 33006KT 10SM CLR 13/M02 A3003 RMK AO2 SLP178 T01331022 TSNO LHPR 051515Z 31012KT 280V350 9999 SCT033CB SCT036 BKN093 19/11 Q1021 RMK BLU AGGH 051600Z 18006KT 9999 HZ FEW014 23/23 Q1010 KRIC 051554Z 03009KT 6SM BR OVC007 11/10 A2962 RMK AO2 RAB23E32 CIG 006V011 SLP036 P0000 T01110100 KPYX 051535Z AUTO 16010KT 10SM CLR 22/10 A3014 RMK AO2 T02210096 KRHP 051550Z AUTO 11004KT 10SM SCT038 OVC043 11/04 A2977 RMK AO2 T01050036 GCLP 051530Z 15006KT 120V190 9999 -DZ OVC028 19/16 Q1017 NOSIG KQRH 051556Z AUTO 15007KT 9999 CLR 31/25 A2975 RMK AO2 LTG DSNT SW SLP067 T03140253 KPZQ 051555Z AUTO 36008KT 10SM CLR 09/06 A2999 RMK AO2 T00910056 KSAA 051555Z AUTO 13006KT 10SM CLR 17/M01 A3021 RMK AO2 KQSA 051458Z VRB03KT 9999 FEW050 SCT250 23/08 A3002 RMK AO2A SLP082 T02270077 53008 $ KSAC 051553Z 21009G18KT 10SM FEW085 18/09 A2983 RMK AO2 SLP102 T01780094 KRIL 051553Z AUTO 00000KT 10SM CLR 16/00 A3017 RMK AO2 SLP170 T01610000 KRHV 051447Z 13005KT 10SM SCT040 OVC050 15/10 A2988 KSAD 051551Z AUTO 14010KT 10SM CLR 27/M05 A2999 RMK AO2 SLP102 T02671050 KQSF 051555Z AUTO 16001KT 8000 HZ CLR 20/08 A3018 RMK AO2 SLP159 T01970083 FMEE 051530Z AUTO 12007KT 9999 NSC 25/20 Q1012 KSAF 051553Z 01004KT 10SM CLR 21/M06 A3026 RMK AO2 SLP159 T02061056 KQQY 051355Z AUTO VRB02KT 9999 FEW012 BKN045 26/23 A3012 RMK AO2 SLP179 WND DATA ESTMD T02590227 KU16 050758Z AUTO 15010KT 10SM CLR 18/02 A2992 RMK AO2 SLP757 T01780017 $ FMCZ 051530Z AUTO 21016KT 9999 NCD 28/20 Q1012 KSBA 051553Z 15005KT 10SM SCT030 15/12 A2991 RMK AO2 SLP128 T01500122 KSBD 051550Z 26003KT 5SM HZ SCT013 OVC034 15/12 A2993 KRKD 051556Z AUTO 02011G21KT 10SM BKN009 OVC013 07/05 A2982 RMK AO2 CIG 007V012 SLP101 T00670050 KRIV 051420Z 00000KT 10SM BKN023 13/11 A2991 RMK AO2A LHSM 051515Z 36012KT CAVOK 18/09 Q1021 NOSIG ETWM 051520Z AUTO 11005KT 9999 // ////// 19/02 Q1023 /// KSAN 051551Z 19004KT 10SM FEW011 SCT023 BKN049 BKN130 17/11 A2994 RMK AO2 SLP138 T01720111 LHSN 051545Z 01012KT 9999 FEW060TCU SCT083 20/08 Q1018 NOSIG RMK BLU KRIW 051553Z AUTO 04003KT 10SM CLR 17/06 A3009 RMK AO2 SLP135 T01670056 KQSN 051455Z AUTO RMK AO2 SLPNO WND DATA ESTMD PWINO PNO TSNO $ FMEP 051530Z AUTO 19005KT 9999 BKN022/// OVC082/// ///TCU 26/21 Q1013 KSAR 051555Z AUTO 01013G19KT 10SM CLR 12/05 A3002 RMK AO2 T01210051 KQTI 051456Z 15003KT 8000 HZ BKN150 28/06 A2983 RMK AO2A SLPNO T02820061 $ KSAT 051551Z VRB03KT 10SM SCT250 26/10 A3010 RMK AO2 SLP178 T02610100 KSAV 051553Z 30016G24KT 10SM FEW050 FEW250 21/04 A2969 RMK AO2 PK WND 29027/1459 SLP053 T02110044 KSBM 051553Z AUTO 36008KT 10SM CLR 12/04 A3004 RMK AO2 SLP174 T01170039 KSCD 051555Z AUTO 30011G19KT 10SM 18/06 A2989 RMK AO2 T01790058 KRLD 051555Z AUTO 30004KT 10SM SCT070 18/14 A2991 RMK AO2 T01750144 LHUD 051515Z 35011KT CAVOK 21/06 Q1017 GBYD 051200Z 36008KT CAVOK 29/16 Q1011 KSBN 051554Z 36008KT 10SM FEW014 12/07 A2996 RMK AO2 SLP149 T01170072 KSAW 051547Z 03003KT 10SM SKC 10/02 A3003 LJCE 051530Z VRB02KT 9999 SCT043 19/09 Q1020 RMK BLU KSBO 051555Z AUTO 29012G21KT 10SM BKN050 18/05 A2973 RMK AO2 KSCF 051555Z AUTO 32009KT 10SM CLR 23/14 A2999 RMK A01 KRKP 051553Z AUTO 28008KT 10SM CLR 27/12 A3007 RMK AO2 SLP183 T02670122 KSBP 051556Z 00000KT 10SM SCT040 BKN100 18/10 A2990 RMK AO2 SLP122 T01780100 KSCH 051545Z 02008KT 10SM OVC027 12/07 A2978 RMK WX KSAZ 051554Z AUTO 21009KT 10SM CLR 20/M01 A2997 RMK AO2 KRKR 051555Z AUTO 29003KT 10SM CLR 20/08 A3009 RMK AO2 T02010081 LIMA 051450Z 12004KT 050V170 CAVOK 17/04 Q1022 KRKS 051554Z AUTO 15004KT 10SM SCT110 17/M01 A3016 RMK AO2 SLP146 T01721006 KSBS 051556Z AUTO 00000KT 10SM CLR 12/01 A3023 RMK AO1 T01170010 KSDA 051555Z AUTO 00000KT 10SM CLR 19/03 A3010 RMK AO2 KSDB 051548Z AUTO 18018KT 10SM OVC012 09/03 A2992 RMK AO2 SLP101 T00890033 $ KSCK 051555Z VRB03KT 10SM SCT080 BKN110 17/10 A2987 RMK AO2 SLP113 T01670100 LIMC 051550Z 28004KT 200V010 9999 FEW050 20/05 Q1021 NOSIG KU42 051555Z AUTO 17010KT 10SM CLR 22/03 A2996 RMK AO1 T02200026 LIME 051550Z VRB03KT 9999 R28/1000VP2000N FEW050 21/04 Q1021 KRME 051553Z VRB05KT 10SM OVC036 14/07 A2978 RMK AO2 SLP085 T01390067 LIMF 051550Z VRB04KT CAVOK 18/06 Q1021 KSDF 051556Z 01014KT 10SM OVC026 10/04 A2987 RMK AO2 RAE31 SLP116 P0000 T01000039 KQVF 051300Z AUTO VRB06KT 10SM FEW070 30/23 A2984 RMK AO2 SHRAB1224E1240 SLP104 WND DATA ESTMD T03030231 LIMG 051450Z 02015G25KT CAVOK 20/05 Q1019 KRMG 051553Z AUTO 32009KT 10SM FEW050 OVC075 15/04 A2981 RMK AO2 SLP090 T01500044 KSBY 051554Z 03009G19KT 10SM OVC009 11/08 A2964 RMK AO2 SLP038 T01060083 LIMH 051355Z /////KT 0100 FZFG VV/// M05/M09 Q1023 RMK MON INVIS VAL INVIS VIS MIN 0100 KQTZ 051555Z 04003KT 6000 HZ SCT150 BKN250 28/05 A2984 RMK SLP103 WND/ALSTG/SLP ESTMD KSCR 051550Z AUTO 33007G17KT 300V010 10SM RA SCT010 BKN015 OVC043 10/10 A2962 RMK AO2 T01020098 LIMJ 051550Z 35012KT 320V020 9999 FEW045 21/06 Q1019 KSEA 051553Z 02012KT 10SM FEW018 SCT080 BKN250 13/07 A3005 RMK AO2 SLP182 T01330067 FKYS 051500Z 21005KT 180V280 9999 SCT020 29/22 Q1014 NOSIG LIML 051550Z VRB03KT 9999 FEW020 21/03 Q1020 NOSIG KSDL 051553Z 14005KT 10SM CLR 27/M03 A2989 RMK AO2 SLP095 T02721033 KRNC 051555Z AUTO 30008KT 270V340 10SM FEW037 SCT045 BKN075 14/06 A2980 RMK KSDM 051553Z 00000KT 10SM OVC046 17/09 A2993 RMK AO2 SLP132 T01670094 KRND 051558Z AUTO 15005KT 10SM CLR 26/11 A3009 RMK AO2 SLP184 T02600109 LIMN 051455Z /////KT 9999 SCT025 19/07 Q1021 RMK SCT VIS MIN 9999 BLU KRMN 051555Z AUTO 02006KT 4SM BR BKN009 OVC015 11/09 A2971 RMK AO2 T01070093 KSEE 051547Z 00000KT 10SM OVC047 17/08 A2993 LIMP 051450Z VRB03KT 9999 FEW030 20/07 Q1021 KSEG 051553Z AUTO 03007KT 10SM OVC025 12/07 A2972 RMK AO2 SLP062 T01220072 KRNH 051535Z AUTO 20009KT 10SM SCT100 13/00 A3006 RMK AO2 T01310003 LIMS 051455Z 12009KT 060V180 9999 BKN030 20/13 Q1020 KROA 051554Z 29011KT 10SM -RA BKN049 OVC060 09/06 A2967 RMK AO2 SLP044 P0005 T00890061 LIMT 050655Z 00000KT 0000 FG VV/// 05/05 Q1019 RMK MON INVIS VAL INVIS VIS MIN 0000 KSFB 051553Z 29011KT 10SM CLR 24/ A2980 RMK AO2 SLP088 T0244 $ LIMU 051355Z 36015KT CAVOK 20/05 Q1019 RMK FEW FEW080 QUK 3 QUL 1 S VIS MAR 30 KM VIS MIN 9999 KROC 051554Z 04016KT 10SM SCT027 13/07 A2981 RMK AO2 SLP098 T01330072 KRNM 051553Z 00000KT 10SM BKN030 OVC038 14/09 A2993 RMK AO2 SLP127 T01390089 KSEM 051555Z AUTO 30016KT 10SM -DZ CLR 20/00 A2992 RMK AO2 VTPH 051200Z 16008KT 140V200 9999 FEW030 32/26 Q1006 KSFF 051553Z 05003KT 10SM OVC015 14/11 A2995 RMK AO2 SLP135 T01440111 KRNO 051555Z 01012KT 10SM FEW040 BKN060 BKN080 OVC150 13/05 A2989 RMK AO2 TSE24 SLP087 SH DSNT W MTN TOPS OBSCD DSNT NE SW-W T01280050 LIMY 051355Z 26004KT 6000 SCT025 12/08 Q1024 RMK BKN SCT070 VAL FOSCHIA VIS MIN 6000 KRMY 051554Z AUTO 35004KT 10SM CLR 14/08 A2991 RMK AO2 T01410077 KSDY 051555Z 19009KT 10SM CLR 22/08 A2985 RMK AO1 KRNP 051555Z AUTO 02009KT 10SM BKN012 12/10 A2992 RMK AO2 T01200095 KSEP 051555Z AUTO 00000KT 10SM CLR 24/07 A3015 RMK AO2 T02410068 KROG 051557Z 33012KT 10SM CLR 19/04 A3009 RMK AO2 SLP184 T01890044 LIMZ 051450Z 28004KT 230V320 9999 SCT050 15/06 Q1023 LIPA 051455Z 25003KT 9999 FEW070 22/10 Q1020 RMK FEW VIS MIN 9999 WIND THR05 00000KT WIND THR23 13004KT A3014 BLU GCRR 051530Z 30014G27KT 9999 FEW035 BKN045 23/13 Q1016 KU68 051555Z AUTO 00000KT 10SM CLR 18/00 A2999 RMK AO2 VTPM 051000Z 26008KT 9999 FEW024 39/13 Q1004 A2967 INFO M LIPB 051550Z 18006KT 150V210 9999 BKN100 22/03 Q1020 KRNT 051553Z 36005KT 10SM CLR 13/08 A3004 RMK AO2 SLP178 T01330078 KSET 051554Z AUTO 36012G15KT 10SM CLR 15/06 A3004 RMK AO2 SLP170 T01500056 LIPC 051455Z 08006KT CAVOK 17/11 Q1020 FNBC 051500Z 29004KT 9999 FEW017 FEW020CB BKN270 27/27 Q//// VTPO 051000Z 16005KT 7000 NSC 40/20 Q1002 KSFM 051555Z AUTO 03010G18KT 10SM OVC012 09/04 A2982 RMK AO1 KRNV 051555Z AUTO 34008G16KT 10SM CLR 20/07 A3000 RMK AO2 T02040074 KRPD 051555Z AUTO 25005KT 10SM CLR 15/M01 A3006 RMK AO2 T01521008 VTPP 051400Z AUTO 00000KT 3000 R14/M0025N // ////// 33/20 Q1005 LIPE 051550Z 05005KT 010V110 9999 FEW050 20/08 Q1020 LIPF 051455Z 35002KT 9999 FEW040 20/11 Q1021 KSGF 051552Z 33014G18KT 10SM CLR 19/04 A3006 RMK AO2 SLP174 T01890044 KSFO 051556Z 16003KT 10SM FEW010 BKN022 OVC046 16/13 A2986 RMK AO2 SLP112 T01560128 LIPH 051545Z 27002KT CAVOK 20/06 Q1021 KSGH 051556Z AUTO 30009KT 10SM OVC007 08/07 A2984 RMK AO2 T00770072 RAB16E34 P0000 SLP108 FNBG 051500Z 29008KT 9999 FEW015 FEW030CB 29/24 Q1011 KSFQ 051555Z AUTO 05010G16KT 10SM OVC009 12/12 A2960 RMK AO2 T01150115 KRPH 051535Z AUTO 00000KT 10SM CLR 24/09 A3013 RMK AO2 T02370088 KSEZ 051535Z AUTO 00000KT 10SM CLR A3006 RMK AO2 LTG DSNT SW LIPI 051355Z 18004KT 110V240 9999 FEW040 21/10 Q1020 RMK FEW VIS MIN 9999 WIND THR06 19003KT 140V250 WIND THR24 14006KT 090V190 BLU KROS 051557Z AUTO 18008KT 10SM SCT120 16/00 A3001 RMK AO2 T01611001 KRPJ 051555Z AUTO 01014KT 10SM CLR 12/06 A3004 RMK AO2 T01230056 KSGJ 051558Z 29016G29KT 10SM CLR 23/04 A2977 RMK AO2 PK WND 29029/1554 SLP079 T02280044 LIPK 051550Z 06005KT CAVOK 18/07 Q1020 FNCA 051500Z 12005KT 9999 FEW026 BKN090 31/25 Q1009 KQXT 051455Z 26004KT 9999 FEW240 34/01 A2985 RMK SLP058 WND DATA ESTMD ALSTG/SLP ESTMD Q1010 52009 KRQB 051554Z AUTO 02005KT 10SM CLR 13/07 A2996 RMK AO2 T01300066 LIQC 051355Z ///04KT CAVOK 18/13 Q1017 RMK SKC QUK 2 QUL 1 SW VIS MAR 30 KM VIS MIN 9999 LIPL 051455Z /////KT 9999 SCT044 22/05 Q1021 RMK BKN VIS MIN 9999 WIND THR31 13005KT BLU KSHD 051535Z AUTO 02009G15KT 7SM -RA OVC014 11/11 A2967 RMK AO2 P0004 T01100109 KROW 051551Z AUTO 00000KT 10SM CLR 22/M01 A3016 RMK AO2 SLP164 T02171011 KRQE 051553Z AUTO VRB03KT 10SM CLR 18/01 A3021 RMK AO2 SLP133 T01780006 TSNO LIPO 051450Z 20002KT 9999 SCT040 21/04 Q1021 KROX 051554Z AUTO 25013G18KT 10SM CLR 24/08 A2979 RMK AO2 KQZF 051455Z AUTO 07002KT 8SM CLR 43/M03 A2869 RMK AO2 SLP713 WND DATA ESTMD T04291029 57020 KQXY 051455Z AUTO 28013G24KT 26/M03 A2981 RMK AO2 SLP078 T02551026 56009 PWINO TSNO $ KSFY 051535Z AUTO 35005KT 10SM CLR 12/03 A3006 RMK AO2 T01190031 LIPQ 051550Z VRB03KT CAVOK 21/07 Q1019 KSFZ 051555Z 05014G21KT 10SM OVC010 07/04 A2975 RMK AO1 VTSB 051400Z 06005KT 8000 FEW020 31/26 Q1008 A2979 LIPR 051545Z 04004KT CAVOK 17/12 Q1020 KSGR 051553Z VRB03KT 10SM CLR 26/11 A3004 RMK AO2 SLP174 T02560111 VTSC 050900Z 06009KT 020V090 9999 FEW022 32/26 Q1006 A2972 RWY20 INFO J LIPS 051455Z 12006KT 9999 FEW025 21/03 Q1020 RMK FEW VIS MIN 9999 WIND THR26 10004KT WIND THR08 09005KT BLU LIRA 051550Z 16007KT 9999 FEW040CB SCT060 16/11 Q1017 KSGS 051553Z AUTO 21005KT 10SM CLR 16/M01 A3005 RMK AO2 T01641009 GCTS 051530Z VRB05KT 9999 SCT040 22/13 Q1017 NOSIG KSGT 051555Z AUTO 31012KT 10SM CLR 21/07 A3002 RMK AO1 LIPU 051350Z 07006KT 310V160 9999 FEW050 21/06 Q1020 VTSE 051200Z 11004KT 9999 FEW022 31/26 Q1006 A2972 KSGU 051555Z 35005KT 10SM CLR 22/04 A2990 RMK AO1 KSHL 051535Z AUTO 24005KT 10SM CLR 18/01 A3006 RMK AO2 VTSF 051300Z 26003KT 9999 FEW017CB 28/27 Q1008 A2978 KSHM 051558Z AUTO 31011G17KT 10SM CLR 23/M05 A3020 RMK AO2 SLP161 T02261054 $ LIQN 051450Z 00000KT 9999 SCT050TCU 20/04 Q1015 LIRE 051355Z 20010KT 9999 FEW020 19/14 Q1017 RMK FEW VIS MIN 9999 WIND THR13 22008KT WIND THR31 22011KT BLU VTSG 051500Z 24004KT 9999 FEW018CB SCT020 26/24 Q1011 A2984 KSHN 051553Z AUTO 00000KT 10SM BKN044 OVC080 12/08 A3003 RMK AO2 SLP170 T01170083 VTSH 050900Z 04008KT 9999 FEW020CB 32/24 Q1006 A2971 CB SW NOSIG KRPX 051535Z AUTO 00000KT 10SM 17/05 A2984 LIPX 051550Z 08004KT 050V110 9999 SCT075 20/06 Q1020 LIRF 051550Z 17014KT 9999 SCT035 19/08 Q1017 NOSIG KSIF 051550Z AUTO 32006KT 5SM RA BKN043 OVC050 10/09 A2965 RMK AO2 P0010 T00950086 KRQO 051555Z AUTO 00000KT 10SM CLR 21/02 A3014 RMK AO2 LIRG 051455Z /////KT 9999 FEW025CB BKN030TCU 15/11 Q1017 LIPY 051450Z 33007KT 290V010 9999 FEW030 17/11 Q1020 WMBA 051500Z 08005KT 9999 FEW017CB SCT140 BKN260 29/26 Q1010 LIRH 051455Z 30008KT 8000 SCT035TCU SCT040CB 15/09 Q1017 RETS LIPZ 051550Z 14005KT 100V200 CAVOK 20/08 Q1020 NOSIG LIRI 051450Z 03009KT 9999 FEW030 20/08 Q1016 VTSK 050900Z 01010KT 9999 FEW030 SCT300 35/23 Q1005 A2971 KSHR 051553Z AUTO 00000KT 10SM CLR 19/07 A2995 RMK AO2 SLP120 T01940067 FMMI 051600Z 08008KT 9999 FEW020 SCT023 19/15 Q1019 NOSIG LIRK 051355Z AUTO 09010KT //// 05/01 Q1020 VTSM 051500Z 15010KT 9999 FEW020 31/26 Q1010 A2985 KSIK 051555Z AUTO 35013G21KT 10SM CLR 16/04 A2997 RMK AO2 PWINO LIRL 051355Z 08008G18KT 9999 -RA VCTS FEW020 FEW025CB SCT050 20/11 Q1017 KSJC 051553Z 15005KT 10SM FEW016 BKN032 OVC044 16/10 A2987 RMK AO2 SLP113 T01560100 KRRL 051555Z AUTO 31006KT 10SM CLR 12/01 A3005 RMK AO2 T01240012 LIRM 051455Z 26008KT 9999 FEW025TCU SCT040 21/15 Q1016 KTAD 051554Z AUTO 15004KT 10SM CLR 19/M01 A3020 RMK AO2 SLP170 T01891006 KSHV 051556Z 36007KT 10SM CLR 23/08 A3005 RMK AO2 SLP173 T02280078 LIQW 051355Z 18003KT 9999 FEW030 20/11 Q1020 VTSP 051530Z 08004KT 020V130 7000 TS FEW016CB SCT110 BKN300 26/24 Q1012 A2990 NOSIG LIRN 051550Z VRB02KT 9999 FEW030 SCT050 20/09 Q1016 NOSIG VTSR 051000Z 27004KT 170V320 9999 BKN025 35/25 Q1005 A2969 LIRP 051545Z 31008KT 9999 FEW030 20/11 Q1018 NOSIG VTSS 051530Z 22003KT 9999 FEW020 27/25 Q1010 A2984 NOSIG LIRQ 051550Z 04012KT 010V070 9999 FEW060 20/06 Q1019 VTST 051100Z 18006KT 9999 FEW020 BKN300 32/24 Q1004 RWY08 INFO L WMAU 051500Z 22003KT 9999 FEW024 SCT140 BKN270 29/26 Q//// QFF1010 LIRS 051455Z 01011KT 9999 FEW025TCU SCT030 21/08 Q1017 KSKA 051558Z AUTO VRB02KT 10SM OVC015 13/12 A2994 RMK AO2 OVC V BKN SLP137 T01340116 LIRT 050655Z 35011KT 0000 FG VV/// 06/04 Q1016 RMK MON INVIS VAL INVIS VIS MIN 0000 VTUD 051400Z 15004KT CAVOK 32/23 Q1007 KRRT 051554Z AUTO 24013G18KT 10SM CLR 23/09 A2978 RMK AO2 LIRU 051450Z 15009KT 9999 BKN025CB 16/11 Q1017 RESHRA FMMT 051500Z 20014KT 9999 VCSH FEW007 SCT017TCU 26/23 Q1013 TEMPO RA KRSL 051553Z AUTO 00000KT 10SM CLR 20/07 A3012 RMK AO2 SLP191 T02000067 LIRV 051455Z 03010KT 9999 FEW030 18/09 Q1017 FMNM 051500Z 28006KT 9999 FEW040 28/21 Q1010 NOSIG KTAN 051552Z AUTO 03011G25KT 10SM OVC010 08/05 A2974 RMK AO2 CIG 008V013 SLP070 T00830050 TSNO KSJN 051554Z AUTO 17021G28KT 10SM CLR 24/M03 A3009 RMK AO2 PK WND 15029/1544 SLP098 T02391028 TSNO KRSN 051555Z AUTO 03006KT 10SM CLR 22/07 A3007 RMK AO2 T02220068 KSKF 051558Z AUTO 21004KT 10SM CLR 26/12 A3009 RMK AO2 SLP184 T02640115 $ LIRX 051355Z 36012KT 9999 SCT010 20/07 Q1017 RMK SCT VIS MIN 9999 VIS MAR 30 KM FMNN 051500Z 20002KT 9999 FEW020 27/24 Q1010 VTUI 051530Z AUTO 22003KT CAVOK 31/24 Q1008 A2977 KSIY 051553Z AUTO 01003KT 10SM CLR 13/09 A2990 RMK AO2 SLP127 T01330089 TSNO LIRZ 051450Z 04014KT 9999 FEW035 SCT055 17/08 Q1018 VTUK 051400Z 08003KT 060V120 9999 FEW030 32/23 Q1007 NOSIG VTUL 051200Z 23003KT 190V260 6000 SCT0334 28/25 Q1006 KSJS 051535Z AUTO 35003KT 10SM SCT037 OVC043 09/03 A2979 RMK AO2 T00890032 KSJT 051551Z VRB03KT 10SM CLR 26/08 A3013 RMK AO2 SLP188 T02610083 $ KRST 051554Z 21006KT 10SM OVC100 12/01 A3009 RMK AO2 SLP193 T01170011 KSLB 051555Z AUTO 21004KT 10SM CLR 18/M01 A3009 RMK AO2 KTCC 051553Z AUTO 10SM CLR 25/M01 A3015 RMK AO2 SLP159 T02501006 KSLC 051554Z 16008KT 10SM FEW110 SCT160 BKN250 23/01 A2993 RMK AO2 SLP083 T02330011 VTUO 050900Z VRB03KT 8000 FEW018 37/24 Q1006 A2971 KRSV 051555Z AUTO 32013G16KT 10SM SCT026 BKN032 11/07 A2996 RMK AO2 T01080066 KRTN 051553Z AUTO 17005KT 10SM CLR 17/M02 A3023 RMK AO2 SLP171 T01721017 KRUE 051553Z AUTO 30006KT 10SM CLR 20/05 A3004 RMK AO2 SLP167 T02000050 KRSW 051553Z 32012G18KT 10SM CLR 26/13 A2985 RMK AO2 SLP105 T02610128 KSLE 051556Z 34007KT 10SM OVC027 13/08 A3000 RMK AO2 SLP158 T01330083 KTBN 051558Z AUTO 34014G19KT 10SM CLR 17/00 A3005 RMK AO2 SLP177 T01701005 $ KSJX 051555Z AUTO 29005KT 10SM CLR 10/03 A3001 RMK AO2 T00960034 VVCR 051530Z 29002KT 9999 FEW015 30/26 Q1011 NOSIG GCXO 051530Z 31015KT 9999 BKN012 15/11 Q1018 NOSIG KSLG 051555Z AUTO 35008KT 10SM CLR 19/05 A3010 RMK AO1 KRUG 051535Z AUTO 23018KT 10SM CLR 25/06 A2984 RMK AO2 KSLH 051555Z AUTO 01005KT 10SM CLR 11/06 A2997 RMK AO2 T01120068 KTAZ 051535Z AUTO 34013G17KT 10SM BKN021 BKN026 10/06 A3002 RMK AO2 T01040057 VVCT 051100Z 20004KT 180V260 9999 SCT015 30/25 Q1006 NOSIG KSLI 051458Z AUTO 20004KT 10SM CLR 17/12 A2992 RMK AO2 SLP135 T01660118 53006 $ KTBR 051535Z AUTO 30014G21KT 10SM SCT050 21/09 A2971 RMK AO2 T02060089 VTUU 051500Z 11002KT 9999 FEW025 28/23 Q1008 A2979 NOSIG KRTS 051555Z AUTO 31007KT 10SM OVC050 09/05 A2990 RMK AO2 LJLJ 051530Z VRB02KT 9999 FEW045 SCT060 20/06 Q1020 NOSIG VTUV 051400Z 15004KT 7000 NSC 31/24 Q1008 A2977 INFO O RWY 36 KSLK 051551Z AUTO 06011KT 10SM BKN026 OVC031 11/04 A2980 RMK AO2 SLP098 T01060039 LJMB 051530Z 36006KT 9999 SCT045 19/09 Q1021 VVDN 051530Z 13003KT 070V160 7000 FEW015 SCT060 28/26 Q1009 NOSIG VTUW 051400Z AUTO 00000KT CAVOK 30/24 Q1007 A2975 LIVC 051455Z 02026KT 0000 FG VV000 01/M01 Q1022 RMK MON INVIS VAL INVIS VIS MIN 0000 KTCL 051553Z 29011KT 10SM CLR 19/04 A2993 RMK AO2 SLP133 T01890044 LIVD 051355Z 09010KT 9999 BKN030 13/04 Q1023 RMK BKN VIS MIN 9999 KTCM 051558Z AUTO 03006KT 10SM CLR 13/08 A3005 RMK AO2 SLP180 T01340084 $ LIVE 051355Z /////KT 9999 FEW030 11/M03 Q1022 RMK FEW VIS MIN 9999 KSLN 051553Z 00000KT 10SM CLR 21/07 A3013 RMK AO2 SLP197 T02060072 $ KSME 051535Z AUTO 03005KT 10SM SCT014 BKN027 OVC047 07/05 A2981 RMK AO2 KTDF 051550Z AUTO 33010KT 10SM BKN015 OVC020 12/09 A2961 RMK AO2 KSMF 051553Z 17008KT 10SM BKN180 BKN250 17/10 A2982 RMK AO2 SLP098 T01720100 KSKX 051555Z AUTO 24003KT 10SM CLR 16/M03 A3032 RMK AO1 KSLO 051555Z AUTO 35009KT 10SM OVC025 12/06 A3000 RMK AO2 T01190057 KTBX 051555Z AUTO 04003KT CLR 13/M02 A3026 RMK AO2 PWINO KRUQ 051555Z AUTO 36005KT 10SM OVC047 11/08 A2965 RMK AO2 T01110084 KSLR 051537Z AUTO 35003KT 10SM CLR 22/08 A3012 RMK AO2 KTCS 051553Z AUTO VRB04KT 10SM CLR 22/M07 A3018 RMK AO2 SLP144 T02221067 TSNO KSNA 051553Z 22007KT 10SM SCT020 OVC049 17/11 A2992 RMK AO2 SLP132 T01670111 KTEB 051551Z 01010G15KT 10SM OVC025 12/05 A2969 RMK AO2 SLP054 T01170050 $ EVRA 051550Z 35015KT CAVOK 15/04 Q1024 NOSIG KRUT 051556Z AUTO 36006KT 10SM OVC027 12/06 A2980 RMK AO2 SLP116 T01170061 PNO $ KSNC 051555Z AUTO 04011G17KT 10SM OVC015 10/06 A2969 RMK AO2 LIVM 051355Z 08003KT CAVOK 19/10 Q1021 RMK SCT SCT200 QUK 2 QUL 1 E VIS MAR 30 KM VIS MIN 9999 LKCV 051500Z VRB02KT 9999 SCT043 18/08 Q1024 NOSIG RMK BLU BLU KSMN 051555Z AUTO 33006KT 10SM CLR 13/03 A2996 RMK AO1 LIVO 051355Z 09008KT 9999 SCT036 16/08 Q1022 RMK SCT VIS MIN 9999 KSMO 051551Z 20003KT 10SM FEW017 OVC050 16/12 A2992 RMK AO2 SLP131 T01610117 KRWF 051553Z AUTO 20006KT 10SM SCT110 20/00 A3003 RMK AO2 SLP170 T02000000 KSMP 051556Z AUTO VRB04KT M1/4SM FG VV001 04/04 A2999 RMK AO2 SLP162 T00440039 $ KSMQ 051553Z AUTO 03008KT 10SM OVC025 13/07 A2967 RMK AO2 SLP049 T01280067 KSNH 051555Z AUTO 34011G21KT 10SM CLR 18/04 A2989 RMK A01 LIVR 051355Z 15005KT 9999 BKN030 05/M04 Q1022 RMK BKN MON CLD SCT VIS MIN 9999 KRWI 051553Z AUTO 01005KT 10SM -RA BKN010 14/13 A2955 RMK AO2 LTG DSNT S RAB1458E07B51 CIG 006V015 SLP006 P0000 T01440128 KTDR 051556Z AUTO 33009G18KT 10SM CLR 24/10 A2987 RMK AO2 SLP119 T02350101 TSNO $ KRVS 051553Z AUTO VRB04KT 10SM CLR 22/05 A3011 RMK AO2 SLP202 T02220050 KSMS 051555Z AUTO 32009G15KT 10SM SCT037 SCT045 BKN060 18/09 A2962 RMK AO2 KSOA 051535Z AUTO 16004KT 10SM CLR 23/06 A3020 RMK AO2 LIVT 051355Z 08002KT 9999 FEW030TCU 22/08 Q1020 RMK SCT QUK 1 QUL 0 VIS MAR 20 KM VIS MIN 9999 KSNK 051555Z AUTO 25005KT 10SM 23/06 A3016 RMK AO2 T02300060 KRWL 051553Z AUTO 12004KT 10SM CLR 15/01 A3020 RMK AO2 SLP167 T01500006 PWINO KSNL 051535Z AUTO 30004KT 10SM CLR 20/05 A3013 RMK AO2 T02010047 FNHU 051500Z 09006KT 9999 FEW013 SCT080 27/13 Q1022 FMSD 051500Z ///14KT 9999 VCSH SCT016 BKN033 22/16 Q1015 KRXE 051553Z AUTO 04004KT 10SM CLR 16/04 A2999 RMK AO2 SLP122 T01610039 KSMX 051551Z VRB04KT 10SM SCT060 BKN110 17/09 A2990 RMK AO2 SLP127 T01670089 KTDZ 051553Z AUTO 05008G18KT 10SM SCT024 15/07 A2986 RMK AO2 SLP112 T01500072 KSPA 051555Z AUTO 28014G22KT 10SM SCT095 15/00 A2967 RMK AO2 KSNS 051553Z 11009KT 10SM OVC049 16/09 A2987 RMK AO2 SLP125 T01610094 KSNT 051551Z AUTO 36004KT 09/01 A3004 RMK AO1 SLP107 T00940006 KSPB 051553Z AUTO 36010KT 10SM CLR 14/07 A3000 RMK AO2 SLP158 T01440072 KSPD 051556Z AUTO 32004KT 22/05 A3011 RMK AO1 SLP149 T02170050 KRWV 051530Z AUTO 00000KT 10SM CLR 24/08 A3011 RMK AO2 KTEW 051554Z AUTO 02006KT 10SM SCT019 13/09 A2991 RMK AO2 T01340090 KSPF 051535Z AUTO 03003KT 10SM CLR 23/09 A2998 RMK AO2 KTEX 051555Z AUTO 05003KT 10SM CLR 15/M06 A3036 RMK AO2 T01531062 KSNY 051553Z AUTO 23012KT 10SM CLR 23/05 A3009 RMK AO2 SLP155 T02280050 KSPG 051553Z 31008G16KT 280V340 10SM FEW047 SCT065 24/14 A2982 RMK AO2 SLP097 T02440139 KSOP 051556Z AUTO 29006G16KT 9SM -RA BKN015 BKN021 OVC030 12/10 A2962 RMK AO2 LTG DSNT E RAE1458B39 SLP047 P0002 T01170100 KTFP 051535Z AUTO 28007KT 10SM CLR 25/12 A3007 RMK AO2 T02520115 KSPI 051552Z 01012G16KT 10SM CLR 13/06 A3004 RMK AO2 SLP171 T01330056 KTGI 051455Z AUTO 03010KT 10SM OVC010 12/09 A2963 RMK AO1 KTHA 051555Z AUTO 31014KT 10SM FEW048 SCT060 14/04 A2982 RMK KSPL 051555Z AUTO 23005KT 7SM 28/15 A3007 RMK AO1 KRYN 051556Z 05008KT 10SM CLR 27/00 A2996 KSOW 051555Z AUTO 16024G29KT 10SM CLR 20/M03 A3014 RMK AO2 KSQE 050510Z AUTO 30014KT 10SM CLR 22/15 A2996 RMK A01 KSPR 050510Z AUTO 30015KT 10SM CLR 23/16 A2994 RMK A01 KSQI 051555Z 36008KT 10SM CLR 13/06 A3006 RMK AO2 SLP301 PWINO FZRANO RVRNO KSPS 051552Z 15004KT 10SM CLR 23/07 A3013 RMK AO2 SLP193 T02280072 FNMA 051500Z 04004KT 9999 BKN007 SCT012CB 26/22 Q1017 MBGT 051100Z 15013KT 9999 SCT020 26/23 Q1011 EVVA 051550Z AUTO 33008KT CAVOK 12/06 Q1026 KRYT 051513Z AUTO 05007KT 10SM BKN016 BKN021 OVC060 11/08 A2968 RMK AO2 $ KSRB 051555Z AUTO 33007KT 9SM FEW022 SCT027 OVC038 10/08 A2980 RMK KSQL 051447Z 16003KT 10SM FEW024 BKN044 15/10 A2987 KSRC 051556Z AUTO 32012G17KT 10SM CLR 21/06 A3002 RMK AO2 SLP171 T02060061 KRZL 051555Z AUTO 01013G18KT 10SM SCT014 10/06 A2997 RMK AO2 FNKU 051500Z 13010KT 9999 FEW014 26/17 Q1020 KRYV 051535Z AUTO 35006KT 10SM CLR 11/04 A3004 RMK AO2 T01140044 KSPW 051553Z AUTO 22008KT 10SM CLR 18/01 A3008 RMK AO2 SLP187 T01780006 KRYW 051555Z AUTO 36005KT 10SM CLR 26/10 A3012 RMK AO2 T02560096 KRZN 051555Z AUTO 22006KT 10SM -RA BKN100 BKN120 12/03 A3002 RMK AO2 T01210029 KTIF 051535Z AUTO 21008KT 10SM CLR 22/08 A3008 RMK AO2 T02150076 KRYY 051547Z 30014KT 10SM BKN043 15/03 A2981 WMKA 051500Z 09003KT 9999 FEW030 BKN260 26/25 Q1010 LJPZ 051530Z VRB04KT 9999 FEW060TCU 22/08 Q1019 WMKB 051500Z 11003KT 7000 FEW017CB BKN270 26/24 Q1010 NOSIG KRZR 051555Z AUTO 00000KT 10SM SCT085 SCT120 12/06 A2980 RMK A01 WMKC 051500Z 09003KT 9999 SCT020 SCT140 BKN280 29/26 Q1010 WMKD 051500Z 36002KT 9999 FEW024 SCT160 BKN280 28/25 Q1010 NOSIG KRZT 051555Z AUTO 02010KT 10SM OVC021 09/05 A2980 RMK AO2 KTIK 051558Z AUTO VRB04KT 10SM CLR 22/03 A3012 RMK AO2 SLP198 T02150032 $ WMKE 051200Z 05001KT 9999 SCT020 SCT140 BKN260 30/26 Q1006 KSSC 051558Z AUTO 32009KT 10SM FEW037 19/08 A2960 RMK AO2 SLP024 T01870084 $ GEML 051530Z 01006KT 330V040 9999 -RA SCT010 BKN016 18/16 Q1012 KTHV 051553Z AUTO 09005KT 10SM OVC017 11/08 A2969 RMK AO2 SLP057 T01060078 FNLU 051500Z 26006KT 9999 FEW020 BKN090 28/24 Q1010 NOSIG KW13 051555Z AUTO 03003KT 5SM OVC008 09/09 A2965 RMK AO1 P0018 T00920085 KSSF 051553Z VRB04KT 10SM CLR 27/10 A3008 RMK AO2 SLP176 T02670100 $ FNMO 051500Z 25011KT 9999 SCT013 25/19 Q1011 WMKI 051500Z 00000KT 8000 -TSRA FEW005 FEW017CB SCT028 BKN260 26/25 Q1011 KTIP 051535Z AUTO 36012G18KT 10SM CLR 13/07 A2998 RMK AO2 T01300070 WMKJ 051500Z 06002KT 9999 FEW017CB BKN130 27/25 Q1010 KSRQ 051553Z 32017KT 10SM FEW045 27/14 A2983 RMK AO2 SLP102 T02720139 WMKK 051530Z 03006KT 9999 FEW028 SCT140 BKN280 25/24 Q1010 NOSIG KSSI 051553Z AUTO 27014G24KT 250V310 10SM CLR 21/03 A2972 RMK AO2 PK WND 29027/1519 SLP065 T02110033 KSRR 051555Z AUTO 16005KT 10SM 19/M08 A3031 RMK AO2 WMKL 051500Z 10002KT 9999 FEW025 SCT140 BKN270 29/27 Q1010 WMKM 051500Z 35001KT 9999 FEW017CB SCT140 BKN270 27/24 Q1011 LKKB 051500Z 10006KT 040V140 9999 SCT040 17/09 Q1024 NOSIG WMKN 051500Z 17001KT 9999 SCT024 BKN300 30/27 Q1010 KSTC 051553Z 21008KT 10SM CLR 17/M01 A3002 RMK AO2 SLP177 T01721011 KTKC 051554Z AUTO 22005KT 10SM CLR 21/02 A3004 RMK AO2 T02070015 KW22 051535Z AUTO RMK AO2 PWINO WMKP 051530Z 05003KT 8000 FEW025 SCT140 BKN270 26/23 Q1011 NOSIG KTIW 051553Z 02006KT 10SM CLR 13/07 A3005 RMK AO2 SLP176 T01280067 KSTE 051535Z AUTO 01004KT 10SM CLR 11/01 A3005 RMK AO2 T01120011 KUBE 051535Z AUTO 24006KT 10SM CLR 13/00 A3005 RMK AO2 KTIX 051547Z 29015KT 7SM SKC 23/08 A2980 KUAO 051553Z 35005KT 10SM BKN026 BKN031 12/07 A3002 RMK AO2 SLP165 T01220067 KSTF 051555Z AUTO 32005KT 10SM CLR 19/04 A2995 RMK AO2 LLBG 051550Z 35007KT CAVOK 23/11 Q1011 NOSIG KTKI 051553Z 04004KT 10SM CLR 23/07 A3011 RMK AO2 SLP194 T02280067 KSTJ 051553Z AUTO 00000KT 10SM CLR 19/02 A3010 RMK AO2 SLP190 T01890017 KSUA 051547Z 330014KT 10SM SKC 27/10 A2982 KSTK 051555Z AUTO 19009KT 10SM CLR 20/09 A3008 RMK AO2 KSTL 051551Z 01013KT 10SM FEW045 15/03 A3003 RMK AO2 SLP168 T01500033 KW31 051555Z AUTO 04009KT 10SM OVC007 12/11 A2959 RMK AO1 T01150109 KSUE 051555Z AUTO 33006KT 10SM CLR 08/02 A3006 RMK AO1 KSTP 051553Z 20007KT 10SM CLR 16/01 A3005 RMK AO2 SLP176 T01560006 KTLH 051553Z 31012KT 10SM FEW050 23/06 A2985 RMK AO2 SLP106 T02330061 VVNB 051530Z 11011KT 9000 FEW010 27/26 Q1006 NOSIG KSTS 051553Z 00000KT 10SM OVC024 14/09 A2985 RMK AO2 SLP102 T01440089 KTMA 051530Z AUTO 32018G25KT 10SM CLR 19/04 A2981 RMK AO2 T01910041 KTMB 051553Z 32017G23KT 10SM CLR 25/13 A2983 RMK AO2 SLP102 T02500128 LKKU 051400Z 36015KT 9999 FEW035 18/09 Q1022 KSVC 051555Z AUTO 13017G24KT 10SM 23/M04 A3020 RMK AO2 KTKV 051555Z AUTO 00000KT 10SM CLR 14/M02 A3004 RMK AO2 T01351020 LKKV 051530Z 13009KT 9999 SCT040 15/05 Q1024 KSUN 051547Z 31010KT 10SM SCT160 15/02 A2999 KTME 051555Z AUTO 07003KT 10SM CLR 25/11 A3007 RMK AO2 KW43 051535Z AUTO 26005KT 10SM CLR 22/07 A2999 RMK AO2 KTKX 051555Z AUTO 35011G21KT 6SM HZ CLR 18/03 A2997 RMK AO2 KUDG 051556Z AUTO 34014G20KT 10SM FEW029 SCT044 BKN055 17/10 A2961 RMK AO2 SLP031 T01720100 KUCP 051556Z AUTO 36006KT 10SM OVC012 13/10 A2975 RMK AO2 RAE26 SLP090 P0000 T01280100 KSVH 051550Z AUTO 34004G16KT 10SM SCT060 SCT085 BKN110 15/05 A2964 RMK AO2 T01510045 KSUS 051554Z 35010KT 10SM FEW035 14/06 A3004 RMK AO2 SLP173 T01440056 $ LKNA 051500Z 05004KT 010V100 9999 SCT037 SCT110 17/08 Q1023 NOSIG RMK BLU BLU KSUT 051550Z AUTO 22008KT 180V240 10SM CLR 23/13 A2952 RMK AO2 T02300129 KTMK 051555Z AUTO 00000KT 10SM OVC060 12/07 A3006 RMK AO2 KTNB 051535Z AUTO 30018G29KT 10SM SCT028 SCT033 07/M02 A2968 RMK AO2 T00691019 KSUU 051458Z AUTO 25017KT 10SM CLR 16/09 A2982 RMK AO2 SLP105 T01600093 52005 $ KSUW 051535Z AUTO 23010G15KT 10SM SCT110 12/04 A2999 RMK AO2 T01170042 KSVN 051558Z AUTO 30017G26KT 10SM CLR 21/06 A2966 RMK AO2 PK WND 27026/47 SLP047 T02080061 KSUX 051552Z 19004KT 10SM CLR 20/07 A3007 RMK AO2 SLP182 T02000067 KSWF 051545Z 05010KT 15SM OVC020 11/07 A2972 KUCY 051555Z AUTO 34017KT 10SM CLR 16/04 A2994 RMK VVPB 051530Z VRB02KT 9999 FEW020 SCT300 27/26 Q1008 NOSIG KTOA 051550Z 00000KT 10SM FEW015 BKN020 OVC050 18/12 A2993 FNSA 051500Z 14006KT CAVOK 31/14 Q1018 KTOB 051553Z AUTO 19006KT 10SM CLR 13/00 A3008 RMK AO2 LKMT 051530Z 35008KT 320V020 9999 FEW035 17/10 Q1023 NOSIG KTOC 051535Z AUTO 33012G17KT 10SM SCT065 OVC070 16/04 A2973 RMK AO2 T01580043 KW63 051555Z AUTO 36007G14KT 5SM SCT006 SCT049 OVC065 11/11 A2958 RMK AO1 P0055 KSWO 051553Z 25006KT 10SM CLR 21/07 A3013 RMK AO2 SLP195 T02110072 KTOI 051553Z AUTO 36012G23KT 10SM CLR 20/01 A2991 RMK AO2 SLP123 T02000011 TSNO KTPA 051553Z 28013G23KT 10SM SCT050 26/14 A2984 RMK AO2 SLP103 T02610139 KUES 051545Z 34005KT 10SM SKC 12/03 A3004 LLET 051550Z 02009KT CAVOK 33/01 Q1007 KTOL 051552Z 06013G22KT 10SM SCT042 16/06 A2985 RMK AO2 SLP107 T01610061 KTNU 051535Z AUTO 01004KT 10SM BKN120 13/02 A3010 RMK AO2 PWINO LKPD 051500Z 10006KT 060V160 CAVOK 19/06 Q1024 NOSIG RMK BLU BLU KSWW 051535Z AUTO 25004KT 10SM CLR 25/05 A3017 RMK AO2 T02530053 VVPQ 051530Z VRB02KT 9000 SCT015 FEW017CB 28/26 Q1010 CB/N NOSIG KSYF 051555Z AUTO 18010KT 10SM CLR 22/05 A3010 RMK AO2 T02160049 KTPF 051555Z AUTO 30010G19KT 10SM SCT050 26/16 A2984 RMK AO2 FNSO 051500Z 22004KT 9999 FEW011 BKN100 ///// Q1010 KTOP 051553Z 27006KT 10SM CLR 21/07 A3010 RMK AO2 SLP190 T02060067 KW75 051555Z AUTO 01009KT 10SM OVC011 12/10 A2962 RMK AO1 T01200101 KTPH 051556Z AUTO 17012KT 10SM CLR 17/M01 A2987 RMK AO2 SLP060 T01721006 KTOR 051553Z AUTO VRB03KT 10SM CLR 18/07 A3004 RMK AO2 SLP140 T01830067 KSYI 051555Z AUTO 33018G27KT 10SM FEW046 SCT065 SCT075 17/05 A2984 RMK LLHA 051550Z 30008KT 9999 FEW050 21/15 Q1012 KSXS 051556Z AUTO 33012G24KT 10SM FEW220 19/02 A2990 RMK AO2 SLP125 T01940017 KW78 051535Z AUTO 32006KT 10SM BKN005 BKN016 OVC070 12/11 A2959 RMK AO1 P0005 T01180112 KSXT 051556Z AUTO VRB05KT M1/4SM -RA FG VV001 07/07 A2993 RMK AO2 SLP125 P0000 T00720072 FNUB 051300Z VRB02KT 9999 BKN025 28/09 Q1024 KTPL 051551Z AUTO 07004KT 10SM CLR 24/10 A3011 RMK AO2 SLP202 T02440100 KW81 051555Z AUTO 03010G14KT 7SM OVC009 12/12 A2960 RMK AO1 P0001 T01150115 FNSU 051500Z 25005KT 9999 FEW014 30/// Q1013 KSYM 051550Z AUTO VRB05KT 10SM OVC037 09/04 A2983 RMK AO2 KSYN 051555Z AUTO 23007KT 10SM SCT110 17/M01 A3005 RMK AO2 T01681007 KTQE 051554Z AUTO 15003KT 10SM CLR 18/07 A3009 RMK AO2 SLP182 T01830072 KUGN 051555Z 36008KT 10SM CLR 12/05 A3002 RMK AO2 SLP168 T01170050 FNUE 051500Z 12010KT CAVOK 28/// Q1018 FNUG 051500Z 18006KT 9999 SCT017 BKN080 25/23 Q1014 WMSA 051500Z 00000KT 6000 FEW010 FEW017CB SCT026 BKN260 26/25 Q1011 RETS KTQH 051555Z AUTO 28004KT 10SM CLR 20/07 A3011 RMK AO2 KSYR 051554Z 36005KT 10SM FEW020 BKN038 BKN045 14/06 A2977 RMK AO2 SLP078 T01390061 $ LKPR 051530Z 06007KT 020V080 9999 SCT043 17/08 Q1024 NOSIG LLIB 051450Z 29005KT 270V340 CAVOK 24/07 Q1011 KSZL 051358Z 01006KT 10SM FEW250 13/06 A3006 RMK AO2A SLP181 T01290063 $ MBPV 051600Z 20015KT 9999 SCT015 29/24 Q1009 KW96 051555Z AUTO 05006KT 10SM OVC007 12/10 A2962 RMK AO1 T01150103 KTRI 051553Z 36008KT 8SM -RA OVC043 08/03 A2975 RMK AO2 RAB47 SLP065 P0000 T00830033 MDAB 051600Z 09012KT 9999 SCT018 SCT070 31/26 Q1013 KSZT 051535Z AUTO 01003KT 10SM CLR 13/11 A2995 RMK AO2 KTRK 051550Z 00000KT 10SM TS SCT004 BKN055 OVC065 06/04 A2993 RMK NOSPECI LTG N-SE KW99 051535Z AUTO 35004KT 7SM -RA SCT010 SCT017 OVC026 11/10 A2969 RMK AO2 P0003 T01120099 KUIL 051553Z AUTO 00000KT 10SM CLR 10/07 A3005 RMK AO2 SLP176 T01000067 KTRL 051553Z AUTO 01004KT 10SM CLR 23/06 A3011 RMK AO2 SLP191 T02330056 KTRM 051552Z AUTO 32015G21KT 10SM CLR 23/07 A2976 RMK AO2 SLP089 T02280067 KVAD 051558Z AUTO 30016G28KT 10SM FEW210 21/04 A2980 RMK AO2 PK WND 28029/50 SLP092 T02120043 $ KUIN 051554Z AUTO 03010G19KT 10SM CLR 13/04 A3007 RMK AO2 SLP181 T01330044 KVAF 051555Z AUTO 00000KT 9SM CLR 25/19 A3006 RMK A01 KTTA 051550Z AUTO 33015G18KT 10SM BKN014 BKN033 BKN065 13/11 A2957 RMK AO2 T01260108 LKTB 051530Z 04008KT 9999 VCSH FEW046TCU 19/07 Q1023 NOSIG KTTD 051553Z VRB03KT 10SM OVC027 13/07 A3001 RMK AO2 SLP160 T01280072 KUKF 051550Z AUTO 33007KT 10SM BKN049 OVC075 13/02 A2971 RMK AO2 KTTF 051554Z AUTO 03012G18KT 350V060 10SM CLR 17/08 A2985 RMK AO2 T01690075 KTSP 051555Z AUTO 31010G14KT 1/2SM HZ OVC021 12/05 A2990 RMK AO2 KVBG 051455Z 10007KT 10SM SCT065 BKN100 13/10 A2989 RMK AO2A SCT V BKN SLP128 T01280100 53002 MDBH 051600Z 13016KT 8000 VCSH FEW020CB SCT022 29/25 Q1014 CB/S FOOG 051500Z /////KT 9999 SCT011 FEW020CB 31/26 Q1009 VVTS 051530Z 13008G19KT 040V170 9999 FEW020 SCT050 31/24 Q1009 NOSIG KUKI 051556Z AUTO 00000KT 10SM OVC016 13/09 A2986 RMK AO2 RAB32E53 SLP105 P0000 T01280094 KVCB 051553Z AUTO 23010KT 10SM FEW100 18/09 A2984 RMK AO2 SLP103 T01830089 FOOL 051500Z 23008KT 9999 FEW015 FEW020CB 31/26 Q1010 NOSIG KTTN 051553Z 04010KT 10SM OVC014 11/07 A2968 RMK AO2 SLP044 T01110067 FOON 051500Z /////KT 9999 SCT013 FEW020TCU 28/23 Q1012 KVAY 051554Z AUTO 03010KT 10SM OVC016 11/07 A2968 RMK AO2 SLP051 T01060072 TSNO KVBS 041935Z AUTO 33007KT 10SM CLR 22/11 A2999 RMK A01 KTTS 051458Z AUTO 31016G19KT 10SM CLR 22/11 A2978 RMK AO2 SLP089 T02240112 52008 $ KVBT 051555Z AUTO 34006KT 10SM CLR 19/03 A3010 RMK AO1 KUKT 051555Z AUTO 05009G14KT 10SM OVC018 11/07 A2970 RMK AO1 KTUL 051553Z 32004KT 10SM CLR 21/07 A3010 RMK AO2 SLP188 T02110067 KTVC 051553Z 01004KT 10SM CLR 11/05 A3000 RMK AO2 SLP160 T01060050 KULM 051541Z AUTO 21006KT 10SM CLR 17/M01 A3006 RMK AO2 KVBW 051555Z AUTO 02009KT 340V160 7SM SCT008 BKN014 OVC020 10/09 A2965 RMK AO2 P0004 T00960086 KVDF 051555Z AUTO 29008G19KT 10SM SCT055 SCT070 27/13 A2984 RMK AO2 KTVF 051555Z AUTO 21012KT 10SM CLR 23/05 A2986 RMK AO1 KTUP 051553Z 29011G19KT 10SM CLR 19/04 A2993 RMK AO2 SLP132 T01890044 RJAA 051530Z 01006KT CAVOK 15/12 Q1015 NOSIG KTVI 051555Z AUTO 32013G20KT 10SM CLR 20/05 A2984 RMK AO2 KVDI 051535Z AUTO 31013G22KT 10SM SCT050 18/05 A2975 RMK AO2 KTUS 051553Z 08004KT 10SM CLR 27/M01 A2997 RMK AO2 SLP100 T02721011 KVCT 051551Z 25006KT 10SM CLR 27/14 A3007 RMK AO2 SLP181 T02720144 KTVK 051555Z AUTO 34005KT 10SM FEW100 15/ A3010 RMK AO2 KTVL 051553Z AUTO 00000KT 10SM -RA SCT035 BKN050 OVC100 07/04 A2991 RMK AO2 LTG DSNT N-E RAB1457 SLP096 P0000 T00720039 KVCV 051555Z AUTO 23006G10KT 7SM SCT080 SCT100 13/06 A2987 RMK AO2 RJAF 050700Z 33008KT 300V010 9999 FEW050 SCT/// 20/00 Q1012 LKVO 051400Z 13005KT 060V190 9999 FEW038 18/09 Q1025 KTWF 051553Z 22008KT 10SM CLR 16/06 A2992 RMK AO2 SLP091 T01560061 MDCY 051600Z 18015KT 9999 SCT020 31/25 1013 RJAH 051500Z 36003KT 9999 FEW030 BKN/// 12/08 Q1015 KTVR 051553Z AUTO 36009G14KT 310V020 10SM CLR 23/06 A3001 RMK AO2 SLP167 T02280061 KUNI 051535Z AUTO 00000KT 10SM BKN033 OVC065 12/04 A2977 RMK AO2 T01150043 RJBB 051530Z 33003KT 270V040 CAVOK 18/07 Q1017 NOSIG KX60 051555Z AUTO 28009G15KT 10SM CLR 25/07 A2982 RMK AO1 TSNO RJBD 051000Z 34006KT CAVOK 21/07 Q1016 KVEL 051553Z AUTO 00000KT 10SM CLR 18/01 A3011 RMK AO2 SLP148 T01830011 RJBE 051200Z 15003KT CAVOK 17/13 Q1017 KTWM 051553Z AUTO 18008KT 10SM CLR 16/06 A2993 RMK AO2 SABE 051500Z 03003KT 9000 NSC 16/14 Q1023 KUNO 051553Z AUTO 33016G22KT 10SM CLR 18/01 A3004 RMK AO2 SLP168 T01780011 $ KTVY 051555Z AUTO 17008KT 10SM CLR 22/05 A2993 RMK AO2 SAAR 051500Z 07007KT CAVOK 16/12 Q1022 KVER 051555Z AUTO 33007KT 10SM CLR 17/01 A3007 RMK AO2 T01690012 RJCB 051100Z VRB02KT 9999 FEW040 BKN060 12/05 Q1003 KVES 051535Z AUTO 35010KT 7SM OVC008 08/08 A2985 RMK AO2 RJCC 051530Z 36006KT 9999 FEW005 BKN015 10/09 Q1010 KTXK 051553Z 00000KT 10SM CLR 22/07 A3007 RMK AO2 SLP180 T02170072 EYKA 051550Z 33006KT 270V040 CAVOK 20/05 Q1022 KUNU 051555Z AUTO 33006KT 10SM CLR 11/03 A3006 RMK AO2 T01060029 RJAW 051400Z 10005KT 9999 FEW004 24/23 Q1018 RMK 1ST004 A3009 KUNV 051553Z 05007KT 10SM SCT019 OVC025 12/08 A2971 RJCH 051100Z 23009KT 9999 FEW010 BKN025 10/08 Q1008 RJCK 051100Z 30006KT 260V340 9999 FEW030 SCT120 12/04 Q1003 RJBT 050900Z 36005KT CAVOK 18/02 Q1016 RJDC 051200Z 05007KT CAVOK 18/11 Q1016 RJCM 051100Z 28003KT 230V340 9999 FEW030 SCT050 BKN080 12/04 Q1002 RJCN 050900Z 05004KT 010V080 9999 FEW035 BKN050 BKN120 11/06 Q1000 RJCO 050848Z 32009KT 9999 -SHRA FEW015 SCT030 BKN040 12/07 Q1004 RMK 1ST015 3CU030 6CU040 A2966 SADF 051500Z 05004KT 9000 NSC 17/13 Q1023 SACO 051500Z 05007KT 9999 FEW030 BKN100 17/10 Q1022 KUOX 051555Z AUTO 34013G20KT 030V360 10SM CLR 19/05 A2998 RMK AO2 KTYQ 051555Z AUTO 34012KT 10SM OVC008 08/07 A2992 RMK AO2 T00830071 KTYR 051553Z 05010KT 10SM CLR 24/04 A3008 RMK AO2 SLP180 T02390044 FQCH 051500Z 15006KT 9999 FEW020 21/15 Q1024 RJEB 050700Z 24014G24KT 9999 -SHRA FEW030 BKN040 BKN070 12/05 Q0999 KTYS 051553Z 27006KT 10SM -RA FEW014 OVC039 09/06 A2979 RMK AO2 RAE02B44 SLP087 P0000 T00940061 FQBR 051500Z /////KT 9999 FEW020 26/19 Q1019 RJEC 051100Z 25004KT 9999 FEW015 SCT020 BKN030 09/06 Q1005 KVGT 051553Z 15014KT 10SM CLR 24/01 A2981 RMK AO2 SLP090 T02390011 RJCW 050900Z 32014KT 9999 FEW006 BKN008 BKN010 05/03 Q1002 KVIH 051553Z AUTO 33012G16KT 10SM CLR 16/04 A3004 RMK AO2 SLP169 T01560044 KTZR 051550Z 34010KT 7SM OVC008 09/07 A2981 RJDT 051100Z 16003KT CAVOK 17/09 Q1015 MDJB 051600Z 19015KT 9999 SCT020 31/24 Q1013 LLSD 051550Z 34008KT 9999 FEW045 22/15 Q1011 RJFF 051530Z 15011KT CAVOK 20/10 Q1014 KUSE 051555Z AUTO 04015G21KT 10SM 16/ A2986 RMK AO2 RJFG 050900Z 16006KT CAVOK 21/17 Q1017 KVJI 051555Z AUTO 32009KT 10SM SCT029 SCT037 OVC044 09/02 A2974 RMK AO2 T00880019 RJFK 051200Z 17005KT CAVOK 20/14 Q1019 KUTA 051555Z AUTO 32013G20KT 10SM CLR 19/06 A2999 RMK AO2 TSNO KVIS 051556Z AUTO 30005KT 10SM SCT049 BKN060 16/10 A2987 RMK AO2 SLP123 T01610100 KY19 051535Z AUTO 20015G21KT 10SM CLR 24/05 A2991 RMK AO2 RJFM 051200Z 34003KT 9999 FEW030 BKN180 21/14 Q1017 KWAL 051554Z AUTO 03015G19KT 10SM OVC011 11/08 A2962 RMK AO2 SLP028 T01110083 RJFO 051300Z VRB02KT CAVOK 18/10 Q1017 KY23 051535Z AUTO 24003KT 10SM BKN120 14/M01 A3006 RMK AO2 T01401006 RJGG 051530Z 30006KT CAVOK 17/07 Q1016 NOSIG SAEZ 051500Z 09005KT 3000 BR SCT038 BKN060 16/12 Q1023 RJFR 051500Z 05006KT CAVOK 18/15 Q1015 RJFS 051200Z 18006KT 9999 FEW060 SCT140 BKN160 20/16 Q1016 RJFT 051200Z 15003KT 100V220 CAVOK 19/12 Q1017 RJFU 051200Z 13004KT 100V220 CAVOK 19/14 Q1016 EYPA 051550Z 35009KT 320V020 CAVOK 13/04 Q1025 KVLD 051553Z 31007G16KT 130V050 10SM CLR 21/07 A2982 RMK AO2 SLP103 T02110072 KUTS 051553Z AUTO VRB04KT 10SM CLR 24/09 A3007 RMK AO2 SLP178 T02440089 KVKS 051555Z AUTO 36010KT 10SM CLR 22/07 A3001 RMK A01 KUVA 051535Z AUTO 14005KT 10SM CLR 25/10 A3012 RMK AO2 T02500100 KVLL 051554Z AUTO 03011G20KT 10SM SCT040 17/07 A2988 RMK AO2 T01680066 GGOV 051500Z 34006KT 280V040 CAVOK 37/14 Q1009 NOSIG KVKY 051555Z AUTO 02013KT 10SM CLR 21/15 A2993 RMK A01 KWDG 051555Z 00000KT 10SM SKC 23/06 A3012 SBAA 041900Z 00000KT 9999 SCT020 SCT090 26/22 Q1011 MDLR 051600Z 09012KT 9999 SCT018 SCT070 31/26 Q1013 KY50 051556Z AUTO 19003KT 10SM CLR 12/02 A3006 RMK AO2 SLP210 T01220017 KY49 051535Z AUTO 20011G16KT 10SM CLR 20/00 A2992 RMK AO2 T02000000 KUUU 051553Z AUTO 03018G26KT 10SM OVC010 08/06 A2970 RMK AO2 PK WND 02032/1507 SLP055 T00830061 LMML 051545Z 20007KT 160V240 9999 FEW030 20/10 Q1015 NOSIG KY51 051555Z AUTO 02004KT 10SM CLR 12/02 A3007 RMK AO1 T01210019 SBAF 041800Z 23012KT CAVOK 27/18 Q1016 RJKA 051000Z 16014KT 9999 -RA NSC 23/18 Q1017 KWDR 051535Z AUTO 31016G21KT 10SM SCT041 BKN050 BKN060 17/03 A2980 RMK AO1 KVOA 051555Z AUTO 35008KT 10SM CLR 21/16 A2991 RMK A01 EYSA 051550Z 01011KT CAVOK 19/03 Q1024 BLU NOSIG SBAN 041900Z 25003KT 9999 FEW040 28/11 Q1020 SBBE 051600Z 10006KT 9999 BKN035 FEW040TCU 31/23 Q1013 KY63 051554Z AUTO 19013G16KT 10SM CLR 21/04 A2997 RMK AO2 T02140044 SBBG 042145Z 17002KT CAVOK 12/10 Q1019 FQIN 050600Z 25006KT 9999 BKN020 22/16 Q1022 SBBH 041900Z 29006KT 9999 FEW035 27/13 Q1018 SBBI 041800Z 28002KT 9999 BKN040 21/10 Q1020 SBAR 051600Z 16011KT 9999 FEW020 SCT090 29/21 Q1015 SBCA 041900Z 32012KT 9999 SCT040 25/13 Q1019 SBAT 041800Z 12004KT 9999 FEW030 36/23 Q1013 SBCB 051400Z 25010KT 9999 FEW030 BKN090 28/21 Q1020 SBCC 041900Z 10009KT 9999 SCT020 FEW025TCU SCT080 30/19 Q1013 KY70 051557Z AUTO 35010KT 10SM CLR 15/08 A2992 RMK AO2 T01490075 KVOK 051558Z 34006KT 10SM FEW100 13/04 A3006 RMK AO2A SLP185 KVPC 051553Z AUTO 33007G19KT 290V010 10SM FEW046 SCT070 16/05 A2982 RMK AO2 SLP091 T01560050 MDPC 051600Z 13010KT 9999 SCT018 29/24 Q1014 KUXL 051555Z AUTO 01004KT 10SM CLR 25/10 A3003 RMK AO2 T02460099 PWINO SBAX 041900Z 35006KT 9999 SCT030 28/11 Q1020 SBCF 051600Z 20003KT 9999 SCT040 25/14 Q1021 SBCG 051600Z VRB04KT CAVOK 30/12 Q1018 KUYF 051555Z AUTO 36008KT 7SM OVC007 09/08 A2981 RMK AO2 SBBQ 041900Z 24005KT 9999 SCT047 23/12 Q1021 SBCH 041900Z 28009KT CAVOK 23/11 Q1018 KVNY 051551Z 00000KT 10SM SCT030 BKN050 16/09 A2991 RMK AO2 SLP123 T01610094 SBCI 041900Z 07003KT 9999 FEW020 SCT090 32/24 Q1011 SBBR 051600Z 14007KT CAVOK 28/06 Q1021 SBCJ 051500Z 11004KT 9999 SCT019 27/22 Q1018 KUZA 051554Z AUTO 31009KT 10SM BKN049 OVC055 16/05 A2965 RMK AO2 SLP035 T01560050 SBBU 041900Z 18007KT CAVOK 29/13 Q1017 SBCM 041900Z 10006KT 9999 FEW025 21/15 Q1017 FPST 051500Z 15014KT 9999 FEW025CB BKN110 31/26 Q1010 NOSIG SBBV 051600Z 06005KT 9999 VCSH SCT004 BKN020 FEW025TCU BKN070 2 4/22 Q1015 SBBW 041800Z 15010KT CAVOK 34/11 Q1015 FQLC 051600Z 15012KT 9999 FEW013 15/13 Q1024 SAME 051500Z 09003KT 9999 OVC040 15/10 Q1019 SBCO 041800Z 21005KT CAVOK 20/12 Q1018 SBCP 051500Z 16008KT 9999 SCT020 30/20 Q1018 MDPP 051500Z 36006KT 9999 SCT020 SCT300 30/24 Q1012 SBCR 051600Z 11006KT CAVOK 31/20 Q1015 KVPS 051455Z 03011KT 10SM CLR 21/09 A2988 RMK AO2A SLP124 T02140090 51014 $ SBCT 051600Z 33006KT 9999 BKN023 21/13 Q1022 FQMA 050600Z 18005KT CAVOK 21/13 Q1023 NOSIG KVRB 051553Z 32016G22KT 10SM CLR 25/11 A2981 RMK AO2 SLP092 T02500106 SBDN 041900Z 21003KT CAVOK 30/10 Q1016 RJNG 050044Z 28011G21KT 9999 FEW030 22/02 Q1014 RMK 1CU030 A2994 SBCY 051600Z 13004KT CAVOK 32/19 Q1015 SBEG 051600Z 13007KT 9999 FEW008 BKN100 26/23 Q1014 KWHP 051500Z 13005KT 10SM OVC043 14/10 A2994 SBCZ 051500Z 12003KT 9999 BKN030 29/23 Q1016 SAMR 051224Z 27004KT 40005000E DZ OVC020 11/10 Q1020 KVQQ 051550Z 33012KT 10SM CLR 22/05 A2978 KVPZ 051556Z AUTO 34010G19KT 10SM BKN011 09/05 A2998 RMK AO2 SLP157 T00890050 RJOA 051200Z 34005KT CAVOK 18/06 Q1017 SBEK 041900Z 12002KT 9999 FEW020 34/25 Q1010 RJNK 051500Z VRB01KT 9999 SCT/// 13/03 Q1017 RJOB 051200Z VRB01KT CAVOK 17/07 Q1017 EYVI 051550Z 36012KT CAVOK 19/03 Q1021 NOSIG RJOC 051100Z 15003KT CAVOK 16/09 Q1016 KVQT 051555Z AUTO 31016KT 10SM CLR 24/18 A3000 RMK A01 SAOC 051500Z 05008KT 9999 SCT030 OVC100 15/11 Q1020 MDSD 051600Z 18009KT 150V210 SCT020 30/24 Q1013 NOSIG RJOF 050828Z VRB03KT 9999 FEW030 BKN150 BKN230 22/04 Q1015 RMK 1CU030 5AC150 A2999 KVSF 051554Z AUTO VRB03KT 10SM OVC022 11/06 A2980 RMK AO2 SLP095 T01060056 TSNO KWJF 051556Z 24016KT 10SM CLR 15/04 A2987 RMK AO2 SLP108 T01500044 RJOH 051500Z 18002KT 9999 BKN/// 13/06 Q1016 RJOI 051355Z 20003KT 9999 FEW030 SCT180 OVC230 18/13 A3004 RMK SLP172 T01780128 SBFI 051600Z 34005KT CAVOK 26/16 Q1018 SBES 041900Z 22013KT 9999 FEW011 24/19 Q1016 RJNS 051200Z 30009KT 9999 FEW030 BKN/// 19/05 Q1014 SANT 051500Z 00000KT 7000 NSC 20/14 Q1020 RJOK 051100Z VRB02KT CAVOK 20/15 Q1017 RJNT 051200Z 16003KT 140V210 CAVOK 14/06 Q1018 KVTA 051554Z AUTO 32006KT 10SM OVC011 12/07 A2978 RMK AO2 SLP084 T01170072 SBFL 051600Z 13007KT 9999 SCT015 21/16 Q1020 RJOM 051200Z 13007KT CAVOK 19/07 Q1017 SBFN 051600Z 18006KT 150V220 9999 BKN025 FEW027TCU SCT070 28/25 Q1014 RJNW 051000Z 25008KT 9999 FEW030 13/11 Q1017 LOAN 051500Z 34015KT 35KM FEW050CU RMK FEW RJOO 051100Z 31005KT CAVOK 20/02 Q1017 RMK A3003 RJOP 042351Z 31015KT 9999 FEW030 22/03 Q1015 RMK 1CU030 A2998 RJNY 042205Z 26015G26KT 9999 FEW025 19/08 Q1010 RMK 1CU025 A2983 SAOR 051000Z 00000KT 3000 BR SCT015 FEW020 10/10 Q1019 FQNP 050800Z /////KT 9999 BKN020 SCT100 23/17 Q1019 RJOR 051200Z 14006KT CAVOK 16/06 Q1018 RJOS 050951Z 15005KT 090V230 9999 FEW150 BKN220 20/09 Q1016 RMK 2AC150 A3001 KVTI 051555Z AUTO 36003KT 10SM CLR 15/01 A3010 RMK AO2 T01460012 RJOT 051200Z 14008KT CAVOK 17/04 Q1017 VYMD 051430Z 02004KT 6000 FEW025 29/22 Q1006 MDST 051600Z 13005KT 9999 FEW018CB SCT020 SCT080 31/24 Q1013 CB/S SBGL 051600Z 13012KT 7000 FEW023 BKN050 26/18 Q1018 SBGM 041900Z 20006KT 9999 BKN033 32/24 Q1012 LOAV 051500Z 30014KT 25KM FEW040CU 16/08 RMK FEW RJOW 051000Z VRB01KT CAVOK 17/08 Q1016 KWLD 051554Z AUTO 30003KT 10SM CLR 21/07 A3027 RMK AO2 SLP246 T02060072 KVTN 051552Z AUTO 17010KT 10SM CLR 23/06 A3003 RMK AO2 SLP157 T02280061 SBGO 051500Z 10008KT 050V150 CAVOK 30/11 Q1020 RJOY 051000Z 27008KT CAVOK 22/04 Q1016 RJOZ 042120Z 26004KT 210V310 9999 FEW030 SCT230 18/10 Q1016 RMK 1CU030 A3000 SBFZ 051600Z 09013KT 9999 SCT025 30/23 Q1013 KVTP 051550Z AUTO 22004KT 10SM CLR 12/M05 A3045 RMK AO2 KXBP 051555Z AUTO 18003KT 10SM CLR 23/08 A3014 RMK AO2 T02320081 SBGR 051600Z 15003KT CAVOK 24/14 Q1022 KVUJ 051535Z AUTO 35008KT 10SM -RA BKN013 BKN024 OVC055 11/11 A2967 RMK AO2 P0002 T01110107 SBIC 041800Z 18002KT 9999 FEW020 30/25 Q1012 SARC 051500Z 09005KT CAVOK 22/14 Q1018 KWMC 051556Z AUTO 04013G19KT 10SM CLR 14/05 A2985 RMK AO2 SLP076 T01390050 SBGW 041900Z 24006KT 9999 SCT025 25/15 Q1017 SARE 051500Z 07004KT 020V160 8000 NSC 23/14 Q1018 SARF 051500Z 11003KT 9999 FEW030 23/17 Q1018 KVUO 051553Z AUTO VRB06KT 10SM OVC028 12/07 A3001 RMK AO2 SLP161 T01220072 SBIH 041800Z 28004KT 9999 TS VCSH SCT022 FEW027CB SCT080 32/23 Q1011 KVVG 051535Z AUTO 28009G14KT 10SM 24/09 A2972 RMK A01 SARI 051500Z 05004KT CAVOK 24/19 Q1020 RJSA 051200Z 23018KT 9999 FEW040 SCT070 11/04 Q1011 SASA 051500Z 36004KT 9999 FEW025 BKN100 15/10 Q1021 SBHT 041900Z 06003KT 9999 SCT025 32/25 Q1010 RKJB 051500Z 16009KT 8000 BKN030 OVC090 19/16 Q1012 NOSIG SBIL 041800Z 14010KT 9999 SCT020 BKN070 26/21 Q1014 RJSC 051000Z 13008KT 9999 FEW040 14/02 Q1013 SARL 051500Z 09013KT CAVOK 19/13 Q1020 FQQL 051600Z 24003KT 9999 BKN020 SCT100 21/19 Q1019 SBJF 041900Z 15004KT 9999 BKN025 25/18 Q1019 RJSF 051100Z VRB02KT CAVOK 12/03 Q1015 SBIP 041900Z 03003KT CAVOK 28/17 Q1015 SARP 051500Z 11005KT CAVOK 25/13 Q1019 RJSH 042232Z 24016G29KT 210V270 9999 FEW020 BKN045 BKN070 17/07 Q1002 RMK 1CU020 5CU045 7AC070 A2960 RJSI 051000Z 30004KT 220V030 9999 FEW020 SCT045 13/05 Q1011 SASJ 051500Z 36002KT 9000 NSC 17/11 Q1021 SCBA 051500Z 13009KT 9999 BKN050 BKN070 07/M01 Q1022 RJSK 051200Z 25013KT 9999 FEW015 BKN030 13/09 Q1014 RKJK 051558Z AUTO 18013KT 10SM SCT032 SCT100 20/16 A2983 RMK AO2 SLP105 T02000157 $ HAAB 051500Z 09012KT 9999 BKN025 21/11 Q1025 RJTE 050203Z 24021G34KT 9999 FEW030 23/07 Q1009 RMK 1CU030 A2980 RJSN 051200Z 19009KT CAVOK 15/08 Q1017 KVVV 051554Z AUTO 17005KT 10SM CLR 23/05 A2998 RMK AO2 RJSO 050637Z 25019G37KT 220V280 9999 FEW020 BKN030 14/08 Q1005 RMK 1CU020 5CU030 A2969 RJTF 050800Z 16005KT 110V230 CAVOK 26/05 Q1009 SBKG 041900Z 10010KT 9999 SCT040 29/18 Q1014 SBJP 051500Z 16008KT 9999 SCT015 BKN025 BKN070 29/23 Q1015 SCAP 051500Z 28007KT 9999 SCT035 OVC070 12/08 Q1025 SBIZ 041840Z 17004KT 9999 4500E TS SHRA BKN030 FEW030CB 33/25 Q1010 SBJR 041800Z 23009KT 9999 FEW020 26/20 Q1016 RJTI 050700Z 18009KT 150V210 CAVOK 22/12 Q1008 RJSR 051000Z 24009KT 9999 FEW015 SCT030 BKN090 12/12 Q1011 SCAR 051500Z 25004KT 9999 OVC023 22/15 Q1016 SCAS 051500Z 00000KT CAVOK 13/04 Q1020 RJSS 051200Z 28009KT 9999 FEW020 15/00 Q1013 SBLB 041800Z 35006KT CAVOK 27/21 Q1015 W///S2 SCAT 051500Z VRB01KT 9999 OVC019 16/11 Q1019 RJTL 050438Z 16010KT 130V220 9999 FEW030 25/06 Q1008 RMK 1CU030 A2977 SBJU 041800Z 05003KT 9999 SCT020 33/19 Q1015 SCCC 051500Z 12003KT 9999 FEW040 BKN080 07/M01 Q1024 SBJV 041900Z 06005KT 9999 SCT025 24/18 Q1017 KVWU 051550Z AUTO 21012G20KT 10SM CLR 23/04 A2985 RMK AO2 SBLE 041900Z 23002KT 9999 BKN040 29/20 Q1016 RJTO 050800Z 16012KT 110V240 CAVOK 22/09 Q1009 SCCF 051500Z 07009KT CAVOK 17/M06 Q1028 RJSY 051200Z 23017KT 9999 FEW070 15/07 Q1016 SBKP 051600Z 19005KT 9999 SCT040 26/10 Q1021 SCCH 051500Z 03008KT 4000 BR BKN005 OVC013 12/12 Q1017 SCCI 051500Z 22002KT 9999 FEW003 SCT007 05/04 Q1023 NOSIG SBMA 051500Z 06003KT 9999 BKN027 34/26 Q1014 SCDA 051500Z 23007KT CAVOK 21/14 Q1017 RJTT 051530Z 35007KT CAVOK 19/07 Q1015 NOSIG SAVC 051500Z 05004KT CAVOK 11/05 Q1026 SBMD 041900Z 21003KT 9999 BKN017 ///// Q1011 SBME 041800Z 12007KT CAVOK 30/21 Q1014 SBLO 051600Z 06007KT CAVOK 26/16 Q1021 SBMG 041800Z 23002KT 9999 FEW045 SCT070 27/14 Q1017 SBLP 041800Z 35005KT 9999 SCT030 36/15 Q1013 RJTY 051558Z AUTO 01004KT 10SM CLR 14/05 A3005 RMK AO2 SLP176 T01410045 SBLS 041900Z 27004KT 9999 SCT047 27/12 Q1019 SBMK 041800Z 08006KT CAVOK 29/12 Q1017 KVYS 051535Z AUTO 02011KT 10SM CLR 11/05 A3004 RMK AO2 T01120051 KWRB 051558Z AUTO 32020G25KT 10SM BKN055 18/04 A2979 RMK AO2 SLP089 T01840043 FQTT 051600Z 00000KT 9999 FEW020 28/17 Q1019 SAWE 051500Z 25007KT CAVOK M01/M02 Q1023 SBMN 051600Z 13002KT 9999 SCT009 FEW025TCU BKN100 25/23 Q1014 SBNF 051600Z 06009KT 9999 FEW027 BKN032 24/20 Q1019 SBMO 051600Z 14011KT 9999 SCT030 BKN100 29/22 Q1015 SCCY 051500Z 23002KT CAVOK 09/03 Q1021 SAWG 051500Z 27004KT CAVOK 02/M06 Q1022 SAWH 051500Z 25012KT 9999 FEW045 06/01 Q1023 SBMQ 051600Z 10007KT 9999 SCT025 FEW027TCU 35/25 Q1013 LOIH 051100Z 00000KT 35KM SKC 17/05 Q1020 RMK SKC KXIH 051600Z AUTO 04009KT 10SM CLR 23/13 A3002 RMK A01 SBMS 041800Z 08014KT 9999 SCT025 ///// Q1009 KWRI 051558Z AUTO 02012KT 10SM OVC010 10/08 A2966 RMK AO2 SLP044 T00950077 SCFA 051500Z 20006KT 9999 FEW025 SCT100 18/12 Q1016 NOSIG SBMT 041800Z 11011KT 9999 FEW049 24/14 Q1019 SCEL 051500Z 22006KT 190V260 5000 HZ FEW008 OVC011 14/11 Q1017 NOSIG KWRL 051553Z AUTO 00000KT 10SM CLR 16/04 A3000 RMK AO2 SLP131 T01610039 SBMY 041800Z 12004KT 9999 SCT022 33/24 Q1013 SBOI 051600Z 05007KT 9999 SCT025 FEW030TCU SCT100 31/30 Q1013 SBPA 051600Z VRB02KT 9999 BKN020 18/12 Q1022 SAWT 051100Z 01002KT 9999 FEW020 SCT100 M03/M05 Q1020 SBPB 051500Z 07014KT 9999 SCT020 33/25 Q1013 SBNT 051600Z 13013KT 9999 SCT023 SCT080 30/22 Q1013 SBPC 041900Z 28007KT 9999 SCT025 24/12 Q1021 RKPC 051509Z 34010KT 310V010 3500 -RA FEW015 BKN030 OVC080 17/15 Q1010 NOSIG SCFM 051500Z 18007KT CAVOK 06/03 Q1023 SCGE 051500Z 35003KT 1000 BR OVC010 12/11 Q1018 SBPF 041700Z 03010KT CAVOK 19/10 Q1019 RKNY 051500Z AUTO 19003KT 3000 NCD 14/06 Q1007 SBPJ 041800Z 09005KT 9999 SCT040 34/20 Q1011 SAZB 050850Z 05005KT 5000 BR 03/03 Q1024 LPBJ 051500Z 09008KT 9999 FEW008 BKN025 FEW027CB 14/14 Q1010 RKPK 051500Z 32002KT CAVOK 17/15 Q1014 NOSIG SCFT 051500Z VRB02KT CAVOK 11/07 Q1020 SBPK 051600Z 16004KT 9999 FEW025 18/11 Q1022 MGCB 051500Z 07006KT 2000 BR -DZ OVC002 19/19 QFE 871.9 APCH CLSD KWST 051553Z AUTO 02013G26KT 10SM OVC017 10/05 A2970 RMK AO2 PK WND 01026/1544 SLP056 T01000050 TSNO SBPL 051500Z 14008KT 9999 FEW025 31/17 Q1017 SBPP 051600Z 35005KT CAVOK 27/18 Q1019 SBPR 041800Z 29005KT 9999 SCT035 27/// Q1019 LPAZ 051530Z 03014KT 9999 FEW018 18/12 Q1022 SBPS 051600Z 12007KT 100V160 9999 SCT020 29/20 Q1016 SBRB 051600Z 17004KT 9999 BKN025 30/24 Q1015 SCIC 051500Z 04005KT 5000 HZ OVC012 15/12 Q1017 SAZM 051500Z 20006KT 9999 BKN025 BKN100 12/06 Q1025 SBPV 051600Z 03004KT 9999 SCT030 31/26 Q1013 KXLL 051555Z AUTO 05010KT 10SM OVC021 11/07 A2972 RMK AO2 SAZN 051500Z 11008KT 9999 SCT035 BKN070 10/05 Q1023 SCIE 051500Z 01008KT 9999 -SHRA BKN011 OVC050 14/12 Q1017 SBRF 051600Z 16013KT 9999 FEW025 29/23 Q1014 SCGZ 051500Z 27014KT 9999 FEW030 SCT042 06/02 Q1023 SAZR 051216Z 09010KT 2000 BR OVC030 11/10 Q1022 SCHR 051500Z 00000KT CAVOK 04/02 Q1021 KWVI 051553Z AUTO VRB03KT 10SM FEW014 BKN021 OVC049 14/11 A2989 RMK AO2 SLP120 T01440106 SBRJ 051500Z 14007KT 9000 SCT025 SCT040 BKN090 27/20 Q1019 SAZS 051500Z 09003KT 8000 -RA SCT029 SCT039 10/03 Q1022 LPCS 051530Z 07003KT 010V110 9999 FEW010 SCT025 18/14 Q1010 KXNA 051553Z 33011G18KT 10SM CLR 21/04 A3009 RMK AO2 SLP181 T02060039 SBSC 041900Z 22015KT 9999 FEW025 25/19 Q1016 FSIA 051500Z 35006KT 9999 FEW016CB 28/24 Q1008 NOSIG SBQV 041800Z 09006KT 9999 SCT020 BKN090 25/16 Q1019 KWVL 051556Z AUTO 03008G15KT 10SM OVC009 07/05 A2983 RMK AO2 SLP141 T00720050 KWWD 051555Z AUTO 03011G16KT 10SM OVC013 A2966 RMK AO1 SBRP 051600Z 00000KT CAVOK 29/10 Q1019 SBSG 051600Z 17010KT 150V240 9999 FEW030 SCT100 30/23 Q1013 RKSG 051558Z 22008KT 10SM SCT050 BKN100 BKN120 21/15 A2982 RMK AO2A SLP101 T02070154 $ SCIP 051500Z 16006KT 9999 SCT020 20/17 Q1015 NOSIG SCIR 051500Z 23013KT 9999 SCT012 17/13 Q1016 RKSI 051530Z 18015KT 9999 BKN030 OVC080 17/11 Q1008 NOSIG SBTA 041900Z 27005KT 210V320 9999 FEW030 26/15 Q1017 SBSJ 051600Z 26004KT 8000 SCT030 25/14 Q1022 KXMR 051558Z AUTO 30017KT 10SM CLR 24/10 A2978 RMK AO2 SLP088 T02440096 $ SBTC 041800Z 15006KT 9999 FEW025 29/23 Q1014 SBSL 051600Z 06006KT 9999 BKN020 31/23 Q1013 SBSM 041900Z 20003KT CAVOK 20/11 Q1018 RKSM 051500Z 02003KT 4800 -RA BR SCT015 BKN030 17/15 A2985 RMK CIG030 SLP106 8/500 9/700 WR// SBSN 051500Z 06010KT 9999 SCT017 30/24 Q1014 SBTE 051500Z 17007KT CAVOK 32/22 Q1013 SBTF 051600Z 28002KT 9999 FEW015 SCT018 FEW025TCU 31/25 Q1015 SCJO 051500Z 28002KT 1200 RA BR OVC002 12/12 Q1016 RKSO 051458Z 20006KT 7SM BKN040 BKN075 M A2982 RMK AO2A UPB09E22 SLPNO P0000 60000 50005 $ SBSP 051600Z 18005KT 9999 FEW040 BKN050 23/12 Q1023 SBSR 041800Z 27004KT CAVOK 29/08 Q1018 SBUA 041800Z 30003KT 9999 SCT018 BKN100 29/23 Q1012 RKSS 051500Z 17002KT 5000 -RA BR FEW010 BKN030 OVC080 16/13 Q1010 NOSIG KWWR 051555Z AUTO 19004KT 10SM CLR 23/04 A3016 RMK AO2 SBTK 041800Z 14007KT 9999 SCT030 BKN100 31/23 Q1015 SBST 041900Z 23008KT 9999 FEW040 24/19 Q1017 MGES 051500Z 23004KT 5000 HZ OVC015 21/20 QFE 910.3 HBBA 051100Z 18004KT 9999 SCT025TCU FEW030CB BKN100 30/20 Q1014 LPFL 051530Z 25008KT 180V310 9999 FEW024 19/10 Q1025 SBSV 051600Z 15007KT 9999 SCT020 29/21 Q1016 RKTN 051500Z 15004KT 9999 FEW050 BKN120 BKN200 20/09 Q1012 NOSIG SBUF 041800Z 16011KT 9999 SCT020 33/11 Q1013 RKTP 051310Z 20012KT 8000 -RA BR BKN030 BKN080 18/14 A2985 SBUG 051600Z 10009KT 070V160 CAVOK 21/13 Q1020 LPFR 051530Z 07004KT 9999 SCT010 BKN016 17/17 Q1009 SBTT 051600Z 34002KT 9999 SCT015 28/22 Q1015 SBUL 041800Z 26004KT 220V320 CAVOK 27/11 Q1019 SBTU 041900Z 09002KT 9999 SCT025 FEW030TCU 31/24 Q1012 RKTU 051500Z 21006KT CAVOK 20/10 Q1010 NOSIG VYYY 051500Z 24006KT 7000 R21/2000N NSC 31/23 Q1008 SBVH 041900Z 11006KT 9999 SCT027 31/20 Q1015 SBUR 041800Z 23007KT 9999 FEW045 29/07 Q1018 SCMK 051500Z 05005KT 9999 OVC014 13/11 Q1016 MGGT 051500Z 36012KT 7000 FEW015 BKN070 21/17 Q1026 A3030 HZ KXPY 051555Z AUTO VRB06G12KT 10SM CLR 23/15 A2996 RMK A01 YABA 051600Z AUTO 01006KT 9999 // OVC054 10/09 Q1012 LPHR 051530Z 26008KT 210V290 9999 FEW025 20/10 Q1024 KXSA 051555Z AUTO 01007KT 10SM OVC012 12/11 A2964 RMK AO2 T01210107 SBVT 051500Z 17013KT CAVOK 27/20 Q1019 MGHT 051500Z 00000KT 7000 BKN018 21/16 QFE 819.3 HZ WSAP 051500Z 05002KT 9999 TS FEW018CB BKN300 30/25 Q1010 KYIP 051553Z 02014KT 10SM CLR 19/07 A2987 RMK AO2 SLP112 T01890067 SCNT 051500Z 00000KT CAVOK 04/00 Q1022 MHAM 051800Z METAR MHTR 051800Z METAR MHTE 051800Z METAR MHYR 051800Z METAR MHPL 051800Z 13004KT 9999 SCT023BKN250 31/26 Q METAR MHCA 051800Z METAR MHSR 051800Z METAR MHNO 051800Z METAR MHLE 051800Z METAR MHCH 051800Z SCON 051500Z 00000KT 9000 -DZ OVC020 12/12 Q1016 LPLA 051500Z /////KT 9999 FEW025 18/12 Q1024 MHCA 051600Z 04002KT 4000 FU SCT028TCU SCT080 26/22 TCU ALL 4 KM ALL FU LQBK 051530Z 23006KT 9999 FEW037 18/10 Q1020 NOSIG KYKM 051553Z 35003KT 10SM OVC070 17/08 A2993 RMK AO2 SLP133 T01670083 KYKN 051555Z AUTO 22006KT 10SM CLR 19/08 A3004 RMK AO1 SCPQ 051500Z 18003KT CAVOK 13/11 Q1016 MHCH 051600Z 00000KT 9999 SCT032 BKN080 30/23 HZ SBYS 041900Z 18004KT CAVOK 28/10 Q1017 LPMA 051530Z 36012KT 310V040 9999 FEW015 SCT030 19/11 Q1015 SCRD 051500Z 36005KT 9999 FEW010 BKN015 14/13 Q1018 SCRG 051500Z 20008KT 0200 FG VV000 12/12 Q1017 SCQP 051500Z VRB01KT 1700 R01/1200V1800U BR OVC002 10/10 Q1017 KXVG 051556Z AUTO 20011G16KT 10SM CLR 19/M01 A2994 RMK AO2 FSPP 051400Z 29005KT //// //// 28/24 Q1009 SCRM 051500Z 35009KT 9999 OVC015 M05/M06 Q1009 MGMM 051500Z 00000KT 9000 SCT016 SCT090 27/24 Q1015 A2997 FU SCSE 051500Z 29003KT 9999 SCT015 OVC023 17/13 Q1017 LOWG 051550Z 05006KT 030V090 9999 FEW050 18/07 Q1021 NOSIG KYNG 051551Z 34004KT 10SM BKN015 BKN035 OVC050 12/09 A2975 RMK AO2 RAE24 SLP076 P0000 T01220089 LOWI 051550Z 08008KT 050V120 9999 FEW060 19/05 Q1019 NOSIG SCTB 051500Z 25005KT 1300 BR OVC010 13/11 Q1018 MGMT 051500Z 00000KT CAVOK 30/25 Q1010.3 OVC200 LOWK 051550Z 10004KT 040V170 9999 FEW050 18/06 Q1021 NOSIG SEAM 051500Z 10003KT 9999 BKN020 BKN100 16/13 Q1032 LOWL 051550Z 11008KT 070V140 9999 FEW028 14/08 Q1024 NOSIG SCTE 051500Z VRB01KT 4000 -RAHZ OVC083 13/12 Q1016 NOSIG SCSN 051500Z 05003KT 010V090 9999 SCT031 OVC063 16/13 Q1018 SECA 051500Z 06011KT 030V090 SCT040 28/14 Q1019 LOWS 051550Z 03010KT 9999 FEW044 16/08 Q1021 NOSIG MGPB 051500Z 20004KT 6000 SCT018 FEW025CB BKN090 27/25 Q1014 A2994 FU LPPD 051530Z 03014KT 360V060 9999 FEW025 17/10 Q1022 SCTN 051500Z 36004KT 9999 SCT040 BKN080 OVC200 13/12 Q1015 LOWW 051550Z 31010KT 9999 FEW030CB SCT300 18/10 Q1022 NOSIG LOWZ 051500Z 09012KT 50KM SCT060CU 18/06 Q1020 RMK SCT LOXT 051450Z 25011KT 210V290 20KM BKN300CI 16/10 Q1023 RMK BKN SCVD 051500Z 21002KT 2500 -RA BKN002 OVC004 12/12 Q1016 SECO 051500Z 33001KT 9999 SCT020 SCT080 26/25 Q1016 LOXZ 051550Z VRB02KT 30KM FEW050CU 15/06 Q1022 RMK FEW LPPR 051530Z 31005KT 4900 -RA BR FEW004 SCT010 BKN023 16/15 Q1011 LPPS 051530Z 32017KT 9999 SCT014 BKN030 18/13 Q1015 SECU 051500Z 05005KT 9999 BKN030 SCT100 17/11 Q1029 LPPT 051530Z 36004KT 310V040 9999 FEW008 SCT014 16/15 Q1010 SCVM 051600Z 31005KT 9999 BKN023 16/12 Q1018 YBAF 051600Z AUTO 17004KT 9999 // NCD 16/15 Q1018 MGQZ 051500Z 360006KT 4000 HZ SCT012 SCT070 18/13 QFE 774.4 FEW200 YBAS 051600Z AUTO 25005KT 9999 // BKN100 21/14 Q1017 MGSJ 051500Z 00000KT 5000 HZ FEW020 OVC200 30/26 Q1013 A2991 MGRT 051500Z 00000KT 6000 BKN200 29/24 Q1015 A2997 HZ VOL. STA. MARIA Y SANTIAGUITO EN ACTIVIDAD YBBN 051530Z 22006KT 9999 FEW017 17/16 Q1018 NOSIG LRBC 051530Z 34023KT 9999 SCT060CB 19/08 Q1014 YBCG 051600Z AUTO 20001KT 9999 // NCD 16/16 Q1018 YBCK 051600Z AUTO 00000KT //// // ////// 21/16 Q1015 YAMB 051600Z AUTO 00000KT 9999 // SCT026 14/14 Q1018 LRAR 051530Z 02012KT 340V050 9999 FEW055CB 22/07 Q1016 MHLC 051600Z 23006KT 9999 SCT024CB BKN200 31/25 Q1013 A2992 NOSIG LRBM 051530Z 35011KT 9999 FEW045CB SCT048 20/07 Q1017 YBDG 051600Z AUTO 00000KT 9999 // NCD 09/08 Q1015 MHLE 051600Z 03006KT 9999 SCT024TCU 21/17 TCU N FU LRBO 051600Z 34006KT 9999 SCT030 BKN100 13/09 Q1014 BLU BLU YBCS 051530Z 14005KT 110V180 9999 FEW025 24/22 Q1014 NOSIG SEGS 051500Z 09009KT 9999 BKN016 26/22 Q1015 RMK A2999 LRBS 051530Z 05009KT 010V080 9999 FEW027 SCT050CB 15/12 Q1014 R07/29//95 NOSIG YBCV 051600Z AUTO 07003KT 9999 // NCD 19/09 Q1016 LRCK 051530Z 04011KT 9999 OVC018 12/11 Q1011 NOSIG SEGU 051500Z 01003KT 9999 FEW023 BKN100 30/22 Q1012 NOSIG RMK A2989 MGTU 051500Z 00000KT 8000 BKN200 30/25 HZ LRCL 051530Z AUTO 28011KT 9999 NCD 19/07 Q1016 MHLM 051600Z 04005KT 9999 FEW025 BKN080 31/26 Q1013 A2992 NOSIG YANG 051600Z AUTO 30002KT 9999 // SCT019 BKN025 BKN033 21/19 Q1014 YBDV 051600Z AUTO 17003KT //// // ////// 21/02 Q1014 LRCT 051600Z 36008KT 9999 FEW040 BKN090 18/07 Q1016 BLU BLU SEJD 051500Z 25003KT 9999 VCSH SCT056 BKN100 24/24 Q1018 LRCV 051530Z 01006KT CAVOK 20/07 Q1014 R27/29//95 LQMO 051500Z 36010KT 9999 FEW050 SCT075 20/06 Q1015 ROAH 051530Z 15013KT 9999 FEW008 BKN009 BKN/// 25/22 Q1013 BGBW 051550Z 22007KT 9999 BKN034 05/M04 Q1013 YBGD 051600Z AUTO 27004KT 9999 // SCT063 22/20 Q1013 SFAL 051550Z 24027KT 9999 BKN020 06/04 Q1013 RESHRA GMAD 051530Z 28017KT 9999 FEW020 23/12 Q1013 BECMG CAVOK MHNO 051600Z 33006KT 9999 FEW040 29/19 Q1017 FU GMAG 051500Z 32012KT 9999 FEW016 23/08 Q1012 NOSIG FTTA 051500Z 15006KT 9999 FEW040 40/16 Q1008 FTTC 051500Z 10006KT 9999 BKN040 SCT150 41/13 Q1008 FTTD 051500Z 22012KT 9999 FEW040 BKN250 40/08 Q1007 HDAM 051500Z 12015KT 9999 FEW023 FEW033 32/27 Q1007 YBHI 051600Z AUTO 36004KT 9999 // NCD 11/08 Q1016 KZPH 051555Z AUTO 31010G20KT 10SM SCT050 SCT060 SCT075 25/11 A2983 RMK AO2 T02500112 MGZA 051500Z 00000KT 8000 BKN020 SCT200 29/23 QFE 988.1 HZ SEMC 051500Z 18003KT 9999 VCFG SCT040 OVC080 21/19 Q1022 FTTJ 051500Z 32010KT 5000 HZ NSC 43/M05 Q1006 NOSIG YBHM 051600Z AUTO 13013KT 9999 // BKN056 BKN072 OVC110 23/21 Q1015 MHPL 051600Z 13004KT 9999 SCT023TCU BKN250 31/26 Q1010 TCU ALL HZ GMAT 051500Z 30014KT 9999 BKN013 21/13 Q1015 NOSIG YARG 051530Z AUTO 17002KT 9999 // NCD 28/22 Q1012 LRIA 051530Z 32015KT 9999 FEW045CB SCT045 17/10 Q1014 BGGH 051550Z 02005KT 340V050 9999 BKN024 04/M02 Q1015 SELT 051000Z 18007KT 9999 SCT010 BKN026 11/11 Q1031 YARM 051600Z AUTO 31004KT 9999 // NCD 10/05 Q1021 FVBU 051500Z 12008KT 090V150 CAVOK 22/04 Q1025 NOSIG RODN 051558Z AUTO 14012G18KT 10SM BKN009 24/24 A2994 RMK AO2 BKN V SCT SLP144 FTTY 051500Z 04012KT CAVOK 41/10 Q1009 YCBA 051600Z AUTO 05005KT 9999 // NCD 15/11 Q1017 YCBB 051600Z AUTO 16001KT //// // ////// 15/10 Q1019 SEMT 051500Z 32006KT 9999 FEW030 28/23 Q1013 RMK A2992 WSSL 051500Z 03003KT 9999 FEW018 SCT150 BKN300 29/25 Q1010 RMK 1430Z Q1010 LQSA 051530Z 01003KT 9999 FEW040 SCT055 15/06 Q1019 NOSIG SENL 051500Z 35003KT 9999 BKN026 25/23 Q1017 YBKE 051600Z AUTO 08005KT //// // ////// 16/09 Q1016 MHSC 051358Z 36011KT 6000 HZ FEW047 SCT060 BKN080 27/21 A3000 RMK AO2A SLP115 T02700207 $ MHRO 051600Z 32007KT 9999 SCT018TCU SCT200 30/25 Q1012 A2989 NOSIG YCAR 051600Z AUTO 19013KT 9999 // SCT072 SCT087 21/17 Q1011 YCAS 051600Z AUTO 31003KT //// // ////// 12/11 Q1018 WSSS 051530Z 07004KT 360V080 9999 TS FEW018TCU FEW020CB SCT280 29/26 Q1011 BECMG TL1610 NSW FVCZ 050600Z 00000KT CAVOK 17/14 Q1029 NOSIG FVFA 051500Z 08010KT CAVOK 26/10 Q1021 NOSIG MHTE 051600Z 31004KT 8000 VCSH BKN030CB SCT080 28/26 Q1012 RERA CB N TCU ALL VCSH SSE S SW YCBP 051600Z AUTO 32009KT //// // NCD 20/04 Q1013 MHTG 051600Z 04006KT 7000 SCT028TCU 27/21 Q1019 A3009 NOSIG GMFF 051507Z 29008KT 260V320 4000 BR FEW010 BKN026 FEW033CB 17/17 Q1013 NOSIG YBMA 051600Z AUTO 17008KT 9999 // NCD 25/05 Q1014 YBKT 051600Z AUTO 21005KT //// // ////// 26/24 Q1011 MHSR 051600Z 00000KT 2000 FU BKN025 OVC100 23/21 2 KM ALL FU YBLN 051600Z AUTO 08005KT //// // ////// 09/07 Q1013 GMFK 051500Z 21008KT 170V250 9999 BKN016 FEW030CB 24/14 Q1013 TEMPO TS GMFM 051500Z 28003KT 4000 BR BKN010 BKN020 FEW030 16/15 Q1014 TEMPO SHRA BGJN 051550Z 31004KT 280V350 9999 FEW200 02/M06 Q1015 GMFO 051500Z 35016KT 8000 TSSHRA FEW026TCU FEW040CB BKN080 22/18 Q1010 NOSIG YBNA 051600Z AUTO 00000KT 9999 // NCD 14/14 Q1018 YBLT 051600Z AUTO 01015KT 9999 // NCD 12/09 Q1014 MHTR 051600Z 04010KT 9999 FEW020CB SCT022TCU BKN250 31/26 CB N TCU NW N NE FU YBMK 051600Z AUTO 20007KT 9999 // SCT022 BKN029 22/21 Q1015 SERB 051500Z 08002KT 9999 BKN26 16/12 Q1032 FVHA 051500Z 07004KT 040V100 CAVOK 20/09 Q1025 NOSIG YCEE 051600Z AUTO 33004KT //// // ////// 14/07 Q1013 SEQM 051500Z 33003KT 9999 FEW040 SCT300 20/11 Q1027 NOSIG RMK A3034 YCDO 051600Z AUTO 00000KT //// // ////// 10/09 Q1018 BGKK 051550Z 36003KT 9999 FEW160 02/M02 Q1010 YCCY 051600Z AUTO 19007KT //// // ////// 22/08 Q1013 ROIG 051100Z 15008KT 9999 FEW007 BKN190 BKN/// 27/26 Q1012 LQTZ 051500Z 26007KT 230V290 9999 FEW030 16/11 Q1019 SESA 051500Z 25008KT CAVOK 27/22 Q1012 YCDU 051533Z AUTO 00000KT 9999 // SCT008 SCT110 11/09 Q1013 YCEM 051600Z AUTO 00000KT //// // ////// 11/08 Q1014 SESD 051500Z 00000KT 9999 BKN020 28/21 Q1013 GLRB 051600Z 22013KT 9999 BKN022 FEW028 CB 31/26 Q1010 RMK CB-NE/E SERO 051500Z 01003KT 250V060 9999 SCT016 28/26 Q1012 SESG 051400Z 27049KT 6000 FEW030CB SCT035 BKN080 30/02 Q1013 YBNS 051600Z AUTO 04006KT 9999 // NCD 11/07 Q1014 YBOK 051600Z AUTO 03009KT 9999 // NCD 14/13 Q1019 YCFL 051600Z AUTO 13009KT //// // ////// 25/24 Q1012 SESM 051500Z 32006KT 9999 BKN033 OVC080 23/19 Q1021 RMK A3016 YAYE 051600Z AUTO 02007KT 9999 // SCT084 OVC105 19/19 Q1016 LROD 051530Z 03007KT 010V070 9999 FEW050CB 19/08 Q1017 YCFS 051600Z AUTO 35005KT 9999 // NCD 16/15 Q1018 SGAS 051600Z VRB03KT 9000 FEW033 BKN080 24/17 Q1017 SEST 051500Z 33004KT 9999 FEW023 28/23 Q1011 RMK A2987 HEBA 051500Z 32018KT CAVOK 22/13 Q1011 NOSIG FVKB 051500Z 03003KT CAVOK 28/15 Q1018 YBPN 051600Z AUTO 22004KT 9999 // SCT046 22/21 Q1015 LSGC 051550Z 11006KT 040V150 CAVOK 14/00 Q1018 SETN 051500Z 28004KT 220V340 9999 SCT020 BKN100 29/25 Q1012 A2989 LROP 051530Z 07011KT 9999 FEW050CB 15/12 Q1014 R88/29//95 NOSIG LSGG 051550Z 06008KT CAVOK 19/M03 Q1016 NOSIG YCHK 051600Z AUTO 01005KT 9999 // SCT049 BKN105 26/17 Q1012 YAYT 051350Z 31008KT 7000 FEW040 SCT190 37/01 Q1009 HEAR 050600Z 18004KT CAVOK 26/12 Q1013 NOSIG SETU 051500Z 12010KT 9999 BKN020 16/09 Q1034 HECA 051530Z 20018KT CAVOK 30/M00 Q1009 NOSIG HEAT 051500Z 35015KT CAVOK 31/04 Q1012 NOSIG HEAX 051500Z 32014KT CAVOK 23/14 Q1011 NOSIG MHYR 051600Z 27008KT 9999 SCT025TCU BKN080 29/20 TCU ALL HZ YBRK 051600Z AUTO 11007KT 9999 // NCD 20/18 Q1016 YBRL 051600Z AUTO 00000KT //// // ////// 24/20 Q1011 LSGS 051550Z 07012KT 040V110 CAVOK 21/00 Q1016 YBRM 051600Z AUTO 00000KT 9999 // NCD 26/25 Q1010 YCIN 051600Z AUTO 16006KT //// // BKN053 OVC085 26/25 Q1010 GMMB 051500Z 29010KT 240V340 6000 SCT018 23/15 Q1013 NOSIG GMMC 051500Z 26013KT 9000 22/14 Q1011 NOSIG FWCL 050800Z 18013KT 9999 FEW008 BKN025 21/13 Q1025 NOSIG YBSG 051600Z AUTO 13002KT //// // ////// 25/23 Q1011 GMME 051530Z 27010KT 6000 SCT020 20/14 Q1012 NOSIG GMMH 051500Z 36012KT 9999 FEW020 21/15 Q1016 NOSIG GMMI 051500Z 02016G27KT 210V300 8000 FEW016 SCT030 21/13 Q1013 NOSIG LRSB 051530Z 31005KT 9999 FEW046CB SCT083 17/05 Q1016 NOSIG LTAC 051520Z 16003KT 9999 FEW030CB SCT035 13/03 Q1008 TEMPO 24015KT -TSRA LTAD 051511Z 18008KT 140V210 9999 BKN040 14/07 Q1008 RESHRA TEMPO -TSRA RMK RWY29 16007KT SGEN 051600Z 05003KT CAVOK 26/14 Q1018 KZZV 051553Z AUTO 36005KT 10SM BKN010 BKN016 OVC055 13/09 A2976 RMK AO2 CIG 008V014 SLP078 T01280089 GMML 051500Z 33014KT 8000 SCT027 24/11 Q1016 NOSIG YBRY 051600Z AUTO 26005KT 9999 // SCT063 OVC125 24/16 Q1013 LTAE 051015Z 24009KT 9999 BKN030 BKN080 12/06 Q1009 RESHRA NOSIG RMK RWY21 22009KT YBTH 051600Z AUTO 13003KT 9999 // NCD 06/06 Q1020 ROMY 051100Z 14011KT 9999 FEW009 BKN160 26/24 Q1013 LTAF 051520Z 18004KT 9999 SCT030 BKN100 19/14 Q1009 TEMPO TL1600 -TSRA GMMN 051530Z 27016KT 9999 R35R///// BKN020 22/15 Q1012 NOSIG LTAG 051520Z 18006KT 9999 SCT030 BKN100 20/13 Q1010 NOSIG LTAH 051021Z 12007KT 8000 -SHRA FEW020TCU BKN030 09/06 Q1009 RMK RWY13 13009KT 100V160 SGES 051600Z VRB03KT 9999 SCT033 BKN080 26/17 Q1018 LTAI 051520Z 01004KT 340V040 9999 -TSRA FEW015CB BKN025 15/12 Q1008 NOSIG YBSU 051530Z AUTO 00000KT 9999 // NCD 16/15 Q1017 LTAJ 051520Z 24010KT 9999 SCT040 18/04 Q1011 NOSIG LTBA 051538Z 33009KT 310V010 9999 FEW017TCU BKN040 14/11 Q1010 RESHRA NOSIG RMK RWY17L 35008KT 320V020 RWY05 32010KT RWY23 33007KT 300V360 YBTL 051600Z AUTO 13008KT 9999 // SCT028 SCT031 BKN036 25/22 Q1014 YBUD 051600Z AUTO 19006KT 9999 // NCD 18/17 Q1017 YCKN 051600Z AUTO 14006KT 9999 // BKN023 BKN029 26/23 Q1013 LRTC 051530Z 05009KT 9999 FEW037 15/09 Q1012 LTAL 051534Z 29004KT 5000 0800N R18/0800D -SHRA BCFG FEW005 BKN020 BKN070 07/07 Q1010 LRSM 051530Z 35011KT 320V050 9999 FEW050CB 20/08 Q1017 LTBD 051450Z 20003KT 9999 FEW025CB BKN033 15/13 Q1009 RETSRA FVMV 051200Z 19008KT CAVOK 23/09 Q1024 LTAN 051505Z 15016KT 9999 FEW025 BKN030 11/06 Q1008 RETSGRRA BECMG TL1550 24009KT RMK RWY19 16017KT LTBF 051450Z 34007KT 300V020 9999 SCT035 16/09 Q1011 NOSIG GMMW 051517Z 03010KT 360V060 5000 -RA FEW010 SCT020 FEW030CB BKN080 16/16 Q1011 NOSIG B2 LTBG 050806Z 02007KT 9999 FEW015 SCT035 BKN100 13/10 Q1010 RESHRA NOSIG RMK RWY18 03009KT LTAP 051520Z 35010KT 9999 SCT040 BKN100 15/06 Q1007 NOSIG GMMX 051530Z 14003KT 090V190 9999 BKN026 23/14 Q1012 NOSIG BGSF 051550Z AUTO 25007KT 9999NDV BKN065/// 06/M01 Q1014 LTBH 051450Z 35004KT 290V040 9999 -SHRA SCT030 BKN090 13/10 Q1012 LTBI 041712Z 28005KT 9999 -SHRA BKN038 11/06 Q1007 NOSIG RMK RWY09 27009KT LTAR 051450Z 12005KT 070V150 9999 -SHRA FEW020CB BKN030 07/05 Q1011 GMMZ 051500Z 19011G23KT 150V240 6000 SCT033 28/M05 Q1011 NOSIG LTAS 051430Z 36007KT 9999 FEW023CB SCT025 BKN100 16/10 Q1010 RMK RWY18 34006KT 310V010 LTCA 051450Z 18011KT 9999 SCT035 20/03 Q1010 NOSIG LTBJ 051520Z 35018KT 9999 SCT030 SCT200 18/08 Q1009 NOSIG LTAT 051520Z 21018KT 9999 SCT035 BKN090 17/07 Q1009 NOSIG LTCB 051450Z 05005KT 9999 SCT005 FEW020CB BKN033 15/13 Q1009 RESHRA LTBL 041807Z 01003KT 9999 -SHRA SCT035 BKN090 16/10 Q1009 NOSIG RMK RWY17 06002KT LTAU 051520Z 02006KT 9999 -SHRA FEW013 BKN035 10/08 Q1010 NOSIG LTCC 051520Z 16010KT 9999 SCT040 BKN100 21/08 Q1010 NOSIG LTAV 051315Z 15010KT 9999 BKN040 11/06 Q1007 RESHRA RMK RWY11 16009KT LRSV 051530Z 01004KT 310V100 9999 FEW045CB 14/07 Q1017 LRTM 051530Z 27011KT 9999 FEW037CB SCT045 20/08 Q1015 LTCD 051450Z 20011KT 9999 FEW030CB SCT036 BKN090 18/02 Q1009 TEMPO -TSRA YDBY 051600Z AUTO 11004KT //// // ////// 26/22 Q1010 LTCE 051520Z 20013KT 9999 SCT035 13/M00 Q1012 NOSIG LTAW 051250Z 06010KT 9999 -SHRA BKN034 BKN090 13/08 Q1008 BIBD 051300Z 02010KT 9999 VCSH SCT020 BKN025 05/// Q1005 LTBO 051350Z 31011KT 270V330 9999 BKN040 14/05 Q1008 LTCF 051450Z 24023KT 9999 SCT030 13/M02 Q1012 LTAY 051524Z 29012KT 250V310 9999 -SHRA FEW025CB BKN030 BKN090 12/06 Q1009 RMK RWY06 29012KT LTCG 051520Z 27006KT 230V290 6000 SHRA SCT004 BKN028 14/14 Q1011 BECMG TL1550 NSW LTBQ 051450Z 25005KT 210V280 9999 SCT034 BKN080 16/09 Q1010 NOSIG LTAZ 051520Z 16012KT 9999 -SHRA FEW027CB BKN030 11/08 Q1009 RETSRA LRTR 051530Z 27009KT 230V340 9999 FEW050CB 22/08 Q1016 NOSIG LTCI 051450Z 34006KT 9999 SCT035 15/03 Q1014 BECMG 16010KT LTBR 051520Z 27006KT 9999 SCT035 BKN100 14/08 Q1009 NOSIG LSMA 051550Z AUTO 06006KT 350V100 9999NDV NCD 19/03 Q1017 RMK LTCJ 051520Z 22008KT 9999 SCT040 BKN100 22/08 Q1011 LTDA 051450Z 23018KT 9999 SCT030 22/10 Q1010 LTBS 051520Z 04006KT 9999 SCT025 BKN100 17/10 Q1009 RETS BECMG TL1550 21012KT YCMM 051600Z AUTO 04005KT //// // ////// 10/10 Q1013 LTBT 051318Z 31011KT 9999 -TSRA FEW025CB BKN030 BKN100 16/11 Q1009 RESHRA RMK RWY14 30010KT LTCK 051450Z 20010KT 9999 BKN035 16/05 Q1013 BIAR 051500Z 35022KT 9999 FEW014 BKN034 03/M00 Q1001 LTBU 051520Z 35008KT 8000 FEW012 BKN025 BKN090 14/10 Q1010 LTCL 051450Z 20004KT 9999 FEW035TCU SCT040 20/09 Q1012 LSMD 051550Z AUTO 09009KT 030V120 9999NDV NCD 19/01 Q1018 RMK LTCM 051150Z 08007KT 9999 SCT030 BKN090 16/11 Q1009 LSME 051550Z AUTO 05008KT 010V070 9999NDV NCD 20/02 Q1017 RMK BGTL 051558Z AUTO 09006KT 9999 OVC002 M08/M11 A3009 RMK AO2 SLP177 LTCN 051450Z 28006KT 9999 SCT035 BKN100 20/07 Q1010 HEGN 051500Z 35016KT 8000 NSC 31/05 Q1008 NOSIG LTCO 051250Z 24022G32KT 9999 SCT035 17/01 Q1013 LTBY 051521Z 31010KT 9999 -TSRA FEW030CB BKN035 12/06 Q1009 RETS RMK RWY27 32009KT LTCP 051250Z 21017KT 9999 SCT035 21/07 Q1010 LRTZ 051600Z 03012KT 8000 SCT006 BKN008 OVC011 12/11 Q1011 YLO YLO LTBZ 050450Z VRB02KT 9999 SCT040 BKN100 06/04 Q1009 YCMT 051600Z AUTO 00000KT //// // ////// 18/15 Q1016 YCNK 051600Z AUTO 00000KT //// // ////// 08/08 Q1017 LTCR 051450Z 15004KT 9999 FEW040 BKN100 23/09 Q1011 LTCS 051520Z 22014KT 9999 SCT040 BKN100 20/06 Q1012 YCNM 051600Z AUTO 09006KT //// // ////// 13/13 Q1017 LTCT 051250Z 14011KT 120V180 9999 SCT035 25/04 Q1008 YCOE 051600Z AUTO 10005KT //// // ////// 25/21 Q1012 LTCU 051450Z 16014KT 9999 SCT035 BKN100 18/05 Q1012 LSMM 051550Z AUTO 10011KT 070V140 9999NDV NCD 19/01 Q1016 RMK LTCV 051350Z 17007KT 130V240 9999 FEW040 23/08 Q1012 LTCW 051350Z 20007KT 9999 FEW040 SCT080 15/04 Q1017 YBWP 051600Z AUTO 14004KT 9999 // NCD 25/24 Q1010 LSMP 051550Z AUTO 04006KT 010V080 9999NDV NCD 19/06 Q1017 RMK RORS 051000Z 14015KT 9999 FEW009 BKN/// 26/24 Q1012 LTFA 050912Z 27002KT 9999 SCT035 BKN210 16/11 Q1009 RESHRA RMK RWY17 25003KT LSMS 051550Z 07012KT 040V110 CAVOK 21/00 Q1016 YCOM 051600Z AUTO 34009KT 9999 // NCD 09/05 Q1018 YBWW 051600Z AUTO 18004KT 9999 // NCD 12/11 Q1018 LTFC 051520Z 22007KT 9999 -SHRA FEW025CB BKN030 09/07 Q1009 LTFD 051450Z 03012KT 9999 BKN030 18/08 Q1010 YBWX 051600Z AUTO 28009KT //// // ////// 23/21 Q1010 YCNY 051600Z AUTO 00000KT //// // ////// 22/14 Q1012 LTFE 051527Z 09004KT 9999 TS FEW020CB BKN035 15/10 Q1009 BECMG TL1550 NSW RMK RWY10 05008KT LTFG 051450Z 14004KT 100V180 9999 FEW025CB BKN035 18/15 Q1009 LTFH 051450Z 04004KT 360V090 9999 FEW025CB SCT030 BKN090 17/13 Q1009 NOSIG BIEG 051500Z 04014KT 9999 BKN020 BKN030 04/01 Q0997 RPLB 051500Z 07002KT 9999 FEW020 29/22 Q1010 NOSIG RMK A2983 LTFJ 051520Z 23012KT 9999 SCT030 15/10 Q1010 NOSIG RPLC 051600Z 31006KT 9999 FEW020 BKN300 28/24 Q1012 RMK NOSIG A2988 LTFK 051250Z 34007KT 9000 -SHRA BKN025 BKN090 15/12 Q1012 GMTA 051500Z 02006KT 0800 FEW016 BKN026 BKN100 19/17 Q1012 NOSIG ROTM 051520Z 16014G20KT 9999 BKN008 BKN010 OVC040 24/23 A2996 RMK SLP131 XWND ADV T02400233 RPLI 051500Z 00000KT 9999 FEW019 28/24 Q1011 NOSIG RMK A2985 FWKI 051400Z 10011KT 9999 FEW045 BKN100 21/10 Q1022 NOSIG RPLL 051500Z 12006KT 080V150 9999 FEW030 30/23 Q1011 NOSIG RMK A2985 RPMD 051500Z 36003KT 9999 FEW016 28/22 Q1011 RMK A2985 GMTN 051500Z 02001KT 5000 -RA SCT006 SCT023 17/15 Q1012 NOSIG HEMA 051500Z 36012KT CAVOK 28/10 Q1009 NOSIG GMTT 051530Z 25005KT 220V280 8000 FEW013 BKN016 19/16 Q1012 NOSIG HEMM 051500Z 32020KT CAVOK 21/13 Q1013 NOSIG BIHN 051500Z 35019G31KT 9999 FEW040 FEW090 09/// Q0995 HELX 051500Z 30008KT CAVOK 34/08 Q1009 NOSIG RPMZ 051500Z 00000KT 9999 FEW017 BKN300 27/26 Q1011 RMK A2985 NCAI 051500Z AUTO 10008KT //// ///// 23/22 Q1013 FVWN 051500Z 14003KT CAVOK 28/07 Q1021 MKJP 051500Z 14011KT 9999 -SHRA VCSH SCT020 30/25 Q1011 MKJS 051500Z 20010KT 9999 FEW024 31/23 Q1010 YCUN 051600Z AUTO 00000KT //// // ////// 10/10 Q1013 BIIS 051600Z 04015G25KT 8500 -RASN OVC018 02/M01 Q1007 LUBL 051530Z 08009KT 040V120 9999 FEW039 19/05 Q1015 LUBM 051100Z 04012G22KT 9999 BKN033 21/02 Q1014 R 25/CLRD65 YDLQ 051600Z AUTO 03007KT //// // ////// 14/09 Q1016 YCWA 051600Z AUTO 00000KT 9999 // BKN037 OVC100 20/19 Q1014 GOGG 051500Z 26008KT CAVOK 38/19 Q1010 BIKF 051530Z 01022KT 9999 VCSH FEW023 BKN031 BKN060 04/M01 Q1003 GOGK 051500Z 34008KT CAVOK 41/17 Q1009 GOGS 051500Z 32010KT CAVOK 28/19 Q1011 HEPS 051500Z 03012KT CAVOK 26/16 Q1010 NOSIG YCWR 051600Z AUTO 00000KT //// // ////// 08/07 Q1019 HESC 051500Z 29019KT CAVOK 24/M07 Q1019 NOSIG HESG 051500Z 33016KT CAVOK 32/00 Q1010 NOSIG HESH 051500Z 03005KT CAVOK 31/05 Q1007 NOSIG YDPO 051600Z AUTO 33025KT 9999 // BKN052 BKN061 BKN075 18/14 Q1007 HESN 051500Z 36009KT CAVOK 37/01 Q1008 NOSIG LSZA 051550Z 18004KT 140V220 9999 FEW090 21/05 Q1021 NOSIG LSZB 051550Z 36006KT 310V070 CAVOK 19/06 Q1016 NOSIG RPVD 051500Z 04004KT 9999 FEW015 29/25 Q1010 RMK A2983 LSZC 051550Z AUTO VRB02KT CAVOK 20/03 Q1017 LSZG 051550Z 06011KT CAVOK 19/03 Q1017 NOSIG LSZH 051550Z 06009KT 340V100 CAVOK 19/01 Q1018 WS ALL RWY NOSIG HETR 051500Z 33016KT 3000 NSC 33/06 Q1009 RPVM 051500Z 05008KT 9999 FEW020 SCT300 29/24 Q1011 RMK A2985 LSZL 051550Z AUTO 26007KT 9999NDV NCD 19/05 Q1020 RMK RPVP 051200Z 09008KT 9999 SCT020 31/25 Q1009 RMK A2980 LSZR 051550Z 02006KT CAVOK 19/05 Q1018 NOSIG RMK M LSZS 051550Z 19009KT 9999 FEW065 11/M05 Q1021 MMAA 051546Z 22005KT 5SM SKC 29/23 A2989 RMK HZY CI YELD 051600Z AUTO 12004KT //// // ////// 26/23 Q1010 CAHR 051500Z AUTO 04011KT 03/02 RMK AO1 2PAST HR 8006 PK WND 05018/1424 SLP133 P0001 T00290021 50005 BIRK 051500Z 36017G27KT 9999 VCSH FEW023 BKN035 OVC060 04/M02 Q1002 GOOD 051500Z 36004KT CAVOK 37/16 Q1010 MMAN 051540Z 00000KT 15SM FEW070 SCT200 27/12 A3013 RMK 8/081 YFBS 051600Z AUTO 00000KT //// // ////// 09/08 Q1018 GOOG 051500Z 36004KT CAVOK 40/18 Q//// MMAS 051542Z 26004KT 9SM BKN220 22/06 A3032 RMK 8/008 HZY MMCB 051551Z 00000KT 7SM BKN100 BKN200 26/17 A3018 RMK 8/051 LUKK 051530Z VRB02KT 9999 FEW049 21/06 Q1012 R08/CLRD// NOSIG GOOK 051500Z 32006KT CAVOK 39/13 Q1010 FYGB 051500Z AUTO 15003KT //// // ////// 29/M05 Q1024 YFDF 051600Z AUTO 35005KT 9999 // SCT063 SCT072 OVC100 26/16 Q1012 MMCE 051545Z 01012KT 6SM BKN015 BKN070 29/20 A2999 RMK 8/570 HZY CBBC 051500Z AUTO 34005KT 9SM CLR 08/07 A3017 RMK SLP221 FYGF 051500Z AUTO 27003KT //// // ////// 31/M02 Q1022 YEML 051600Z AUTO 07005KT 9999 // NCD 19/16 Q1017 MMBT 051542Z 00000KT 5SM HZ FEW035 OVC210 32/14 A2995 RMK 8/101 MMCL 051540Z 00000KT 10SM BKN230 30/15 A2996 RMK 8/006 . MMCM 051540Z 36012KT 6SM BKN015 26/23 A2996 RMK 8/500 HZY MMCN 051544Z 10010KT 10SM FEW100 BKN200 28/02 A2990 RMK 8/038 HZY MMCP 051554Z 33014KT 7SM SKC 27/// A2995 RMK MSGTX MMMD GOOY 051600Z 01017KT CAVOK 23/18 Q1013 NOSIG MMCS 051540Z 09010KT 10SM SCT100 BKN250 22/04 A3012 RMK 8/032 MMCT 051540Z 06008KT 8SM SKC 28/17 A2997 RMK MSGTX MMMD MMCU 051540Z 06004KT 10SM BKN080 OVC200 22/01 A3020 RMK 8/072 OCNL BINOVC MMCV 051542Z 00000KT 10SM BKN080 25/15 A3011 RMK 8/030 ISOL CU MMDO 051547Z 09004KT 12SM BKN200 21/05 A3031 RMK 8/008 HZY ISOL AC MMCZ 051540Z 35015KT 10SM FEW015 25/19 A2996 RMK 8/100 FZAA 051500Z 18006KT 9999 FEW022 FEW030CB SCT120 31/21 Q1011 NOSIG BIVM 051500Z 01019G29KT 9999 HZ BKN035 05/M01 Q0997 MMEP 051552Z 36002KT 8SM SCT250 27/12 A3008 RMK 8/008 HZY GOSM 051500Z 36006KT CAVOK 44/20 Q1008 GOSP 051500Z 34004KT CAVOK 38/10 Q1010 GOSS 051500Z 34012KT 300V020 CAVOK 26/18 Q1012 GOTK 051500Z 00000KT CAVOK 41/18 Q1007 MMGL 051548Z 00000KT 8SM BKN300 25/07 A3022 RMK 8/008 MMGM 051541Z 00000KT 10SM BKN120 27/16 A2986 RMK 8/010 HZY FYKM 051500Z 16004KT CAVOK 29/10 Q1019 MMIA 051540Z 00000KT 4SM SCT200 28/17 A3001 RMK 8/001 HZY YERN 051600Z AUTO 06001KT //// // ////// 17/17 Q1017 GOTT 051500Z VRB06KT CAVOK 43/22 Q1007 MMHO 051449Z 08005KT 10SM SCT200 26/04 A2994 RMK SLP120 52016 906 8/008 HZY NCRG 051500Z 11006KT 9999 SCT012 BKN040 BKN090 23/20 Q1015 FYML 051500Z AUTO 03002KT //// // ////// 34/M04 Q1021 YESP 051600Z AUTO 35003KT 9999 // NCD 09/07 Q1014 MMIO 051540Z 36007KT 10SM SCT200 23/11 A3029 RMK 8/002 YGBI 051600Z AUTO 14005KT //// // ////// 27/24 Q1010 FYLZ 051500Z AUTO 21013KT //// // ////// 18/16 Q1014 FYOA 051300Z 03003KT CAVOK 35/03 Q1017 YFLI 051600Z AUTO 34015KT 9999 // NCD 19/09 Q1011 MNBL 051500Z 29004KT 7000 OVC016 30/27 Q1011 HZ YGDH 051600Z AUTO 00000KT //// // ////// 09/08 Q1019 FYOO 051500Z AUTO 32001KT //// // ////// 33/M01 Q1018 MNCH 051500Z 00000KT 9999 FEW022CB SCT023 25/23 Q1013 RETS CB/SW/W MMMA 051542Z 20007KT 8SM SKC 28/14 A3007 MMLM 051541Z 13005KT 10SM FEW150 SCT220 26/14 A2993 RMK 8/038 HZY MMMD 051544Z 01004KT 7SM SKC 29/14 A2999 RMK CU MMLO 051541Z 19005KT 8SM BKN250 22/11 A3036 RMK 8/008 HZY FYOW 051500Z AUTO 10003KT //// // ////// 29/M03 Q1020 MMLP 051545Z 19007KT 10SM SCT220 23/14 A2996 RMK 8/008 ISOL AS HZY YGEL 051600Z AUTO 15006KT 9999 // NCD 13/12 Q1013 MMLT 051549Z 03006KT 8SM SCT150 BKN240 28/18 A2986 RMK 8/032 MMML 051550Z 33009KT 10SM BKN200 22/07 A2980 RMK 8/008 AC MMMM 051543Z 35004KT 4SM SKC 22/13 A3030 RMK HZY CI FZIC 050900Z 33006KT 8000 -TSRA BKN003 FEW025CB OVC100 22/20 Q1016 NOSIG MMMT 051542Z 36015KT 6SM SCT020 BKN130 27/21 A2999 RMK 8/130 HZY MMNL 051540Z 00000KT 12SM SKC 27/13 A3008 YGFN 051555Z AUTO 00000KT 5000 // NCD 13/13 Q1018 MMMV 051545Z 00000KT 10SM FEW140 26/07 A3009 RMK 8/070 HZY MMMX 051552Z 12005KT 5SM SKC 21/11 A3038 NOSIG RMK HZY SKBG 051500Z 08003KT 9999 SCT015 OVC100 24/20 A3005 FYRN 051400Z 09007KT CAVOK 31/07 Q1018 MMMY 051541Z 00000KT 12SM SKC 28/12 A3009 RMK ISOL SC CI SKAR 051500Z 23003KT 9999 SCT027 SCT100 26/20 A3010 MMMZ 051544Z 18004KT 15SM BKN230 28/18 A2993 RMK 8/002 MMPA 051542Z 00000KT 4SM FEW012 OVC070 22/22 A3014 RMK 8/17/ HZY SKCC 051500Z 18019KT 9999 FEW023 SCT090 32/18 A2994 MMPB 051541Z 17004KT 6SM SCT015 BKN200 20/12 A3038 RMK 8/108 HZY FYRU 051500Z AUTO 11004KT //// // ////// 32/07 Q1020 MMPE 051457Z RTD 12015KT 10SM FEW300 23/13 A2983 RMK 8/005 SKBO 051500Z 16003KT 9999 SCT020 19/10 A3038 SKCG 051500Z 01009KT 9999 SCT015CB 32/27 A2986 RMK NE/SW MMPG 051540Z 00000KT 10SM SKC 25/10 A3011 RMK SKBQ 051600Z 13007KT 9999 SCT020 33/27 A2987 REDZ SKCL 051500Z 20003KT 9999 SCT030 SCT200 28/21 A3003 MMPN 051548Z 00000KT 2 1/2SM FU SKC 24/12 A3022 RMK CU CI MMOX 051548Z 26002KT 10SM SCT025 BKN100 OVC220 24/14 A3026 RMK 8/137 MMPQ 051545Z 27008KT 5SM BKN015 BKN200 27/24 A2999 RMK 8/508 HZY MSGTX MMMD MMPR 051541Z 21003KT 15SM BKN250 28/21 A2992 RMK 8/008 MMPS 051549Z 18006KT 5SM SCT220 29/24 A2999 RMK 8/002 HZY YHBA 051600Z AUTO 23003KT 9999 // NCD 17/16 Q1017 SKEJ 051500Z 00000KT 9999 FEW010 BKN100 28/24 A2988 YFRT 051600Z AUTO 16007KT //// // ////// 13/12 Q1014 BKPR 051600Z 08015KT 8000 -SHRA SCT030CB BKN050 11/06 Q1017 TEMPO TSRA MMQT 051545Z 09003KT 6SM BKN220 20/12 A3037 RMK 8/001 HZY FYWB 051500Z 25007KT CAVOK 23/13 Q1013 MMSD 051543Z 10008KT 15SM BKN250 29/05 A2993 RMK 8/008 AS FYWE 051500Z 00000KT CAVOK 27/M03 Q1024 MNJG 042300Z 00000KT 9999 BKN020 27/22 Q1007 YGLA 051600Z AUTO 19005KT 9999 // NCD 20/17 Q1017 YGLB 051600Z AUTO 31007KT //// // ////// 07/05 Q1019 TAPA 051500Z 09010KT 9999 SCT018 28/23 Q1016 NOSIG FYWH 051500Z 12003KT CAVOK 27/M05 Q1025 NOSIG GQNI 051500Z 04012KT 0600 HZ NSC 43/10 Q1007 MMTC 051549Z 11005KT 10SM BKN100 OVC200 25/09 A3017 RMK 8/077 MMSL 051446Z 08003KT 7SM SCT140 SCT220 25/10 A2998 RMK 8/028 CU YHAY 051600Z AUTO 02008KT //// // ////// 15/09 Q1016 MMRX 051547Z 17007KT 8SM SKC 28/09 A3006 RMK HZY FU GQNN 051530Z 33014KT 4000 BLSA NSC 26/14 Q1011 NOSIG YGLI 051600Z AUTO 10007KT 9999 // NCD 04/04 Q1022 MMTG 051552Z 31011KT 7SM FEW005 BKN070 OVC080 25/21 A3003 RMK 6//// 8/67/ ST LWR ARND MMSP 051547Z 00000KT 15SM FEW020 BKN230 19/10 A3032 RMK 8/101 MMTJ 051546Z 22003KT 7SM OVC040 17/07 A2995 RMK 8/5// HZY GQPA 051500Z 08008KT 9999 NSC 37/09 Q1015 MNJU 051500Z 18004KT 9999 SCT020CB BKN080 27/25 Q1013 RETS CB/SE/S/SW MMTM 051542Z 26003KT 7SM BKN070 25/18 A3009 RMK 8/030 YFTZ 051600Z AUTO 00000KT //// // ////// 25/23 Q1010 FYWW 051500Z 04004KT CAVOK 26/M02 Q1024 MMTO 051543Z 00000KT 2SM HZ FU SKC 19/12 A3045 RMK CU MMTP 051546Z 00000KT 7SM BKN030TCU 31/27 A2985 RMK 8/200 HZY YGLS 051600Z AUTO 14003KT //// // ////// 16/16 Q1016 SKIB 051500Z 14004KT 9999 BKN027 28/22 A3012 MMVA 051550Z 07007KT 7SM SCT012 BKN070 OVC120 28/20 A3004 RMK 8/13/ BINOVC FZQA 050900Z 12012KT 9999 FEW016 23/16 Q1023 NOSIG MMUN 051540Z 33008KT 7SM FEW015 27/17 A2995 RMK 8/500 K04V 051555Z AUTO 13008KT 10SM CLR 14/M02 A3035 RMK AO2 K06D 051535Z AUTO 24018G24KT 10SM CLR 23/06 A2984 RMK AO2 K04W 051553Z AUTO 23007KT 10SM SCT007 OVC017 15/02 A3003 RMK AO2 MNMG 051500Z 36006KT 9999 BKN020 29/24 Q1011 A2986 TEMPO 8000 VCRA/-DZ GQPP 051500Z 32020KT 7000 NSC 22/15 Q1015 NOSIG K05U 051555Z AUTO 18012KT 10SM CLR 19/M02 A2993 RMK A01 SKIP 051500Z 11006KT 9999 BKN016 16/11 A3048 GQPZ 051500Z 34004KT 9999 SCT050 31/10 Q1014 MMVR 051545Z 36008KT 6SM OVC070 26/21 A3008 RMK 8/07/ HZY K08D 051555Z AUTO VRB05KT 10SM CLR 25/07 A2988 RMK AO2 LWOH 051530Z 36005KT 9999 BKN040 15/05 Q1015 SLCA 051500Z 18004KT 9999 FEW036 BKN070 23/11 Q1020 SLCB 051500Z 00000KT 9999 FEW033 23/M02 Q1026 SKLC 051500Z 20006KT 9999 BKN015 SCT090 30/26 A2989 LXGB 051550Z 11007KT 7000 HZ FEW008 SCT018 BKN030 18/17 Q1013 BECMG 9000 HZ SCT025 MNPC 051500Z 15004KT 6000 VCRA BKN016TCU SCT100 30/26 Q1010 TCURA/NW/N/S NFFN 051600Z 10002KT 9999 FEW030 SCT050 23/21 Q1011 NOSIG YHID 051600Z AUTO 11013KT 9999 // SCT019 28/24 Q1009 SKMD 051500Z 00000KT 9999 FEW030 24/15 A3018 MMZC 051550Z 00000KT 10SM SCT200 20/04 A3035 RMK 8/001 SLCO 051500Z 18005KT 9999 FEW040 30/23 Q1015 SLCP 051500Z 36008KT 9999 FEW020 28/21 Q1019 MMZH 051543Z 23003KT 4SM SKC 30/23 A2991 RMK HZY SKLT 051500Z 36003KT 9999 SCT010 SCT080 27/24 A2996 MMZO 051553Z 21006KT 8SM SCT250 29/25 A2988 RMK 8/004 HZY SKMR 051500Z 00000KT 9999 SACT020 31/24 A2986 K11R 051535Z AUTO 04004KT 10SM CLR 25/10 A3008 RMK AO2 T02510102 FZWA 050800Z 27004KT 9999 FEW012 BKN110 24/22 Q1016 NOSIG YGTE 051600Z AUTO 00000KT 9999 // NCD 24/22 Q1010 YGTH 051600Z AUTO 00000KT 9999 // NCD 11/08 Q1017 K12N 051554Z AUTO VRB04G16KT 11/07 A2970 RMK AO1 SLP058 T01110067 SKMZ 051500Z 31006KT 9999 VCFG FEW010 SCT100 20/14 A3034 YHLC 051600Z AUTO 08001KT //// // ////// 23/21 Q1013 MNRS 051500Z 00000KT 9999 FEW016CB SCT016 29/26 Q1011 RETS CB/4C SLET 051508Z 33017G27KT 9999 FEW020 SCT200 28/16 Q1015 TBPB 051500Z 10014KT 9999 FEW016 SCT034 30/24 Q1015 NOSIG SKPC 051500Z 32004KT 9999 -DZ BKN013 SCT070 28/24 A2989 RMK AD OPER IMC LWSK 051530Z 26003KT 9999 FEW043 BKN090 13/10 Q1016 NOSIG YGTN 051600Z AUTO 05007KT 9999 // NCD 25/18 Q1014 SKNV 051500Z 17010KT 9999 FEW033 31/20 A2994 SKPE 051500Z 22004KT 9999 FEW016 26/19 A3010 LYBE 051530Z 30003KT 240V030 9999 SCT030TCU 16/10 Q1017 NOSIG MPBO 051500Z 00000KT 9999 FEW018CB SCT080 ///// Q1014 SKPS 051500Z 32006KT 9999 FEW023 20/16 A3021 YHML 051600Z AUTO 36011KT 9999 // NCD 13/08 Q1012 MPDA 051500Z 18006KT(E) 9999 FEW020 30/24 Q1012 LYBT 051530Z 18009KT 140V210 CAVOK 20/13 Q1017 NOSIG SKPV 051500Z VRB02KT 9999 SCT018 SCT200 30/27 A//// SKRG 051500Z 07004KT 9999 FEW020 20/14 A3033 SKRH 051500Z 10004KT 9999 FEW020 31/25 A2986 K14Y 051541Z AUTO 18010KT 10SM CLR 18/01 A3001 RMK AO2 SKSA 051600Z 36005KT 9000 BKN070 32/23 A2999 RMK HZ NFNA 051600Z 00000KT 9999 FEW020 22/22 Q1012 SLJE 051500Z 36008KT 9999 FEW020 31/22 Q1018 K18A 051535Z AUTO 30011G22KT 250V320 10SM BKN055 BKN065 BKN075 16/05 A2973 RMK AO2 T01570048 SKSM 051500Z 26004KT 9999 FEW020 31/25 A2989 YHOO 051600Z AUTO 06005KT //// // ////// 25/20 Q1013 SLJO 051500Z 00000KT 9999 NSC 29/23 Q1017 SKSP 051500Z 09003KT 9999 SCT018 OVC200 31/26 A2987 YHOT 051600Z AUTO 25005KT 9999 // ////// 08/05 Q1018 SKUC 051500Z 00000KT 8000 SCT008 BKN080 28/26 A3000 RMK HZ TDCF 051500Z 32004KT 9999 BKN019 30/24 Q1014 SKUI 051500Z 00000KT 7000 -DZ BKN010 OVC080 27/25 A2988 RMK AD OPR IMC NGFU 051500Z VRB02KT 9999 FEW020 28/26 Q1010 K0E0 051555Z AUTO 00000KT 10SM CLR 19/M07 A3028 RMK AO2 T01911066 K21D 051553Z AUTO 18010KT 10SM SCT110 15/03 A3006 RMK AO2 SLMG 051500Z 16004KT 9999 FEW015 SCT080 29/24 Q1015 SLLP 051500Z 30006KT 9999 SCT015 12/M01 Q1040 YJAB 051600Z AUTO 10004KT //// // ////// 27/22 Q1010 K20U 051535Z AUTO 16007KT 10SM CLR 24/08 A2992 RMK AO2 K20V 051556Z AUTO 00000KT 10SM CLR 10/M02 A3031 RMK AO2 K0F2 051535Z AUTO 34004KT 10SM CLR 23/06 A3013 RMK AO2 T02250064 SKVP 051500Z 29003KT 9000 FEW020 31/23 A2993 RMK HZ K0CO 051557Z AUTO 01010KT 10SM CLR 02/M02 A3053 RMK AO2 YHSM 051600Z AUTO 35008KT //// // NCD 10/06 Q1013 SKVV 051500Z 00000KT 9999 VCSH FEW017 SCT090 27/22 A3005 RMK VCSH/SE K22N 051555Z AUTO 03003KT 10SM OVC027 12/06 A2971 RMK AO2 HKEL 051500Z 12007KT 9999 -RA FEW022CB SCT023 BKN090 19/14 Q1023 YHUG 051600Z AUTO 05005KT //// // ////// 25/15 Q1014 NFTF 051000Z 00000KT 9999 FEW020 24/24 Q1015 RMK GRASS DEW SLOR 051500Z 16003KT 9999 NSC 13/00 Q1037 K24J 051555Z AUTO 29016G20KT CLR 23/07 A2983 RMK AO1 NFTL 050600Z 00000KT 9999 FEW010 SCT017 26/23 Q1011 SLPO 051500Z 24015KT 9999 NSC 13/M02 Q1037 SLPS 051500Z 09005KT 9999 BKN070 28/21 Q1016 SLRB 051500Z 00000KT 9999 FEW020 29/22 Q1019 NFTV 050600Z 00000KT 9999 SCT017 26/23 Q1012 LYKV 051530Z 30005KT 250V340 9999 SCT033 18/11 Q1018 NOSIG MPMG 051500Z 15003KT 9999 FEW016TCU 28/25 Q1012 NOSIG K0J4 051558Z AUTO 35008G19KT 320V030 10SM CLR 21/05 A2992 RMK AO2 SLP127 T02060050 $ SLRI 051500Z 16008KT 9999 SCT017 BKN200 29/24 Q1016 K1A5 051550Z AUTO 32007KT 290V350 10SM SCT032 SCT038 OVC070 11/04 A2975 RMK AO2 T01090036 SLSA 051500Z 14004KT 9999 FEW020 BKN080 28/21 Q1016 K1A6 051555Z AUTO 00000KT 10SM SCT018 SCT028 OVC037 09/07 A2979 RMK AO2 P0001 T00880071 K1A9 051555Z AUTO 31014G22KT 10SM SCT070 20/04 A2990 RMK AO2 T01950036 SLRQ 051500Z 00000KT 9999 NSC 29/22 Q1016 SLSI 051500Z 00000KT 9999 NSC 29/23 Q1017 LYNI 051530Z 33017KT 9999 FEW030TCU 14/09 Q1017 TEMPO 06015G30KT TS FEW027CB SLRY 051500Z 00000KT 9999 NSC 30/21 Q1017 SMJP 051500Z 03005KT 9999 VCSH FEW018CB SCT025 31/24 Q1014 NOSIG SLTJ 051500Z 13004KT 9999 SCT025 OVC070 16/10 Q1022 MPPA 051500Z 19004KT 9999 FEW018 26/23 Q1013 SLSU 051500Z 06006KT 9999 NSC 19/07 Q1029 K28J 051535Z AUTO 32012G17KT 10SM CLR 23/12 A2979 RMK AO2 TSNO HKJK 051500Z 08007KT 9999 FEW024CB 23/16 Q1019 NOSIG LYPG 051530Z 35006KT 310V020 9999 SCT040 21/07 Q1014 NOSIG SLTR 051500Z 27003KT 9999 SCT080 29/19 Q1016 HKKI 051500Z 33012KT 9999 FEW025CB BKN100 26/20 Q1015 ZBAA 051530Z 31009G14MPS CAVOK 20/M09 Q1009 NOSIG LZIB 051530Z 34011KT 9999 FEW045TCU 20/09 Q1021 NOSIG SLVM 051500Z 18010KT 9999 OVC070 22/13 Q1018 K1F0 051530Z AUTO 09003KT 10SM CLR 21/03 A3012 RMK AO2 SLVR 051500Z 35012KT 9999 NSC 28/17 Q1016 HKML 051400Z 18010KT 9999 SCT021TCU FEW022CB 30/24 Q1010 HKMO 051300Z 23016KT 4000 RA FEW018CB BKN020 OVC080 25/24 Q1012 BECMG TL 1400 5000 -RA FEW017CB BKN020 BKN080 GUCY 051500Z 24012KT CAVOK 32/20 Q1010 NOSIG SLYA 051500Z 21006KT 9999 FEW023 OVC070 19/14 Q1019 YJLC 051600Z AUTO 17004KT //// // ////// 21/11 Q1012 NGTA 050600Z 09008KT 9999 SCT016CB BKN100 28/26 Q1009 TDPD 051500Z 11009KT 9999 BKN019 28/24 Q1016 MPSM 051500Z 20007KT 160V240 9999 SCT020 30/25 Q1012 K1H2 051555Z AUTO 33010KT 10SM SCT019 11/07 A3001 RMK AO2 T01120069 CERM 051500Z AUTO 08003KT 09/02 RMK AO1 SLP154 T00920015 50003 K0R0 051555Z AUTO 35011G16KT 10SM FEW050 21/08 A3001 RMK AO2 K33V 051556Z AUTO 19004KT 10SM CLR 11/M02 A3031 RMK AO2 HKNW 051500Z 12008KT 9999 SCT025 23/15 Q1019 MPTO 051500Z 15007KT 9999 SCT020 32/25 Q1011 NOSIG NGTT 051400Z 08009KT FEW018TCU BKN300 28/25 Q1010 K1J0 051458Z AUTO 34013G18KT 10SM CLR 20/09 A2989 RMK AO2 SLP080 T02000089 51015 YIVO 051600Z AUTO 02007KT //// // ////// 15/10 Q1016 LYTV 051530Z VRB02KT 9999 -RA FEW033TCU SCT040 17/12 Q1015 NOSIG LZKZ 051530Z 36018KT CAVOK 18/07 Q1019 NOSIG K0S9 051555Z AUTO 31007KT 10SM OVC080 12/05 A3007 RMK AO2 K1K1 051555Z AUTO 32006KT 10SM CLR 20/03 A3012 RMK AO2 T02010027 LYUZ 051530Z VRB09KT 9999 SCT020 12/09 Q1019 LYVR 051530Z VRB07KT 9999 FEW033 22/06 Q1016 NOSIG K1II 051555Z AUTO 34009KT 10SM OVC020 09/05 A2991 RMK AO2 K1L0 051555Z AUTO 32008KT 10SM CLR 26/10 A2996 RMK AO2 T02560104 GVAC 051600Z 05017KT 9999 BKN015 24/15 Q1017 NOSIG K36U 051555Z AUTO 00000KT 10SM CLR 12/02 A3005 RMK AO2 SOCA 051530Z AUTO VRB03KT 6000 R08/1400U RA FEW020/// BKN029/// OVC036/// ///CB 26/24 Q1013 TEMPO 4000 SHRA SCT015TCU GVBA 051600Z 02018KT 9999 BKN015 SCT100 24/16 Q1018 NOSIG K2C8 051555Z AUTO 27017G26KT 10SM CLR 27/08 A2976 RMK AO2 K40B 051516Z AUTO VRB04KT 09/02 A2991 RMK AO1 SLP143 T00930025 58003 ZBHH 051500Z 32007MPS 6000 NSC 08/M12 Q1017 NOSIG K1M4 051556Z AUTO VRB06G19KT 10SM SCT050 17/06 A2991 RMK AO2 SLP149 T01670056 K0V4 051535Z AUTO 36003KT 10SM SCT007 SCT033 OVC060 13/12 A2961 RMK AO1 P0003 T01260120 K2D5 051555Z AUTO RMK AO2 PWINO PNO TSNO K40J 051555Z AUTO 29011G18KT 10SM CLR 23/07 A2984 RMK AO2 T02290069 YKII 051600Z AUTO 33019KT 9999 // SCT054 OVC091 17/13 Q1008 LZPP 051530Z 01011KT CAVOK 20/07 Q1021 HLLM 051450Z 09012KT 8000 NSC 21/12 Q1016 AYGN 050600Z VRB02KT 9999 FEW020 29/23 Q1010 RMKS K0VG 051535Z AUTO 31004KT 10SM FEW022 SCT032 10/04 A2979 RMK AO2 YLBD 051600Z AUTO 08002KT 9999 // NCD 26/24 Q1010 K42J 051555Z AUTO 31014G19KT 10SM CLR 23/03 A2979 RMK AO1 TSNO K1P1 051555Z AUTO 00000KT 10SM SCT019 OVC029 11/06 A2980 RMK AO2 T01100062 TFFF 051530Z AUTO 07015KT 9999 SCT028 SCT033 BKN039 31/23 Q1015 TEMPO 4000 SHRA SCT019TCU BECMG 06004KT K2G4 051550Z AUTO 35006KT 1/4SM FG OVC001 06/06 A2968 RMK AO1 K2DP 051556Z AUTO 03014G20KT 10SM OVC007 14/12 A2954 RMK AO2 SLPNO T01400117 $ K2G9 051555Z AUTO 04006KT 10SM BKN015 BKN023 OVC030 10/07 A2968 RMK AO2 LZSL 051530Z 27005KT 230V290 9999 FEW053 19/08 Q1020 TFFR 051530Z AUTO 13012KT 090V160 9999 FEW022 SCT060 BKN080 29/22 Q1015 TEMPO 2500 SHRA SCT020TCU MRLB 051600Z 19006KT 9999 FEW010 BKN100 23/21 A2991 NOSIG K2I0 051555Z AUTO 36014KT 10SM OVC025 11/05 A2994 RMK AO2 T01050047 YLEC 051600Z AUTO 00000KT //// // ////// 13/05 Q1015 K1R7 051555Z AUTO 36010KT 040V010 10SM CLR A3000 RMK AO2 LZTT 051530Z 04015KT 9999 FEW050 14/04 Q1021 NOSIG MRLM 051600Z 07006KT 9999 FEW030 BKN250 31/25 A2986 YKMP 051600Z AUTO 00000KT //// // ////// 11/10 Q1018 SMZO 051500Z 14004KT 9999 BKN030 32/24 Q1014 NOSIG K46D 051555Z AUTO 25018G23KT 10SM CLR 26/05 A2990 RMK AO2 K1S5 051555Z AUTO 00000KT 10SM CLR 15/12 A2991 RMK AO2 T01510121 K2J9 051555Z AUTO 32009G17KT 300V010 CLR 20/07 A2987 RMK AO1 YLEO 051600Z AUTO 09006KT 9999 // BKN059 20/08 Q1012 YKNT 051600Z AUTO 08007KT //// // ////// 20/19 Q1015 MROC 051500Z 08006KT 9999 FEW005 BKN100 24/20 A3006 NOSIG K46U 051540Z AUTO 25005G12KT 10SM CLR 12/04 A3011 RMK A01 K1QW 051548Z AUTO 00000KT 10SM SCT017 BKN021 BKN060 11/07 A2997 RMK AO2 CIG 021V031 AYMO 050600Z VRB02KT 9999 FEW018 BKN300 29/25 Q1008 K49A 051555Z AUTO 33008G16KT 310V020 10SM SCT085 A2982 RMK AO2 YKOW 051600Z AUTO 04004KT //// // NCD 26/23 Q1011 K3D2 051555Z AUTO 36007KT 10SM CLR 07/01 A3002 RMK AO2 T00720008 YLHI 051600Z AUTO 00000KT 9999 // SCT018 18/17 Q1018 K1V4 051554Z AUTO 12/04 A2980 RMK AO1 SLP093 T01220039 K1V6 051555Z AUTO 28019G28KT 10SM CLR 22/02 A3016 RMK AO2 SPCL 051500Z 00000KT 9999 SCT018 29/24 Q1017 RMK PP000 K3AU 051555Z AUTO 33005KT 10SM CLR 20/04 A3013 RMK AO2 YLHR 051600Z AUTO 13011KT //// // SCT020 SCT027 BKN035 27/24 Q1011 LZZI 051530Z 04007KT 330V070 9999 FEW046 17/09 Q1022 AYNZ 050600Z 09016KT 9999 FEW030 SCT140 BKN280 31/22 Q1007 HZ MRPV 051600Z 15003KT 9999 FEW005 BKN090 26/18 A3006 NOSIG YMBA 051600Z AUTO 10003KT //// // ////// 22/19 Q1016 YLIS 051530Z AUTO 35003KT 2800 // SCT002 13/13 Q1019 ZBSJ 051500Z 34002MPS 6000 NSC 13/11 Q1007 NOSIG OAHR 051455Z 07004KT CAVOK 29/07 Q1013 RMK SCT SCT160 VIS MIN 9999 BLU YMBD 051600Z AUTO 01003KT 9999 // NCD 11/06 Q1012 YKRY 051600Z AUTO 17003KT //// // ////// 11/10 Q1019 ZBTJ 051530Z 32001MPS 4000 HZ NSC 15/09 Q1007 BECMG TL1600 33006MPS AYPY 051500Z 00000KT CAVOK 26/25 Q1009 OAKB 051550Z VRB02KT CAVOK 19/09 Q1020 RMK BLU BLU YMAV 051600Z AUTO 01012KT 9999 // NCD 17/10 Q1012 YLLE 051500Z AUTO 23006KT //// // ////// 19/01 Q1016 YMAY 051600Z AUTO 35003KT 9999 // SCT055 09/08 Q1019 GVNP 051600Z 03020KT 9999 FEW017 BKN100 26/16 Q1015 NOSIG OBBI 051500Z 06006KT 010V090 7000 SKC 30/20 Q1006 NOSIG K54J 051555Z AUTO 01011KT 10SM CLR 20/06 A2990 RMK AO2 T02030062 SPGM 051500Z /////KT 9999 FEW030 BKN100 25/21 Q1020 RMK BIRD HAZARD RWY19 PP000 YMCO 051600Z AUTO 29008KT //// // ////// 10/07 Q1015 NIUE 050300Z 08011KT 9999 DZ SCT018 BKN030 BKN100 27/24 Q1011 YMDG 051600Z AUTO 00000KT //// // ////// 07/07 Q1020 MTCH 051500Z 12008KT 9999 FEW032TCU BKN200 31/20 Q1011 A2988 RMK SPHI 051500Z VRB02KT 5000 BR FEW005 24/19 Q1013 RMK PP000 SPHO 051500Z 01004KT 330V140 9999 FEW030 18/11 Q1032 RMK PP000 MSLP 051550Z 24005KT 190V360 9999 FEW031 32/25 Q1011 A2987 YMEK 051600Z AUTO 36007KT 9999 // NCD 20/16 Q1012 K4A6 051555Z AUTO 33011G18KT 300V010 10SM SCT050 BKN055 16/04 A2984 RMK AO2 K3J7 051535Z AUTO 29008G22KT 240V320 10SM SCT050 17/05 A2972 RMK AO2 SPJC 051600Z 17010KT CAVOK 24/18 Q1014 NOSIG RMK PP000 YMEN 051600Z AUTO 36016KT 9999 // NCD 16/08 Q1013 K1YT 051458Z AUTO 09009KT 10SM SCT055 SCT065 14/09 A2991 RMK AO2 SLPNO T01370085 52007 $ K4A9 051535Z AUTO 29011G20KT 10SM SCT048 SCT050 15/02 A2983 RMK AO2 SPHY 051500Z /////KT CAVOK 13/02 Q1036 RMK BIRD HAZARD RWY 03/21 PP000 K3K3 051535Z AUTO 14009KT 10SM CLR 21/07 A3012 RMK AO2 YMER 051600Z AUTO 20002KT 9999 // NCD 07/06 Q1015 YMES 051600Z AUTO 00000KT 9999 // NCD 07/07 Q1014 SPJI 051500Z /////KT 9999 BKN030 28/23 Q1025 RMK PP000 YMGB 051600Z AUTO 16005KT //// // ////// 26/24 Q1010 OAMS 051550Z 10004KT 9999 SCT250 28/08 Q1010 BLU+ BLU+ YMGD 051600Z AUTO 15005KT 9999 // NCD 25/23 Q1010 SPJL 051500Z VRB02KT CAVOK 13/03 Q1041 RMK PP000 AYVN 050600Z 09006KT 9999 FEW018CB FEW020 BKN300 31/24 Q1008 RMKS SPJR 051530Z VRB03KT 9999 FEW030 SCT040 19/11 Q1031 YMHB 051530Z 32020G30KT 9999 -SHRA FEW040 SCT240 17/09 Q1002 ZBYN 051530Z 34004MPS 310V010 CAVOK 18/M13 Q1013 NOSIG AYWK 050300Z 36006KT 9999 SCT020 BKN300 32/25 Q1010 YMIA 051600Z AUTO 36004KT 9999 // NCD 13/07 Q1014 YLRE 051600Z AUTO 15003KT 9999 // NCD 21/10 Q1014 SPME 051500Z 09003KT 9999 SCT011 29/23 Q1012 RMK BIRD HAZARD RWY 32/14 PP000 SPLO 051500Z 16007KT 9999 OVC030 21/17 Q1014 RMK PP000 K4BM 051556Z AUTO 30005KT 10SM CLR 08/M08 A3052 RMK AO2 GVSV 051500Z /////KT 9999 FEW023 SCT200 27/15 Q1017 NOSIG K3LF 051555Z AUTO 35012KT 10SM BKN023 11/05 A3002 RMK AO2 T01130053 K2W6 051553Z AUTO 03006KT 10SM OVC011 10/07 A2966 RMK AO1 YMHU 051600Z AUTO 07003KT 9999 // NCD 27/24 Q1011 K3N8 051535Z AUTO 20012G19KT 10SM CLR 22/04 A2990 RMK AO2 T02160037 YMIN 051600Z AUTO 00000KT //// // ////// 12/10 Q1012 SPMS 051500Z 10003KT 9999 SCT015 BKN100 28/24 Q1019 RMK BIRD HAZARD RWY 09/27 PP000 YNAR 051600Z AUTO 12006KT //// // ////// 11/08 Q1018 YLST 051600Z AUTO 02009KT 9999 // NCD 20/14 Q1011 YLTN 051600Z AUTO 01006KT //// // ////// 21/11 Q1013 DAAD 051500Z 14004KT 8000 -RA SCT030 BKN100 22/16 Q1015 YNBR 051600Z AUTO 12005KT 090V160 9999 // NCD 12/08 Q1018 DAAE 051500Z 00000KT 8000 FEW010 BKN090 19/15 Q1013 YMMB 051600Z AUTO 35011KT 9999 // NCD 16/09 Q1013 DAAG 051530Z 08006KT 8000 FEW026 SCT050 BKN100 22/17 Q1011 MSSS 051550Z 36001KT 3000 HZ SCT027 29/23 Q1016 A3001 YLTV 051600Z AUTO 21002KT 9999 // NCD 07/06 Q1014 DAAJ 051500Z 00000KT 8000 NSC 36/19 Q1015 MUCC 051552Z 30009KT 260V330 4000 RA BKN010CB 25/23 Q1010 DABB 051530Z 02010KT CAVOK 19/15 Q1012 DABC 051530Z 32005KT 9999 SCT040 SCT100 BKN200 24/11 Q1013 MUCF 051550Z 02009KT 9999 FEW018 BKN060 26/23 Q1011 K2WX 051556Z AUTO VRB03KT 22/09 A2987 RMK AO1 SLP101 T02170089 DAAP 051500Z 00000KT CAVOK 38/02 Q1011 YMLT 051600Z AUTO 34022KT 9999 -SHRA SCT049 BKN060 OVC092 15/12 Q1007 YMML 051530Z 01018KT CAVOK 15/07 Q1014 FM1530 MOD TURB BLW 5000FT K4I7 051555Z AUTO 34008KT 7SM OVC007 07/07 A2994 RMK AO2 K3R7 051535Z AUTO 04008KT 10SM CLR 23/11 A3001 RMK AO2 YMNE 051600Z AUTO 02006KT 9999 // SCT105 19/16 Q1013 MUCL 051554Z 35012KT 310V010 9000 FEW020 SCT050 28/21 Q1010 DAAS 051500Z 26018KT 9999 BKN026 SCT100 19/07 Q1017 DAAT 051530Z 21009KT 170V250 7000 NSC 36/// Q1018 MUCM 051551Z 08006KT 040V180 2000 +TSRA OVC010CB 20/19 Q1012 YMNG 051600Z AUTO 03011KT 9999 // BKN063 15/08 Q1016 DAAV 051500Z 28004KT 9999 FEW026 SCT033 BKN100 20/14 Q1011 TGPY 051500Z 12015KT 9999 SCT018 29/26 Q1014 NOSIG DAAY 051500Z 22008KT 5000 SCT030 SCT100 20/15 Q1017 RETSRA K5A6 051555Z AUTO 32004KT 10SM CLR 19/04 A2998 RMK AO2 T01910039 AZUH 051350Z 16023KT 9999 FEW035 24/04 Q1009 SPQT 051500Z 22004KT 160V270 9999 BKN015 27/23 Q1015 NOSIG RMK BIRD HAZARD RWY 06/24 PP000 SPQU 051500Z 26005KT 210V300 CAVOK 21/01 Q1028 NOSIG RMK PP000 YNEN 051530Z AUTO 07016KT 9999 // SCT022 30/24 Q1009 DABS 051530Z 20012KT 8000 FEW033CB SCT040 BKN100 25/00 Q1015 MUCU 051551Z 18014KT 9000 SCT018CB 29/23 Q1011 DABT 051500Z 22016KT 8000 FEW010 OVC023 23/03 Q1015 YMOG 051600Z AUTO 20007KT //// // ////// 19/10 Q1012 K3T5 051535Z AUTO 03003KT 10SM 25/15 A3006 RMK AO2 T02450152 K66R 051555Z AUTO 00000KT 10SM CLR 25/16 A3006 RMK AO2 T02510155 SPRU 051500Z 14006KT 110V170 5000 BR BKN003 21/18 Q1013 RMK VIS QUAD N 8KM FG/MAR PP000 K5C1 051555Z AUTO 15003KT 10SM CLR 25/08 A3013 RMK AO1 SPSO 051500Z 27007KT 230V300 CAVOK 23/18 Q1013 RMK BIRD HAZARD RWY 22/04 PP000 YMOR 051600Z AUTO 10005KT 9999 // NCD 12/09 Q1018 DAEF 051500Z 09008KT CAVOK 36/// Q1012 SPST 051500Z VRB02KT 9999 FEW020 SCT100 29/23 Q1016 RMK BIRD HAZARD RWY 17/35 PP000 SPTN 051500Z 22004KT 9999 SCT025 20/15 Q1017 RMK PP000 DAEN 051500Z 00000KT 9999 FEW040 OVC100 33/// Q1013 YMRB 051600Z AUTO 15006KT 9999 // NCD 18/17 Q1017 YNGU 051600Z AUTO 04002KT //// // ////// 27/24 Q1010 YNHL 051600Z AUTO 35006KT //// // ////// 14/07 Q1012 DAFH 051500Z 24008KT 9999 BKN030 26/03 Q1015 MUHA 051555Z 34016KT 310V010 9999 SCT030 27/15 Q1012 SPTU 051500Z VRB02KT CAVOK 30/22 Q1016 RMK BIRD HAZARD RWY01/19 PP000 K4M9 051555Z AUTO 32014G18KT 10SM 19/03 A3000 RMK AO2 MUGM 051456Z 18019KT 9999 SCT030 BKN100 BKN280 30/25 A2986 RMK SLP110 T03000256 58011 MTPP 051500Z 12011KT 9999 SCT026 SCT050 30/23 Q1012 A2989 RMK MUHG 051550Z 20008KT 9000 VCSH BKN020 BKN100 30/21 Q1009 K4O4 051555Z AUTO 02004KT 10SM CLR 22/03 A3008 RMK AO2 YMRY 051600Z AUTO 24004KT 9999 // NCD 07/06 Q1015 YMTG 051600Z AUTO 34007KT 9999 // NCD 13/10 Q1011 YMTI 051600Z AUTO 00000KT //// // ////// 25/24 Q1011 K4MR 051458Z AUTO 23008G13KT 10SM CLR 22/M02 A3019 RMK AO2 SLP173 T02191018 52009 $ K5H4 051535Z AUTO 25019G27KT 10SM CLR 26/05 A2988 RMK AO2 P0033 PWINO PNO SPZA 051530Z 25003KT CAVOK 27/17 Q1016 SPYL 051500Z 17013KT CAVOK 28/18 Q1013 RMK BIRD HAZARD RWY 17/35 PP000 DBBB 051500Z 20008KT 170V240 9999 FEW015 32/26 Q1009 NOSIG K6A1 051555Z AUTO 23012G17KT 10SM 20/05 A2983 RMK AO2 T01980053 SPZO 051530Z VRB02KT 9999 FEW046 17/M02 Q1035 K6A2 051535Z AUTO 31008KT 10SM SCT050 17/07 A2981 RMK AO2 UAAA 051530Z 09001MPS 9999 SCT050CB BKN100 17/11 Q1013 R88/CLRD65 TEMPO TS K6B0 051535Z AUTO 33006KT 10SM BKN027 OVC033 12/07 A2981 RMK AO2 T01150073 UAAH 051100Z 28009MPS 9999 SCT030 14/05 Q1011 R23/0///60 NOSIG RMK QFE720/0960 UACC 051530Z 04003MPS CAVOK 11/M09 Q1015 R04/0/0070 NOSIG RMK QFE730/0973 K4V0 051555Z AUTO 00000KT 10SM CLR 16/04 A3011 RMK AO2 T01570038 DAOB 051500Z 21016KT 9999 SCT026 22/13 Q1013 TJBQ 051550Z 04007KT 10SM BKN045 BKN065 28/23 A2997 DAOF 051500Z 28016KT CAVOK 30/M06 Q1012 YNRC 051600Z AUTO 27006KT //// // ////// 13/09 Q1012 UACK 051200Z 02002MPS CAVOK 17/M10 Q1015 R20/010070 NOSIG RMK QFE737/0983 DAOI 051500Z 00000KT 9999 BKN033 28/18 Q1009 K79J 051456Z AUTO 34011KT 10SM CLR 22/04 A2991 RMK AO2 SLP126 T02220044 51019 UADD 051530Z 14005MPS 9999 BKN050CB OVC100 15/11 Q1012 R13/290056 NOSIG RMK QFE703/0937 K5M9 051535Z AUTO 34009G16KT 300V010 10SM OVC022 09/04 A2995 RMK AO2 T00870040 DAOL 051500Z 26010KT 8000 FEW030 BKN100 26/14 Q1010 UACP 051130Z 22004MPS 190V260 CAVOK 18/M06 Q1015 R05/0/0060 NOSIG RMK QFE749/0999 DAON 051530Z 34013KT 9999 FEW026 FEW030CB SCT100 20/14 Q1010 DAOO 051530Z 36014KT 9000 FEW030 BKN100 20/16 Q1010 DAOR 051500Z 26018KT 8000 FEW030TCU BKN033 31/07 Q1012 YPAD 051530Z 07005KT CAVOK 15/08 Q1012 NOSIG K82C 051555Z AUTO 30004KT 10SM CLR 12/03 A3006 RMK AO2 T01220028 YPAG 051600Z AUTO 31010KT 9999 // NCD 17/06 Q1013 DAOV 051500Z 30010KT 6000 TS FEW026CB BKN030 19/18 Q1011 RESHRA DAOY 051400Z 20020KT 9999 SCT026 BKN100 19/06 Q1017 YNSM 051600Z AUTO 00000KT //// // ////// 10/08 Q1014 OEAB 051500Z 18008KT 9999 SCT020 FEW022CB 18/13 Q1024 NOSIG MUSC 051550Z 34009KT 310V020 8000 BKN020 25/20 Q1012 OEAH 051500Z 06007KT CAVOK 38/05 Q1006 NOSIG OEBA 051500Z 28008KT 9999 FEW025CB BKN030 27/13 Q1019 NOSIG YPCC 051600Z AUTO 11008KT 9999 // SCT018 SCT040 BKN046 28/25 Q1010 YOLD 051600Z AUTO 03007KT 9999 // NCD 18/05 Q1013 YNTN 051600Z AUTO 21005KT 9999 // NCD 26/23 Q1011 YPBO 051600Z AUTO 19004KT 9999 // OVC110 22/22 Q1012 K82V 051555Z AUTO 22005KT 10SM CLR 19/06 A3012 RMK AO2 OEAO 051500Z 24010KT 9000 FEW040 36/05 Q1010 OEBH 051500Z 11002KT 9999 BKN030 33/07 Q1014 NOSIG OEAR 051500Z 27007KT 9999 BKN040 36/19 Q1009 MWCB 051600Z 22011KT 9999 SCT016CB 30/27 Q1010 K6I2 051545Z AUTO 35010KT 10SM FEW019 SCT032 BKN037 09/04 A2984 RMK AO2 YPEA 051600Z AUTO 20003KT 9999 // BKN025 OVC052 14/13 Q1013 YPED 051600Z AUTO 03010KT 9999 // NCD 16/08 Q1013 K5R8 051555Z AUTO 04004KT 10SM CLR 23/11 A3003 RMK AO2 T02280110 YOLW 051600Z AUTO 34012KT //// // ////// 24/22 Q1011 DAUA 051500Z 10010KT 7000 FEW040TCU SCT046 BKN133 33/05 Q1012 YPDN 051530Z 06006KT 9999 FEW020 27/24 Q1010 DAUB 051500Z 28008KT 5000 BKN040 OVC100 26/08 Q1014 TJIG 051550Z 16008KT 10SM SCT025 SCT030 BKN060 31/21 A2998 DATM 051200Z 21018KT 8000 DRSA FEW046 44/21 Q1009 OEDF 051600Z 07008KT CAVOK 35/07 Q1006 NOSIG DAUE 051500Z 11005KT 9999 SCT040 SCT100 28/05 Q1014 UAII 051530Z 02003MPS 9999 SCT050CB OVC100 18/12 Q1012 R10/0///70 NOSIG RMK QFE723/0965 MWCR 051555Z 25013KT 9999 FEW018 31/26 Q1010 NOSIG DAUG 051500Z 22011KT 200V260 9999 SCT040 SCT090 28/04 Q1014 DAUH 051530Z 25006KT 9999 SCT046 BKN100 31/M05 Q1013 YOOD 051600Z AUTO 01006KT //// // ////// 23/05 Q1014 DAUI 051500Z 33030KT 0500 BLSA VV/// 37/01 Q1010 YNWN 051600Z AUTO 21004KT 9999 // BKN054 OVC115 22/18 Q1013 OEDM 051500Z 23012KT 9999 SCT040 BKN100 37/M02 Q1012 DAUK 051550Z 33016KT 4000 FEW040 BKN100 32/M04 Q1013 DAUL 051500Z 27010KT 7000 BKN030 24/11 Q1016 DAUO 051500Z 24011KT 8000 NSC 33/M03 Q1011 MUVR 051552Z 34016KT 300V360 9000 SCT023 27/17 Q1011 OEDR 051500Z 04011KT 6000 SKC 36/05 Q1004 NOSIG UBBB 051530Z 35013KT CAVOK 16/12 Q1010 R88/CLRD// NOSIG YOOM 051600Z AUTO 08005KT //// // NCD 17/02 Q1015 UAKD 051500Z 18003MPS 7000 SCT060CB 13/08 Q1014 R22/0///65 NOSIG RMK QFE727/0970 K5T9 051555Z AUTO 11004KT 10SM CLR 27/09 A3010 RMK A01 DAUT 051400Z 14009KT 5000 FEW046 BKN120 32/16 Q1013 DAUU 051500Z 18010KT 9999 SCT040 BKN100 31/M03 Q1013 ZGGG 051530Z 16004MPS 9999 BKN030 28/25 Q1009 NOSIG UBBG 051530Z 10011KT 9999 FEW100 25/06 Q1006 R12/CLRD// NOSIG ZGHA 051500Z 00000MPS 7000 SCT050 24/22 Q1006 NOSIG DAUZ 051500Z 05003KT CAVOK 35/M03 Q1012 UAKK 051530Z 28002MPS 260V320 CAVOK 07/M01 Q1014 R05/0///70 NOSIG RMK QFE714/0952 TIST 051553Z 12013G19KT 10SM CLR 30/24 A2998 RMK AO2 SLP151 T03000239 $ UBBL 051500Z 10008KT 8000 SCT008 BKN100 18/16 Q1010 R33/CLRD// RMK MT OBSC UBBN 051530Z 16005KT 9999 VCTS FEW050CB 23/06 Q1006 R14R/CLRD// NOSIG RMK MT OP QFE680 TISX 051553Z 11013KT 10SM CLR 30/23 A2999 RMK AO2 SLP154 T03000233 K5SM 051554Z AUTO 00000KT 10SM SCT075 11/M06 A3048 RMK AO2 TSNO UBBQ 051500Z 14011KT 9999 SCT120 21/16 Q1008 R34/CLRD// NOSIG RMK MT OP YPGV 051600Z AUTO 13005KT 9999 // SCT028 26/24 Q1010 YORG 051600Z AUTO 00000KT 9999 // NCD 06/05 Q1020 OEGN 051500Z 27004KT 9999 FEW030 SCT100 35/23 Q1009 NOSIG K7BM 051556Z AUTO 09005KT 10SM CLR 13/M05 A3042 RMK AO2 UBBY 051400Z 22005KT 9999 FEW060 25/10 Q1008 R33/////// NOSIG RMK MT OP OEGS 051500Z 23010KT 7000 BKN030 37/13 Q1010 OEGT 051500Z 31008KT CAVOK 27/00 Q1011 NOSIG OEHL 051500Z 18008KT 7000 SCT040 30/06 Q1013 NOSIG UBEE 051500Z 19008KT CAVOK 29/11 Q1005 R30/CLRD// NOSIG YPKA 051600Z AUTO 22004KT 9999 // SCT001 26/24 Q1010 YPKG 051600Z AUTO 13008KT 9999 // NCD 13/09 Q1013 TJMZ 051550Z 20009KT 10SM SCT040 33/22 A2996 TJNR 051553Z AUTO 13011G18KT 10SM SCT026 SCT032 30/24 A3000 RMK AO2 SLP158 T03000239 YPJT 051600Z AUTO 15004KT 9999 // SCT023 OVC047 15/13 Q1014 ZHCC 051500Z 00000MPS 5000 BR NSC 24/21 Q1006 NOSIG ZGKL 051500Z 00000MPS 4000 BR FEW033 25/24 Q1007 NOSIG UAOO 051500Z 08006MPS CAVOK 20/10 Q1011 NOSIG RMK QFE746/0995 OEJN 051600Z 29004KT 9999 FEW040 SCT100 33/20 Q1006 NOSIG YPKS 051600Z AUTO 07006KT //// // ////// 09/08 Q1019 YPKT 051600Z AUTO 00000KT //// // ////// 25/24 Q1010 OEKJ 051500Z 09012 CAVOK 39/00 Q1011 YPKU 051600Z AUTO 00000KT 9999 // NCD 26/24 Q1010 OEKK 051500Z 28014KT 3000 BLDU SKC 36/15 Q1009 NOSIG YPLM 051530Z AUTO 24005KT 9999 // NCD 22/21 Q1010 OEKM 051500Z 24006KT 9999 SCT022 FEW025CB 18/13 Q1024 NOSIG K6R3 051555Z AUTO 00000KT 10SM CLR 25/13 A3006 RMK AO2 T02450133 K6R6 051553Z AUTO 13008G16KT 26/04 A3014 RMK AO1 SLP175 T02610039 TJPS 051350Z 13012KT 10SM FEW020 31/24 A2995 OEMA 051600Z 04011KT 9000 FEW040CB SCT045 32/10 Q1014 NOSIG K8A0 051555Z AUTO 31016G20KT 10SM CLR 15/08 A2985 RMK AO2 K96D 051535Z AUTO 27017G29KT 10SM CLR 27/07 A2976 RMK AO2 YPMQ 051600Z AUTO 35001KT 9999 // NCD 12/11 Q1017 SUAA 051500Z 14007KT 3000 BR BKN007 OVC020 14/10 Q1024 YPOD 051600Z AUTO 31013KT 9999 // SCT035 17/12 Q1010 OEMK 051500Z 21009KT 9999 FEW040 BKN100 36/24 Q1008 ZGNN 051500Z 10002MPS CAVOK 26/24 Q1006 NOSIG OENG 051500Z 09007KT 9999 SCT030 SCT090 33/04 Q1015 NOSIG UARR 051530Z 09003MPS CAVOK 17/09 Q1012 R04/CLRD70 NOSIG RMK QFE755/1007 TJSJ 051556Z 14011G18KT 10SM FEW038 SCT060 31/21 A2996 RMK AO2 SLP144 T03060211 UASK 051530Z 11008MPS 9999 VCTS BKN033CB BKN070 12/07 Q1008 R12/290255 TEMPO TSRA RMK QFE730/0974 YPPD 051600Z AUTO 33003KT 9999 -RA SCT100 SCT120 27/24 Q1010 YPPF 051600Z AUTO 01007KT 9999 // NCD 16/08 Q1012 UATE 051530Z 26006MPS 9999 OVC005 15/12 Q1006 R30/0///70 NOSIG RMK QBB150 QFE753/1004 K7L2 051555Z AUTO 20017G21KT 10SM CLR 25/09 A2994 RMK AO2 YPPH 051530Z 17008KT CAVOK 16/13 Q1014 NOSIG UATG 051530Z 03004MPS 5000 -SHRA BR OVC033CB 15/15 Q1007 R32/29//60 NOSIG RMK QFE757/1010 UASP 051530Z 31002MPS CAVOK 08/M07 Q1011 R21/0///70 NOSIG RMK QFE747/0997 SUCA 051500Z 13008KT CAVOK 18/10 Q1021 UASS 051400Z 35005MPS 9999 -SHRA OVC035CB 10/08 Q1008 R08/2///60 NOSIG RMK QFE736/0981 OEPA 051500Z 02018KT 5000 BLDU SKC 37/09 Q1009 NOSIG ZGOW 051500Z 18003MPS 9999 BKN033 28/25 Q1011 NOSIG ZHHH 051500Z 09002MPS 5000 BR NSC 24/23 Q1006 NOSIG K8D3 051556Z AUTO 26016G26KT 24/05 A2992 RMK AO1 PK WND 27026/1551 SLP124 T02440050 UATT 051530Z 11003MPS CAVOK 16/09 Q1011 R13/CLRD70 NOSIG RMK QFE739/0986 K7N0 051556Z AUTO 34006KT CLR 23/13 A2996 RMK AO2 SLP146 T02330128 PWINO RVRNO $ CMGB 051545Z AUTO 06006KT 13/05 RMK AO1 SLP112 T01280047 50006 CMFM 051500Z AUTO 03007KT 07/M01 RMK AO1 SLP145 T00741010 53001 UAUU 051530Z 18001MPS CAVOK 12/M06 Q1015 R15/CLRD70 NOSIG RMK QFE745/0994 OERF 051500Z 10004KT 6000 NSC 34/01 Q1010 SUDU 051500Z 09008KT 9000 NSC 16/10 Q1022 OERK 051600Z 17003KT CAVOK 35/M01 Q1010 NOSIG OESH 051500Z 05008KT 9999 FEW040 38/00 Q1010 NOSIG OERR 051500Z 06008KT 2000 DU FEW040 BKN100 29/12 Q1011 NOSIG OETB 051500Z 21014KT 9999 BKN040 33/M01 Q1010 NOSIG OESK 051500Z 05006KT 9999 SCT040 33/M03 Q1009 NOSIG YPTN 051600Z AUTO 09005KT 9999 // NCD 27/21 Q1011 UCFM 051530Z 30003MPS 9999 BKN066CB OVC130 17/14 Q1013 R26/CLRD70 NOSIG UCFO 051530Z 09002MPS 9999 SCT050 BKN160 20/14 Q1013 R12/CLRD70 NOSIG OETF 051500Z 02008KT 9999 TS FEW025CB BKN030 24/13 Q1019 NOSIG ZGSZ 051500Z 19006MPS 9999 FEW023 27/25 Q1010 NOSIG OERY 051141Z 11009KT 040V130 9999 FEW120/// SCT210/// 40/M02 Q1010 TKPK 051600Z 11012KT 9999 VCSH SCT018 30/23 Q1015 TKPN 051600Z 11012KT 9999 VCSH BKN020 30/23 Q1015 OETR 051500Z 27010KT CAVOK 26/07 Q1012 NOSIG K9A5 051555Z AUTO 28008KT 10SM SCT045 SCT050 SCT060 16/03 A2982 RMK AO2 T01590031 SVAC 051500Z 18002KT 9999 BKN013 29/24 Q1015 YREN 051600Z AUTO 35007KT //// // ////// 14/06 Q1014 OEWD 051500Z 11008KT CAVOK 39/17 Q1008 NOSIG YPWR 051600Z AUTO 05008KT 9999 // OVC110 17/05 Q1014 OEWJ 051500Z 32016KT 8000 NSC 30/20 Q1007 NOSIG SVBC 051600Z /////KT 9999 SCT010 34/23 Q1013 YPXM 051530Z AUTO 10004KT 9999 // NCD 25/24 Q1012 SVBI 051500Z /////KT 9999 SCT020 BKN080 28/// Q1015 SVBM 051500Z 11014KT SCT01 BKN300 28/19 Q1016 MYGF 051500Z 35016KT 9999 SCT020 25/16 A2976 SVBS 051400Z 18003KT 9999 FEW013 29/17 Q1016 K9D7 051535Z AUTO 25020G26KT 10SM CLR 25/06 A2986 RMK AO2 OEYN 051500Z 24012KT 9999 FEW030CB FEW040 SCT090 32/20 Q1005 NOSIG K7W4 051555Z AUTO 03004KT 10SM BKN006 OVC012 11/10 A2965 RMK AO1 T01050097 SVCR 051500Z /////KT 9999 FEW013 37/// Q1011 K7W6 051545Z AUTO 01013G18KT 7SM OVC007 14/13 A2953 RMK AO2 T01400125 SULS 051500Z 16008KT 9999 OVC020 13/10 Q1023 SVCU 051500Z 07010KT 9999 SCT013 32/22 Q1008 HTDA 051400Z 15008KT 9999 FEW025 BKN080 29/22 1012 NOSIG SUMU 051600Z 10009KT 9999 BKN011 OVC020 14/11 Q1023 NOSIG YSBK 051600Z AUTO 34005KT 9999 // NCD 12/11 Q1017 YSCB 051600Z AUTO 00000KT 9999 // NCD 04/02 Q1020 TLPC 051500Z 11011KT 9999 BKN024 31/23 Q1015 NOSIG SVGD 051500Z 36004KT 9999 BKN017 28/22 Q//// HSOB 051400Z 23012KT 8000M 37/13 Q1008 NOSIG HSNN 051400Z 15004KT 9999 FEW 050 39/14 Q1009 NOSIG SVGI 051500Z /////KT 9999 BKN013 30/23 Q1010 YRMD 051600Z AUTO 12011KT //// // ////// 25/14 Q1012 TLPL 051600Z 10017KT 9999 FEW028 31/24 Q1015 NOSIG YSCN 051600Z AUTO 18003KT 9999 // NCD 08/07 Q1017 YSCO 051600Z AUTO 27003KT //// // ////// 09/07 Q1018 YSCR 051600Z AUTO 11005KT //// // ////// 11/09 Q1013 SVGU 051500Z 20003KT 9999 BKN017 27/19 Q1015 HSPN 050500Z 03003KT CAVOK 31/26 Q1009 MZBZ 051500Z 35007KT 9999 SCT018 BKN047 26/25 A2997 Q1014 NOSIG HRYR 051530Z 32007KT 9999 SCT025 24/17 Q1018 NOSIG YSDU 051600Z AUTO 13005KT 9999 // NCD 10/09 Q1019 SVJC 042000Z AUTO 07011KT 9999 SCT013 ///// Q1008 YROM 051600Z AUTO 20002KT 9999 // NCD 12/07 Q1017 YSGE 051600Z AUTO 05004KT //// // ////// 15/08 Q1017 SVJM 051500Z /////KT 9999 BKN020 28/19 Q1015 SUSO 051500Z 15008KT 9999 FEW030 SCT067 16/09 Q1022 MYNN 051600Z 30009KT 9999 FEW018 28/21 A2980 RMK PK WND 17KT K9L2 051556Z AUTO 23017KT 10SM CLR 15/03 A2984 RMK AO2 SLP096 T01500033 $ TNCA 051500Z 10016KT 080V140 9999 FEW025 32/24 Q1011 A2987 NOSIG TNCB 051455Z 11014KT 070V170 9999 SCT013 BKN015 BKN019 30/25 Q1012 TNCC 051500Z 09014KT 060V120 9999 FEW022 31/25 Q1012 NOSIG TNCE 051455Z AUTO 09012KT 040V130 //// // ///////// 30/24 Q1016 RE// DFFD 051500Z VRB05KT 9999 FEW026 41/20 Q1009 NOSIG YSHK 051600Z AUTO 18014KT //// // ////// 20/15 Q1011 ZJHK 051500Z 16003MPS 130V190 CAVOK 26/22 Q1008 NOSIG SVMC 051500Z ////KT 9999 BKN016 33/26 Q1012 HTKJ 051400Z 00000KT 9999 SCT029 27/19 Q1015 NOSIG HSSS 051530Z 17010KT 8000M HZ 38/11 Q1007 NOSIG SVMD 051500Z 16005KT 9999 FEW040 SCT300 26/17 Q1023 TNCM 051500Z 12010KT 9999 SCT019 29/24 Q1016 A3001 NOSIG K8W2 051555Z AUTO 03007KT 4SM BKN007 BKN014 OVC022 10/09 A2966 RMK AO1 P0001 T01000093 SVMG 051500Z /////KT 9999 FEW010 32/24 Q1014 NOSIG SVMI 051600Z 05003KT 9999 FEW016 30/24 Q1012 NOSIG YSHT 051600Z AUTO 03008KT 9999 // SCT063 13/08 Q1016 YSHW 051600Z AUTO 33005KT 9999 // NCD 11/10 Q1017 SVMN 051500Z 16003KT 9999 BKN013 33/// Q1013 UEEE 051530Z 28001MPS CAVOK M01/M07 Q1009 R23L/09//60 NOSIG RMK QFE748 SVMT 050900Z 02003KT CAVOK 24/23 Q1014 OIAA 051530Z 34024G28KT 2500 SA NSC 36/11 Q1007 K9MN 051555Z AUTO 16006KT 10SM BKN090 BKN110 13/00 A3008 RMK AO1 T01260003 YTAR 051600Z AUTO 23001KT //// // ////// 12/04 Q1013 YRTI 051600Z AUTO 20008KT //// // ////// 17/12 Q1013 OIAG 051400Z 26008KT CAVOK 42/13 Q1006 OIAH 051500Z 25008KT 7000 NSC 36/01 Q1011 SVPA 051500Z /////KT 9999 BKN013 30/21 Q1015 OIAI 051400Z 31004KT 9999 SCT040 BKN100 38/10 Q1007 OIBA 051500Z 30008KT 5000 HZ NSC 30/20 Q1004 OIBB 051530Z 33008KT 8000 NSC 31/19 Q1004 A2966 DGAA 051500Z 19015KT CAVOK 32/24 Q1010 NOSIG OIAM 051500Z 21004KT 7000 NSC 37/15 Q1005 HTMW 051400Z 33005KT 9999 FEW025 FEW026CB BKN280 27/19 Q1014 NOSIG HUEN 051500Z 17006KT 9999 FEW021 FEW023CB BKN220 26/21 Q1016 OIBJ 051500Z 21010KT 6000 NSC 32/10 Q1011 OIBK 051500Z 30006KT 4000 HZ NSC 30/23 Q1006 OICC 051530Z 10004KT 9999 FEW045 BKN080 17/06 Q1020 A3014 OIBL 051500Z 00000KT 8000 NSC 29/23 Q1005 OIAW 051530Z 33014G27KT 0700 SA NSC 35/11 Q1007 YSMH 051600Z AUTO 00000KT 9999 // NCD 17/16 Q1016 YSMI 051600Z AUTO 31015KT //// // ////// 16/14 Q1007 OIBP 051530Z 32004KT 5000 HZ NSC 31/22 Q1005 A2969 OIBQ 051500Z 27004KT CAVOK 34/14 Q1005 OICI 051500Z 00000KT 9000 -RA FEW030CB SCT035 OVC080 19/08 Q1020 A3014 OICJ 051350Z 04012KT 8000 FEW035CB SCT040 BKN090 16/07 Q1022 OIBS 051500Z 32008KT 5000 HZ NSC 31/20 Q1006 OICK 051450Z 10004KT 9999 FEW035CB SCT040 OVC080 15/13 Q1022 RERA YTEE 051600Z AUTO 21004KT 9999 // NCD 21/02 Q1014 KMG 051600Z AUTO 36024KT 9999 // NCD 11/08 Q1014 OIBV 051400Z 10006KT 6000 NSC 30/23 Q1005 YSNF 051530Z AUTO 07008KT 9999 // SCT020 BKN120 21/18 Q1019 YTEF 051600Z AUTO 14006KT //// // ////// 24/22 Q1012 SVSA 051500Z 18012KT 9999 SCT020 33/19 Q1014 OICS 051450Z 18012KT 7000 FEW040 SCT090 20/03 Q1017 YTEM 051600Z AUTO 00000KT //// // ////// 06/05 Q1019 CPBT 051500Z AUTO 01010KT 13/07 RMK AO1 T01310068 UDSG 051530Z 22008G13MPS 9999 FEW050 16/M01 Q1010 R02/CLRD70 NOSIG YSOL 051600Z AUTO 18003KT 9999 // NCD 23/18 Q1013 YSNW 051530Z AUTO 31013KT 9999 // NCD 16/07 Q1016 SVSP 042100Z 26008KT 9999 BKN050 XX/XX Q1012 CPEH 051500Z AUTO 36015KT 16/03 RMK AO1 PK WND 33020/1430 T01560029 YTGM 051600Z AUTO 15005KT //// // ////// 17/04 Q1016 OIFK 051400Z 15006KT 9999 FEW035CB SCT040 BKN100 32/10 Q1012 OIFM 051530Z 27012KT 5000 SA FEW040 SCT200 26/01 Q1017 A3003 OIGG 051530Z 34004KT 6000 FEW020 FEW090 BKN170 19/17 Q1008 YTIB 051600Z AUTO 34005KT 260V350 //// // ////// 17/01 Q1016 SVVA 051500Z 11004KT 9999 SCT016 28/22 Q1016 OIFS 051500Z 25016KT 9999 SCT040 22/01 Q1022 CPFI 051500Z AUTO 36014KT 16/05 RMK AO1 PK WND 01020/1449 T01580046 OIGK 051352Z 29006KT 6000 FEW040 SCT070 BKN170 17/02 Q1016 K9V9 051535Z AUTO 20009KT 10SM CLR 22/10 A3001 RMK AO2 T02240099 SVVG 042200Z 05003KT 9999 SCT017 33/10 Q1007 YSRI 051600Z AUTO 00000KT 9999 // NCD 08/08 Q1017 DFOO 050500Z 22006KT 9999 FEW020 27/20 Q1012 OIHH 051450Z 18014KT 9999 FEW035CB SCT040 BKN100 OVC170 17/05 Q1020 SVVL 051500Z 05004KT 9999 SCT027 30/20 Q1016 OIHM 051400Z 18008KT 9999 FEW035CB SCT040 BKN090 15/05 Q1022 OIIE 051530Z 24016KT 9999 SCT035CB BKN040 BKN100 27/01 Q1014 OIII 051530Z 30005KT 9999 SCT035CB SCT040 OVC100 25/02 Q1016 A3001 NOSIG OIIK 051500Z 23008KT CAVOK 22/06 Q1015 PAAD 051555Z AUTO 00000KT 10SM OVC005 M08/M09 A2996 RMK AO2 OIIP 051500Z 26016KT 8000 FEW030CB SCT035 OVC100 24/M05 Q1015 OJAI 051600Z 27010KT 8000 NSC 22/04 Q1013 NOSIG OIIS 051400Z 25006KT 9999 FEW040 SCT200 32/M01 Q1012 PABA 051556Z AUTO 21007KT 10SM OVC012 M06/M08 A2995 RMK AO2 SLP140 T10561083 FZRANO OIKB 051530Z 18008KT 6000 NSC 30/24 Q1005 A2970 PAAK 051556Z 32020G27KT 10SM OVC029 02/M04 A2995 RMK AO1 OJAM 051600Z 33008KT 6000 NSC 21/05 Q1013 NOSIG ZJSY 051500Z 09003MPS 9999 SCT020 28/26 Q1010 NOSIG YSSY 051530Z 32007KT CAVOK 15/13 Q1017 NOSIG PABE 051553Z 08012KT 10SM SCT065 03/01 A2969 RMK AO2 SLP057 T00280006 $ OJAQ 051500Z 35010KT 6000 NSC 33/13 Q1007 NOSIG PAAQ 051553Z AUTO 01006KT 10SM CLR 03/M03 A2985 RMK AO2 SLP112 T00331028 TSNO PABI 051553Z 19009G15KT 10SM FEW070 FEW120 FEW200 06/M06 A2985 RMK AO2 SLP119 SHRA DSNT NW T00611056 CPIR 051500Z AUTO 36016KT 15/03 RMK AO1 PK WND 00021/1456 T01460030 OIKK 051500Z 21006KT 9999 FEW040 29/M05 Q1018 A3008 PABL 051556Z AUTO 31007KT 9SM OVC003 M03/M04 A2983 RMK AO1 YSTW 051600Z AUTO 12004KT 9999 // NCD 09/06 Q1019 PACD 051553Z 36016KT 10SM BKN019 BKN024 BKN120 BKN130 04/03 A2946 RMK AO2 SLP976 T00440028 $ OIKO 051350Z 21004KT 7000 NSC 33/15 Q1006 OIKQ 051500Z 21010KT 6000 NSC 29/22 Q1006 PABR 051553Z 06007KT 10SM BKN050 M08/M09 A2996 RMK AO2 SLP145 T10781094 HTZA 051400Z 15010KT 9999 FEW020 FEW022CB SCT080 29/21 Q1012 NOSIG OIMB 051500Z 31010KT 9999 FEW040 SCT200 30/M04 Q1016 PABT 051553Z VRB03KT 10SM SCT047 BKN085 02/M01 A2980 RMK AO2 SLP100 SHRA VC SW-W T00221006 OIMC 051400Z 00000KT CAVOK 36/12 Q1004 YTMO 051600Z AUTO 00000KT //// // ////// 21/04 Q1015 OIMD 051400Z 30010KT CAVOK 34/01 Q1008 PACM 051556Z AUTO 00000KT 7SM OVC002 02/01 A2975 RMK AO2 SLP069 T00170011 FZRANO PABV 051556Z AUTO 00000KT 10SM CLR 04/00 A2986 RMK AO2 SLP119 T00390000 YTNG 051600Z AUTO 00000KT 9999 // NCD 15/14 Q1017 PADE 051553Z AUTO 28005KT 3/4SM BR VV003 M02/M03 A2982 RMK AO2 SLP098 T10221033 TSNO $ YSWG 051600Z AUTO 10007KT 9999 // NCD 10/06 Q1018 YSWH 051600Z AUTO 36007KT 9999 // NCD 14/09 Q1014 PADG 051516Z 00000KT 15SM BKN050 00/M01 A2978 UDYZ 051530Z 27006MPS 9999 FEW040CB 23/02 Q1007 R27/010070 NOSIG YTNK 051600Z AUTO 09006KT 9999 // ////// 24/16 Q1013 OINB 051400Z 05006KT CAVOK 21/18 Q1006 PADK 051556Z AUTO 36018G21KT 4SM SCT013 BKN023 OVC031 02/M03 A3010 RMK AO1 PAEC 051510Z 00000KT 30SM SKC 01/M01 A2981 RMK NOSPECI PADL 051556Z 03012KT 10SM FEW120 04/02 A2963 RMK AO2 SLP038 T00390022 OIMM 051530Z 04010KT 9999 SCT030 SCT190 26/10 Q1010 A2984 PACV 051553Z 08005KT 10SM FEW025 BKN065 OVC080 06/02 A2998 RMK AO2 RAB06E15 SLP153 P0000 T00610017 PADM 051556Z AUTO 08012KT 10SM CLR 03/01 A2975 RMK AO2 TSNO T00330011 SLP063 $ PAED 051558Z AUTO 00000KT 10SM SCT070 04/M01 A2983 RMK AO2 SLP098 T00391006 OINE 051500Z 00000KT 9999 FEW030 BKN200 24/20 Q1008 OIMN 051500Z 28002KT 9999 FEW040 SCT110 BKN170 23/09 Q1014 UERP 051500Z 03004MPS CAVOK M04/M08 Q1006 R35/090060 NOSIG RMK QFE711 OING 051530Z 09006KT 9999 FEW030 SCT200 22/20 Q1009 PAEG 051553Z AUTO 10SM SCT100 03/M01 A2985 RMK AO2 SLP114 T00331006 TSNO UERR 051500Z 25003MPS CAVOK M04/M09 Q1009 R25/CLRD60 NOSIG RMK QFE725 OIMQ 051400Z 27016KT 6000 NSC 32/04 Q1011 PADQ 051553Z 06022KT 6SM RA BR BKN014 OVC018 05/04 A2960 RMK AO2 PK WND 06029/1532 SLP023 P0006 T00500039 PACZ 051555Z AUTO 02012G18KT 10SM FEW043 BKN070 02/02 A2968 RMK AO2 SLP056 T00230016 PAEH 051555Z AUTO 11005KT 10SM BKN075 04/03 A2964 RMK AO2 SLP041 T00430028 PAEI 051558Z AUTO 00000KT 10SM CLR 03/00 A2984 RMK AO2 SLP111 T00331005 CHINO RWY14 $ NSFA 051500Z 00000KT 9999 FEW026 SCT300 24/24 Q1011 PAFA 051553Z 00000KT 10SM FEW120 FEW200 03/00 A2985 RMK AO2 SLP114 T00330000 OINK 051400Z 07004KT 8000 FEW035 SCT200 25/20 Q1006 PAFB 051558Z 08002KT 10SM CLR 04/00 A2986 RMK AO2A SLP116 T00351001 $ PAEL 051449Z 00000KT 7SM -RA BKN010 OVC022 05/05 A3015 RMK SEA 0 SWELL 2 SW NOSPECI PADU 051546Z 31023G32KT 10SM BKN016 OVC023 05/02 A2961 RMK AO2 PK WND 33037/1520 WSHFT 1443 RAB15E35 BLK WTR NE-E AND NW CS P0000 $ PAEM 051436Z AUTO 00000KT 10SM OVC080 M01/M01 A2974 RMK VIA PHONE OINN 051500Z 11008KT 9999 FEW030 BKN180 21/16 Q1005 PAEN 051553Z 04008KT 10SM CLR 04/00 A2980 RMK AO2 SLP093 T00440000 PAFE 051556Z 10007KT 10SM BKN019 OVC028 07/03 A3025 RMK AO1 OINR 051500Z 15004KT 9999 FEW030 SCT100 BKN170 22/16 Q1007 PAGA 051458Z AUTO 00000KT 10SM BKN085 01/01 A2980 RMK AO2 SLP098 6//// T00110006 53001 FZRANO PNO $ PAGB 041925Z 270004KT 20SM SKC 01/ A2971 RMK LAST PAFM 051556Z AUTO 07003KT 1 1/4SM BKN002 OVC110 M03/M04 A2986 RMK AO1 OINZ 051500Z 06006KT 9999 SCT100 BKN200 25/19 Q1007 PAGH 051557Z AUTO 27003KT 10SM CLR M02/M02 A2983 RMK AO2 SLP133 T10221022 FZRANO PAFR 051553Z AUTO 00000KT 10SM SCT075 03/00 A2983 RMK AO1 SYCJ 051500Z 08006KT 9999 BKN021 32/23 Q1014 NOSIG PAFS 051556Z AUTO 00000KT 10SM CLR 04/M02 A2978 RMK AO2 TSNO T00441022 SLP092 $ PAGK 051553Z AUTO 14009KT 10SM CLR 03/M03 A2992 RMK AO2 SLP146 T00331033 TSNO PAGL 051556Z AUTO 29008KT 10SM BKN090 M01/M03 A2979 RMK AO1 PAHC 051556Z AUTO 05003KT 10SM CLR 02/01 A2975 RMK AO2 PWINO TSNO T00160005 SLP076 $ YTRE 051534Z AUTO 00000KT 3900 // SCT002 12/11 Q1018 PAGM 051437Z AUTO 10SM BKN013 OVC019 M02/M21 A2983 RMK VIA PHONE PAGN 051556Z AUTO 06003KT 10SM OVC026 07/06 A3022 RMK AO2 RAE47 SLP224 P0001 T00670056 PAGS 051556Z AUTO 11007KT 10SM -RA FEW012 OVC032 06/04 A3020 RMK AO2 SLP227 P0000 T00610039 PAHL 051556Z AUTO 00000KT 01/00 A2979 RMK AO1 PAHN 051554Z AUTO 12008KT 10SM SCT015 BKN028 OVC110 07/04 A3017 RMK AO2 SLP218 T00670039 TSNO PAHO 051553Z 09005KT 10SM SCT120 07/02 A2975 RMK AO2 SLP075 T00670022 PAGY 051553Z AUTO 20015KT 10SM BKN120 08/04 A3015 RMK AO2 SLP211 T00830039 TSNO PAHP 051556Z AUTO 00000KT 10SM BKN028 OVC080 02/M01 A2971 RMK AO1 PAIG 051556Z AUTO 04019G24KT 10SM CLR 05/03 A2964 RMK AO2 PK WND 04027/1532 SLP047 T00500033 $ PAII 051556Z AUTO 05007KT 10SM SCT100 03/01 A2955 RMK AO2 SLP010 T00280011 OISA 051400Z 25012KT 9999 SCT040TCU FEW100 26/M04 Q1020 NTAA 051600Z VRB03KT 9999 FEW023 24/21 Q1013 NOSIG PAIK 051532Z AUTO 18004KT 10SM BKN002 M03/M04 A2984 RMK AO2 FZRANO PNO $ PAIL 051553Z 00000KT 10SM FEW060 BKN085 04/01 A2970 RMK AO2 SLP058 T00390011 PAJC 051456Z AUTO 04015G20KT 10SM -RA BKN016 OVC024 04/02 A2947 RMK AO2 SLP979 P0002 60005 T00440022 56029 PAIN 051556Z AUTO 00000KT 10SM CLR 01/M04 A2983 RMK AO1 OISF 051400Z 19004KT 9999 FEW040 34/00 Q1012 PAHX 051556Z AUTO 03004KT 10SM CLR 01/01 A2976 RMK AO2 SLP081 T00110006 FZRANO YTTI 051600Z AUTO 07008KT //// // ////// 30/25 Q1010 PAHY 051556Z AUTO 00000KT 10SM CLR 06/04 A3025 RMK AO2 SLP241 T00610044 YTST 051600Z AUTO 00000KT 9999 // NCD 27/25 Q1010 OISL 051400Z 12004KT CAVOK 38/04 Q1008 PAIW 051533Z AUTO 06020KT 3SM UP BR OVC005 M04/M04 A2985 RMK AO2 UPB24SNE24 P0000 FZRANO PAJN 051553Z 08006KT 10SM -RA FEW003 BKN031 OVC037 06/04 A3020 RMK AO2 SLP227 P0002 T00610039 DIAD 051400Z 20002KT 9999 SCT016TCU 32/25 Q1010 NOSIG PAKF 051501Z AUTO 35017G25KT 10SM -RA OVC016 05/03 A2949 RMK AO2 PK WND 35026/1444 RAB1439 SLP080 P0000 60000 T00500028 56018 $ CPRO 051500Z AUTO 33015KT 16/02 RMK AO1 PK WND 32019/1450 T01580020 PAKH 051556Z AUTO 06020G25KT 10SM -RA OVC029 06/01 A2941 RMK AO2 TSNO T00550011 P0000 PK WND 08027/1507 SLP963 $ PAKI 051556Z AUTO 34011KT 1/4SM FG OVC002 02/02 A2968 RMK AO2 SLP051 T00170017 FZRANO OISS 051500Z 28012KT 7000 FEW045 30/M02 Q1016 A3002 ZLLL 051500Z 02005MPS CAVOK 13/M06 Q1018 NOSIG OKBK 051600Z 36021KT 1400 R33L/P1500N R33R/P1500N +BLDU NSC 37/12 Q1007 NOSIG PAKK 051556Z AUTO 36007KT 10SM CLR 02/M08 A2976 RMK AO1 OITL 051450Z 20017KT 8000 FEW040 BKN080 OVC200 20/06 Q1011 OITM 051500Z 24006KT CAVOK 21/04 Q1014 SYGO 051500Z 04008KT 9999 BKN020 30/24 Q1015 PAKN 051554Z 03009KT 10SM FEW065 BKN120 04/01 A2954 RMK AO2 SLP004 T00440011 OITP 051400Z 11014KT CAVOK 21/16 Q1005 OISY 051500Z 00000KT 3000 DU FEW040 SCT180 25/05 Q1021 PAKP 051556Z AUTO 00000KT 10SM CLR M07/M09 A2973 RMK AO1 PALG 051556Z AUTO 10006KT 10SM CLR 05/01 A2973 RMK AO2 TSNO T00500011 SLP071 $ PALH 051553Z AUTO 00000KT 10SM BKN070 05/01 A2985 RMK AO2 SLP110 T00500006 TSNO CPRY 051500Z AUTO 35011KT 15/04 RMK AO1 PK WND 35021/1438 T01520044 OITR 051530Z 24008KT CAVOK 18/02 Q1012 DIAP 051530Z 22011KT 170V250 9999 FEW012 32/25 Q1010 NOSIG PALJ 051452Z 06010KT 30SM SCT080 BKN250 04/02 A2970 RMK FIRST EST PASS OPN NOSPECI OITT 051530Z 22008KT 8000 FEW035 SCT190 18/06 Q1014 A2994 PAKT 051553Z 10005KT 10SM FEW010 07/06 A3027 RMK AO2 SLP250 HARBOR WIND 12004KT T00720056 PAMB 051556Z AUTO 02012G21KT 10SM BKN014 04/02 A2962 RMK AO2 SLP037 T00390017 $ PAKU 051545Z 08007KT 3/16SM R06/2200FT -SHSN FZFG VV002 M11/M13 A2995 OITU 051350Z 24010KT CAVOK 22/M01 Q1011 PAMC 051453Z 00000KT 10SM FEW050 SCT090 M01/M02 A2979 RMK AO2 SLP093 T10061017 56003 DGTK 051000Z 23008KT 9999 FEW014 32/25 Q1014 NOSIG DIBK 051400Z 18004KT 9999 BKN015 34/22 Q1014 NOSIG CPST 051500Z AUTO 35017KT 11/M00 RMK AO1 PK WND 35025/1426 T01141004 PAKV 051553Z AUTO 23004KT 10SM CLR 02/M01 A2981 RMK AO2 SLP098 T00171006 TSNO $ PAMD 051556Z AUTO 12017G25KT 10SM FEW029 SCT039 BKN046 06/02 A2990 RMK AO1 PAKW 051553Z AUTO 00000KT 10SM CLR 08/07 A3024 RMK AO2 SLP240 T00780067 TSNO CPSV 051500Z AUTO 34008KT 17/07 RMK AO1 T01680069 PALP 051545Z 10008KT 4SM BR OVC003 M10/M11 A2995 OITZ 051500Z 21017KT 9999 SCT035 BKN090 21/M04 Q1014 PAMH 051556Z AUTO 00000KT 10SM CLR 03/M01 A2982 RMK AO1 PANA 051556Z AUTO BKN065 BKN080 04/02 A2968 RMK AO2 SLP050 T00390017 $ PAMK 051556Z AUTO 13003KT 10SM BKN075 M02/M08 A2975 RMK AO2 TSNO T10161083 SLP074 PANC 051553Z 00000KT 10SM BKN065 BKN110 BKN150 04/02 A2984 RMK AO2 SLP108 T00440017 PALU 051555Z AUTO 13008KT 9SM -SN OVC007 M03/M03 A2989 RMK AO2 SNB1547 SLP120 P0000 T10291034 PAMM 051556Z AUTO 00000KT 10SM CLR 10/08 A3028 RMK AO1 DIBU 051400Z 00000KT 9999 BKN015 34/21 Q1012 NOSIG PAMO 051556Z AUTO 06008KT 10SM BKN060 03/01 A2973 RMK AO2 TSNO T00330005 SLP953 $ PAMR 051553Z 00000KT 10SM SCT070 04/M02 A2984 RMK AO2 SLP106 T00441017 PANI 051556Z AUTO 00000KT 10SM CLR 01/M01 A2975 RMK AO1 UHBB 051500Z 15003MPS 9999 FEW033 12/M05 Q1005 R36/090060 NOSIG RMK QFE737/0982 DIDK 051400Z ///// 9999 BKN015 37/26 Q1010 NOSIG PANN 051553Z AUTO 10007KT 10SM CLR 03/M02 A2982 RMK AO2 SLP104 T00331017 TSNO PAMY 051556Z AUTO 31009KT 1/2SM OVC003 00/M02 A2971 RMK AO1 PAOH 051556Z AUTO 00000KT 10SM -RA BKN006 BKN018 OVC050 06/04 A3020 RMK AO2 SLP226 P0001 T00560044 PANT 051553Z 15005KT 10SM FEW008 09/04 A3026 RMK AO2 SLP246 T00890044 PAPB 051553Z AUTO 33020KT 2 1/2SM -SN BR BKN018 BKN025 OVC033 00/M02 A2981 RMK AO2 PK WND 35028/1505 VIS 1 1/4V5 SNB00 SLP083 P0000 T00001017 TSNO PAOM 051553Z 00000KT 10SM FEW050 SCT065 03/01 A2975 RMK AO2 SLP074 T00280006 PANV 051556Z AUTO 05007KT 10SM OVC075 03/M01 A2973 RMK AO1 UGKO 051530Z 25018KT 9999 -SHRA SCT018CB BKN034 16/13 Q1008 R07/29//50 NOSIG PAOO 051556Z AUTO 33004KT 10SM OVC055 03/02 A2969 RMK AO2 SLP065 T00330022 PAPG 051556Z 00000KT 10SM SCT029 BKN035 08/03 A3024 PAPH 051556Z AUTO 05009KT 10SM OVC065 03/02 A2949 RMK AO2 SLP988 T00280017 PAOR 051553Z AUTO 10005KT 10SM CLR 04/M04 A2988 RMK AO2 SLP136 T00391039 TSNO OIZB 051500Z 12006KT CAVOK 33/09 Q1007 PAOT 051553Z 22003KT 1 1/2SM R09/4500VP6000FT -SN BR OVC003 M03/M04 A2981 RMK AO2 SNE04B33 SLP096 VIS 3/4 V 1 1/2 P0000 I1000 T10281044 $ DIGA 051400Z 22006KT 9999 SCT015 34/25 Q1012 NOSIG PAOU 051501Z AUTO 01020KT 10SM CLR 06/03 A2945 RMK AO2 PK WND 02027/1446 SLP974 T00560028 56026 PAPM 051556Z AUTO 04012KT 10SM OVC090 05/03 A2964 RMK AO2 SLP039 T00500028 CPXL 051500Z AUTO 33006KT 15/06 RMK AO1 T01540055 PAPN 051556Z AUTO 05013KT 10SM OVC065 06/02 A2950 RMK AO2 SLP990 T00560022 PAPO 051556Z AUTO 00000KT 7SM BKN001 M05/M08 A2984 RMK AO1 OIZH 051530Z 06008KT 9999 FEW040 SCT200 30/02 Q1016 A3001 NOSIG PAQH 051556Z AUTO 05005KT 10SM BKN070 OVC080 03/02 A2966 RMK AO2 SLP045 T00280022 OIZI 051500Z 25004KT 9999 FEW040 38/05 Q1008 OIZJ 051500Z 08008KT 5000 BR NSC 28/25 Q1005 PAPT 051502Z 26003KT 10SM BKN060 M02/M02 A2978 RMK NO SPECI FIRST PARC 051556Z 00000KT 10SM M01/M06 A2975 RMK AO1 OIYY 051530Z 35002KT 9999 FEW040 33/M06 Q1015 PASA 051556Z AUTO 03006KT 9SM OVC006 M02/M04 RMK AO1 PAQT 051553Z AUTO 07007KT 1/4SM FZFG VV003 M11/M11 A2996 RMK AO2 SLP144 T11061106 FZRANO TSNO PASC 051553Z VRB04KT 3/4SM R05/3500V5000FT BR OVC003 M08/M09 A2994 RMK AO2 SLP140 I1000 T10831094 PASD 051556Z 01012G20KT 10SM FEW017 BKN028 BKN038 05/02 A2939 RMK WEA MTB 051600Z AUTO 28012KT 9999 // NCD 11/06 Q//// YWCA 051600Z AUTO 04005KT //// // ////// 13/09 Q1016 PASH 051556Z AUTO 35005KT 10SM BKN003 OVC047 M03/M05 A2990 RMK AO1 PNO PASI 051553Z 12005KT 10SM SCT026 OVC033 08/06 A3019 RMK AO2 RAE16 SLP223 P0000 T00780056 YWBL 051600Z AUTO 35011KT 9999 // SCT090 15/10 Q1010 OLBA 051500Z 23008KT 8000 SCT026 22/14 Q1013 PATA 051552Z 11004KT 10SM SCT060 OVC080 03/00 A2981 RMK AO2 SLP100 T00280000 PARS 051556Z AUTO 00000KT 10SM CLR 01/M01 A2974 RMK AO2 TSNO T00051005 SLP075 $ PASK 051556Z AUTO 24005KT 3/4SM OVC003 M03/M04 A2985 RMK AO1 PASL 051556Z AUTO 34003KT 1/2SM OVC002 M01/M01 A2980 RMK AO1 PATC 051555Z AUTO 03026KT 1/4SM -SN FZFG VV003 M04/M05 A2978 RMK AO2 PK WND 02028/1455 SNB1355 SLP091 P0000 T10451047 PASM 051556Z 10008KT 10SM CLR 03/M01 A2970 RMK AO1 PATE 051458Z AUTO 10012KT 10SM CLR M02/M03 A2979 RMK AO2 SLP101 T10171033 55003 FZRANO PASN 051453Z 33014KT 10SM OVC028 00/M03 A2982 RMK AO2 SLP098 60000 T00001033 56006 $ PASO 051553Z AUTO 00000KT 10SM 04/02 A2974 RMK AO2 SLP071 T00390022 TSNO $ YWBR 051530Z AUTO 11002KT //// // ////// 17/17 Q1015 PATG 051356Z AUTO 34007KT 10SM OVC031 04/03 A2967 RMK AO2 SLP048 P0161 T00440033 PARY 051556Z AUTO 00000KT 10SM CLR 04/M01 A2978 RMK AO2 TSNO T00381005 SLP092 $ MSV 051600Z AUTO 26007KT 9999 // NCD 09/06 Q1018 PATK 051553Z AUTO 00000KT 10SM CLR 03/M02 A2987 RMK AO2 SLP118 T00281017 TSNO PATL 051555Z AUTO 08001KT 10SM CLR 03/01 A2979 RMK AO2 SLP092 T00330010 $ PASV 051555Z AUTO 06004KT 10SM CLR 04/M03 A2969 RMK AO2 SLP064 T00401035 MUI 051600Z AUTO 33007KT 9999 // NCD 14/07 Q1020 PASW 051450Z 00000KT 30SM SCT080 BKN120 M01/M02 A2988 RMK FIRST NOSPECI PATO 051553Z AUTO 14013G29KT 3SM -RA OVC024 05/01 A2988 RMK AO2 PK WND 13029/1552 SLP119 P0009 T00500011 TSNO PASX 051556Z AUTO 09003KT 10SM CLR 03/M02 A2978 RMK AO1 UHHH 051530Z 25002MPS CAVOK 02/01 Q1013 R05R/CLRD60 NOSIG RMK QFE753/1005 PASY 051556Z 21018G24KT 9SM OVC025 03/M03 A3008 RMK AO2 SLP187 WND DATA ESTMD T00281034 $ PATQ 050656Z AUTO 07010KT 10SM OVC007 M06/M06 A2994 RMK AO2 TSNO T10551061 SLP143 $ NSTU 051552Z VRB02KT 10SM FEW016 SCT040 BKN100 25/25 A2984 RMK SLP105 T02510247 PAVC 051556Z AUTO 34006KT 10SM OVC110 06/M01 A2944 RMK AO2 SLP973 T00561011 PAVD 051556Z 31004KT 10SM FEW015 BKN060 BKN100 06/M01 A2998 RMK AO1 1547Z WEA PAUN 051556Z AUTO 09009KT 10SM CLR 05/00 A2976 RMK AO1 DIKO 051400Z 20006KT 9999 BKN015 34/22 Q1012 NOSIG UIAA 051500Z 02003MPS 9999 NSC 05/M10 Q1013 R29/CLRD70 NOSIG RMK QFE701 UGSB 051530Z 24007KT 7000 -RA SCT009 BKN018 15/14 Q1012 R13/29//55 NOSIG PAVL 051553Z AUTO 00000KT 10SM OVC100 M02/M02 A2981 RMK AO2 SLP094 T10171022 TSNO PAWD 051553Z AUTO 00000KT 10SM SCT050 OVC060 05/03 A2985 RMK AO2 RAE43 SLP108 P0000 T00500033 TSNO PAWG 051556Z 10006KT 10SM SCT040 07/03 A3027 RMK AO1 WEA PAWI 051553Z AUTO 09008KT 1/4SM FZFG VV002 M09/M11 A2994 RMK AO2 SLP138 I1003 T10941106 TSNO UIBB 051530Z 19002MPS 9999 NSC 05/M05 Q1014 R30/CLRD60 NOSIG RMK QFE717/0957 UGTB 051530Z 30009KT 9999 SCT050CB 21/10 Q1007 R31L/CLRD75 NOSIG PAWM 051458Z AUTO 36008KT 10SM CLR 02/00 A2976 RMK AO2 SLP090 T00170000 57006 FZRANO PAWN 051556Z AUTO 00000KT 1 1/2SM OVC002 M03/M06 A2982 RMK AO1 DIMN 051400Z 18006KT 9999 SCT015 34/23 Q1013 NOSIG YWHA 051600Z AUTO 33008KT 9999 // NCD 17/07 Q1012 PAYA 051553Z 09006KT 10SM SCT037 BKN090 BKN110 06/04 A3010 RMK AO2 SLP193 T00560039 PAWS 051556Z 07009KT 10SM CLR 06/M04 A2983 RMK AO1 ZLXY 051500Z VRB01MPS CAVOK 18/14 Q1009 NOSIG DIOD 051400Z 16006KT 8000 SCT015 35/23 Q1012 NOSIG UHMA 050600Z 32003MPS 9999 SCT036 BKN100 M03/M04 Q1013 R88/CLRD60 NOSIG RMK QFE756/1008 YWGT 051600Z AUTO 00000KT 9999 // SCT057 09/08 Q1018 YVRD 051600Z AUTO 00000KT //// // ////// 25/21 Q1010 UHMD 050400Z 19003MPS 9999 -SN OVC020 M01/M03 Q1012 RMK QBB600 MT OBSC QFE758/1011 PAZK 051556Z AUTO 05006KT 10SM CLR M01/M06 A2980 RMK AO1 UHMM 051500Z 00000MPS 9999 NSC M03/M04 Q1001 RMK QFE736 YWIS 051600Z AUTO 00000KT //// // ////// 17/16 Q1016 OMAA 051500Z 35011KT CAVOK 31/20 Q1005 A2968 NOSIG OMAD 051500Z 36011KT CAVOK 30/21 Q1005 A2969 NOSIG ZMUB 051600Z VRB01MPS CAVOK M04/M07 Q1020 NOSIG RMK QFE657.2 80 OMAL 051500Z 36018KT 6000 NSC 37/10 Q1007 A2974 NOSIG YWLG 051600Z AUTO 10003KT 9999 // NCD 12/08 Q1017 TQPF 051500Z 10015KT 9999 SCT020 29/23 Q1016 YWLM 051600Z AUTO 00000KT //// // ////// 12/11 Q1018 DITB 051400Z 22002KT 8000 RA SCT004 26/25 Q1012 RETS NOSIG UHPP 051500Z 00000MPS 9000 FEW006 OVC022CB 01/M01 Q0997 R34R/290155 NOSIG RMK QFE744/0993 EBBE 051525Z AUTO 06008KT 9999 NCD 19/03 Q1019 BLU DISP 051400Z 20010KT 9999 FEW013CB 29/25 Q1011 NOSIG OMDB 051500Z 04007KT 010V080 CAVOK 33/15 Q1006 NOSIG DISS 051400Z ///// 9999 SCT015 FEW020CB/S-NW 31/26 Q1013 BECMG TSRA NOSIG EBBL 051525Z AUTO 08010KT 9999 NCD 20/03 Q1020 BLU EBAW 051550Z 09009KT 060V120 CAVOK 20/02 Q1019 NOSIG UIII 051530Z 09002MPS CAVOK 04/M07 Q1017 R12/CLRD60 NOSIG RMK QFE720/0960 EBCI 051550Z 12009KT 080V160 CAVOK 19/01 Q1019 NOSIG EBBR 051550Z 09006KT 040V130 CAVOK 19/02 Q1019 NOSIG CTCK 051500Z AUTO 06015G20KT 15/06 RMK AO1 PK WND 06021/1406 SLP109 T01460058 51004 VAAH 051530Z 33003KT 4000 FU NSC 35/10 Q1006 NOSIG YWOL 051600Z AUTO 23003KT 9999 // NCD 08/07 Q1016 VABB 051530Z 29007KT 5000 HZ SCT020 29/24 Q1008 NOSIG KA08 051535Z AUTO 31011G18KT 10SM CLR 19/05 A2993 RMK AO2 T01850047 OMDW 051500Z 03009KT 8000 NSC 31/15 Q1007 NOSIG EBCV 051525Z AUTO 09012KT 9999 NCD 19/01 Q1018 BLU UHSS 051500Z 33003MPS 9999 BKN026CB 04/02 Q1006 RMK MT OBSC QFE753/1004 OMFJ 051500Z 14006KT 6000 NSC 31/23 Q1007 A2974 VAAU 051500Z 36004KT 6000 SCT020 34/12 Q1009 EBDT 051525Z AUTO 06006KT 9999 NCD 20/01 Q1020 BLU VABO 051530Z 22004KT 6000 NSC 34/17 Q1006 VABP 051530Z 03010KT 6000 FEW020 FEW030CB SCT100 25/17 Q1011 NO SIG VABV 051300Z 18011KT 6000 FEW025 37/14 Q1005 EBFN 051525Z 10011KT 9999 SCT220 19/01 Q1019 BLU EBFS 051525Z 08008KT 9999 FEW250 18/02 Q1019 BLU DIYO 051400Z 14006KT 9999 BKN016 35/24 Q1010 NOSIG YWUD 051600Z AUTO 31003KT //// // ////// 10/06 Q1013 YWTN 051600Z AUTO 11004KT //// // ////// 20/04 Q1013 UHWW 051530Z 05002MPS 9999 NSC 07/03 Q1010 R07R/0///70 NOSIG RMK QFE757 TRPG 051500Z 13014KT 9999 BKN020 27/24 Q1016 VAID 051500Z 07004KT 6000 FEW020 27/16 Q1010 NOSIG EBLB 051525Z AUTO 10010KT 9999 NCD 16/02 Q1020 BLU EBLG 051550Z 11007KT 070V160 CAVOK 20/02 Q1019 NOSIG YWWL 051600Z AUTO 00000KT //// // ////// 08/07 Q1018 VAJB 051500Z 18008KT 6000 SCT025 31/10 Q1009 UKBB 051530Z 36004MPS 9999 FEW040CB 20/02 Q1014 R88/CLRD// TEMPO BKN025CB YWYM 051600Z AUTO 00000KT //// // ////// 28/25 Q1009 CTNK 051500Z AUTO 08004KT 13/05 RMK AO1 SLP123 T01270048 50002 UKDD 051530Z 04004MPS CAVOK 20/02 Q1010 R08/090070 NOSIG UKDE 051500Z 19004MPS 140V240 9999 SCT050 BKN100 16/09 Q1011 R20/CLRD70 NOSIG TTCP 051500Z 14013KT 9999 FEW018 30/23 Q1015 NOSIG UIUU 051530Z 27004MPS 9999 NSC 02/M08 Q1019 R26/010095 NOSIG RMK QFE720/0960 EBOS 051550Z 10009KT 060V120 CAVOK 19/02 Q1019 NOSIG UKDR 051530Z 27004MPS CAVOK 20/05 Q1011 R36/09//70 NOSIG OMRK 051500Z 33004KT CAVOK 32/09 Q1006 A2973 CTRA 051500Z AUTO 22009G21KT 17/M00 RMK AO1 PK WND 21021/1456 SLP076 T01651003 58015 VANP 051530Z 08008KT 2000 -TSRA SCT015 FEW030CB BKN090 23/20 Q1012 TEMPO 1500 TSRA NVSG 042100Z 00000KT 9999 BKN020 OVC040 26/23 Q1014 RMK RESH OMSJ 051500Z 03005KT CAVOK 31/17 Q1006 EDAH 051450Z 04007KT 360V070 CAVOK 16/01 Q1027 EDBC 051550Z 11007KT 060V160 CAVOK 18/07 Q1024 UKHH 051530Z 03008MPS 9999 SCT033CB BKN100 17/04 Q1012 R07/0///65 NOSIG NVVA 051200Z 00000KT 9999 SCT018 BKN038 23/21 Q1014 RMK RESH PFCL 051556Z AUTO 04011KT 10SM CLR 02/02 A2961 RMK AO2 SLP029 T00220017 FZRANO YYNG 051600Z AUTO 17004KT //// // ////// 05/04 Q1019 ULAA 051530Z 32002MPS 270V010 9999 FEW030 SCT100 15/M02 Q1021 R26/CLRD70 NOSIG RMK QFE764/1019 VARK 051400Z 27016KT 6000 FEW020 33/19 Q1007 EDDB 051550Z VRB02KT CAVOK 20/05 Q1025 NOSIG EDDC 051550Z 07009KT 040V100 9999 FEW042 17/07 Q1024 NOSIG EDDE 051550Z 08010KT 040V110 CAVOK 17/06 Q1023 NOSIG EDDF 051550Z 11013KT CAVOK 20/05 Q1020 NOSIG EDDG 051550Z 10008KT 030V160 CAVOK 19/03 Q1022 NOSIG EDDH 051550Z 08009KT 050V140 CAVOK 18/04 Q1025 NOSIG KAAA 051555Z AUTO 34008KT 10SM CLR 13/07 A3002 RMK AO2 T01280069 PFEL 051558Z AUTO 02006KT 10SM 03/01 A2978 RMK AO2 SLP091 T00330006 $ KC09 051555Z AUTO 34004KT 10SM CLR 13/06 A3000 RMK AO2 T01300059 NVVV 041900Z 10003KT 9999 FEW020 18/18 Q1014 RMK HZ EDDK 051550Z 13009KT 070V170 CAVOK 20/05 Q1020 NOSIG NVVW 050600Z 00000KT 9999 FEW018 BKN280 26/24 Q1012 RMK RESH EDDL 051550Z 13009KT 040V150 CAVOK 20/05 Q1020 NOSIG EDDM 051550Z 08012KT 050V110 CAVOK 15/07 Q1021 NOSIG KAAF 051553Z AUTO 01010KT 320V030 10SM CLR 24/11 A2985 RMK AO2 SLP109 T02440106 EDDN 051550Z 08009KT 030V120 CAVOK 18/06 Q1022 NOSIG VCBI 051510Z 17004KT 9999 VCTS FEW018 FEW020CB 30/24 Q1010 NOSIG RMK SE S EDDP 051550Z 08014KT 9999 FEW040 18/07 Q1024 NOSIG UKKK 051530Z 31003MPS 290V350 9999 FEW031CB 18/04 Q1014 R26/CLRD70 TEMPO VRB10G17MPS 2400 -TSRAGR SCT007 BKN020CB VASU 051330Z 25006KT 6000 SCT200 30/25 Q1006 EDDR 051550Z 10011KT 070V130 CAVOK 18/04 Q1018 NOSIG VAUD 051500Z 35005KT 3000 HZ FEW035 34/04 Q1008 NOSIG EDDS 051550Z 08014KT 050V110 CAVOK 17/06 Q1019 TEMPO 08015G25KT UKKM 051530Z AUTO 28002MPS 9999 // VCSH FEW099CB 18/06 Q1014 EDDT 051550Z VRB04KT CAVOK 20/02 Q1025 NOSIG ZPPP 051500Z 21005MPS CAVOK 17/09 Q1019 NOSIG KABE 051551Z 07012G16KT 10SM OVC028 13/07 A2970 RMK AO2 SLP059 T01280067 EDDV 051550Z 10011KT 070V130 CAVOK 18/05 Q1024 NOSIG EDFE 051550Z 09009KT CAVOK 19/07 Q1020 KAAO 051554Z AUTO 28003KT 10SM CLR 21/04 A3012 RMK AO2 SLP194 T02110044 EDDW 051550Z 12008KT 100V170 CAVOK 18/02 Q1024 NOSIG UKLI 051530Z 23002MPS 9999 VCTS -SHRA BKN016CB BKN030 13/11 Q1018 R28/090070 TEMPO VRB15MPS 1200 TSRAGR KABH 051556Z AUTO 03007KT 10SM CLR A3018 RMK AO2 RAB1459E55 SLPNO P0000 $ EDFH 051550Z 11012KT 070V140 CAVOK 16/05 Q1020 KABI 051552Z 00000KT 10SM CLR 24/11 A3013 RMK AO2 SLP185 T02440106 UKLL 051530Z 33006MPS 9999 SCT033CB BKN100 16/07 Q1019 R31/CLRD80 TEMPO VRB09G15MPS -TSRAGR BKN020CB KAAT 051555Z AUTO 00000KT 10SM OVC100 08/07 A2991 RMK AO2 SLP113 T00830072 KACB 051555Z AUTO 21004KT 10SM CLR 13/06 A2999 RMK AO2 T01250060 KC29 051535Z AUTO 36006KT 10SM CLR 12/03 A3006 RMK AO1 T01150033 UKLN 051500Z 30005MPS 9999 -SHRA SCT033CB BKN100 15/08 Q1017 R33/29//60 TEMPO VRB15MPS 1000 TSRAGR SQ BKN004 BKN020CB EDFM 051550Z 10009KT 070V130 CAVOK 21/06 Q1020 KC35 051555Z AUTO 00000KT 10SM CLR 12/03 A3006 RMK AO2 T01160025 UKLR 051500Z 00000MPS 9999 SCT026CB BKN100 18/07 Q1017 NOSIG KABQ 051552Z VRB03KT 10SM FEW150 FEW300 21/M03 A3022 RMK AO2 SLP165 T02111033 KABR 051553Z AUTO 21010KT 10SM CLR 23/07 A2996 RMK AO2 SLP142 T02330067 KACJ 051535Z AUTO 32010G19KT 10SM SCT002 SCT050 18/00 A2985 RMK AO2 UKLU 051530Z 05008G15MPS 340V100 9999 SCT040 BKN200 19/04 Q1019 R10/090070 NOSIG KACK 051553Z 02022G31KT 3SM +RA BR OVC005 08/07 A2965 RMK AO2 PK WND 03032/1503 SLP042 P0017 T00780072 $ KADC 051553Z AUTO 20011KT 10SM CLR 21/03 A2996 RMK AO2 KADF 051556Z AUTO 35007KT 310V020 10SM CLR 22/06 A3006 RMK AO2 T02160061 SLP191 KADG 051553Z AUTO 04012G19KT 10SM CLR 16/08 A2987 RMK AO2 SLP119 T01610078 KABY 051553Z 34013G22KT 10SM CLR 21/02 A2986 RMK AO2 SLP109 T02060017 KACP 051555Z AUTO 36007KT 10SM CLR 24/09 A3001 RMK AO2 T02350091 KACQ 051555Z AUTO 22007KT 10SM CLR 17/M01 A3009 RMK AO2 KADH 051555Z AUTO 00000KT 10SM CLR 21/06 A3012 RMK AO2 EDHI 041820Z 30007KT CAVOK 13/04 Q1028 EDGS 051550Z 12013KT 090V150 CAVOK 15/05 Q1021 KACT 051551Z 06003KT 10SM CLR 24/11 A3010 RMK AO2 SLP189 T02440111 $ EDHK 051550Z 08010KT CAVOK 14/03 Q1026 KACV 051553Z AUTO 19004KT 8SM OVC004 12/12 A2988 RMK AO2 RAE25 SLP123 P0000 T01220117 EDHL 051550Z 05011KT CAVOK 16/04 Q1026 KADM 051555Z 00000KT 10SM SKC 22/09 A3012 UKOH 051500Z 35003MPS 9999 BKN030CB BKN100 13/10 Q1012 R03/CLRD95 NOSIG KACY 051554Z 05011KT 10SM OVC012 10/08 A2966 RMK AO2 SLP044 T01000078 KAEG 051547Z VRB04KT 10SM SKC 19/M03 A3025 KAEJ 051555Z AUTO 09004KT 10SM CLR 13/M04 A3033 RMK AO2 T01321040 KADS 051547Z AUTO 00000KT 13SM SKC 23/03 A3011 DNAA 051400Z 22006KT 190V250 9999 FEW013 FEW020CB 30/22 Q1012 NOSIG EDJA 051550Z 08011KT 050V110 CAVOK 15/06 Q1020 KAEL 051554Z AUTO 24004KT 10SM CLR 16/M01 A3009 RMK AO2 KADU 051555Z AUTO 00000KT 10SM CLR 18/M01 A3010 RMK AO2 UKON 051500Z VRB02MPS 9999 VCTS SCT026CB OVC100 14/09 Q1011 NOSIG UKOO 051530Z 10005MPS 060V130 CAVOK 16/07 Q1012 R34/290054 NOSIG KADW 051558Z AUTO 02009KT 10SM OVC008 10/09 A2966 RMK AO2 DZE26RAB26E27DZB31E41 SLP051 P0001 CWAE 051500Z 00000KT 15SM FEW045 FEW060 FEW200 09/06 A3007 RMK SC1SC1CI1 SC TR CI TR WND ESTD SLP187 KAFF 051458Z AUTO 36010KT 10SM CLR 20/M02 A3021 RMK AO2 SLP155 51003 CWAF 051500Z AUTO 04014KT 06/04 RMK AO1 PK WND 05018/1422 T00640035 KAFJ 051555Z AUTO 34006KT 10SM BKN019 BKN029 OVC042 13/08 A2972 RMK AO1 CWAJ 051500Z AUTO 06010KT 11/07 RMK AO1 SLP096 T01140067 51016 CWBA 051500Z AUTO 28002KT 13/04 RMK AO1 T01330042 KAFK 051555Z AUTO 00000KT 10SM CLR 19/03 A3010 RMK AO2 T01890031 KAGC 051553Z VRB05KT 10SM FEW021 BKN042 OVC060 13/08 A2970 RMK AO2 SLP062 T01330078 TTPP 051500Z 09012KT 9999 FEW025 32/22 Q1014 NOSIG KAFN 051552Z AUTO VRB04KT 9SM BKN007 OVC013 08/06 A2978 RMK AO2 SLP095 T00780061 DNBE 051200Z 30010KT 9999 BKN012 33/25 Q1013 CWBE 051500Z AUTO 21006KT 11/04 RMK AO1 SLP142 T01110043 52008 KAEX 051553Z 01008G14KT 10SM CLR 24/07 A3000 RMK AO2 SLP161 T02390072 KAFO 051555Z AUTO 00000KT 10SM CLR 10/03 A3011 RMK AO2 KAFP 051550Z AUTO 31012KT 10SM SCT018 BKN023 OVC075 14/08 A2963 RMK AO2 T01360082 KC75 051535Z AUTO 36007KT 10SM CLR 11/05 A3003 RMK AO2 T01110050 CWAQ 051500Z AUTO 14007KT 21/05 RMK AO1 SLP081 T02140054 57004 CWAR 051500Z AUTO 08007KT 07/02 RMK AO1 SLP199 T00670015 50003 PFKT 051458Z AUTO 03011KT 10SM CLR 00/M03 A2982 RMK AO2 SLP099 T00001028 55003 FZRANO CWCA 051500Z 25004KT 15SM FEW020 FEW300 13/01 A3004 RMK CU1CI1 CU TR CI TR SLP175 PFKW 051556Z AUTO 08007KT 10SM CLR 03/00 A2969 RMK AO2 SLP054 T00280000 CWAV 051500Z AUTO 34010KT 08/02 RMK AO1 SLP169 T00810021 51021 KAFW 051553Z 00000KT 10SM FEW250 24/08 A3011 RMK AO2 SLP189 T02390083 CWBO 051500Z AUTO 34016KT 15/03 RMK AO1 PK WND 33020/1454 SLP114 T01540029 51021 CWCF 051500Z AUTO 20006KT 16/05 RMK AO1 SLP029 T01640046 58001 CWCI 051500Z AUTO 33004KT 04/01 RMK AO1 SLP170 T00350011 51007 KAIA 051553Z AUTO 20008KT 10SM CLR 23/06 A3004 RMK AO2 SLP143 T02280061 $ KAGS 051553Z 30012G18KT 270V330 10SM SCT055 19/06 A2969 RMK AO2 SLP051 T01940061 EDMA 051550Z 10011KT 060V130 CAVOK 16/05 Q1021 CWDA 051500Z AUTO 14006KT 04/03 RMK AO1 SLP215 T00370027 53006 CWCJ 051500Z AUTO 24004KT 03/M00 RMK AO1 SLP165 T00291004 58001 CWBS 051500Z AUTO 04011KT 10/06 RMK AO1 PK WND 04017/1425 T00950057 KAIB 051555Z AUTO 35004KT 10SM CLR 17/00 A3020 RMK AO2 CWBT 051500Z AUTO 13006KT 06/02 RMK AO1 SLP198 T00620022 50003 KAID 051551Z 34010KT 7SM OVC015 10/08 A2990 CWDC 051500Z AUTO 30008KT 10/04 RMK AO1 SLP089 T00990039 51011 CWBU 051500Z AUTO 30006KT 24/04 RMK AO1 SLP045 T02370039 50001 CWBV 051500Z AUTO 06023KT 05/ RMK AO1 PK WND 06030/1402 SLP100 T0046 58002 KAHN 051551Z 31011G18KT 260V360 10SM SCT050 BKN060 17/04 A2975 RMK AO2 SLP073 T01670039 EDLN 051550Z 12009KT 080V160 CAVOK 20/04 Q1020 CWCO 052300Z AUTO 09004KT 17/02 RMK AO1 SLP053 T01720019 53010 KAIG 051555Z AUTO 00000KT 10SM CLR 12/01 A3003 RMK AO2 T01180008 CWBY 051500Z AUTO 10007KT 09/02 RMK AO1 SLP182 T00860018 50001 EDLP 051550Z 10011KT CAVOK 18/04 Q1022 KAHQ 051555Z AUTO 00000KT 10SM CLR 20/03 A3009 RMK AO2 P0003 T01980027 CWBZ 051400Z AUTO 05011G16KT 12/06 RMK AO1 SLP115 T01160061 51007 UMBB 051330Z 02007G10MPS 9999 BKN040CB 20/06 Q1020 R29/CLRD// NOSIG OOMS 051450Z 06012KT 8000 NSC 32/24 Q1005 NOSIG KD07 051556Z AUTO 20009KT 20/08 A2992 RMK AO1 SLP127 T02000078 CWDJ 051500Z AUTO 18005KT 23/03 RMK AO1 SLP076 T02290031 58001 KAIK 051555Z AUTO 30010G14KT 270V330 10SM SCT048 SCT055 BKN070 16/05 A2971 RMK AO2 KBAB 051458Z AUTO 14014KT 10SM BKN050 BKN130 15/10 A2981 RMK AO2 SLP097 T01500097 51006 $ CWCT 051500Z AUTO 34018G25KT 13/03 RMK AO1 PK WND 34028/1441 SLP125 T01330026 53027 CWEB 051500Z AUTO 34003KT 07/04 RMK AO1 PRESFR SLP111 T00650037 50011 CWDK 051500Z AUTO 01013G21KT 13/02 RMK AO1 PK WND 36022/1442 SLP144 T01340021 51022 KBAC 051555Z AUTO 26016G22KT 10SM CLR 26/07 A2991 RMK AO2 KBAD 051558Z AUTO 01004KT 9SM CLR 22/08 A3005 RMK AO2 SLP178 T02220080 CWDM 051500Z AUTO 04008KT 03/02 RMK AO1 SLP209 T00330016 50002 EDLV 051550Z 09006KT 010V170 CAVOK 20/04 Q1020 PFNO 051558Z AUTO 00000KT 7SM OVC003 M03/M04 A2984 RMK AO2 SNE11 SLP108 P0000 T10331039 FZRANO CWEE 051500Z AUTO 14/01 RMK AO1 SLP137 T01350005 56006 KBAF 051553Z 03010G16KT 10SM OVC020 10/06 A2974 RMK AO2 SLP075 T01000056 EDLW 051550Z 08007KT 020V120 CAVOK 19/02 Q1021 KAIO 051555Z AUTO 00000KT 10SM CLR 18/00 A3009 RMK AO2 EDMO 051320Z 07013KT 030V100 CAVOK 15/06 Q1021 CWEF 051500Z AUTO 11022KT 02/02 RMK AO1 PK WND 08028/1446 SLP159 T00220017 57001 CWDO 051500Z AUTO 10004KT 02/M00 RMK AO1 SLP226 T00151003 53007 KAJG 051537Z AUTO 35008KT 10SM BKN028 OVC033 11/04 A2995 RMK AO2 CWDQ 051500Z AUTO 32007KT 14/M02 RMK AO1 SLP139 T01361018 58012 CWEH 051500Z AUTO 30010KT 21/04 RMK AO1 SLP093 T02130036 53006 EEEI 051250Z 29011KT 260V320 CAVOK 17/M01 Q1025 NOSIG KBAK 051550Z 36011KT 10SM BKN020 OVC027 09/07 A2990 KAIT 051552Z AUTO 20009KT 10SM CLR 19/M06 A2996 RMK AO2 KBBB 051553Z AUTO 21009KT 10SM CLR 22/M02 A2999 RMK AO2 CWDT 051500Z AUTO 11004KT 11/M03 RMK AO1 SLP161 T01061028 57008 CWEK 051500Z AUTO 05013KT 07/05 RMK AO1 SLP246 T00700054 50006 CWEL 051500Z AUTO 32018KT 11/07 RMK AO1 PK WND 32022/1402 SLP179 T01050070 51009 NWWW 051530Z AUTO 00000KT CAVOK 21/19 Q1014 NOSIG CWDV 051500Z AUTO 20005KT 11/01 RMK AO1 SLP132 T01140008 56012 CWFD 051500Z AUTO ///// CLR M09/ A2978 RMK ICG SLP153 KBAN 051552Z AUTO 00000KT 10SM SCT110 09/01 A2987 RMK AO2 SLP072 T00890006 DNEN 051200Z 24005KT 9999 BKN011 32/24 Q1012 NOSIG KBBF 051555Z AUTO 30014KT 10SM CLR 24/18 A3006 RMK A01 KAJO 051556Z AUTO VRB03KT 10SM FEW034 OVC050 16/11 A2993 RMK AO2 SLP144 T01610111 $ CWFF 051500Z AUTO 03003KT 22/04 RMK AO1 SLP061 T02180035 50008 KBBG 051554Z 34011G17KT 10SM SKC 19/04 A3007 ULLI 051530Z 04003MPS 360V080 CAVOK 19/00 Q1023 R88/090070 NOSIG KD25 051535Z AUTO 28003KT 10SM CLR 13/M01 A3002 RMK AO2 T01251008 CWEP 051500Z AUTO 04012KT 03/02 RMK AO1 5PAST HR 8012 SLP130 P0002 T00280023 50024 KAIZ 051555Z AUTO 02008KT 340V060 10SM CLR 18/01 A3007 RMK AO1 KAKH 051554Z AUTO VRB05KT 10SM BKN055 OVC070 16/03 A2964 RMK AO2 SLP035 T01560028 TSNO CWDZ 051500Z AUTO 35013KT 14/01 RMK AO1 PK WND 35024/1443 T01430009 CWEQ 051500Z AUTO 24008KT 24/03 RMK AO1 SLP047 T02410033 50000 KAJR 051555Z AUTO 31015G24KT 10SM BKN060 BKN070 13/03 A2975 RMK AO2 T01310034 CWER 051400Z AUTO 05022KT RMK AO1 PK WND 05026/1314 CWFJ 051500Z AUTO 36008KT 13/05 RMK AO1 T01250053 KALB 051551Z 36008KT 10SM FEW026 BKN028 OVC032 12/06 A2978 RMK AO2 SLP083 T01170061 KBCB 051555Z AUTO 30005KT 10SM RA OVC015 07/05 A2970 RMK AO2 P0006 T00650051 TSNO CWGB 051500Z AUTO 27018KT 10/06 RMK AO1 PK WND 27021/1450 SLP180 T01000060 51009 CWEU 051500Z 00000KT 15SM FEW160 BKN200 M16/M19 A3024 RMK AC1CI6 SLP242 CWGD 051500Z AUTO 03009G17KT 13/07 RMK AO1 PK WND 03018/1445 SLP110 T01310069 51010 KBCE 051553Z AUTO 14016KT 10SM CLR 14/M03 A3015 RMK AO2 SLP114 T01441028 CWEW 051500Z AUTO 06009KT 14/07 RMK AO1 PK WND 07018/1406 SLP134 T01350066 53004 KAKO 051553Z AUTO 24007KT 10SM CLR 21/07 A3011 RMK AO2 SLP153 T02110067 KBAX 051554Z AUTO 36010KT 10SM CLR 12/08 A2992 RMK AO2 T01210078 KBBP 051555Z AUTO 34015G22KT 10SM SCT016 SCT046 BKN090 16/12 A2961 RMK AO2 P0001 EDNY 051520Z 05010KT CAVOK 19/04 Q1018 KBAZ 051551Z 04003KT 10SM CLR 28/11 A3008 RMK AO2 SLP179 T02780111 EDOP 051550Z 05009KT 020V080 CAVOK 18/02 Q1025 KAJZ 051555Z AUTO 09004KT 10SM CLR 20/M01 A3016 RMK AO2 T01981013 KAKQ 051554Z AUTO 05005KT 10SM SCT007 OVC013 12/11 A2960 RMK AO2 SLP023 T01220106 TSNO CWFQ 051500Z AUTO 01009G16KT 12/05 RMK AO1 SLP104 T01190051 50006 CWEZ 051500Z AUTO 28004G15KT 12/07 RMK AO1 PK WND 32017/1414 SLP174 T01230073 53008 KALI 051553Z AUTO VRB03KT 10SM CLR 28/11 A3007 RMK AO2 SLP180 T02780111 KAKR 051554Z AUTO VRB04KT 8SM FEW010 SCT017 BKN050 14/10 A2976 RMK AO2 RAE1457 SLP077 P0000 T01440100 KAMA 051553Z 19010KT 10SM CLR 23/05 A3016 RMK AO2 SLP173 T02330050 ULMM 051530Z 10002MPS 9999 BKN030 09/01 Q1022 R31/090070 NOSIG RMK QFE759 KD39 051553Z AUTO 19009KT 10SM CLR 20/01 A3000 RMK AO2 T01980007 KALK 051556Z AUTO 19019G27KT 10SM CLR 25/M08 A3007 RMK AO2 PK WND 21027/1543 SLP088 T02501078 KBCK 051555Z AUTO 03003KT 10SM CLR 14/M01 A3006 RMK AO2 T01381011 CWGL 051500Z AUTO 08008KT 12/06 RMK AO1 SLP111 T01150063 51009 KALM 051555Z AUTO 29003KT 10SM CLR 23/M06 A3018 RMK AO2 CWGM 051500Z AUTO 06007KT 12/05 RMK AO1 T01170052 KBDE 051553Z AUTO 23011G18KT 10SM CLR 22/03 A2981 RMK AO2 SLP097 T02220033 TSNO KBBW 051553Z AUTO 20008KT 10SM CLR 21/08 A3008 RMK AO2 SLP180 T02110078 KALN 051547Z 36012KT 10SM BKN034 12/04 A3003 KALO 051554Z 33005KT 10SM OVC100 12/01 A3010 RMK AO2 SLP195 T01220011 DNGO 051200Z 33010KT CAVOK 38/18 Q1011 KAMG 051553Z AUTO 28016G28KT 10SM CLR 19/03 A2977 RMK AO2 PK WND 31028/1545 SLP077 T01940033 KBDG 051555Z AUTO 13009KT 10SM CLR 19/M03 A3023 RMK AO1 T01861027 KBDH 051555Z AUTO 20007KT 10SM CLR 20/01 A3003 RMK AO2 NZAA 051530Z AUTO 30001KT 9999 OVC006/// 18/18 Q1024 TEMPO 4000 BKN005 OOSA 051450Z 20008KT 9999 FEW025 30/26 Q1008 NOSIG CWHI 051400Z AUTO 33018KT 12/M00 RMK AO1 PK WND 33026/1347 T01231001 CWGR 051500Z AUTO 08015KT 03/03 RMK AO1 PK WND 08020/1443 SLP152 T00280028 58007 ZSAM 051500Z 21002MPS 170V240 8000 SCT013 26/25 Q1010 BECMG TL1630 2500 BR BKN011 KALS 051552Z AUTO 00000KT 10SM CLR 14/M04 A3033 RMK AO2 SLP204 T01391044 KBEA 051555Z AUTO 30005KT 10SM CLR 28/13 A3008 RMK AO2 T02820125 KBCT 051447Z 3301018KT 10SM CLR 24/12 A2981 KANB 051553Z AUTO 28012G20KT 10SM FEW060 18/04 A2986 RMK AO2 SLP110 T01780044 KD50 051535Z AUTO 20010KT 10SM CLR 24/08 A2984 RMK AO2 DNIB 051200Z 24006KT 9999 BKN014 32/23 Q1013 CWGT 051500Z AUTO 32016KT 11/06 RMK AO1 PK WND 32021/1402 SLP185 T01080055 51010 KBDL 051551Z 03013G20KT 10SM OVC022 11/06 A2973 RMK AO2 SLP067 T01110056 CWHL 051500Z AUTO 06003KT 06/04 RMK AO1 SLP247 T00620039 53007 KAND 051556Z AUTO 30016G21KT 10SM FEW065 17/02 A2970 RMK AO2 SLP052 T01720017 KBED 051556Z 05013G19KT 10SM OVC015 08/06 A2977 RMK AO2 SLP094 T00830056 EDQM 051550Z 10008KT 050V150 CAVOK 16/03 Q1023 CWID 051500Z AUTO 26009G15KT 09/02 RMK AO1 SLP118 T00910020 51013 CWHM 051500Z AUTO 06012G18KT 13/05 RMK AO1 PK WND 03024/1418 T01280048 KALW 051553Z 23003KT 10SM CLR 16/12 A2992 RMK AO2 SLP129 T01610117 KANE 051550Z 21011KT 10SM SCT100 17/M01 A3003 KAMN 051551Z AUTO 33010G14KT 10SM SCT019 14/09 A2994 RMK AO2 T01350089 KBDN 051555Z AUTO 34005KT 7SM OVC003 10/10 A2994 RMK AO2 CWGW 051500Z AUTO 36003KT 09/07 RMK AO1 SOG 00 1002 SLP152 T00870068 50004 CWHN 051543Z AUTO 32010KT 290V360 1 1/4SM FEW069 FEW097 11/01 A2989 KALX 051555Z AUTO 31011G19KT 10SM CLR 17/07 A2988 RMK AO2 T01700066 CWGX 051500Z AUTO 05012KT 01/M06 RMK AO1 PK WND 03018/1415 SLP103 T00111061 51022 CWHO 051500Z AUTO 00021KT 10/01 RMK AO1 SLP151 T00980006 51004 KD55 051555Z AUTO 25022G29KT 8SM CLR 27/06 A2982 RMK AO2 PFSH 051558Z AUTO 02010KT 10SM FEW080 01/M01 A2978 RMK AO2 SLP099 T00061006 FZRANO CWIG 051500Z AUTO 03016KT RMK AO1 PK WND 03021/1413 CWGY 051500Z AUTO 30014KT 17/05 RMK AO1 PK WND 30018/1402 SLP091 T01700048 53020 KBEH 051553Z AUTO 32007KT 10SM BKN010 08/05 A2998 RMK AO2 SLP154 T00830050 CWGZ 051500Z 00000KT 1/4SM -SN FZFG OVC008 M12/M14 A3022 RMK FG6ST2 SLP240 CWHQ 051500Z AUTO 10009KT 13/04 RMK AO1 T01300036 ULPB 051530Z 14002MPS 9999 FEW020 18/M03 Q1022 R19/09//70 RMK QFE763/1017 KBDR 051552Z 04014G21KT 10SM OVC024 12/06 A2970 RMK AO2 SLP058 T01170056 KD57 051555Z AUTO RMK AO2 PNO PWINO TSNO CWII 051500Z AUTO 20009KT 15/05 RMK AO1 T01450054 KANJ 051555Z AUTO 28009KT 10SM CLR 12/05 A2997 RMK AO2 SLP151 T01220050 KANK 051555Z AUTO 00000KT 10SM CLR 13/M01 A3039 RMK AO1 T01321012 CWIJ 051500Z AUTO 24016KT M00/M01 RMK AO1 SOG 65 3005 PK WND 25023/1442 SLP992 T10031008 KD60 051535Z AUTO 24008KT 10SM CLR 23/07 A2990 RMK AO2 OPKC 051555Z 21007KT 7000 FEW020 28/22 Q1009 NOSIG CWJB 051500Z AUTO 08010G16KT 12/03 RMK AO1 T01150034 CWHT 051500Z AUTO 17001KT 02/M04 RMK AO1 SOG 01 3011 SLP173 T00241036 CWIK 051500Z AUTO 28003KT 23/05 RMK AO1 SLP084 T02250052 51001 EDSB 051550Z 07011KT CAVOK 21/05 Q1018 KBDU 051556Z AUTO 00000KT 10SM CLR 18/03 A3014 RMK AO2 UKWW 051530Z 35006MPS 9999 SCT040 BKN100 18/05 Q1015 NOSIG ULOO 051530Z 01006MPS P5000 NSC 21/01 Q1021 R01/090070 RMK QFE762 CWIL 051500Z AUTO 13012KT M07/ A3002 RMK SLP176 KBFD 051553Z AUTO 02009G17KT 340V070 10SM OVC027 12/04 A2974 RMK AO2 SLP072 T01220044 CWHV 051500Z AUTO 07005KT 09/03 RMK AO1 SLP131 T00900026 50001 CWJD 051500Z AUTO 29008KT 20/02 RMK AO1 SLP028 T01990024 53003 UMGG 051530Z 01007G10MPS CAVOK 20/M02 Q1016 R28/CLRD// NOSIG KAMW 051553Z AUTO 15003KT 10SM FEW110 14/02 A3011 RMK AO2 SLP192 T01440022 NZAP 051500Z 04004KT 4000 RA SCT020 16/16 Q1024 RMK ALT VATSIM USE ONLY KBFF 051553Z AUTO 00000KT 10SM CLR 21/06 A3004 RMK AO2 SLP141 T02110061 CXAF 051500Z AUTO 33012KT 10/01 RMK AO1 PK WND 33019/1458 T01020010 TUPJ 051600Z 13010KT 9999 SCT020 30/24 Q1015 RMK A2999 CXAG 051500Z AUTO 33008KT 10/06 RMK AO1 T01010057 CWIP 051500Z AUTO 12007KT 07/ RMK AO1 T0070 KAOH 051553Z AUTO 36011KT 10SM OVC013 11/08 A2983 RMK AO2 SLP104 T01060083 KANQ 051635Z AUTO 01008KT 10SM 14/08 A2989 RMK CWJH 051500Z AUTO 05006KT 11/04 RMK AO1 SLP058 T01100039 51025 KBFI 051553Z VRB03KT 10SM FEW024 BKN250 14/08 A3005 RMK AO2 SLP174 T01440083 OPLA 051555Z 34006KT 5000 HZ FEW040 SCT100 31/13 Q1008 NOSIG CWJI 051500Z AUTO 24006KT 23/02 RMK AO1 SLP086 T02330020 50001 KAPA 051553Z 26005KT 10SM BKN220 21/M02 A3017 RMK AO2 SLP162 T02111017 PHBK 051556Z AUTO 10003KT 10SM SCT070 23/19 A3001 RMK AO2 SLP165 T02330189 PNO $ EEKA 051350Z 32007KT CAVOK 16/03 Q1025 CXBA 051500Z AUTO 35014KT 17/05 RMK AO1 PK WND 35021/1454 T01650048 CXAJ 051500Z AUTO 31008KT 11/03 RMK AO1 T01050031 CWIS 051500Z AUTO 05007KT 06/01 RMK AO1 SLP148 T00580011 53003 CXAK 051500Z AUTO 34020KT 14/M01 RMK AO1 PK WND 35026/1455 T01381008 KAPC 051554Z 25004KT 10SM BKN085 BKN110 14/11 A2986 RMK AO2 SLP103 T01440106 KBFL 051554Z 31005KT 10SM OVC065 17/08 A2988 RMK AO2 SLP114 T01670078 KBFM 051553Z 03009KT 10SM CLR 22/12 A2994 RMK AO2 SLP137 T02220122 KBGD 051551Z AUTO 20008KT 10SM CLR 24/04 A3013 RMK AO2 SLP170 T02440039 CWKD 051500Z AUTO 11008KT 07/M03 RMK AO1 SLP157 T00671027 58008 KANW 051555Z AUTO 18010KT 10SM CLR 23/07 A3005 RMK AO2 T02300072 KBGE 051535Z AUTO 30015G19KT 10SM CLR 21/05 A2987 RMK AO2 CWIW 051500Z AUTO 24005KT 22/05 RMK AO1 SLP065 T02190047 50002 KAPF 051553Z 31014G22KT 10SM CLR 26/12 A2985 RMK AO2 SLP108 T02560122 KAOO 051553Z AUTO 05005KT 10SM BKN022 OVC029 11/07 A2971 RMK AO2 SLP061 T01060067 EEKE 051550Z AUTO 29007KT 250V330 9999NDV NCD 18/M06 Q1025 KBGF 051555Z AUTO 30012KT 10SM SCT049 SCT060 15/04 A2981 RMK DNJO 051200Z 26015KT 9999 BKN011 FEW019CB 29/22 Q1017 KAPG 051552Z 03006KT 7SM OVC010 11/08 A2971 CWIX 051500Z AUTO 08006KT 13/01 RMK AO1 SLP144 T01290013 58005 CWJO 051500Z AUTO 11008KT 13/04 RMK AO1 SLP159 T01330035 58005 NZCH 051537Z 06010KT 30KM OVC013 13/10 Q1021 RMK VATSIM USE ONLY NZCI 051500Z 09001KT 20KM SCT012 14/14 Q1023 RMK ALT NZNR VATSIM USE ONLY CWIY 051500Z AUTO 05007KT 06/02 RMK AO1 SLP154 T00630015 53003 CWKG 051500Z AUTO 07007KT 07/06 RMK AO1 PK WND 09017/1446 SLP084 T00660058 55001 CWIZ 051500Z AUTO 04007KT 13/06 RMK AO1 T01260061 CWKH 051500Z AUTO 10/05 RMK AO1 SLP166 T00970046 51005 CXBI 051500Z AUTO 07004KT 12/07 RMK AO1 SLP115 T01170066 51007 CWJR 051500Z AUTO 28002KT 13/12 RMK AO1 SLP148 T01290116 51014 CXCA 051500Z AUTO 22006KT 09/02 RMK AO1 SLP138 T00940021 58016 KBHB 051556Z AUTO 03015G19KT 10SM OVC010 06/04 A2984 RMK AO2 RAE06 CIG 008V013 SLP108 P0000 T00610044 NZCM 041757Z 09007KT 9999 SKC M25/M31 A2936 RMK SLP905 CXAT 051500Z AUTO 14003KT M09/M11 RMK AO1 SOG 06 SLP221 T10881114 CWKK 051500Z AUTO 19007KT 08/02 RMK AO1 PK WND 20018/1441 SLP120 T00750018 58014 CXBK 051500Z AUTO 28003KT 23/01 RMK AO1 SLP072 T02290006 50004 CWJT 051500Z AUTO 05003KT 13/02 RMK AO1 SLP123 T01330015 55000 CWLB 051500Z AUTO 34006KT 10/02 RMK AO1 1023 SLP148 T00970015 50005 KBHC 051555Z AUTO 29014G22KT 10SM SCT050 20/05 A2976 RMK AO2 PNO CWJU 051500Z AUTO 14004KT 07/04 RMK AO1 SLP246 T00720043 58002 CWLC 051500Z AUTO 08001KT 08/06 RMK AO1 T00830056 KBGM 051553Z 04011KT 10SM OVC021 09/05 A2974 RMK AO2 SLP074 T00940050 $ EDTL 051550Z 10007KT 070V140 CAVOK 21/02 Q1017 CXCD 051500Z AUTO 29008KT 08/M04 RMK AO1 T00841038 CWJV 051500Z AUTO 24003KT 11/10 RMK AO1 8PAST HR 3021 SLP167 P0003 T01100100 50015 CWKM 051500Z AUTO 28008KT M07/ A2996 RMK SLP151 KAPN 051554Z AUTO 34006KT 10SM CLR 14/07 A2997 RMK AO2 SLP151 T01390067 KBFW 051554Z AUTO 18006KT 10SM SCT100 14/02 A2992 RMK AO2 CWJW 051500Z AUTO 03002KT 05/04 RMK AO1 1021 SLP202 T00510036 50006 DNKN 051500Z 36003KT 9999 SCT019 41/15 Q1008 NOSIG CWLE 051500Z AUTO 23014KT 23/04 RMK AO1 PK WND 22019/1436 SLP068 T02290035 58002 VCRI 051510Z 17002KT 9999 FEW017 FEW020CBW 28/25 Q1010 NOSIG CXBO 051500Z AUTO 10012G17KT RMK AO1 PK WND 10019/1442 CWJX 051500Z AUTO 28013KT 16/05 RMK AO1 3PAST HR 3013 PK WND 28017/1439 SLP084 P0001 T01620054 50006 CWKO 051500Z AUTO 24004KT 20/05 RMK AO1 SLP094 T02010053 54000 UMII 051500Z 01006G11MPS 330V040 CAVOK 18/M04 Q1019 R05/CLRD// NOSIG UNAA 051530Z 34002MPS CAVOK 07/M03 Q1011 R02/090065 NOSIG RMK QFE736 CWKP 051500Z AUTO ///// M07/ A2970 RMK SLP091 CXCH 051500Z AUTO 06/03 RMK AO1 5PAST HR M P0006 T00570029 50032 KBGR 051553Z 02013KT 2SM -DZ OVC009 08/06 A2987 RMK AO2 SLP115 P0000 T00830056 CXBR 051500Z AUTO 03015KT 14/04 RMK AO1 PK WND 03022/1449 T01360044 CWLI 051500Z AUTO 24019KT M06/ A2990 RMK SLP140 KARA 051553Z 02012KT 10SM CLR 24/09 A2999 RMK AO2 SLP155 T02440094 KARB 051553Z 02010G17KT 10SM CLR 17/07 A2987 RMK AO2 SLP114 T01670072 KBHK 051551Z AUTO 17007KT 10SM CLR 24/09 A2991 RMK AO2 SLP107 T02440094 DNKT 051200Z 35008KT CAVOK 38/19 Q1013 NOSIG CXCK 051500Z AUTO 12001KT M03/M06 RMK AO1 3PAST HR 3009 SLP163 P0001 T10261057 50003 CXDB 051500Z AUTO 33009KT 15/05 RMK AO1 T01450047 NZDN 051500Z 00000KT 0400 FG SCT002 00/00 Q1022 RMK ALT VATSIM USE ONLY KBHM 051553Z 29010G19KT 10SM FEW046 18/06 A2991 RMK AO2 SLP122 T01780056 KBID 051556Z AUTO 03018G24KT 10SM OVC009 08/06 A2968 RMK AO2 PK WND 03027/1544 SLP054 T00830061 CWLM 051500Z AUTO 01003KT 11/05 RMK AO1 SLP179 T01070053 51007 KBIE 051555Z AUTO 33005KT 10SM CLR 20/05 A3011 RMK AO2 T01960052 EDVE 051550Z 10012KT CAVOK 18/06 Q1024 CXBW 051400Z AUTO 33012KT 15/05 RMK AO1 T01470054 CWME 051500Z AUTO 03023KT 09/05 RMK AO1 PK WND 03028/1444 SLP210 T00940049 58002 CWKW 051500Z AUTO ///// A2978 KBIF 051458Z AUTO 06004KT 8SM SCT130 22/M07 A3014 RMK AO2 SLP146 T02191068 51012 $ KAQO 051535Z AUTO 11005KT 10SM CLR 23/12 A3015 RMK AO2 CWKX 051500Z AUTO 23002KT M00/M02 RMK AO1 SOG 00 3007 SLP240 T10041015 KAQP 051554Z AUTO 21008KT 10SM CLR 22/02 A2999 RMK AO2 KARG 051555Z AUTO 34012KT 10SM CLR 18/03 A3000 RMK AO1 KD95 051553Z AUTO 01007G14KT 10SM CLR 14/08 A2990 RMK AO2 T01410078 OPNH 051600Z 09005KT 5000 HZ NSC 31/18 Q1006 RH46/ KAPY 051535Z AUTO 00000KT 10SM CLR 27/13 A3007 RMK AO2 T02750135 EDTY 051550Z 11012KT 080V140 9999 FEW049 17/06 Q1021 CXCP 051500Z AUTO 35024KT 14/02 RMK AO1 PK WND 35031/1442 T01370017 CWLP 051500Z AUTO 34005KT 09/06 RMK AO1 SLP209 T00870059 53003 KBIH 051556Z AUTO 17010G14KT 10SM CLR 19/M08 A2981 RMK AO2 SLP051 T01891078 UNBB 051530Z 02003MPS CAVOK 12/M09 Q1009 R06/CLRD66 NOSIG RMK QFE735 KAQR 051555Z AUTO 00000KT 10SM CLR 21/06 A3012 RMK AO2 CXDI 051500Z AUTO 05005KT 13/07 RMK AO1 SLP094 T01290073 51010 OPMT 051555Z 00000KT 4000 FU FEW120 30/19 Q1007 NOSIG KBIJ 051555Z AUTO 33007G16KT 290V010 10SM CLR 21/05 A2987 RMK AO2 VEBD 050430Z 12006KT 6000 CLOUDY FEW025 BKN100 28/20 Q1012 NOSIG CXCS 051500Z AUTO 34021KT 15/02 RMK AO1 PK WND 34028/1457 T01490023 CWLS 051500Z AUTO 03011G16KT 14/04 RMK AO1 PK WND 05019/1442 SLP111 T01370042 51006 CXEA 051500Z AUTO 22006KT 18/03 RMK AO1 SLP076 T01760028 58013 CWMJ 051500Z AUTO 04007KT 15/01 RMK AO1 PK WND 03017/1413 SLP123 T01510005 58004 CWNB 051400Z AUTO RMK AO1 EDVK 051550Z 11008KT 060V150 CAVOK 18/05 Q1023 CXDK 051500Z AUTO 30006KT 10/M04 RMK AO1 SLP131 T00981039 53010 KBJC 051447Z 00000KT 70SM BKN200 18/02 A3016 KBIL 051553Z 22008KT 10SM FEW100 SCT160 OVC250 18/06 A2993 RMK AO2 SLP107 T01780056 KE11 051555Z AUTO 20009KT 10SM CLR 25/01 A3018 RMK AO2 T02530009 KAQV 051256Z AUTO VRB04KT 10SM CLR 16/11 A3001 RMK AO2 SLP159 T01560111 $ CWNC 051500Z AUTO 07004KT 13/08 RMK AO1 SLP096 T01270078 51004 CXEC 051500Z AUTO 32012G19KT 11/01 RMK AO1 PK WND 34022/1425 SLP159 T01120007 51020 KASD 051553Z AUTO 01007KT 10SM CLR 24/13 A2994 RMK AO2 SLP138 T02440128 KCAD 051554Z AUTO 04006KT 10SM SCT009 11/07 A2997 RMK AO2 T01080070 KARM 051555Z AUTO 00000KT 10SM CLR 27/14 A3007 RMK AO2 T02670135 CWND 052119Z M01/M01 RMK 8023 T10131012 DNMM 051400Z 21009KT 180V250 9999 BKN015 34/25 Q1012 NOSIG CWMM 051500Z AUTO 00000KT 10/09 RMK AO1 SLP174 T01010090 50005 KASE 051553Z 33003KT 10SM CLR 17/M03 A3027 RMK AO2 SLP147 T01721028 KAQW 051552Z AUTO VRB05KT 10SM OVC025 11/05 A2976 RMK AO2 SLP081 T01060050 KCAE 051556Z 32009G20KT 10SM BKN047 20/06 A2964 RMK AO2 SLP034 T02000061 DNMN 051200Z 15006KT 9999 FEW011 31/22 Q1010 CWNE 051500Z AUTO 05014KT 02/02 RMK AO1 6012 PK WND 05017/1455 SLP147 T00240019 50014 KAQX 051555Z AUTO VRB06G12KT 10SM FEW048 SCT055 19/06 A2967 RMK AO2 KASG 051548Z 34011G19KT 10SM SKC 19/03 A3010 VEBI 050930Z 00000KT 5000 HZ SCT020 BKN100 21/18 Q1013 CWLX 051500Z AUTO 08016G21KT M03/ A2999 RMK SLP172 KCAG 051553Z AUTO 08010KT 10SM CLR 18/01 A3018 RMK AO2 SLP169 T01780011 CXEG 051500Z AUTO 10/02 RMK AO1 T00950020 CXDP 051500Z AUTO 31007KT 11/01 RMK AO1 T01140007 CWLY 051500Z AUTO 02011G19KT 9SM OVC100 13/07 A3009 RMK SLP193 KASH 051556Z 06004KT 10SM BKN009 OVC019 09/08 A2979 RMK AO2 RAB21E51 SLP100 P0000 T00890078 KE16 051555Z AUTO 15003KT 10SM OVC044 14/14 A2990 RMK AO2 UMKK 051530Z 35005MPS 310V040 CAVOK 14/04 Q1026 WS R24 R24/CLRD70 NOSIG RMK QFE768/1024 CWMQ 051500Z AUTO 24007KT 20/08 RMK AO1 SLP094 T01950079 51006 CWNH 051500Z AUTO 01011G18KT 09/04 RMK AO1 PK WND 01018/1452 SLP153 T00930035 57004 VEAT 051400Z 18004KT 4000 BR SCT018 FEW030CB SCT100 22/22 Q1007 NOSIG ZSHC 051530Z VRB01MPS 9999 FEW040 22/21 Q1007 NOSIG KARR 051552Z 02011KT 10SM CLR 13/06 A3002 RMK AO2 SLP167 T01330061 KBJI 051554Z AUTO 20010KT 10SM CLR 21/02 A2990 RMK AO2 T02140020 PFWS 051556Z AUTO 04010KT 10SM OVC110 02/01 A2959 RMK AO2 SLP025 T00220011 FZRANO KBIS 051552Z 21012G22KT 6SM HZ CLR 25/06 A2990 RMK AO2 SLP121 T02500056 KASJ 051550Z AUTO 02008KT 10SM +RA OVC011 12/11 A2958 RMK AO2 P0002 T01210110 KBJJ 051556Z AUTO 36006KT 9SM BKN009 BKN043 OVC060 11/09 A2978 RMK AO2 RAB34E51 SLP087 P0000 T01110089 VECC 051530Z 18009KT 3200 TS SCT018 FEW025CB SCT100 31/23 Q1007 TEMPO TL1630 2000 TSRA KCAK 051551Z 36005KT 7SM -RA SCT010 BKN047 OVC060 12/08 A2977 RMK AO2 SLP082 P0000 T01170083 KBKB 051554Z AUTO VRB03KT 10SM CLR 23/08 A3000 RMK AO2 SLP186 T02330078 KART 051556Z AUTO 04013KT 10SM BKN031 13/07 A2981 RMK AO2 SLP092 T01330067 CWNK 051500Z AUTO 27015G21KT 27/06 RMK AO1 PK WND 28021/1424 T02720055 CWMT 051500Z AUTO 29011KT 05/02 RMK AO1 SLP073 T00510017 51018 CWOB 051559Z AUTO 08016KT M03/ A2975 KASL 051535Z AUTO 02005KT 10SM CLR 21/06 A3008 RMK AO1 T02110059 VEBN 051530Z 08004KT 4000 HZ NSC 31/18 Q1005 CWNL 051500Z AUTO 33006KT 07/04 RMK AO1 SLP144 T00710040 53014 CWOC 051500Z AUTO 06005KT 07/02 RMK AO1 SLP166 T00720022 56006 KBIV 051553Z AUTO 35006KT 10SM CLR A2997 RMK AO2 SLPNO $ KARV 051535Z AUTO 26004KT 10SM CLR 13/M01 A3003 RMK AO2 T01291008 KBKD 051535Z AUTO 11006KT 10SM CLR 25/08 A3013 RMK AO2 T02500082 CWOD 051500Z AUTO 22002KT 10/04 RMK AO1 7003 SLP139 T01010035 50003 CWNM 051500Z AUTO 02002KT 12/11 RMK AO1 3PAST HR 1006 SLP143 P0001 T01210109 50021 ZSFZ 051500Z 16004MPS 8000 NSC 25/23 Q1010 NOSIG KBKE 051553Z AUTO 00000KT 10SM SCT110 16/07 A2992 RMK AO2 SLP114 T01610072 TSNO KCBE 051553Z AUTO 02006KT 10SM OVC028 12/09 A2973 RMK AO1 KARW 051555Z AUTO 27017G24KT 10SM SCT049 21/05 A2966 RMK AO2 KASN 051555Z AUTO 29008G15KT 10SM SCT050 A2988 RMK AO2 CWOE 051500Z AUTO 32010KT 19/06 RMK AO1 PK WND 33017/1400 SLP101 T01880059 51007 CXDW 051500Z AUTO 00026KT 26/07 RMK AO1 T02610069 KCAO 051555Z AUTO 22008KT 10SM CLR 24/00 A3016 RMK AO2 SLP159 T02390000 KBKF 051558Z AUTO 30003KT 10SM CLR 20/01 A3016 RMK AO2 SLP157 T02030007 KCBF 051555Z AUTO 00000KT 10SM CLR 19/05 A3009 RMK AO2 KBIX 051558Z AUTO 01007KT 10SM CLR 23/12 A2992 RMK AO2 SLP135 T02330122 KCBG 051555Z AUTO 19008KT 10SM CLR 17/04 A2998 RMK AO2 VEBS 051530Z 14008KT 5000 HZ FEW018 30/25 Q1008 NOSIG CWNP 051500Z AUTO 01001KT 12/11 RMK AO1 2013 SLP148 T01190111 50002 CWMZ 051500Z AUTO 34012KT 09/04 RMK AO1 SLP118 T00910042 50005 CWNQ 051500Z AUTO 03009G15KT 13/05 RMK AO1 SLP129 T01300050 53003 KCAR 051554Z AUTO 06007KT 10SM OVC023 08/02 A2995 RMK AO2 SLP150 T00780017 KCCA 051555Z AUTO 33006KT 290V040 10SM CLR 20/04 A3003 RMK AO2 KAST 051555Z AUTO 33009KT 10SM OVC030 12/07 A3006 RMK AO2 SLP179 T01170072 KCBK 051535Z AUTO 18008KT 10SM CLR 20/12 A3013 RMK AO2 EFET 051550Z AUTO 22006KT CAVOK 09/M01 Q1020 CXET 051500Z AUTO 06006KT 11/07 RMK AO1 SLP113 T01120068 51009 KBKL 051553Z 03020KT 3SM BR BKN004 OVC013 11/09 A2981 RMK AO2 SLP095 T01060089 KATL 051552Z 31015G21KT 10SM SCT050 17/04 A2980 RMK AO2 PK WND 30027/1542 SLP089 T01670039 VECO 050600Z 00000KT 4000 FEW025 30/21 Q1010 KCBM 051558Z AUTO 32012G20KT 10SM CLR 20/10 A2993 RMK AO2 SLP137 T01980100 $ KCAV 051555Z AUTO 00000KT 9SM CLR 16/M03 A3010 RMK AO2 CXFM 050100Z AUTO RMK AO1 VEDG 051200Z 25007KT 2500 -TSRA SCT018 FEW025CB BKN090 30/24 Q1008 TEMPO 1500 TSRA CWPD 051400Z AUTO 04003KT 05/M00 RMK AO1 SLP134 T00501001 52003 UMMG 051400Z 36007G10MPS 9999 BKN040 BKN200 21/07 Q1020 NOSIG KBKN 051555Z AUTO VRB05KT 10SM CLR 20/07 A3015 RMK AO2 KASW 051555Z AUTO 34011KT 10SM SCT019 12/08 A2992 RMK AO2 CWPE 051500Z AUTO 04009G18KT 06/05 RMK AO1 9PAST HR M20 3007 SLP109 P0004 T00550052 50015 KASX 051553Z AUTO 23006KT 10SM CLR 16/01 A2999 RMK AO2 SLP162 T01610006 PWINO PNO $ KBLF 051552Z AUTO 31008KT 10SM -RA OVC012 04/02 A2971 RMK AO2 RAB1459 SLP061 P0000 T00390017 KAUG 051553Z AUTO 03015G19KT 7SM OVC009 07/05 A2983 RMK AO2 PRESFR SLP104 T00670050 CWPF 051545Z AUTO 17003KT 10/07 RMK AO1 T01020068 KATP 051555Z AUTO 29022KT 9SM FEW024 26/19 A2999 RMK A01 KBLH 051552Z AUTO 19018KT 10SM CLR 26/07 A2978 RMK AO2 SLP079 T02560067 PHHI 051558Z AUTO 35001KT 10SM CLR 18/18 A3003 RMK AO2 SLP163 T01830175 $ KAUH 051555Z AUTO 26003KT 10SM CLR 21/03 A3011 RMK AO2 T02070026 NZGS 051500Z 34001KT 5000 BR SKC 13/12 Q1023 RMK ALT VATSIM USE ONLY CWNZ 051500Z AUTO 19006KT 03/03 RMK AO1 SOG 00 8010 SLP147 T00320027 CXGH 051500Z AUTO 16005KT 10/05 RMK AO1 T01010051 KBLI 051553Z 34004KT 10SM FEW023 BKN060 OVC090 11/09 A3005 RMK AO2 SLP181 T01110094 OPPS 051600Z 00000KT 4000 HZ FEW040 28/19 Q1010 NZHK 051500Z 12002KT 25KM SCT015 11/11 Q1025 RMK ALT VATSIM USE ONLY CXFR 051500Z AUTO 29005KT 08/M01 RMK AO1 T00811013 ULWC 051530Z 34004MPS 9999 SCT026 BKN100 18/02 Q1019 R03/010060 NOSIG RMK QFE754/1006 KATS 051555Z AUTO VRB03KT 10SM CLR 22/M02 A3017 RMK AO2 KCDA 051555Z AUTO 34007KT 10SM OVC027 11/05 A2984 RMK AO2 T01050048 KBKS 051555Z AUTO 25003KT 10SM CLR 30/10 A3006 RMK AO1 T02990101 KE38 051555Z AUTO 17010KT 10SM CLR 24/M05 A3027 RMK AO2 T02421053 PFYU 051556Z 26003KT 10SM CLR 07/M01 A2980 RMK AO1 CXHA 051500Z AUTO 03010KT 14/09 RMK AO1 SLP099 T01360087 51015 UMMM 051430Z 34006G09MPS 9999 BKN040 19/03 Q1019 NOSIG RMK QFE745 EFHA 051550Z AUTO 19008KT 160V230 CAVOK 20/M03 Q1022 KATT 051551Z AUTO 02005KT 10SM CLR 27/12 A3010 RMK AO2 SLP182 T02670117 UNEE 051530Z 29003MPS CAVOK 13/M08 Q1010 R23/CLRD60 NOSIG RMK QFE735 CWPK 051500Z AUTO 16003KT 12/M00 RMK AO1 SLP144 T01221004 58005 KCDC 051553Z AUTO 25006KT 10SM CLR 19/01 A2998 RMK AO2 SLP089 T01890011 KAVC 051556Z AUTO 03004KT 7SM OVC008 13/11 A2962 RMK AO2 LTG DSNT W T01280112 KBMC 051555Z AUTO 31004KT 10SM CLR 16/06 A2996 RMK AO1 T01610060 NZHN 051500Z 16002KT 2000 DZ SCT017 17/16 Q1024 RMK ALT NZTG VATSIM USE ONLY KBKV 051553Z 31017G22KT 10SM CLR 25/14 A2983 RMK AO2 SLP100 T02500139 KCDD 051549Z AUTO 20006KT 10SM CLR 17/02 A2988 RMK AO2 KAUM 051555Z AUTO 00000KT 10SM SCT100 13/01 A3009 RMK AO2 KBLM 051556Z AUTO 03012KT 10SM OVC014 09/06 A2969 RMK AO2 SLP060 T00940061 CXHD 051500Z AUTO 34020KT 11/01 RMK AO1 PK WND 34026/1458 T01120010 KBKW 051551Z AUTO 33008KT 10SM -RA BKN014 OVC022 06/02 A2972 RMK AO2 RAB47 SLP067 P0000 T00560022 TSNO KAUN 051555Z AUTO 14008KT 10SM SCT014 OVC035 12/09 A2987 RMK AO1 KATW 051545Z 00000KT 10SM SKC 09/01 A3004 EDXW 051550Z 27005KT 240V310 CAVOK 15/01 Q1026 KAUO 051556Z AUTO 32011G19KT 10SM FEW060 18/04 A2988 RMK AO2 SLP137 T01780039 KBKX 051556Z AUTO 23007KT 190V260 10SM CLR 21/06 A3002 RMK AO2 SLP178 T02110056 KCCO 051535Z AUTO 34011G17KT 320V020 10SM SCT065 16/05 A2983 RMK AO2 T01560054 DNPO 051100Z 21006KT 9999 BKN014 FEW023CB 31/26 Q1012 NOSIG CXHF 051500Z AUTO 14/01 RMK AO1 T01390013 CWPO 051500Z AUTO 26010G17KT 25/05 RMK AO1 PK WND 24017/1452 SLP098 T02490054 56002 KBMG 051553Z 35010G16KT 10SM BKN024 OVC044 10/05 A2991 RMK AO2 SLP130 T01000050 KATY 051553Z AUTO 24010KT 10SM CLR 22/04 A3000 RMK AO2 SLP155 T02220044 EFHF 051550Z 19008KT 150V230 CAVOK 19/01 Q1022 CWOY 051500Z AUTO 17005KT 26/02 RMK AO1 SLP059 T02560019 58005 UMMS 051530Z 03006G09MPS CAVOK 19/M02 Q1019 R31/CLRD// NOSIG KCDH 051555Z AUTO 30007KT 10SM CLR 22/04 A3005 RMK AO2 NZHS 051500Z 09001KT 20KM SCT012 14/14 Q1023 RMK ALT NZNR VATSIM USE ONLY CWQH 051500Z AUTO 05009KT 11/06 RMK AO1 T01070058 KCCR 051553Z 27008KT 10SM SCT015 BKN028 BKN030 15/09 A2986 RMK AO2 SLP097 T01500094 KBMI 051556Z 34013KT 10SM FEW025 12/08 A3002 RMK AO2 T01220077 SLP169 NZHT 051500Z 16003KT 10KM SKC 07/06 Q1025 RMK ALT VATSIM USE ONLY CWPR 051500Z AUTO 31004KT 11/06 RMK AO1 SLP165 T01070060 52013 KBNA 051553Z 33015G26KT 10SM OVC046 14/03 A2985 RMK AO2 PK WND 33026/1551 SLP107 T01390033 KAUS 051553Z 03008KT 10SM SCT200 26/12 A3008 RMK AO2 SLP181 T02610122 KCDJ 051552Z AUTO VRB03KT 18/04 A3010 RMK AO1 SLP192 T01780039 CWPS 051500Z AUTO 08/06 RMK AO1 SLP086 T00760056 51011 CWRA 051500Z AUTO 07013KT 04/02 RMK AO1 SLP199 T00440019 50000 KAVK 051555Z AUTO 00000KT 9SM CLR 22/08 A3014 RMK AO2 CWQK 051500Z AUTO 00000KT 12/10 RMK AO1 SLP179 T01170098 51008 CXIB 051500Z AUTO 02002KT 03/01 RMK AO1 9PAST HR 8002 SLP167 P0007 T00260012 50043 KBML 051552Z AUTO VRB05KT 10SM OVC015 09/04 A2984 RMK AO2 SLP111 T00890044 EFHK 051550Z 19011KT CAVOK 20/02 Q1022 NOSIG KAVL 051554Z 34021G29KT 10SM -RA SCT041 12/01 A2970 RMK AO2 PK WND 33029/1549 RAB00 SLP047 P0000 T01170011 KCEC 051556Z AUTO 29003KT 8SM OVC004 11/11 A2990 RMK AO2 CIG 002V006 SLP124 T01110111 KBLU 051552Z AUTO 32004KT 10SM CLR 12/05 A2989 RMK AO2 SLP075 T01170050 TSNO EEPU 051250Z 30009KT 240V330 CAVOK 21/M02 Q1024 OPRN 051600Z 05010KT 6000 FEW100 7/14 Q1011.1/29.86 KBLV 051558Z AUTO 02008KT 10SM CLR 14/06 A3001 RMK AO2 SLP165 T01380057 CXHM 051500Z AUTO 07007KT 12/07 RMK AO1 SLP098 T01150069 51009 PGRO 050950Z 10015G20KT 7SM SCT015 26/24 A2993 RMK LAST KCDN 051555Z AUTO RMK AO2 PNO PWINO TSNO KAUW 051554Z AUTO 26004KT 10SM CLR 13/01 A3003 RMK AO2 SLP177 T01280011 KCEF 051458Z 05012KT 10SM OVC018 10/06 A2974 RMK AO2A SLP075 T00980055 58005 PHJH 050345Z 07016G23KT 15SM FEW015 SCT050 BKN065 25/18 A3003 RMK LAST CWQO 051500Z AUTO 03009KT 07/04 RMK AO1 T00680039 CWPX 051500Z AUTO 10026KT M09/ A2978 RMK SLP107 CWRF 051500Z AUTO ///// M05/ A2997 RMK SLP186 KAVP 051554Z 03009KT 10SM OVC024 12/06 A2971 RMK AO2 SLP058 T01170061 $ KCCY 051555Z AUTO 00000KT 10SM SCT100 12/01 A3011 RMK AO2 KAWG 051555Z AUTO 35006G12KT 10SM CLR 14/04 A3010 RMK AO2 CWQP 051500Z AUTO 09010KT 12/08 RMK AO1 SLP102 T01210083 53002 CXHP 051500Z AUTO 28010KT 09/M03 RMK AO1 PK WND 29017/1458 T00901034 KBMQ 051253Z AUTO 30004KT 10SM CLR 15/10 A3010 RMK AO2 SLP180 T01500100 KAVQ 051555Z AUTO 11009G16KT 10SM CLR 27/M02 A2992 RMK AO2 T02731023 CWPZ 051500Z AUTO 00000KT M00/M04 RMK AO1 SOG 00 3007 SLP251 T10011042 CWRH 051500Z AUTO ///// M05/ A2978 RMK SLP122 KCDR 051553Z AUTO 25005KT 10SM CLR 22/07 A2999 RMK AO2 SLP141 T02170072 CXHR 051500Z AUTO 34025KT 12/01 RMK AO1 PK WND 34032/1458 T01240007 CWQR 051500Z AUTO 10010KT 04/M12 RMK AO1 T00371115 KCDS 051553Z AUTO 14011KT 10SM CLR 23/07 A3014 RMK AO2 SLP185 T02280067 OPSK 051530Z 00000KT 4000 HZ NSC 33/18 Q1005 RH40 PC KAXA 051555Z AUTO 21005G12KT 10SM CLR 17/M00 A3009 RMK AO2 CWQS 051500Z AUTO 11004KT 07/05 RMK AO1 SLP245 T00720050 50000 CWRJ 051500Z AUTO 25011KT 19/04 RMK AO1 SLP062 T01930037 50003 EGAA 051550Z 22011KT 9999 SCT035 15/06 Q1016 CWSA 051500Z AUTO 16014KT 3/8SM -RA FG VV003 11/10 A2983 RMK SLP104 KBMT 051555Z AUTO 04005KT 10SM CLR 25/08 A3004 RMK AO2 T02480084 CWRK 051500Z AUTO 05007KT 11/06 RMK AO1 SLP120 T01140061 50005 KBNL 051555Z AUTO 28007G20KT 020V030 10SM FEW042 20/08 A2968 RMK AO2 EGAC 051550Z 24009KT 9999 FEW024 SCT031 BKN049 15/04 Q1016 UMOO 051400Z 02005G09MPS 9999 FEW033 18/03 Q1018 R31/CLRD// NOSIG KAWM 051553Z AUTO 36009KT 10SM CLR 19/07 A2998 RMK AO2 SLP150 T01890072 $ PGSN 051554Z 10012KT 10SM FEW018 SCT095 BKN110 26/24 A2994 RMK AO2 SLP158 T02610239 $ KCFD 051555Z AUTO 04004KT 10SM CLR 25/11 A3009 RMK AO2 T02470105 CWRM 051500Z AUTO 33007KT 07/03 RMK AO1 PK WND 32017/1435 SLP177 T00720031 51019 CWSD 051500Z AUTO 04014KT 04/03 RMK AO1 2PAST HR 7009 PK WND 06018/1405 SLP135 P0001 T00380028 50007 CWQV 051500Z AUTO 00000KT RMK AO1 KCDW 051553Z 07011G17KT 10SM OVC023 12/M01 A2970 RMK AO2 SLP061 T01171011 KCFE 051554Z AUTO 19008KT 10SM CLR 17/00 A3004 RMK AO2 T01671004 EGAE 051550Z 24014KT 9999 SCT040 16/03 Q1014 CWRN 051500Z AUTO 06013G18KT 03/03 RMK AO1 PK WND 05018/1437 SLP119 T00340030 56014 KBNO 051553Z AUTO 06009KT 10SM -RA OVC065 10/09 A2996 RMK AO2 SLP135 P0001 T01000089 KAVX 051551Z AUTO 24003KT 10SM SCT008 SCT014 OVC024 12/11 A2993 RMK AO2 SLP133 T01220106 KAWO 051555Z AUTO 33003KT 10SM BKN019 OVC085 12/06 A3007 RMK AO1 CWSF 051500Z AUTO 10013KT 07/03 RMK AO1 SLP175 T00660029 51002 CWRO 051500Z AUTO 33005KT 09/ RMK AO1 SLP245 T0089 50005 NZKI 051500Z 06002KT 10KM VCDZ SCT007 12/11 Q1022 RMK ALT VATSIM USE ONLY CWSG 051500Z AUTO 34004KT 07/05 RMK AO1 SLP169 T00700049 55001 PHJR 051553Z 05003KT 10SM CLR 21/18 A3004 RMK AO2 SLP178 T02060183 ORBI 051600Z 01004KT 9999 SCT030 27/09 Q1010 NOSIG KAXH 051535Z AUTO 00000KT 10SM CLR 25/13 A3005 RMK AO2 T02470133 VEGK 050130Z 10007KT 6000 SCT080 SCT250 25/17 Q1009 NOAIG CYAH 051505Z AUTO 21011KT 9SM SCT022 BKN028 OVC055 05/01 A2980 RMK SLP107 KBOI 051553Z 00000KT 10SM CLR 15/08 A2987 RMK AO2 SLP095 T01500078 PGUA 051558Z AUTO 09012KT 10SM SCT015 26/23 A2994 RMK AO2 RAB45E55 SLP129 P0000 T02550229 $ NZKK 051503Z VRB03KT 15KM -DZ FEW002 BKN003 18/18 Q1024 RMK NZAA VATSIM USE ONLY KCFJ 051555Z AUTO 34009KT 10SM OVC010 08/08 A2994 RMK AO2 T00830077 OPST 051500Z 31004KT 5000 HZ SCT100 28/16 Q1008 NOSIG RH48 CXKA 051500Z AUTO 22005KT 06/02 RMK AO1 SOG 01 8007 SLP147 T00570021 KBOK 051556Z AUTO 00000KT M1/4SM FG OVC002 11/11 A2990 RMK AO2 SLP139 T01110111 CWSK 051500Z AUTO 35002KT 10/07 RMK AO1 SOG 00 0004 SLP177 T00980068 CWRT 051500Z AUTO 30001KT 11/07 RMK AO1 T01060069 CYBB 051500Z 04008KT 20SM FEW015 FEW040 M03/M06 A3007 RMK SC1SC1 SC TR SC TR SLP186 EGBB 051550Z 14009KT CAVOK 19/05 Q1017 KCEU 051554Z AUTO 33012G19KT 10SM CLR 17/02 A2971 RMK AO2 SLP057 T01720022 KCGC 051555Z AUTO 27009KT 10SM CLR 24/11 A2983 RMK AO2 KBPC 051555Z AUTO 19006KT 10SM CLR 23/06 A3013 RMK AO2 CWRU 051500Z AUTO 33019KT 09/06 RMK AO1 PK WND 33022/1438 SLP186 T00920064 56005 CWSL 051500Z AUTO 23001KT 12/ RMK AO1 3PAST HR 3020 SLP171 P0001 T0121 50005 CYBC 051500Z AUTO 12012KT 9SM CLR 07/04 A3004 RMK SLP174 CYBD 051500Z 00000KT 15SM SKC 06/03 A3022 RMK SLP236 VDPP 051530Z 16005KT 9000 TS FEW015 FEW017CB 30/23 Q1008 CB CYAM 051548Z 29015KT 240V300 15SM SKC 09/03 A2998 RMK WSHFT 1540 SF TR CI TR SLP160 KAXN 051553Z AUTO 20013KT 10SM CLR 20/01 A3000 RMK AO2 SLP160 T02000006 KCEW 051553Z AUTO 34009G15KT 10SM CLR 22/07 A2992 RMK AO2 SLP128 T02170067 KCGE 051552Z AUTO 03008KT BKN014 OVC018 10/07 A2964 RMK AO1 EFIV 051550Z AUTO 12003KT CAVOK 11/02 Q1021 PHKO 051553Z 07007KT 10SM BKN026 BKN032 OVC050 23/21 A2999 RMK AO2 RAE21 SLP157 T02330211 PNO $ KBNW 051555Z AUTO 00000KT 10SM FEW120 15/M02 A3009 RMK AO2 KCGF 051545Z 07010KT 6SM BR OVC013 12/10 A2980 EGBE 051550Z 14009KT CAVOK 20/06 Q1017 CXKE 051500Z AUTO 06005KT 13/05 RMK AO1 SLP116 T01270049 51005 EFKE 051550Z AUTO 25007KT 220V280 CAVOK 10/M01 Q1022 CWRX 051500Z AUTO 06010KT M03/ A3001 EFJO 051550Z AUTO 25003KT CAVOK 19/02 Q1022 KBPG 051555Z AUTO 18008KT 10SM CLR 24/04 A3017 RMK AO2 T02400039 KCEY 051555Z AUTO 34014G19KT 10SM FEW044 14/04 A2993 RMK AO1 CWSP 051500Z AUTO 10003KT 09/06 RMK AO1 SLP180 T00910059 51007 CWRY 051500Z AUTO 34016G21KT 17/06 RMK AO1 PK WND 32021/1452 SLP115 T01660064 53005 CWTG 051500Z AUTO 05020KT 06/03 RMK AO1 PK WND 05024/1426 SLP172 T00570028 58001 CYBG 051500Z 09009KT 25SM FEW030 FEW060 FEW160 11/03 A2997 RMK CU1SC1AC1 SLP155 ZSNB 051500Z 21002MPS 170V240 4000 SHRA BR BKN030 FEW033CB 22/22 Q1007 BECMG TL1630 -SHRA KCEZ 051553Z AUTO 13014G21KT 10SM CLR 22/M02 A3018 RMK AO2 SLP158 T02171022 PHLI 051553Z 11010KT 10SM OVC043 24/19 A3005 RMK AO2 SLP171 T02440194 VEGT 051500Z 00000KT 00000KT 3000 HZ FEW020 SCT100 27/23 Q1008 NOSIG CWRZ 051500Z AUTO 05014KT 04/02 RMK AO1 PK WND 05017/1457 SLP166 T00360024 58006 KBPI 051553Z AUTO 21004KT 10SM FEW100 12/M01 A3018 RMK AO2 SLP155 T01221011 KCGI 051553Z 01018G24KT 10SM CLR 16/03 A2998 RMK AO2 PK WND 34029/1458 SLP151 T01610033 CWSR 051500Z AUTO 34008KT 17/04 RMK AO1 SLP076 T01690040 51010 CXKI 051500Z AUTO 07/02 RMK AO1 SLP150 T00680018 58001 KCHA 051553Z 30006KT 10SM SCT040 BKN060 15/05 A2980 RMK AO2 SLP087 T01500050 EFKI 051550Z AUTO 30004KT 260V340 CAVOK 17/03 Q1022 KBOS 051554Z 05017G22KT 10SM OVC013 08/06 A2978 RMK AO2 SLP083 T00780056 KCFS 051555Z AUTO 02009KT 10SM SCT014 13/09 A2992 RMK AO2 T01260086 KAXS 051555Z AUTO 11006KT 10SM CLR 23/06 A3016 RMK AO2 T02340055 NZMC 051500Z 16003KT 10KM SKC 07/06 Q1025 RMK ALT NZHT VATSIM USE ONLY CYAS 051500Z 15010KT 15SM -SN OVC015 M07/M10 A2982 RMK ST8 SLP111 EGBJ 051550Z 17008KT CAVOK 21/02 Q1016 KBPK 051553Z AUTO VRB05KT 10SM CLR 19/05 A3003 RMK AO2 SLP164 T01890050 KE80 051555Z AUTO 14006KT 10SM CLR 21/M06 A3021 RMK AO2 T02061064 CWST 051400Z AUTO 03010KT 08/05 RMK AO1 SLP145 T00820047 55001 CYBK 051538Z 31009KT 20SM BKN015 BKN210 M09/M12 A3001 RMK SC5CI1 CI TR SLP165 CYCB 051500Z 11019KT 15SM FEW030 SCT160 OVC200 M09/M11 A2994 RMK SC1AC3CI4 SLP143 EFKK 051550Z AUTO 01007KT CAVOK 17/M02 Q1022 CYAT 051500Z AUTO 22010G21KT 9SM OVC095 05/00 A2973 RMK SLP071 PGUM 051554Z 09009KT 10SM FEW024 28/24 A2992 RMK AO2 SLP124 T02780239 $ KAZC 051555Z AUTO 14011G18KT 10SM CLR 22/M01 A3004 RMK AO2 CYBL 051500Z 32009KT 30SM SKC 09/05 A3009 RMK SLP193 KCHD 051547Z 09003KT 40SM FEW250 27/00 A2988 CXLC 051500Z AUTO 29015G23KT 02/00 RMK AO1 PK WND 28027/1449 SLP026 T00170000 52016 KCFV 051552Z AUTO 32006KT 10SM CLR 21/08 A3010 RMK AO2 SLP192 T02110078 EGCC 051550Z 19008KT 150V220 CAVOK 19/05 Q1017 NOSIG KAXV 051553Z AUTO 36009KT 10SM OVC014 11/10 A2985 RMK AO2 NZMF 051500Z 04006KT 20KM SKC 02/01 Q1024 RMK ALT NZQN VATSIM USE ONLY CYCD 051500Z 30008KT 280V340 30SM FEW120 FEW250 12/03 A3007 RMK AC1CI1 SLP183 CXKM 051500Z AUTO 35019KT 13/02 RMK AO1 PK WND 00025/1437 T01260023 VEGY 051200Z 36002KT 4500 HZ FEW020 SCT100 35/19 Q1006 KBOW 051452Z 29011KT 15SM FEW060 23/12 A2983 KAZE 051555Z AUTO 31009G20KT 280V340 10SM SCT050 19/04 A2976 RMK AO2 T01940040 CWSW 051500Z 35002KT 20SM FEW015 OVC050 09/07 A2997 RMK SF1SC8 SF TR SLP152 DENSITY ALT 3800FT CYAW 051500Z 05012KT 1SM -SHRA BR OVC005 06/06 A2981 RMK SF8 DA-646FT VIS VRB 5/8-11/2 SLP096 CWTN 051500Z AUTO 08015G20KT 11/04 RMK AO1 PK WND 09022/1447 SLP145 T01140041 51002 CYBN 051500Z AUTO 07007KT 040V110 9SM OVC022 OVC053 OVC067 14/08 A2986 RMK SLP115 EETN 051550Z 29009KT 260V320 CAVOK 17/01 Q1024 NOSIG KAXX 051555Z AUTO 00000KT 10SM CLR 14/M04 A3037 RMK AO2 T01421040 ZSNJ 051500Z 25001MPS 4000 BR NSC 20/19 Q1006 NOSIG CYCG 051530Z 36002KT 15SM FEW005 SCT027 OVC039 12/11 A2996 RMK SF1SC2SC5 WND ESTD SLP147 CYAY 051500Z AUTO 13010KT 9SM CLR 05/02 A3015 RMK SLP214 EFJY 051550Z AUTO 32004KT CAVOK 19/02 Q1021 CYAZ 051500Z 00000KT 15SM SKC 10/09 A3005 RMK SLP177 CYBQ 051553Z AUTO 11012KT 9SM FEW075 OVC099 M02/M05 A2985 RMK SLP126 CYBR 051500Z 25012KT 15SM OVC250 23/07 A2977 RMK CI8 SLP082 DENSITY ALT 2700FT KCGS 051550Z AUTO 09004KT 10SM OVC016 10/08 A2968 RMK AO1 PHMK 051554Z 07006KT 10SM CLR 19/17 A3004 RMK AO2 SLP174 T01940167 KAYS 051555Z AUTO 30019G25KT 10SM CLR 21/05 A2976 RMK AO2 T02100053 CYDA 051500Z 08002KT 20SM M01/M03 A2992 RMK SLP150 VEIM 051300Z 00000KT 5000 HZ FEW020 FEW025CB SCT100 25/18 Q1011 NOSIG CB TO S KBPT 051553Z 03007KT 10SM CLR 26/10 A3002 RMK AO2 SLP165 T02560100 EFKS 051550Z AUTO 29007KT 260V330 CAVOK 15/M02 Q1020 EFMA 051550Z AUTO 19005KT 140V220 CAVOK 14/02 Q1024 KBQK 051555Z AUTO 27015G32KT 10SM CLR 25/05 A2973 RMK AO2 KCHK 051555Z AUTO 00000KT 10SM CLR 20/08 A3013 RMK AO2 CXKT 051500Z AUTO 05007KT 06/05 RMK AO1 2PAST HR 8012 SLP101 P0001 T00570054 50012 CWTT 051500Z AUTO 04007KT 10/04 RMK AO1 T01000043 CYDB 051500Z 13009KT 30SM FEW220 03/M06 A2991 RMK CI1 SLP161 CYCK 051549Z AUTO 05014G21KT 9SM BKN049 16/07 A2981 RMK SLP097 DENSITY ALT 1000FT ZSOF 051500Z 18003MPS CAVOK 22/21 Q1006 NOSIG EFKT 051550Z AUTO 10002KT CAVOK 12/M02 Q1021 KCIC 051547Z 13008KT 10SM BKN050 OVC150 15/10 A2984 CYDC 051500Z 00000KT 15SM FEW010 FEW030 BKN040 OVC070 11/06 A3003 RMK SF1CF1SC3AC3 SLP170 CWTU 051500Z AUTO ///// 07/ A3000 RMK SLP180 CYBU 051500Z AUTO 28007KT 250V310 9SM CLR 24/05 A2966 RMK SLP047 DENSITY ALT 2800FT KBRD 051553Z AUTO 22011KT 9SM CLR 19/M01 A2998 RMK AO2 SLP154 T01891011 EETU 051550Z 07005KT CAVOK 20/03 Q1022 KCID 051552Z 33007KT 10SM CLR 14/04 A3008 RMK AO2 SLP188 T01390044 EFKU 051550Z AUTO VRB02KT CAVOK 19/04 Q1021 CYBV 051500Z 19005KT 160V230 15SM SCT220 17/06 A2961 RMK CS4 SLP032 DENSITY ALT 1400FT CXMD 051500Z AUTO 27014G20KT 25/06 RMK AO1 PK WND 27024/1410 SLP072 T02540060 58004 CWVD 051500Z AUTO 01008KT M08/ A2993 RMK SLP194 CYBW 051558Z AUTO 35010KT 9SM -RA BKN036 OVC044 08/01 A3003 RMK SLP180 KAZO 051553Z 34011KT 10SM CLR 14/08 A2994 RMK AO2 SLP139 T01440078 EGCN 051550Z 16011KT CAVOK 20/05 Q1018 KCHO 051553Z 03007KT 2 1/2SM RA BR BKN007 BKN049 OVC060 11/09 A2965 RMK AO2 SLP038 P0023 T01060089 PHNG 051557Z VRB03KT 7SM FEW019 23/20 A3001 RMK AO2 SLP158 T02330200 $ CYDF 051552Z 06012KT 10SM -RA OVC020 05/01 A3012 RMK SC8 SLP203 CYCO 051500Z 33024KT 8SM DRSN VCSH FEW002 OVC007 M03/M04 A2945 RMK SF2ST6 SLP976 CYBX 051500Z 00000KT 12SM FEW003 OVC100 04/02 A3014 RMK ST1AC8 ST TR SLP211 CWVF 051545Z AUTO 32023KT 11/ RMK AO1 PK WND 33026/1533 T0107 KF05 051555Z AUTO 15006KT 10SM CLR 24/06 A3014 RMK AO1 T02350055 KBQP 051535Z AUTO 33005KT 10SM CLR 21/08 A3004 RMK AO2 T02110084 CYCP 051500Z VRB02KT 15SM FEW002 SCT055TCU BKN140 BKN300 10/05 A3008 RMK SF1TCU3AC1CI1 SLP198 CXMG 051500Z AUTO 34008KT 10/M04 RMK AO1 T01031037 CWTY 051500Z AUTO 05007KT 11/05 RMK AO1 SLP130 T01080049 50001 CWUP 051500Z AUTO 36007KT M04/ A3000 RMK SLP192 EFLP 051550Z AUTO 20006KT 130V270 CAVOK 20/02 Q1022 KCGZ 051555Z AUTO 14006KT 10SM CLR 27/M01 A2989 RMK AO1 CYCQ 051500Z 25008KT 35SM SKC 05/M04 A3011 RMK SLP216 CWVH 051500Z AUTO 27007KT M08/ A2990 RMK SLP151 CXMI 051500Z AUTO 04006KT 06/06 RMK AO1 SLP094 T00630056 58008 CWVI 051500Z AUTO 34013KT 11/05 RMK AO1 PK WND 34023/1426 SLP138 T01050046 53027 ZSPD 051530Z 19003MPS CAVOK 20/19 Q1007 NOSIG EFMI 051550Z AUTO 28004KT 230V350 CAVOK 21/03 Q1021 KCHS 051556Z 30012G20KT 10SM FEW045 21/07 A2961 RMK AO2 SLP027 T02060072 KDAA 051558Z AUTO VRB02KT 4SM -DZ BR SCT007 BKN012 OVC021 11/10 A2967 RMK AO2 DZB00E11DZB23 CIG 007V012 SLP050 P0000 T01110097 CYCS 041700Z 30016KT 15SM FEW090 M09/M13 A2982 RMK AC1 AC TR SLP101 CWWA 051500Z AUTO 16001KT 11/08 RMK AO1 SLP173 T01120077 51004 CWUS 051500Z AUTO 31007KT 12/07 RMK AO1 2PAST HR 3015 SLP159 P0001 T01240071 50004 KDAB 051553Z 31016G21KT 10SM CLR 23/07 A2978 RMK AO2 SLP084 T02330067 PHNL 051553Z 35005KT 10SM FEW026 SCT034 22/19 A3003 RMK AO2 SLP168 T02170194 $ CWWB 051500Z AUTO 03011KT 09/07 RMK AO1 SLP105 T00900070 51010 KBRL 051553Z AUTO 03007KT 10SM CLR 13/06 A3007 RMK AO2 SLP182 T01330056 EGEC 051550Z 15005KT 9999 SCT041 SCT048 13/05 Q1015 CYDL 051548Z AUTO 00000KT 6SM -UP BR OVC034 01/00 A3013 RMK SLP225 CXMM 051500Z AUTO 31008KT 13/M00 RMK AO1 SLP112 T01301002 51015 EGDM 051550Z 11011KT CAVOK 18/M01 Q1016 BLU NOSIG CYED 051500Z AUTO 31010G15KT 9SM FEW021 FEW053 FEW061 BKN066 11/00 A2999 RMK SLP163 KCIN 051555Z AUTO 00000KT 10SM CLR 17/01 A3009 RMK AO2 NZNP 051500Z 29006KT 2000 DZ SCT004 17/16 Q1023 RMK ALT VATSIM USE ONLY CWVN 051500Z AUTO 08002KT 19/06 RMK AO1 SLP088 T01880059 50001 CWWE 051500Z AUTO 04011G18KT 06/06 RMK AO1 8007 PK WND 05021/1400 SLP080 T00640062 50006 CYDN 051500Z AUTO 27011KT 9SM CLR 27/04 A2969 RMK SLP053 DENSITY ALT 2800FT KBRO 051553Z 23008KT 10SM CLR 28/13 A3007 RMK AO2 SLP181 T02780128 $ CWUW 051552Z AUTO 09030KT 3/4SM FEW020 FEW092 M04/ A2988 PHOG 051554Z AUTO 16004KT 10SM CLR 19/17 A3003 RMK AO2 SLP174 T01890172 TSNO KBQX 051555Z AUTO 27016KT 10SM CLR 23/17 A3006 RMK A01 NZOH 051500Z 00000KT 2000 DZ SCT010 16/15 Q1023 RMK ALT NZPM VATSIM USE ONLY CXMO 051500Z AUTO 01022KT 13/00 RMK AO1 PK WND 01031/1445 T01280000 CWWF 051500Z AUTO 20007KT 24/06 RMK AO1 SLP088 T02370058 50000 VDSR 051530Z 20002KT 9000 FEW020 30/23 Q1008 CWUX 051500Z AUTO 06005KT 11/04 RMK AO1 SLP151 T01090044 58006 CYCX 051548Z 04013KT 2 1/2SM -DZ BR OVC004 05/05 A2991 RMK SF8 DA-831FT SLP131 KDAG 051550Z AUTO 28018KT 10SM CLR 16/07 A2984 RMK AO2 SLP087 T01560072 NZNR 051500Z 09001KT 20KM SCT012 14/14 Q1023 RMK ALT VATSIM USE ONLY CYDP 051500Z 00000KT 15SM FEW100 08/M00 A2989 RMK AC1 AC TR SLP124 VEJS 051200Z 12003KT 4000 HZ SCT018 SCT025 34/19 Q1005 CWVP 051500Z AUTO 29005KT 20/01 RMK AO1 SLP099 T01960012 51008 CYEG 051529Z 32012G17KT 15SM SCT077 OVC110 10/01 A3002 RMK AC4AC4 SLP172 CYCY 051511Z AUTO 34009KT 9SM BKN004 OVC055 M02/M03 A3015 RMK SLP215 ORER 051500Z 17005KT 6000 NSC 25/07 Q1013 NOSIG NZNS 051500Z 25003KT 10KM SHRA SCT020 16/15 Q1023 RMK ALT VATSIM USE ONLY CWVQ 051500Z AUTO 05013G18KT 14/05 RMK AO1 PK WND 04022/1449 SLP118 T01370050 50004 CYDQ 051500Z AUTO 28013KT 9SM CLR 09/M04 A3008 RMK SLP205 KCIR 051555Z AUTO 34017G21KT 10SM CLR 16/03 A2996 RMK AO2 T01560034 KF17 051555Z AUTO 36006KT 10SM CLR 23/08 A3005 RMK AO2 T02300080 UNKL 051530Z 28001MPS CAVOK 03/M05 Q1012 R29/CLRD65 NOSIG RMK QFE734 EGDR 051550Z 07011KT 9999 FEW020 BKN250 15/04 Q1015 BLU NOSIG ZSQD 051500Z 18003MPS 130V220 4500 BR NSC 21/18 Q1004 NOSIG PGWT 050950Z 10011KT 7SM SCT015 SCT080 27/23 A2992 RMK LAST KBTA 051555Z AUTO 24003KT 10SM CLR 19/04 A3009 RMK AO2 T01920035 TVSV 051500Z 12013KT 9999 SCT020 30/24 Q1015 CWXA 051500Z AUTO 05005KT 08/05 RMK AO1 SLP160 T00800048 53020 KCKB 051553Z 30005KT 10SM -RA FEW010 BKN022 OVC034 11/09 A2970 RMK AO2 SLP052 P0001 T01110094 NZNV 051500Z 36007KT 20KM SKC 07/04 Q1021 RMK ALT VATSIM USE ONLY CWWK 051500Z AUTO 29001KT 12/09 RMK AO1 SLP176 T01160089 51006 CWVT 051500Z AUTO 30008KT 11/04 RMK AO1 SLP122 T01080041 53019 CYEK 051500Z 34009KT 15SM SKC M10/M12 A3001 RMK TR SC CI SLP164 CYFB 051500Z 15008KT 6SM -SN SCT009 OVC019 M01/M02 A2979 RMK SN1SF3SC4 VIS N LWR SLP093 KDAL 051553Z 35004KT 10SM FEW010 FEW250 24/05 A3010 RMK AO2 SLP189 FU FEW010 W T02440050 $ KCIU 051555Z AUTO 33008KT 10SM 12/06 A2998 RMK AO1 KCKC 051554Z AUTO 17005KT 10SM CLR 10/M02 A2994 RMK AO2 VEKO 051200Z 29006KT 6000 FEW025 38/12 Q1003 CWWL 051500Z AUTO 36015KT 08/05 RMK AO1 PK WND 35018/1416 SLP235 T00830054 CWXC 051500Z AUTO 02005KT 11/00 RMK AO1 SLP139 T01120000 56010 CWVU 051500Z AUTO 02013KT 07/05 RMK AO1 PK WND 01018/1408 SLP104 T00650050 53002 CYFC 051552Z AUTO 01012KT 3SM -RA BR OVC008 06/05 A2991 RMK SLP130 CXNM 051500Z AUTO 13017G25KT 01/01 RMK AO1 0PAST HR M PK WND 14026/1430 P0004 T00080009 50036 KDAN 051553Z AUTO 31009KT 9SM -RA FEW047 BKN060 OVC075 12/10 A2961 RMK AO2 SLP022 P0006 T01170100 CYEN 051500Z 21008KT 15SM OVC230 22/09 A2982 RMK CI8 SLP098 DENSITY ALT 3300FT PHNY 051556Z AUTO 10007KT 10SM CLR 18/16 A3008 RMK AO2 SLP169 T01780161 KCKF 051555Z AUTO 33007G19KT 10SM SCT065 20/03 A2983 RMK AO2 T02000033 EGEO 051450Z 22012KT 9999 FEW020 SCT028 13/05 Q1015 EGDX 051550Z 11011KT CAVOK 18/04 Q1015 BLU EGFF 051550Z AUTO 11009KT 9999 NCD 18/03 Q1016 CXNP 051500Z AUTO 05010G19KT 05/04 RMK AO1 8012 PK WND 06019/1455 SLP117 T00500044 50005 CXMY 051500Z AUTO 05/05 RMK AO1 T00540046 50060 EGDY 051550Z 12011KT CAVOK 18/01 Q1016 BLU NOSIG KCKI 051555Z AUTO 29011G17KT 10SM SCT039 SCT050 SCT065 19/07 A2959 RMK AO2 KCJR 051555Z AUTO 02005KT 7SM BKN009 OVC016 12/11 A2968 RMK AO2 T01180107 CWXI 051500Z AUTO 02007KT 02/01 RMK AO1 SLP202 T00150011 53001 CYER 051559Z AUTO 36015G21KT 9SM BKN014 M03/M07 A2981 RMK SLP098 KDCA 051552Z 03011KT 4SM -DZ BR SCT009 BKN013 OVC023 11/09 A2968 RMK AO2 SLP051 P0000 T01110094 CWWS 051500Z AUTO 21012KT 04/M00 RMK AO1 SLP029 T00391004 53002 CXPA 051500Z AUTO 30011KT 09/M03 RMK AO1 T00851028 NZPM 051500Z 00000KT 2000 DZ SCT010 16/15 Q1023 RMK ALT VATSIM USE ONLY CYET 051500Z AUTO 24006KT 9SM BKN075 BKN096 06/05 A3008 RMK SLP203 KBTL 051553Z 35009KT 10SM CLR 14/08 A2992 RMK AO2 SLP135 T01440083 CWWU 051500Z 00000KT 15SM -SHRA FEW006 OVC015 03/02 A3016 RMK SF1SC7 T3005 SLP216 CWXL 051500Z AUTO 34007KT 16/06 RMK AO1 T01620061 CXOL 051500Z AUTO 33019KT 08/M00 RMK AO1 PK WND 33026/1414 T00801004 CXPC 051500Z AUTO 16/02 RMK AO1 SLP112 T01580024 50003 KBTM 051553Z AUTO 08003KT 10SM CLR 15/01 A3003 RMK AO2 SLP127 T01500011 CYEV 051500Z 00000KT 15SM OVC011 M04/M06 A2992 RMK ST8 SLP141 VELP 050930Z 33003KT 5000 HZ SCT018 SCT025 26/20 Q1007 NOSIG EGGD 051550Z AUTO 11009KT 9999 NCD 18/03 Q1016 KDAW 051551Z AUTO 04006G14KT 10SM OVC012 08/06 A2980 RMK AO2 SLP089 T00830056 KCLE 051551Z 02013KT 8SM OVC006 11/09 A2983 RMK AO2 SLP102 T01110089 KCKN 051554Z AUTO 23012KT 10SM CLR 24/06 A2986 RMK AO2 KDBN 051555Z AUTO 32017G21KT 10SM SCT050 19/03 A2979 RMK AO2 NZPP 051500Z 06003KT 4000 RA SCT010 16/15 Q1023 RMK ALT VATSIM USE ONLY CYGE 051500Z 34005KT 290V360 15SM -RA SCT012 BKN060 OVC080 09/08 A2997 RMK SC3SC3AC2 VIS E 5 SLP157 KBUF 051554Z 02012KT 10SM SCT026 BKN034 BKN090 BKN250 14/07 A2979 RMK AO2 SLP091 T01390072 CYFO 051500Z 16004KT 110V230 15SM BKN230 15/06 A2959 RMK CI6 SLP026 DENSITY ALT 1500FT CWWX 051500Z AUTO 09009KT 07/04 RMK AO1 SLP131 T00650043 51014 VELR 050900Z 05006KT 4000 HZ SCT018 FEW025 BKN100 29/22 Q1009 KBTP 051555Z AUTO 34005KT 10SM FEW014 BKN020 OVC050 13/09 A2974 RMK AO1 KDAY 051556Z 33010KT 6SM BR OVC006 08/06 A2985 RMK AO2 SLP112 T00780061 KCKP 051555Z AUTO 00000KT 10SM CLR 17/04 A3009 RMK AO2 T01740041 KDBQ 051553Z 04007KT 10SM CLR 12/04 A3007 RMK AO2 SLP185 T01220039 CYGH 051500Z 33004KT 20SM FEW090 FEW120 FEW250 01/M04 A2989 RMK AC1AC1CI1 AC TR CI TR SLP130 CWWZ 051500Z AUTO 05010KT 08/07 RMK AO1 SLP102 T00840067 53012 KBTR 051553Z 35005KT 10SM CLR 24/08 A2997 RMK AO2 SLP148 T02440078 KCLI 051555Z AUTO 00000KT 10SM CLR 11/01 A3005 RMK AO2 CYFR 051500Z 27009G16KT 230V310 15SM BKN028 04/01 A2980 RMK SC7 SLP102 CWXR 051500Z AUTO 32024KT M06/ A2967 RMK SLP059 KCMA 051555Z VRB03KT 10SM OVC050 17/11 A2991 RMK AO2 SLP137 T01670106 NZRC 051500Z 36007KT 20KM SKC 07/04 Q1021 RMK ALT NZNV VATSIM USE ONLY CYHA 051500Z 14006KT 15SM -SN BKN026 BKN240 M07/M11 A2984 RMK SC7CI1 CI TR VRY LGT PCPN SLP110 CWZA 051500Z AUTO 14001KT 13/11 RMK AO1 SLP169 T01260107 50002 CWYJ 051500Z AUTO 34003KT 12/05 RMK AO1 2PAST HR 1007 SLP177 P0001 T01180053 50002 CYFS 051500Z 23006KT 15SM SCT080 SCT210 08/03 A2987 RMK AC3CI1 CI TR SLP126 KCLK 051555Z AUTO 21004KT 10SM 20/03 A3015 RMK AO2 CYGK 051500Z 05013G20KT 15SM SCT030 BKN080 14/06 A2981 RMK SC4AC1 SLP099 CYFT 051500Z 24009KT 15SM SKC 15/00 A2998 RMK SLP155 VEMN 050930Z 02012KT 4000 HZ FEW020 FEW025CB BKN100 30/24 Q1007 NOSIG CWYK 051500Z AUTO 22012KT 04/ A2982 RMK SLP131 KCLL 051553Z 04007KT 10SM CLR 25/09 A3008 RMK AO2 SLP181 T02500094 KDDC 051552Z AUTO CLR A3013 RMK AO2 SLPNO PWINO PNO $ NZQN 051500Z 04006KT 20KM SKC 02/01 Q1024 RMK ALT VATSIM USE ONLY CXPL 051500Z AUTO 34020KT 15/03 RMK AO1 PK WND 35025/1457 T01480030 CWYL 051500Z AUTO 06/06 RMK AO1 3PAST HR SOG 00 3001 SLP142 P0001 T00630059 50008 CYGL 051500Z 21011G18KT 15SM BKN100 01/M07 A2979 RMK AC7 SLP103 KCLM 051553Z AUTO 00000KT 7SM CLR 12/07 A3006 RMK AO2 SLP181 T01170072 KCKV 051552Z AUTO 35018G24KT 10SM FEW030 OVC040 12/04 A2991 RMK AO2 SLP126 T01220044 EFOU 051550Z AUTO 27005KT CAVOK 12/M02 Q1023 KBTV 051554Z 32010KT 10SM BKN032 OVC036 13/07 A2983 RMK AO2 SLP101 T01280067 KDCM 051555Z AUTO 00000KT 10SM BKN060 BKN075 17/02 A2965 RMK AO2 KCMD 051555Z AUTO 31007KT 10SM CLR 16/06 A2989 RMK AO2 T01620062 CWYM 051500Z AUTO 07031KT M07/ A2980 RMK SLP144 KBVE 051551Z AUTO 35008G14KT 10SM CLR 23/14 A2994 RMK AO2 SLP139 T02280144 CYHD 051500Z AUTO 22015G23KT 9SM CLR 18/02 A2978 RMK SLP095 DENSITY ALT 2100FT EGHE 051550Z 02014KT 9999 FEW012 12/10 Q1016 CYHE 051500Z AUTO 11007KT 9SM FEW050 BKN080 12/11 A3004 RMK SLP174 KF44 051555Z AUTO 05005KT 10SM CLR 22/05 A3008 RMK AO2 VEMR 051100Z 00000KT 5000 HZ FEW020 SCT100 31/20 Q1007 NOSIG CXOX 051500Z AUTO 32009KT 17/02 RMK AO1 SLP065 T01710024 51021 EFPO 051550Z AUTO 30008KT CAVOK 15/02 Q1023 CXOY 051500Z AUTO 35016KT 15/05 RMK AO1 PK WND 34022/1445 T01540052 CWZG 051500Z AUTO 04004KT 09/06 RMK AO1 SLP144 T00870056 53011 CYGP 051500Z 08006KT 050V110 15SM SCT020 OVC065 05/02 A3005 RMK CU3SC5 SLP181 EGGP 051550Z 27006KT 9999 FEW049 19/08 Q1016 KCMH 051551Z 34009KT 8SM BKN008 08/07 A2980 RMK AO2 DZB1454E30 SLP093 P0000 T00830072 KDDH 051554Z AUTO VRB04KT 10SM OVC024 11/05 A2977 RMK AO2 SLP081 T01110050 TSNO KCKZ 051555Z AUTO 02009G15KT 10SM OVC018 10/07 A2970 RMK AO2 KF46 051555Z AUTO 33004KT 10SM CLR 23/09 A3010 RMK AO2 T02260085 KBVI 051550Z 01007KT 10SM BKN014 BKN055 13/09 A2973 CYGQ 051500Z 22010G17KT 160V240 15SM BKN110 11/01 A2988 RMK AC5 SLP131 KCMI 051553Z 35013KT 10SM CLR 13/07 A2998 RMK AO2 SLP152 T01330067 KBUR 051553Z 16005KT 10SM FEW022 BKN050 16/09 A2991 RMK AO2 SLP119 T01560089 EGHH 051550Z 12012KT CAVOK 17/01 Q1016 CYHI 051500Z 27002KT 1/4SM +SN VV005 M06/M07 A2975 RMK SN8 /S 2.0/ CIG ESTD SLP079 CYGR 051547Z 09017G23KT 7SM -DZ OVC004 03/03 A2998 RMK SF8 SLP154 KCLS 051555Z AUTO VRB05KT 10SM CLR 13/09 A3005 RMK AO2 EGHI 051550Z 13007KT 080V190 CAVOK 17/02 Q1017 KCLT 051552Z 35008KT 10SM BKN050 16/04 A2964 RMK AO2 SLP034 T01610039 KCNB 051555Z AUTO 24007KT 10SM CLR 24/05 A3002 RMK AO2 T02350053 CYGT 051500Z 01008KT 15SM FEW140 M04/M07 A3006 RMK AC1 AC TR SLP185 CXRB 051500Z AUTO 14014KT M07/M09 RMK AO1 SOG 08 8003 PK WND 14018/1433 SLP217 T10681089 CYHK 051552Z 06008KT 3/8SM FZFG VV002 M04/M04 A3007 RMK FG8 SLP190 KDCU 051553Z AUTO 30009G18KT 10SM FEW055 17/06 A2986 RMK AO2 SLP109 T01720056 KDEC 051554Z 34013KT 10SM CLR 12/07 A3000 RMK AO2 SLP161 T01220067 KBUU 051555Z AUTO 01007KT 10SM CLR 12/03 A3002 RMK AO2 T01160031 KCNC 051555Z AUTO 03006KT 10SM BKN120 14/01 A3010 RMK AO2 CWZL 051500Z AUTO 31001KT 09/06 RMK AO1 SLP254 T00890056 50004 KBWD 051555Z AUTO 00000KT 10SM CLR 23/10 A3013 RMK AO2 KDED 051555Z AUTO 29014G20KT 23/07 A2980 RMK AO1 NZRO 051500Z 16002KT 2000 DZ SCT017 17/16 Q1024 RMK ALT NZTG VATSIM USE ONLY CYGV 051500Z AUTO 09008KT 030V130 9SM FEW170 SCT190 BKN210 07/03 A3009 RMK SLP194 CYHM 051500Z 04017G23KT 15SM SCT012 BKN016 BKN120 12/08 A2982 RMK CU3SC2AC1 SLP104 PHSF 051556Z AUTO 13001KT 10SM CLR 06/02 A3031 RMK AO2 SLP167 T00590019 $ KBVN 051555Z AUTO 22008KT 10SM CLR 21/04 A3009 RMK AO2 T02050041 KCLW 051555Z AUTO 29010G15KT 260V320 10SM SCT042 SCT050 25/15 A2983 RMK AO2 CWZN 051500Z AUTO 06018KT 04/02 RMK AO1 PK WND 07021/1432 SLP199 T00360019 50006 CYGW 051500Z AUTO 18013G18KT 9SM OVC095 02/M07 A2967 RMK SLP049 KBVO 051553Z AUTO 00000KT 10SM CLR 23/04 A3012 RMK AO2 SLP193 T02280039 TSNO EGGW 051550Z AUTO 11011KT 9999 NCD 18/04 Q1017 CWZO 051500Z AUTO 05001KT RMK AO1 CYGX 051500Z 06014G20KT 15SM OVC040 01/M07 A2982 RMK SC8 SLP106 ZSSS 051530Z 16002MPS 8000 NSC 21/21 Q1006 NOSIG KBWG 051553Z AUTO 01009KT 10SM BKN030 OVC043 11/04 A2988 RMK AO2 SLP118 T01110039 KBUY 051554Z AUTO 30009KT 10SM -RA SCT012 BKN037 OVC055 11/09 A2963 RMK AO2 RAB02 SLP031 P0000 T01110094 KDCY 051555Z AUTO 36011KT 10SM BKN027 OVC033 11/06 A2993 RMK AO2 T01110064 CWYY 051500Z AUTO 31006KT 15/11 RMK AO1 1013 SLP143 T01480110 50003 KDEH 051555Z AUTO 00000KT 10SM CLR 13/01 A3007 RMK AO2 EGHQ 051550Z 01010KT CAVOK 14/08 Q1016 UNNT 051530Z 00000MPS CAVOK 12/M06 Q1011 R25/090070 R16/090070 NOSIG RMK QFE748/0998 CWZQ 051540Z AUTO 34010G20KT 07/04 RMK AO1 T00710035 CXRH 051500Z AUTO 15005KT 05/01 RMK AO1 T00450007 KBWI 051554Z 04008KT 9SM OVC013 11/08 A2968 RMK AO2 SLP051 T01110083 KCMR 051555Z AUTO 14015G21KT 10SM CLR 18/M05 A3019 RMK AO2 KCNI 051535Z AUTO 30014G29KT 10SM SCT040 SCT050 13/01 A2980 RMK AO2 KBXA 051555Z AUTO 04006KT 10SM CLR 23/12 A2998 RMK AO2 T02300115 PWINO KBVS 051555Z AUTO 32008KT 9SM BKN013 OVC085 12/10 A3005 RMK A01 EGJA 051550Z 07017KT CAVOK 13/07 Q1014 CWZS 051500Z AUTO 16004KT 10/02 RMK AO1 SLP161 T01020015 56007 EFSA 051550Z AUTO 25004KT 200V300 CAVOK 20/01 Q1022 KCNK 051555Z AUTO 00000KT 10SM CLR 20/02 A3012 RMK AO2 SLP194 T02000022 CYIK 042100Z 21011KT 8SM SN SCT034 BKN043 M08/M11 A2972 RMK SC3CU4 SN TR LOOOSE LAST OBS/NEXT 051200UTC SLP069 EGJB 051550Z 06010KT CAVOK 16/07 Q1014 KBVU 051555Z AUTO 15013KT 10SM CLR 24/01 A2983 RMK AO2 CXSC 051500Z AUTO 28017KT 15/06 RMK AO1 PK WND 27022/1441 T01500059 UNOO 051530Z 31002MPS 8000 NSC 12/M05 Q1014 R25/CLRD60 NOSIG RMK QFE752 CXRL 051500Z AUTO 33004KT 07/06 RMK AO1 7PAST HR M P0003 T00740061 50012 CYHU 051500Z AUTO 05013G18KT 9SM BKN034 OVC070 13/05 A2987 RMK SLP118 KCNM 051553Z AUTO VRB03KT 10SM CLR 23/M01 A3015 RMK AO2 SLP165 T02281011 KCOD 051555Z AUTO 23008KT 10SM CLR 19/02 A3002 RMK AO1 CWZV 051500Z AUTO 31002KT 08/04 RMK AO1 SLP240 T00830037 53005 KDEN 051553Z 25004KT 10SM SCT180 BKN250 20/01 A3015 RMK AO2 SLP156 T02000006 KCOE 051555Z AUTO 31005KT 10SM BKN014 14/11 A2992 RMK AO1 NZTG 051500Z 16002KT 2000 DZ SCT017 17/16 Q1024 RMK ALT VATSIM USE ONLY NZSP 051150Z 02016KT 0800 IC BLSN FEW000 M54/ A2854 RMK BLSN FEW000 CLN AIR 01016G21KT ALL WNDS GRID SDN/HDN CXSE 051500Z AUTO 11009KT M12/M14 RMK AO1 SLP186 T11181138 51003 CWZW 051500Z AUTO 17004KT 03/M02 RMK AO1 SOG 02 2006 SLP199 T00251018 CYIN 051500Z AUTO 30008KT 9SM CLR 05/M00 A3013 RMK SLP220 KCNO 051553Z 00000KT 10SM SCT034 OVC042 17/09 A2993 RMK AO2 SLP133 T01670094 KCMX 051553Z AUTO 26007KT 10SM CLR 13/M01 A2998 RMK AO2 SLP159 T01281011 TSNO KBVX 051555Z AUTO 32006KT 10SM CLR 19/06 A3002 RMK AO1 KCOF 051558Z AUTO 30013KT 10SM CLR 25/11 A2978 RMK AO2 SLP089 T02510111 $ CYIO 051540Z 24004KT 5SM VCFG BKN003 M08/M10 A3015 RMK ST6 VSBY NE 12 SLP218 KBVY 051553Z 05009G23KT 2SM BR OVC006 07/06 A2978 RMK AO2 RAB01E22 CIG 005V010 SLP080 P0000 T00720056 EFRO 051550Z AUTO 25004KT 210V290 CAVOK 13/00 Q1021 KCMY 051535Z AUTO 34005KT 10SM CLR 13/02 A3008 RMK AO2 T01260018 KBWP 051535Z AUTO 18009KT 10SM CLR 22/03 A2994 RMK AO1 CYHY 051500Z 28013KT 15SM FEW020 FEW042 SCT060 08/02 A2986 RMK SC1SC2SC2 SC TR SLP121 ZUCK 051500Z 01003MPS CAVOK 28/20 Q1005 NOSIG KDEQ 051553Z AUTO 04005KT 10SM CLR 22/06 A3006 RMK AO2 SLP177 T02170061 CXSH 051500Z AUTO 05008KT 13/01 RMK AO1 SLP134 T01260013 51001 CYHZ 051553Z 06011G18KT 8SM OVC005 06/06 A2977 RMK ST8 CIG RAG SLP088 CWZZ 051550Z AUTO 17006KT M00/ A2983 KDFI 051553Z AUTO 03013G19KT 10SM SCT036 17/07 A2986 RMK AO2 SLP113 T01670072 EFSI 051550Z AUTO 26007KT 200V300 CAVOK 19/01 Q1022 EGKA 051550Z 12013KT CAVOK 17/04 Q1017 CYKA 051500Z 28015G21KT 40SM FEW035 FEW110 BKN130 12/04 A3006 RMK SC1AC2AC4 SC TR SLP188 EGJJ 051550Z 08016KT CAVOK 18/09 Q1013 NOSIG KDET 051553Z 02012G20KT 10SM CLR 17/07 A2986 RMK AO2 SLP111 T01670067 KF70 051555Z AUTO 20005KT 10SM SCT014 OVC042 14/09 A2993 RMK AO1 KBXK 051555Z AUTO 15005KT 10SM CLR 27/00 A2987 RMK AO1 EGKB 051550Z 12008KT 090V150 CAVOK 18/00 Q1018 KCNU 051552Z AUTO 32006KT 10SM CLR 21/05 A3010 RMK AO2 SLP189 T02110050 EHAK 051555Z AUTO 16022KT //// // NCD 10/06 Q1022 RE// CXSL 052300Z AUTO 24009KT 27/01 RMK AO1 T02680011 KCOM 051435Z AUTO 00000KT 10SM CLR 21/11 A3013 RMK AO2 T02060111 CYKD 051500Z 01003KT 350V060 15SM -SN OVC010 M03/M05 A2994 RMK SC8 SF TR CIG RAG VIS SW 10 SLP142 KCNW 051450Z 00000KT 10SM SKC 22/12 A3011 CXTD 051500Z AUTO 06008KT 05/04 RMK AO1 5PAST HR 7014 SLP132 P0002 T00470044 50064 CYIV 051500Z 29002KT 15SM SCT250 13/03 A2965 RMK CI4 SLP050 DENSITY ALT 1000FT KCON 051551Z AUTO 04011KT 10SM BKN017 OVC022 11/06 A2980 RMK AO2 SLP092 T01060056 KDEW 051553Z AUTO 13005KT 10SM OVC013 13/11 A2996 RMK AO2 SLP141 T01330106 PHTO 051553Z 20004KT 10SM BKN070 21/18 A3005 RMK AO2 SLP174 T02110178 EHAM 051555Z 13010KT 080V180 CAVOK 18/02 Q1021 NOSIG CZBF 051500Z 03006KT 360V070 12SM BKN007 OVC060 05/03 A3002 RMK SC7SC1 SLP169 CYKF 051523Z AUTO 03010G16KT 010V070 9SM OVC025 12/07 A2984 RMK SLP109 KCNY 051553Z AUTO 09012KT 10SM CLR 22/M02 A3004 RMK AO2 SLP121 T02221017 KBYG 051553Z AUTO 16003KT 10SM CLR 21/06 A3000 RMK AO2 SLP114 T02060056 CYKG 051500Z 12011KT 10SM -SN BKN020 M07/M10 A2974 RMK SC5 SLP088 KBYH 051454Z 35010G16KT 10SM SKC 18/06 A2997 CXSP 051500Z AUTO 32013KT 11/03 RMK AO1 PK WND 32022/1414 T01120029 KCOQ 051555Z AUTO 21008G14KT 10SM SCT065 SCT110 15/M03 A2997 RMK AO2 CXTH 051500Z AUTO 33017KT 11/04 RMK AO1 PK WND 33022/1412 T01140036 VEPT 051530Z 00000KT 3500 HZ NSC 29/22 Q1005 NOSIG KBYI 051553Z AUTO 25004KT 10SM CLR 15/07 A2992 RMK AO2 SLP104 T01500072 CXSR 051500Z AUTO 30009KT 05/M06 RMK AO1 SLP192 T00531057 52016 VERC 051430Z 11004KT 5000 HZ NSC 29/14 Q1011 NOSIG KCOS 051554Z 34008KT 10SM FEW100 SCT250 23/M04 A3020 RMK AO2 SLP148 T02331039 NZTU 051500Z 29003KT 10KM SHRA SCT085 03/03 Q1021 RMK ALT VATSIM USE ONLY CYLA 051500Z 16012KT 15SM BKN013 OVC061 M06/M08 A2984 RMK SC7SC1 SLP109 CYKJ 051500Z AUTO 29009KT 9SM BKN100 BKN120 12/06 A2976 RMK SLP087 DENSITY ALT 1900FT KCOT 051553Z AUTO VRB03KT 10SM CLR 28/10 A3009 RMK AO2 SLP183 T02830100 KCPK 051535Z AUTO 02009G15KT 10SM OVC010 12/10 A2959 RMK AO2 T01200096 KCQB 051535Z AUTO 00000KT 10SM CLR 20/10 A3013 RMK AO2 CYJT 051500Z 08016G22KT 12SM -SHRA SCT020 OVC060 06/03 A3005 RMK SC4SC4 SLP179 KBYL 051535Z AUTO 03006KT 7SM BKN013 BKN026 OVC033 08/08 A2979 RMK AO1 P0002 KCQC 051553Z AUTO 24011KT 10SM CLR 19/M06 A3029 RMK AO2 SLP176 T01941061 EGKK 051550Z 09010KT CAVOK 19/00 Q1017 KCOU 051554Z 34009KT 10SM CLR 16/02 A3007 RMK AO2 SLP180 T01610022 EHBK 051555Z AUTO 09012KT 050V120 9999 NSC 19/05 Q1019 NOSIG CYLC 051500Z 08003KT 060V130 10SM -SN OVC015 M06/M11 A2984 RMK SC8 SUN VERY BRIGHTLY VISIBLE THROUGH OVC SLP110 CYKL 051500Z AUTO 22013G19KT 9SM CLR 08/00 A2984 RMK SLP126 EGLC 051550Z 10014KT CAVOK 18/03 Q1018 CYLD 051525Z 23004KT 200V270 15SM OVC005 04/03 A2996 RMK SC8 SLP169 KDFW 051553Z 00000KT 10SM FEW250 24/06 A3011 RMK AO2 SLP187 T02390061 KCQF 051555Z AUTO 36006KT 10SM CLR 21/12 A2991 RMK AO2 EGLF 051550Z 15009KT 110V180 CAVOK 18/M03 Q1017 CXTO 051500Z AUTO 13/07 RMK AO1 SLP103 T01320069 51007 CXTP 051500Z AUTO 09003KT 06/02 RMK AO1 SLP212 T00550023 53007 CYKP 051500Z AUTO 21011G18KT 9SM OVC095 10/M00 A2977 RMK SLP088 OSDI 051600Z 25018KT 9999 FEW030 21/05 Q1011 EFTP 051550Z AUTO 27005KT 070V310 CAVOK 20/M04 Q1023 CYKQ 042100Z 30007KT 10SM VCSH BKN004 OVC008 01/M00 A2989 RMK SF7SC1 CIG RAG LAST OBS/NEXT 091300 UTC SLP124 CYLH 051500Z AUTO 25009KT 220V280 9SM SCT240 14/00 A2969 RMK SLP063 DENSITY ALT 1100FT KCPR 051553Z 21019G25KT 10SM CLR 20/01 A3006 RMK AO2 SLP136 T02000011 NZWB 051500Z 25003KT 10KM SHRA SCT020 16/15 Q1023 RMK ALT NZNS VATSIM USE ONLY KCPS 051553Z 01015G21KT 10SM CLR 14/03 A3003 RMK AO2 SLP168 T01440033 KBYS 051555Z AUTO 26008G13KT 10SM CLR 16/03 A2982 RMK AO2 SLP076 T01630028 PWINO $ CYLJ 051500Z 01011KT 3SM FU BKN250 17/03 A2980 RMK FU5CC2 SLP097 DENSITY ALT 2300FT CYMA 051500Z 00000KT 20SM FEW035 FEW090 SCT220 01/M01 A2991 RMK SC1AC2CI1 SC TR SLP155 EFVA 051550Z AUTO 26008KT 230V290 CAVOK 16/M01 Q1023 KCPT 051555Z AUTO 00000KT 10SM CLR 23/07 A3013 RMK AO2 CYLK 051541Z 23010G17KT 2SM -DZ BKN011 OVC015 05/02 A2967 RMK ST5SC3 SLP059 CZDB 051500Z AUTO 05010KT 07/06 RMK AO1 0PAST HR 8007 SLP112 P0004 T00660056 50025 ORMM 051500Z 34024KT 7000 NSC 37/04 Q1008 NOSIG CYLL 051500Z 34011G18KT 12SM BKN025 OVC120 14/03 A2984 RMK SC7AC1 FU SLP111 DENSITY ALT 2600FT EGMC 051550Z 09014KT CAVOK 16/03 Q1018 EFTU 051550Z AUTO 28009KT CAVOK 18/01 Q1023 EGLL 051550Z AUTO 10009KT 9999 NCD 20/01 Q1017 NOSIG KCQM 051554Z AUTO 21008G16KT 10SM CLR 17/01 A2991 RMK AO2 VERP 051330Z 12003KT 6000 FEW025 FEWCB030 35/17 Q1006 NOSIG CXTV 051500Z AUTO 33003KT M05/M07 RMK AO1 SLP138 T10541072 53003 KCRE 051553Z 24008KT 10SM CLR 22/11 A2952 RMK AO1 SLP998 T02170106 EGMD 051520Z 07016KT CAVOK 15/06 Q1019 KDGW 051553Z AUTO 19004KT 10SM CLR 21/05 A3005 RMK AO2 SLP133 T02060050 KDHN 051553Z 33019G25KT 10SM CLR 21/01 A2991 RMK AO2 PK WND 33026/1531 SLP122 T02060011 KCPW 051557Z AUTO 21006KT 10SM CLR 06/M07 A3056 RMK AO2 KBZN 051556Z 00000KT 10SM CLR 18/07 A2998 RMK AO2 SLP126 T01830067 KCRG 051553Z 32020G30KT 10SM CLR 23/04 A2975 RMK AO2 PK WND 30030/1548 SLP075 T02330039 KBYY 051555Z AUTO 33005KT 10SM CLR 25/13 A3006 RMK AO2 T02560156 CZCP 051500Z AUTO 29015KT 9SM M06/ A2982 RMK SLP109 CYKY 051500Z 28010KT 15SM FEW045 SCT100 BKN250 16/06 A2976 RMK SC2AC2CI2 SLP074 DENSITY ALT 3000FT ORNI 051500Z 03009KT 8000 FEW040 SCT080 30/09 Q1009 NOSIG CYMH 051500Z AUTO 16009KT 9SM CLR 12/04 A3010 RMK SLP195 CYKZ 051500Z 03008KT 15SM FEW020 BKN025 12/07 A2984 RMK CF1SC7 CF TR SLP109 NZWK 051500Z 16002KT 2000 DZ SCT017 17/16 Q1024 RMK ALT NZTG VATSIM USE ONLY CZCR 051500Z AUTO 08004KT 06/02 RMK AO1 SLP172 T00570022 56006 KDIJ 051556Z AUTO 17006KT 10SM FEW110 18/03 A3009 RMK AO2 SLP140 T01830028 CYMJ 051500Z 29007KT 15SM SCT140 BKN300 26/06 A2976 RMK AC3CI1 SLP076 CYNA 051500Z AUTO 10009KT 9SM CLR 05/01 A3011 RMK SLP198 KCQT 051547Z AUTO 00000KT 10SM SCT025 OVC050 17/11 A2991 RMK AO2 SLP126 T01670111 KDHT 051553Z AUTO 20009KT 10SM CLR 22/06 A3015 RMK AO2 SLP169 T02170056 KDIK 051556Z AUTO 21007KT 10SM CLR 23/08 A2988 RMK AO2 SLP108 T02330078 CYLT 051500Z 08002KT 3SM BR OVC003 M19/M22 A3028 RMK ST8 SLP259 CXWB 051500Z AUTO 05014KT 01/M04 RMK AO1 PK WND 04026/1400 SLP135 T00051038 53013 EFUT 051550Z AUTO 21012KT CAVOK 20/00 Q1022 CYNC 051500Z 20012G17KT 15SM FEW015 BKN060 01/M03 A2986 RMK SF1SC6 SF TR SLP114 CYLU 051500Z 12004KT 100V170 15SM BKN010 BKN100 M03/M06 A2989 RMK SC5AS2 SLP128 EGNC 051550Z 29009KT 260V330 9999 FEW038 13/08 Q1017 NZWN 051530Z AUTO 01006KT 9999 BKN009/// 14/14 Q1022 TEMPO SCT010 TXKF 051555Z 16022KT 9999 BKN009 BKN180 BKN300 25/21 Q1012 EHDL 051555Z AUTO VRB08KT 9999 NCD 19/03 Q1021 BLU CYND 051500Z 11010KT 15SM FEW040 15/05 A2987 RMK CU2 SLP119 CXVM 051500Z AUTO 35011KT 13/03 RMK AO1 PK WND 35020/1433 T01250026 CYMM 051533Z AUTO 31009KT 2SM HZ OVC017 14/M00 A2991 RMK SLP134 DENSITY ALT 1300FT KCQW 051555Z AUTO 35008G14KT 320V020 10SM SCT019 BKN046 BKN055 14/10 A2961 RMK AO2 NZWP 051503Z VRB03KT 15KM -DZ FEW002 BKN003 18/18 Q1024 RMK NZAA VATSIM USE ONLY CXVN 051500Z AUTO 04007KT 10/07 RMK AO1 SLP097 T00970070 52011 CYNE 051500Z AUTO 10008KT 9SM CLR 19/06 A2959 RMK SLP026 DENSITY ALT 1700FT KCQX 051552Z AUTO 03013G23KT 8SM -RA OVC005 07/07 A2969 RMK AO2 SLP057 P0002 T00720067 CYLW 051557Z AUTO 32004KT 9SM OVC060 13/10 A3002 RMK SLP171 KCSG 051551Z 34015G24KT 10SM CLR 18/01 A2985 RMK AO2 PK WND 33027/1526 SLP104 T01780011 KCRP 051551Z VRB06KT 10SM SCT250 26/13 A3008 RMK AO2 SLP183 T02610128 CYMO 051500Z AUTO 21012G17KT 9SM OVC012 04/01 A2991 RMK SLP130 NZWR 051503Z VRB03KT 15KM -DZ FEW002 BKN003 18/18 Q1024 RMK NZAA VATSIM USE ONLY KCRQ 051553Z AUTO 13006KT 10SM OVC039 16/11 A2992 RMK AO2 SLP129 T01610106 NZWS 051500Z 20008KT 25KM SKC 12/10 Q1024 RMK ALT VATSIM USE ONLY EGNH 051550Z 32008KT CAVOK 15/07 Q1017 EHEH 051555Z AUTO 09008KT 060V160 9999 NCD 20/04 Q1020 BLU 12012G22KT CAVOK KCRS 051553Z AUTO 06005KT 10SM CLR 24/08 A3011 RMK AO2 SLP193 T02440078 KEBA 051535Z AUTO 30008G16KT 10SM SCT050 20/07 A2974 RMK AO2 T01980069 NZWU 051500Z 00000KT 2000 DZ SCT010 16/15 Q1023 RMK ALT NZPM VATSIM USE ONLY CZFA 051500Z VRB02KT 30SM BKN060 BKN080 00/M04 A2995 RMK SC5AC2 SLP176 CYOA 051509Z 22008KT 15SM SCT008 BKN016 03/ RMK SF3SC4 EGNJ 051550Z 18010KT 9999 FEW045 20/06 Q1018 KCTB 051556Z AUTO 01005KT 10SM CLR 20/06 A2992 RMK AO2 SLP112 T02000056 $ KDKB 051555Z AUTO 36010KT 10SM CLR 12/07 A3003 RMK AO2 T01210067 CYMT 051500Z 19005KT 140V240 15SM FEW030 FEW100 15/M00 A2990 RMK CU1AS1 SLP137 DENSITY ALT 1600FT CYMU 051500Z 15017G26KT 15SM -SN OVC064 M01/M07 A2963 RMK SC8 PRESFR SLP041 CYOC 051500Z 07006KT 050V110 35SM SCT019 BKN030 01/M03 A2983 RMK ST3SC4 SLP118 CZEL 051500Z AUTO 06011KT 12/07 RMK AO1 PK WND 05018/1407 SLP107 T01180067 51007 KCSM 051553Z 17004KT 10SM CLR 23/06 A3016 RMK AO2 SLP196 T02280056 CZEM 051500Z 21013KT 15SM FEW012 SCT070 03/M02 A2990 RMK SC1AC2 PRESFR SLP128 CXWM 051500Z AUTO 34016KT 15/05 RMK AO1 PK WND 33023/1422 T01500048 CYOD 051534Z 31013KT 2SM FU OVC120 13/04 A2991 RMK FU7AC1 SLP132 EGNM 051550Z 19007KT 160V240 CAVOK 18/05 Q1017 CYNM 051500Z AUTO 00000KT 9SM CLR 07/02 A2992 RMK SLP147 KCRW 051554Z VRB06KT 10SM SCT026 BKN043 OVC070 11/04 A2976 RMK AO2 SLP077 VCSH T01060044 EHDV 051555Z AUTO 17023KT 9999 NCD 10/06 Q1021 EHFD 051555Z AUTO 14020KT 9999 NSC 11/07 Q1023 KEAN 051535Z AUTO 25007KT 10SM CLR 22/03 A3007 RMK AO2 T02220033 EGMW 051550Z 09007KT CAVOK 13/07 Q1020 CXVW 051500Z AUTO 26012KT 08/M04 RMK AO1 PK WND 25018/1445 T00831037 CXWN 051500Z AUTO 25005KT 25/04 RMK AO1 SLP057 T02490044 58005 KCRX 051555Z AUTO 33015G24KT 10SM CLR 19/02 A2991 RMK AO2 EGNO 051520Z 34007KT 9999 FEW048 16/06 Q1017 CYMX 051500Z 06011G19KT 360V090 45SM BKN040 13/04 A2989 RMK CU6 SLP125 KEBG 051555Z AUTO 27009KT 10SM CLR 31/10 A3007 RMK AO2 T03080103 KCSQ 051555Z AUTO 11003KT 10SM CLR 16/02 A3011 RMK AO2 UNTT 051500Z VRB01MPS CAVOK 12/M02 Q1010 NOSIG RMK QFE743 KEAR 051555Z AUTO 18007KT 10SM CLR 20/03 A3012 RMK AO1 EGNR 051550Z 31011KT 9999 FEW042 15/08 Q1017 KCTJ 051535Z AUTO 32008G15KT 10SM 16/05 A2986 RMK AO2 T01570052 CYPA 051500Z 27007KT 4SM FU BKN150 OVC250 17/07 A2971 RMK AC7CI1 SLP064 DENSITY ALT 2200FT CYOJ 051500Z 31005KT 260V030 15SM FEW090 10/M01 A2994 RMK AC1 AC TR SLP153 EGNS 051550Z 21005KT 170V260 9999 FEW007 BKN045 11/09 Q1017 NOSIG EGPA 051550Z 23016KT CAVOK 15/04 Q1011 KCUB 051553Z AUTO 32008G18KT 10SM FEW050 SCT070 19/06 A2965 RMK AO2 SLP038 T01890056 $ KDKK 051553Z AUTO 01012KT 10SM FEW024 BKN100 13/09 A2979 RMK AO2 SLP087 T01280089 TSNO KEAT 051555Z AUTO 24003KT 10SM BKN036 BKN050 OVC065 14/10 A2994 RMK AO2 SLP137 T01390100 EGPB 051550Z 18017KT CAVOK 11/08 Q1011 NOSIG EGNT 051550Z 24013KT 200V270 CAVOK 17/03 Q1017 KEAU 051556Z 14003KT 10SM CLR 12/02 A3007 RMK AO2 SLP185 T01220017 $ CYPC 051540Z 31014G20KT 15SM -SN OVC007 M06/M08 A2987 RMK ST8 SLP118 ZUGY 051500Z 16001MPS CAVOK 21/17 Q1011 NOSIG EGPC 051550Z 21015KT 9999 FEW022 14/04 Q1012 KCSV 051553Z AUTO 28008G16KT 9SM -RA SCT020 BKN025 OVC035 08/04 A2979 RMK AO2 RAB52 SLP085 P0000 T00830044 CZFM 051500Z VRB02KT 15SM -SN SCT024 OVC070 M02/M06 A2993 RMK SC3AC5 SLP140 CZEV 052300Z AUTO 32007KT M01/M06 RMK AO1 SLP126 T10131056 52006 EGOM 051450Z AUTO 28011KT 9999 SCT017/// BKN027/// 13/08 Q1017 EGNV 051550Z 23010KT CAVOK 20/04 Q1017 EGPD 051550Z 20012KT 170V230 9999 FEW040 15/03 Q1014 NOSIG CYPD 051542Z AUTO 07011G20KT 6SM -RA BR OVC003 04/03 A2986 RMK SLP116 CZFN 051533Z 27009KT 25SM SCT055 SCT070 SCT210 03/M01 A2987 RMK SC3AC1CC1 CC TR SLP124 CYPE 051500Z 01010G19KT 15SM FEW060 SCT250 10/M04 A3003 RMK SC1CI2 SLP183 EGPE 051550Z 23024KT 9999 FEW040 13/03 Q1013 KDLF 051558Z AUTO 13007KT 10SM CLR 26/10 A3012 RMK AO2 SLP189 T02610095 $ CYOO 051500Z AUTO 06008KT 9SM OVC032 14/07 A2982 RMK SLP103 DENSITY ALT 500FT EGNX 051550Z 20010KT CAVOK 19/04 Q1017 EGPF 051550Z AUTO 23012KT 210V270 9999 FEW010 14/04 Q1016 KECG 051554Z 03021G24KT 10SM OVC010 13/10 A2957 RMK AO2 CIG 007V012 SLP012 T01280100 EGOP 051450Z AUTO 27006KT 9999 // NCD 14/06 Q1016 CYPG 051500Z 24013KT 15SM FEW250 25/06 A2972 RMK CI1 DA2562FT SLP063 EHGG 051555Z AUTO 12006KT 080V170 9999 NCD 19/04 Q1022 NOSIG KDLH 051555Z 25012KT 10SM SCT100 14/03 A2996 RMK AO2 SLP154 T01440028 KCUH 051555Z AUTO 32006KT 10SM CLR 21/06 A3012 RMK AO2 T02100056 CYPH 051523Z AUTO 18025G34KT 1/8SM +SN VV007 M03/M04 A2939 RMK SLP955 EGPH 051550Z AUTO 23010KT 9999 SCT035 15/06 Q1016 KDKR 051555Z AUTO 35003KT 10SM CLR 23/09 A3010 RMK AO2 EGPI 051520Z AUTO 25007KT 220V290 9999 NCD 12/05 Q1015 KDMA 051458Z AUTO 13003KT 10SM CLR 24/00 A2996 RMK AO2 SLP102 T02391001 52010 $ KEBS 051555Z AUTO 00000KT 10SM CLR 16/M02 A3008 RMK AO2 EGQA 051550Z 20020KT 9999 FEW020 14/// Q1013 BLU CZFS 051500Z AUTO 23007KT 08/03 RMK AO1 1010 SLP126 T00820032 50002 EGOS 051550Z 15009KT CAVOK 19/06 Q1016 BLU NOSIG CYQA 051500Z AUTO 03007KT 360V120 9SM BKN026 OVC060 13/06 A2986 RMK SLP118 EHFS 051525Z AUTO 09011KT 060V120 9999 NSC 17/01 Q1019 KCVB 051535Z AUTO 15003KT 10SM CLR 27/09 A3012 RMK AO2 T02660085 CYQB 051500Z 09010G17KT 30SM FEW030 FEW060 FEW250 12/02 A2994 RMK SC1SC1CI1 SC TR SLP143 KCVC 051307Z AUTO 32009G19KT 10SM 13/07 A2976 RMK AO2 EGPK 051550Z 24012KT 9999 FEW030 16/07 Q1016 KCUL 051555Z AUTO 35012G17KT 10SM OVC023 09/05 A2997 RMK AO2 T00910052 KEDC 051555Z AUTO 03005KT 10SM CLR 24/13 A3010 RMK AO2 KDLL 051535Z AUTO 35003KT 10SM CLR 12/00 A3006 RMK AO2 T01160002 CYPL 051500Z 22010G15KT 15SM FEW030 SCT240 15/02 A2972 RMK SC1CI3 SLP075 DENSITY ALT 1700FT CXZC 051500Z AUTO 19006KT 04/01 RMK AO1 SLP130 T00400014 58014 EGPL 051550Z 20020KT 9999 VCSH FEW012 SCT044 11/07 Q1012 KEDE 051550Z AUTO 04009G14KT 10SM OVC010 14/14 A2957 RMK AO2 T01400137 CYQD 051500Z 32004KT 15SM FU FEW200 18/04 A2958 RMK FU1CI1 VIS W-N 6 SLP022 DENSITY ALT 1800FT KDLN 051553Z AUTO 22004KT 10SM CLR 14/02 A3001 RMK AO2 SLP118 T01390017 EGPM 051550Z 21026KT 9999 FEW035 12/05 Q1010 EGOV 051550Z 22006KT CAVOK 12/07 Q1017 BLU NOSIG VGEG 051500Z 00000KT 6000 FEW100 28/23 Q1008 NOSIG EGPN 051550Z 23016KT 9999 FEW045 14/06 Q1015 CYOW 051500Z 07012G18KT 030V110 15SM FEW040 16/05 A2988 RMK CU2 SLP120 DENSITY ALT 500FT KDKX 051555Z AUTO 29005G11KT 10SM FEW039 BKN065 11/07 A2979 RMK A01 CYQF 051500Z 34014G24KT 10SM -RA BKN053 OVC085 07/03 A3000 RMK SC5AC3 SLP170 CYPO 051500Z AUTO 32010G19KT 9SM CLR 09/M02 A2960 RMK SLP026 KECP 051553Z 31013G17KT 10SM CLR 23/10 A2987 RMK AO2 SLP126 T02280100 KCTY 051553Z AUTO 29007KT 260V320 24/07 A2981 RMK AO1 SLP095 T02440067 KCVG 051552Z 33007KT 10SM FEW027 OVC034 11/03 A2984 RMK AO2 SLP105 T01060028 EGPO 051550Z 21015KT 9999 -RA FEW012 SCT018 BKN042 10/08 Q1011 KDLP 051555Z AUTO 35015KT 10SM CLR 23/16 A2992 RMK A01 CYOY 051500Z 12010G20KT 15SM SCT040 SCT150 13/01 A2992 RMK SC3AC1 DA542FT SLP137 CYQG 051500Z 03014G21KT 15SM FEW020 FEW260 15/08 A2984 RMK CF1CI1 CF TR SLP108 DENSITY ALT 700FT KCVH 051550Z AUTO 00000KT 10SM OVC044 15/11 A2989 RMK AO1 KCTZ 051550Z AUTO 01007G19KT 350V050 4SM RA SCT006 BKN012 BKN026 15/12 A2953 RMK AO2 P0008 T01450123 KDMH 051554Z AUTO 12/08 A2969 RMK AO1 SLP053 T01170078 CYPQ 051536Z AUTO 05006G20KT 010V080 9SM BKN025 14/08 A2983 RMK SLP106 CYQH 051500Z 02002KT 40SM SCT055 BKN075 OVC160 02/M03 A3004 RMK SC4AC3AC1 SLP200 EHFZ 051555Z AUTO 14018KT 9999 NCD 11/07 Q1022 CYPR 051500Z AUTO 06004KT 9SM CLR 06/05 A3026 RMK SLP248 CYQI 051500Z 06008KT 040V110 15SM OVC009 09/08 A2975 RMK SF8 SLP076 KDLS 051553Z AUTO 33011KT 10SM CLR 16/09 A2994 RMK AO2 SLP137 T01560094 EHGR 051555Z AUTO 10010KT 060V140 9999 NCD 19/03 Q1020 BLU KEDJ 051550Z AUTO 01010KT 3SM OVC006 08/08 A2983 RMK AO1 KECS 051555Z AUTO 18007KT 10SM CLR 20/03 A3002 RMK AO2 KCWA 051550Z 31004KT 10SM SKC 12/02 A3005 CYRA 051500Z 27010KT 10SM -RA OVC010 03/02 A2967 RMK SC8 WND ESTD SLP062 KCUT 051553Z AUTO 10SM CLR 23/M01 A3007 RMK AO2 SLP120 T02331011 EGQK 051550Z 24020KT CAVOK 15/01 Q1013 BLU CYRB 051500Z 14016KT 10SM BKN006 BKN100 M07/M09 A3017 RMK SC6AC1 AC TR SLP227 CYQK 051500Z 22016G25KT 15SM FEW240 17/02 A2977 RMK CI1 CONTRAILS SLP087 DENSITY ALT 2000FT KCWC 051555Z AUTO 00000KT 10SM CLR 24/06 A3014 RMK AO2 T02360062 KECU 051535Z AUTO 13003KT 3SM HZ CLR 25/06 A3018 RMK AO2 CYQL 051500Z 33012G18KT 25SM VCSH FEW040 BKN085 BKN270 16/04 A2993 RMK CU1ACC4CI1 SH S SLP128 DENSITY ALT 3800FT EGPU 051550Z 23019KT 9999 FEW018 11/07 Q1014 EGQL 051550Z 25015KT CAVOK 15/04 Q1015 BLU KEED 051556Z AUTO 14011KT 10SM CLR 28/01 A2977 RMK AO2 SLP051 T02780006 CYQM 051500Z 04014G20KT 2 1/4SM -DZ BR OVC003 04/04 A2989 RMK SF8 PRESFR SLP126 KDMN 051553Z AUTO 09014KT 10SM CLR 23/M04 A3014 RMK AO2 SLP140 T02331039 TSNO KCVN 051555Z AUTO 24010KT 10SM CLR 24/01 A3019 RMK AO1 EGQM 051550Z AUTO 18010KT 9999 FEW050/// 16/06 Q1017 KEDN 051555Z AUTO 35012G23KT 10SM CLR 19/02 A2989 RMK AO2 CYPW 051500Z 30007KT 50SM SCT008 SCT250 09/07 A3008 RMK SF3CI1 SLP188 KDMO 051553Z AUTO 36006KT 10SM CLR 19/04 A3010 RMK AO2 SLP188 T01890039 KCVO 051555Z 31009KT 10SM 13/08 A3001 RMK AO1 KCWF 051345Z 01010KT 10SM SKC 19/12 A3000 CYPX 051539Z AUTO 12024KT 2SM -SN OVC017 M04/M06 A2946 RMK SLP980 CYPY 051500Z AUTO 30006KT 9SM CLR 11/01 A2985 RMK SLP115 KDLZ 051557Z AUTO 35007KT 5SM BR OVC006 08/07 A2981 RMK AO2 CYQQ 051500Z 34015KT 20SM FEW010 FEW270 10/06 A3009 RMK SF1CI1 SLP189 KCWI 051556Z AUTO 02005KT 10SM CLR 12/04 A3008 RMK AO2 SLP216 T01170044 CYQR 051500Z 17005KT 15SM FEW100 BKN290 22/05 A2977 RMK AC1CI5 AC TR PRESFR SLP080 DENSITY ALT 3300FT KCVS 051358Z AUTO 26006KT 10SM CLR 17/00 A3018 RMK AO2 SLP176 T01700001 $ CYRJ 051500Z 08005KT 030V110 40SM FEW035 11/01 A2996 RMK SC1 SLP152 EGQS 051550Z 24022KT CAVOK 15/M01 Q1013 BLU NOSIG EHJA 051555Z AUTO 14016KT 9999 NCD 11/05 Q1021 CYQT 051500Z 07006KT 20SM FEW140 BKN280 11/01 A2993 RMK ACC1CI5 SLP145 CYSB 051500Z 05008KT 350V060 20SM FEW010 09/06 A2994 RMK CU1 SLP147 OTBD 051530Z 36007KT 9000 NSC 30/20 Q1006 NOSIG KDNL 051553Z AUTO 30010G18KT 10SM BKN050 18/05 A2970 RMK AO2 SLP053 T01830050 TSNO KEDU 051555Z AUTO 23006KT 10SM CLR 17/09 A2983 RMK AO1 CYRL 051500Z 22007KT 15SM SCT220 18/02 A2971 RMK CI3 SLP069 DENSITY ALT 2100FT EGSC 051550Z 15010KT CAVOK 18/03 Q1018 UOOO 051500Z 06004MPS CAVOK M15/M18 Q1013 R19/39//49 TEMPO 0500 FZFG VV002 RMK QFE745 CYQU 051500Z 27011G17KT 25SM FEW120 09/M04 A3008 RMK AC2 SLP203 CYSC 051500Z AUTO 07009G17KT 9SM OVC048 10/04 A2986 RMK SLP120 KEFD 051550Z 03005KT 10SM FEW250 26/13 A3006 KCVW 051655Z AUTO 03008KT 10SM CLR 23/12 A3004 RMK A01 CXZV 051500Z AUTO 08007KT 07/01 RMK AO1 SLP187 T00690012 51003 CYQV 051500Z AUTO 23005KT 200V280 9SM CLR 23/05 A2973 RMK SLP069 DENSITY ALT 3100FT KDMW 051550Z AUTO 05009KT 10SM OVC015 11/06 A2968 RMK AO2 KEEN 051555Z AUTO 03010G14KT 10SM BKN020 OVC028 11/06 A2979 RMK AO1 KCWN 051558Z AUTO 03003G15KT 10SM CLR 21/M05 A3019 RMK AO2 SLP051 T02071048 KCXE 051555Z AUTO 30006G17KT 3/4SM BKN006 OVC019 11/10 A2959 RMK AO1 P0064 T01100101 KEDW 051358Z 23015KT 70SM FEW040 FEW250 11/05 A2984 RMK AO2A SLP092 T01120054 KDNN 051535Z AUTO 34006KT 10SM SCT021 SCT044 BKN075 14/07 A2981 RMK AO2 CYQW 051501Z AUTO 04011G20KT 6SM HZ CLR 20/04 A2975 RMK SLP078 DENSITY ALT 2900FT KEEO 051553Z AUTO VRB03KT 10SM CLR 18/01 A3017 RMK AO2 SLP152 T01830006 KCVX 051554Z AUTO 32006KT 10SM CLR 07/05 A3003 RMK AO2 T00700045 EHHW 051555Z AUTO 11019KT 9999 NSC 11/06 Q1023 CYSF 051500Z AUTO 27012G19KT 9SM OVC029 12/06 A2969 RMK SLP064 DENSITY ALT 900FT CYQX 051531Z 06006KT 20SM OVC015 05/02 A3014 RMK SC8 SLP215 CZHY 051500Z AUTO 28013KT 08/02 RMK AO1 PK WND 29017/1459 SLP115 T00760022 51021 CYQY 051500Z 06008KT 2 1/2SM -RA BR OVC003 04/03 A2997 RMK NS8 CIG VRB 2-4 SLP154 CYQZ 051500Z AUTO VRB02KT 9SM CLR 04/M00 A3020 RMK SLP245 CYRQ 051500Z AUTO 07016G21KT 9SM FEW035 OVC060 13/05 A2991 RMK SLP133 EGSH 051550Z 14012KT 090V180 CAVOK 17/02 Q1019 NOSIG KDPA 051552Z 01011KT 10SM CLR 13/04 A3001 RMK AO2 SLP164 T01280044 KDNS 051555Z AUTO 00000KT 10SM CLR 18/02 A3008 RMK AO2 CYSJ 051500Z 04011G17KT 5SM -RA BR BKN005 OVC014 07/06 A2984 RMK SF5SC3 SLP110 KEET 051553Z AUTO 31011G21KT 10SM CLR 18/03 A2990 RMK AO2 SLP121 T01830033 ORSU 051500Z VRB03KT 7000 NSC 23/11 Q1015 OSKL 051600Z 08006KT 9999 SCT026 BKN100 22/08 Q1010 KEFK 051555Z AUTO 02004KT 10SM BKN029 OVC041 10/05 A2985 RMK AO2 T01020048 CYSK 051500Z 19027G35KT 15SM FEW014 OVC020 M01/M04 A2948 RMK SC2SC6 SLP987 CYRT 051500Z 34017KT 15SM SCT015 BKN030 BKN250 M09/M13 A2992 RMK SC3SC2CI1 SLP137 EGTC 051550Z 12010KT 080V150 CAVOK 20/05 Q1017 KCWV 051555Z AUTO 25015G24KT 10SM CLR 20/07 A2973 RMK AO2 T01960071 KDNV 051555Z AUTO 01010G18KT 10SM BKN015 OVC050 11/07 A2994 RMK AO2 T01100070 CZKD 051500Z AUTO 06010KT 04/M02 RMK AO1 PK WND 03019/1415 SLP088 T00411016 53025 CYSM 051500Z 28013G20KT 15SM SCT023 SCT240 09/03 A2982 RMK CU4CI1 CI TR SLP106 CYRV 051500Z AUTO 35006KT 330V040 9SM -RA OVC070 11/10 A2998 RMK SLP159 EHKD 051555Z AUTO 09011KT 040V120 9999 NCD 17/02 Q1021 BLU 10011KT CAVOK KEGE 051550Z 00000KT 10SM CLR 13/M03 A3028 CYSN 051500Z 04013G20KT 15SM FEW020 BKN090 12/08 A2981 RMK SC2AC4 SLP098 CYTE 051500Z 06013G18KT 15SM -SN DRSN OVC028 M09/M11 A2980 RMK SC8 SLP098 KCXO 051553Z 36006KT 10SM CLR 25/09 A3007 RMK AO2 SLP178 T02500089 EGTE 051550Z 13010KT CAVOK 16/06 Q1016 KDPG 042259Z 18010G15KT 10SM SCT150 BKN180 BKN230 27/M00 A2999 RMK SLP116 NOSPECI LAST T02691007 KCXP 051555Z AUTO 33011KT 10SM OVC050 11/04 A2988 RMK AO2 LTG DSNT S AND NW CYSP 051555Z 25003KT 140V310 6SM BR SCT003 BKN006 BKN250 02/00 A2997 RMK SF3SF3CI1 SLP164 CYTH 051500Z 05014G24KT 15SM FEW090 BKN130 BKN170 OVC210 06/M01 A2969 RMK AC2ACC3AC2CI1 PRESFR SLP065 KEGI 051455Z 34012KT 10SM CLR 21/08 A2990 RMK AO2A SLP127 T02090077 52018 $ EHJR 051525Z AUTO 15008G10KT //// ///////// 12/05 Q1022 W///H5 OSLK 051600Z 22010KT 9999 FEW026 CB SCT030 20/15 Q1012 KEHA 051548Z AUTO 17012KT 22/06 RMK AO1 PK WND 20 000 T02220062 CYUA 051519Z AUTO 03004KT 9SM OVC002 OVC017 OVC075 M06/ A2994 EGSS 051550Z AUTO 12012KT 9999 NCD 17/01 Q1018 KEFT 051555Z AUTO 02006KT 10SM CLR 11/03 A3005 RMK AO2 EGTK 051550Z 12007KT 080V150 CAVOK 19/03 Q1017 CYUB 051500Z 29007KT 15SM OVC009 M05/M08 A2993 RMK ST8 SLP137 KDPL 051600Z AUTO 00000KT 4SM -RA SCT013 BKN027 OVC080 16/15 A2953 RMK AO2 T01610151 EGUB 051550Z 12010KT CAVOK 20/M00 Q1016 BLU NOSIG KEHC 051555Z AUTO 25013KT 10SM CLR 24/17 A3001 RMK A01 KCXU 051555Z AUTO 32007G18KT 250V360 10SM CLR 20/03 A2985 RMK AO2 T01980028 CYTL 051500Z AUTO 28005KT 260V020 9SM CLR 13/01 A2964 RMK SLP048 DENSITY ALT 900FT KDOV 051558Z AUTO 01010KT 10SM OVC011 11/10 A2966 RMK AO2 SLP047 T01050102 VISNO RWY19 CHINO RWY19 $ KCXY 051556Z 04006KT 10SM OVC027 13/07 A2969 RMK AO2 SLP055 T01330067 CYSY 051500Z 24005KT 4SM -SGSN OVC005 M05/M05 A2978 RMK ST8 SLP094 KDQH 051555Z AUTO 31016G24KT 10SM CLR 20/01 A2980 RMK AO2 VGHS 051530Z 12005KT 4000 HZ FEW015 SCT100 26/19 Q1007 NOSIG CYTQ 051500Z 17008KT 12SM SCT009 BKN022 M05/M08 A2984 RMK SC3SC4 SLP109 CYTR 051500Z 06009KT 15SM BKN021 14/10 A2982 RMK SC6 SLP100 KDRA 051553Z AUTO 23011KT 10SM CLR 22/02 A2981 RMK AO2 SLP052 T02170017 KCYS 051553Z 28007KT 10SM CLR 21/01 A3016 RMK AO2 SLP142 T02060011 CYTS 051500Z VRB02KT 15SM BKN008 04/02 A2995 RMK SC7 CIG RAG SLP158 EHMA 051555Z AUTO 08014KT 010V150 9999 NSC 13/06 Q1023 EGVA 051458Z AUTO 13010KT M M CLR 20/04 A3002 RMK AO2 SLP170 T02020035 57019 $ KCZL 051555Z AUTO 33005KT 10SM SCT049 BKN070 BKN075 16/03 A2981 RMK AO2 T01610028 EICK 051530Z 27004KT 240V320 9999 FEW028 SCT040 BKN220 14/05 Q1016 NOSIG CYVC 051500Z 30011KT 15SM OVC050 17/03 A2971 RMK SC8 FU PRESRR SLP068 DENSITY ALT 2000FT CYUL 051500Z 04015G22KT 15SM BKN040 14/05 A2987 RMK CU6 SLP118 EGUL 051458Z AUTO 12007G15KT 9999 CLR 19/03 A3008 RMK AO2 SLP189 60000 T01920026 57015 KEGV 051530Z AUTO 31007KT 10SM CLR 13/M03 A3002 RMK AO2 T01271034 CZMD 051500Z AUTO 34005KT 300V060 9SM CLR 16/02 A2965 RMK SLP051 DENSITY ALT 1500FT EHKV 051555Z AUTO 10011KT //// // NCD 12/05 Q1022 RE// KEHO 051550Z AUTO 31013G18KT 10SM CLR 15/02 A2966 RMK AO2 T01540015 EGUN 051526Z AUTO 15012G18KT 9999 CLR 19/03 A3007 RMK AO2 WSHFT 17 EGUO 051450Z 12009KT CAVOK 18/04 Q1018 BLU EHMG 051555Z AUTO 09016KT 9999 NSC 15/07 Q1022 CYTZ 051500Z AUTO 09010KT 9SM BKN026 BKN034 12/08 A2984 RMK SLP107 KEHR 051555Z AUTO 33008KT 290V020 10SM OVC025 09/03 A2994 RMK AO1 KDRI 051555Z AUTO 01007KT 340V050 10SM CLR 23/07 A3004 RMK AO2 T02320073 CZMJ 051500Z AUTO 29007KT 27/02 RMK AO1 SLP078 T02650017 58004 CYWA 051500Z AUTO 36005KT 350V060 9SM SCT037 14/06 A2989 RMK SLP126 CYUS 051500Z AUTO 08014KT CLR M05/ A3006 RMK SLP186 KEIK 051555Z AUTO 00000KT 10SM CLR 19/03 A3014 RMK AO2 T01850033 KCZT 051555Z AUTO 00000KT 10SM CLR 25/12 A3009 RMK AO2 CYUT 051550Z 10005KT 25SM -SG OVC030 M05/M07 A2996 RMK SC8 SLP148 EIDL 051400Z 24020KT CAVOK 12/06 Q1016 CYVL 051500Z AUTO 34009KT 9SM CLR M03/M05 A2982 RMK SLP118 KDRM 051555Z AUTO 27003KT 10SM CLR 11/07 A2996 RMK AO2 T01100071 CYVM 051500Z 03004KT 8SM FEW009 BKN015 OVC020 M03/M06 A3010 RMK ST1SC6SC1 SLP194 CYWE 051551Z AUTO 28017G22KT 7SM -SN SCT012 BKN018 BKN023 OVC050 00/M02 A2955 RMK SLP029 KDRO 051553Z AUTO 10006KT 10SM CLR 17/M01 A3026 RMK AO2 SLP189 T01671006 EHLW 051555Z AUTO 13007KT 040V160 9999 FEW200 18/02 Q1022 BLU EGVN 051550Z 15008KT CAVOK 20/M01 Q1016 NOSIG EGUW 051550Z 14011KT CAVOK 16/00 Q1019 BLU NOSIG KFAF 051558Z 05007KT 10SM OVC010 13/10 A2959 RMK AO2A SLP023 T01260104 $ CYUX 051500Z 07015KT 15SM DRSN FEW075 M02/M04 A3003 RMK AC2 SLP172 CYVO 051500Z 14003KT 050V210 15SM FEW060 15/00 A2992 RMK CU1 CU TR SLP143 DENSITY ALT 1400FT EGVO 051550Z 12012KT CAVOK 19/M06 Q1017 BLU NOSIG KEHY 051555Z AUTO 25012KT 10SM CLR 17/M03 A3019 RMK AO2 CYVP 051500Z 06006KT 15SM FEW080 OVC140 M03/M09 A2984 RMK AC1AS7 SLP111 CYUY 051500Z 00000KT 15SM SKC 12/02 A2995 RMK SLP150 CYWG 051500Z 27012G17KT 15SM FEW250 26/07 A2971 RMK CI1 SLP062 DENSITY ALT 2400FT KCZZ 051552Z AUTO 21006KT 11/06 A2990 RMK AO1 SLP108 T01110061 EGVP 051550Z 14011KT CAVOK 19/M03 Q1017 BLU NOSIG CYWH 051500Z 00000KT 15SM FEW070 BKN240 11/07 A3005 RMK AC1CI4 SLP178 CYVQ 051500Z 25013KT 30SM FEW010 FEW025 FEW050 FEW100 FEW290 03/M01 A2988 RMK SC1SC1SC1AC1CI1 SC TR SC TR SC TR SLP124 KEIR 051555Z AUTO 34011KT 10SM CLR 23/18 A2999 RMK A01 CYVR 051500Z 30016KT 30SM FEW040 SCT078 BKN210 BKN240 12/08 A3005 RMK SC1AC2CI2CI1 SLP177 KDTA 051535Z AUTO 00000KT 10SM CLR 16/06 A2995 RMK AO1 CYWJ 051500Z 31017G23KT 40SM FEW015 FEW080 FEW120 BKN250 02/M03 A2977 RMK CF1AC1AC1CI5 CF TR SLP097 KDRT 051553Z AUTO 11005KT 10SM CLR 26/10 A3011 RMK AO2 SLP182 T02560100 $ CZMT 051500Z 17003KT 15SM OVC220 04/03 A3026 RMK CI8 CC ASOCTD SLP250 CYVT 051500Z 30013G19KT 10SM FU BKN015 OVC120 11/04 A2983 RMK FU3SC3AC2 PRESRR SLP111 CYWK 051500Z 18013KT 15SM SKC 10/M02 A2993 RMK SLP159 CZMU 051500Z AUTO 33008KT 10/05 RMK AO1 4PAST HR M P0002 T01000049 50004 CYXC 051500Z VRB02KT 15SM FEW006 SCT025 BKN060 11/10 A2996 RMK SF2SC1SC4 SLP142 DENSITY ALT 3200FT CYWL 051500Z 32007KT 15SM FEW230 05/M03 A3015 RMK CI1 SLP233 KDSM 051554Z 08003KT 10SM FEW110 BKN130 BKN250 16/M01 A3011 RMK AO2 SLP193 T01611006 KFAM 051556Z AUTO 36013G18KT 10SM CLR 14/03 A3002 RMK AO2 SLPNO T01390028 EGXC 051550Z 18011KT CAVOK 20/04 Q1017 BLU NOSIG EGXD 051450Z 19006KT CAVOK 19/05 Q1017 BLU NOSIG CYVV 051500Z 36005KT 15SM FEW250 12/06 A2989 RMK CI1 SLP127 EGXE 051550Z 23010KT CAVOK 20/04 Q1016 BLU NOSIG CYXE 051500Z 06006KT 15SM FEW130 SCT240 22/05 A2973 RMK AC1CI3 SLP069 DENSITY ALT 3000FT EIDW 051530Z 12009KT 9999 FEW028 BKN045 BKN300 15/06 Q1016 NOSIG KFBG 051558Z AUTO 31010KT 10SM -RA FEW009 SCT039 14/12 A2956 RMK AO2 LTG DSNT N RAE1458RAB15E36RAB49 TSE53 SLP012 P0004 T01410122 $ CYXH 051500Z 30011KT 30SM FEW100 SCT270 16/06 A2986 RMK AC2CS2 ACC ASOCTD SLP108 DENSITY ALT 3100FT KFAR 051553Z 19011KT 10SM CLR 23/06 A2989 RMK AO2 SLP123 T02330056 KDUA 051555Z AUTO 00000KT 10SM CLR 23/06 A3012 RMK AO2 KELA 051535Z AUTO 33003KT 10SM CLR 25/14 A3006 RMK AO2 T02540144 CYXJ 051500Z 24011KT 15SM FEW100 FEW230 06/M05 A3008 RMK FU1CI1 SLP207 KFAT 051553Z 10003KT 10SM BKN049 OVC080 16/09 A2988 RMK AO2 SLP114 MTNS OBSC DSNT N-E-S T01610094 KDUB 051555Z AUTO 00000KT 10SM CLR 11/M02 A3016 RMK AO2 KFBL 051521Z AUTO 20007KT 10SM CLR 15/M01 A3008 RMK AO2 CYYB 051500Z 07007KT 030V110 30SM SCT040 14/03 A2991 RMK CU3 SLP134 DENSITY ALT 1300FT KDTL 051554Z AUTO 21009KT 10SM CLR 21/03 A2994 RMK AO2 KDUC 051555Z AUTO 00000KT 10SM CLR 24/06 A3013 RMK AO2 TSNO KEKM 051550Z 35008KT 10SM CLR 13/09 A2994 RMK AO2 CZOL 051500Z AUTO 35010KT 11/01 RMK AO1 PK WND 34021/1424 T01070009 EGWU 051550Z 15012KT CAVOK 20/01 Q1017 NOSIG CZPC 051500Z AUTO 10006KT 9SM BKN095 BKN120 14/06 A2995 RMK SLP133 DENSITY ALT 4500FT CYYC 051522Z 35015G21KT 10SM -RA BKN050 OVC067 09/02 A3000 RMK SC5AC3 SLP165 CYXL 051500Z 22007G15KT 15SM FEW120 BKN210 16/03 A2978 RMK AC1CI6 AC TR SLP097 DENSITY ALT 1800FT KELD 051553Z AUTO 32008KT 10SM CLR 21/07 A3005 RMK AO2 SLP173 T02110072 KDSV 051554Z AUTO 03004KT 10SM OVC041 14/07 A2978 RMK AO2 SLP092 T01390067 EGYD 051550Z 15011KT CAVOK 19/07 Q1017 BLU NOSIG CYYD 051500Z 14004KT 25SM FEW210 02/M01 A3024 RMK CI2 SLP255 KEKN 051551Z AUTO 36004KT 6SM RA BR SCT006 BKN010 OVC025 09/07 A2969 RMK AO2 SLP060 P0008 T00890072 TSNO KDTN 051553Z 36006KT 10SM CLR 22/09 A3006 RMK AO2 SLP176 T02220089 CYXN 051500Z 33011KT 15SM BKN040 M10/M13 A2996 RMK SC6 SLP147 EGYE 051350Z 17008KT CAVOK ///// Q1019 BLU CYYE 051500Z 17006KT 30SM FEW100 FEW210 07/M04 A3001 RMK AC1CI1 SLP178 KDTO 051553Z 06004KT 10SM CLR 23/07 A3011 RMK AO2 SLP191 T02330067 KEKO 051556Z AUTO 10003KT 10SM CLR 17/03 A2989 RMK AO2 SLP079 T01670033 CYYF 051500Z CCA 02006KT 15SM -SHRA FEW025 BKN052 OVC070 13/11 A2999 RMK SC2SC4AC2 TCU SLP159 OTHH 051500Z 04011KT 9000 NSC 29/21 Q1005 NOSIG KFAY 051553Z AUTO 32016G21KT 10SM SCT018 BKN023 OVC080 17/13 A2954 RMK AO2 LTG DSNT NW-E RAE01B28E43 SLP998 P0000 T01670128 KDUG 051556Z AUTO 17014G22KT 10SM CLR 26/01 A3007 RMK AO2 SLP106 T02610011 CYWY 051500Z 16002KT 15SM BKN035 BKN050 04/03 A2987 RMK SC5SC1 SLP125 CYXP 051500Z VRB04KT 15SM FEW020 FEW050 BKN240 02/M04 A2992 RMK SC1SC1CI3 SLP136 EGXP 051550Z 17008KT CAVOK 20/05 Q1017 BLU CYYG 051538Z 03011KT 6SM -DZ BR OVC003 04/03 A2990 RMK SF8 PRESFR SLP128 KDUH 051555Z AUTO 02009G15KT 10SM SCT040 SCT047 16/07 A2986 RMK AO2 T01630071 KEKQ 051556Z AUTO 01013G16KT 10SM FEW014 BKN025 OVC035 09/07 A2983 RMK AO2 RAE54 SLP132 P0003 T00890067 EHPG 051555Z AUTO 04013KT 9999 NSC 13/04 Q1020 CYXQ 042200Z 34006KT 300V360 30SM BKN050TCU BKN120 11/M07 A2979 RMK TCU6AC1 CLIMAT 11.5/3.5/0.0/LAST STFD OBS/NXT 051600Z SLP118 DENSITY ALT 2300FT EGYH 051450Z 16013KT CAVOK 20/06 Q1018 BLU CYYH 051500Z 03011KT 15SM FEW010 FEW030 M04/M07 A3012 RMK SF1SC1 SF TR SC TR SLP203 KFCI 051555Z AUTO 03009KT 6SM OVC008 11/04 A2964 RMK AO1 KFBR 051555Z AUTO 09006KT 10SM CLR 16/01 A3018 RMK AO2 LTG DSNT W T01590014 CYXR 051500Z AUTO 31004KT 230V030 9SM CLR 09/04 A2995 RMK SLP152 KDUJ 051553Z AUTO 02011KT 10SM SCT026 OVC047 A2970 RMK AO2 SLPNO KDTS 051553Z AUTO 36007KT 10SM CLR 23/11 A2989 RMK AO2 SLP121 T02330111 TSNO KEKS 051555Z AUTO 14005KT 10SM CLR 17/02 A3007 RMK A01 CYYJ 051500Z 28008KT 30SM FEW080 FEW200 BKN250 11/05 A3005 RMK AC1CI2CI4 AC TR SLP178 EGXS 051450Z AUTO 10015KT 9999 // NCD 15/08 Q1019 CYXS 051500Z AUTO 17006KT 110V180 9SM CLR 05/M03 A3018 RMK SLP243 KELK 051555Z AUTO 14006KT 10SM CLR 22/07 A3014 RMK AO2 T02240066 EGXT 051550Z 14009KT CAVOK 19/04 Q1017 BLU CYXT 051500Z 36009KT 20SM FEW230 04/01 A3027 RMK CI1 SLP258 EGXU 051550Z 16011KT CAVOK 19/06 Q1017 BLU CYYL 051533Z AUTO 08008G16KT 020V120 9SM FEW023 SCT110 05/01 A2970 RMK PRESRR SLP071 CYXU 051500Z 06012KT 15SM BKN026 BKN250 13/07 A2983 RMK CU7CI1 CI TR SLP105 DENSITY ALT 1000FT KFCM 051553Z 21008KT 10SM CLR 17/00 A3004 RMK AO2 SLP173 T01720000 KELM 051553Z 03009KT 10SM OVC033 12/05 A2975 RMK AO2 SLP074 T01220050 KELN 051553Z AUTO 33010KT 10SM OVC055 14/08 A2994 RMK AO2 SLP134 T01390078 KDTW 051553Z 01011G20KT 10SM FEW040 SCT250 17/06 A2986 RMK AO2 SLP112 T01670056 EGXV 051550Z AUTO 12010KT 9999 FEW050/// 18/08 Q1017 EGYM 051450Z 16010KT CAVOK 19/05 Q1019 BLU NOSIG CYYN 051500Z AUTO 27013KT 9SM CLR 22/04 A2979 RMK SLP077 DENSITY ALT 4200FT CYZE 051500Z AUTO 01010KT 9SM CLR 11/06 A2993 RMK SLP142 KELO 051553Z AUTO 25014G17KT 10SM CLR 17/M01 A2991 RMK AO2 EGXW 051550Z 15011KT CAVOK 19/04 Q1017 BLU NOSIG EHQE 051555Z AUTO ///10KT 9999 NSC 13/05 Q1021 CYZF 051500Z 29015G24KT 15SM BKN027 06/02 A2970 RMK SC7 SLP067 CYXX 051500Z 30002KT 20SM FEW020 BKN030 OVC150 10/08 A3003 RMK SF1SC5AC2 SLP173 KELP 051551Z 14012KT 10SM SCT120 BKN250 24/M05 A3014 RMK AO2 SLP139 T02441050 CYZG 051500Z 12013KT 15SM -SN SCT026 BKN045 BKN100 M07/M11 A2965 RMK SC3SC2AC1 SLP065 CYXY 051500Z 14010G15KT 40SM FEW060 SCT200 03/M03 A2998 RMK SC2CI1 SLP184 EGYP 051550Z 23023KT 9999 -SHRA FEW009 BKN012 05/04 Q1013 GRN TEMPO 4000 SHRA GRN CYXZ 051500Z VRB02KT 15SM SKC 07/02 A2998 RMK SLP166 CYZH 051500Z AUTO 31007KT 9SM CLR 11/01 A2999 RMK SLP167 EGXZ 051450Z AUTO 19011KT 9999 FEW060/// 18/05 Q1017 CYYQ 051500Z 04011G17KT 15SM BKN015 M04/M08 A2995 RMK SC7 SLP145 CYYR 051500Z 19003KT 15SM FEW060 SCT250 16/00 A3002 RMK CU1CI0 SLP169 KFCS 051458Z AUTO 00000KT 10SM CLR 18/01 A3018 RMK AO2 SLP180 T01830011 52004 CZPS 051500Z AUTO 34019KT 09/M00 RMK AO1 PK WND 34025/1440 T00901001 KFDK 051547Z 04005KT 6SM BR OVC013 11/10 A2972 KDVK 051555Z AUTO 01010KT 10SM BKN022 OVC031 07/03 A2985 RMK AO2 KEMK 051555Z AUTO 30019KT 9SM CLR 27/19 A3003 RMK A01 CYYT 051500Z 05006KT 15SM BKN012 OVC120 04/01 A3014 RMK SC5AC3 PRESRR SLP213 KDVL 051556Z AUTO 25017KT 10SM CLR 26/07 A2986 RMK AO2 SLP120 T02560072 CYYU 051500Z 28006KT 210V310 15SM FEW012 BKN100 06/02 A2995 RMK SC2AC3 SLP156 KEND 051556Z 35003KT 10SM FEW280 22/06 A3012 RMK AO2A SLP196 KEMM 051535Z AUTO 06003KT 10SM 14/00 A3017 RMK AO2 KDVN 051552Z AUTO 35007KT 310V020 10SM CLR 12/03 A3008 RMK AO2 SLP190 T01220028 $ EHRD 051555Z AUTO 08012KT 040V130 9999 NCD 18/03 Q1020 NOSIG CYYW 051500Z AUTO 21008G15KT 180V250 9SM FEW110 14/M01 A2981 RMK SLP102 DENSITY ALT 1300FT KDUX 051555Z AUTO 20009KT 10SM CLR 23/04 A3014 RMK AO2 T02260039 KDVO 051555Z AUTO 24006KT 10SM SCT027 BKN036 16/10 A2987 RMK AO2 KEMP 051553Z AUTO 33006KT 10SM CLR 21/04 A3011 RMK AO2 SLP193 T02060044 KELY 051553Z AUTO 00000KT 10SM CLR 12/M01 A2998 RMK AO2 SLP088 T01221006 KDVP 051546Z AUTO 23006KT 10SM CLR 19/00 A3006 RMK AO2 T01881003 CYYY 051500Z 04014KT 30SM FEW015 SCT100 BKN220 08/04 A3001 RMK SC1AC2CI3 SLP167 CYZP 051400Z AUTO 26008KT 9SM CLR 06/05 A3027 RMK SLP250 KDWH 051553Z VRB03KT 10SM CLR 26/10 A3006 RMK AO2 SLP176 T02610100 KELZ 051556Z AUTO 06007KT 10SM BKN026 OVC033 12/06 A2976 RMK AO2 SLP078 T01220061 CYYZ 051500Z 04006KT 15SM FEW025 BKN035 13/07 A2984 RMK CU2SC5 SLP107 KFDR 051553Z AUTO 14005KT 10SM CLR 23/06 A3011 RMK AO2 SLP183 T02330061 TSNO CYZR 051500Z AUTO 36014G19KT 9SM CLR 09/06 A2987 RMK SLP119 KFFA 051550Z AUTO 02011G19KT 340V050 10SM OVC007 13/10 A2954 RMK AO2 T01260101 KEMT 051545Z 00000KT 10SM BKN025 OVC032 18/10 A2994 EHSA 051525Z AUTO 04014G15KT 9999 ///////// 12/06 Q1020 W09/H3 CYZS 051500Z 04016KT 15SM DRSN SCT030 M08/M12 A2983 RMK SC4 SLP110 KDVT 051553Z VRB03KT 10SM CLR 27/M02 A2987 RMK AO2 SLP089 T02721022 CYZT 051500Z VRB02KT 20SM FEW002 SCT017 09/06 A3014 RMK SF1SC2 SLP210 KFFC 051553Z AUTO 31016G21KT 10SM BKN060 16/03 A2983 RMK AO2 SLP099 T01560033 KENL 051535Z AUTO 33009G16KT 10SM BKN023 11/06 A3000 RMK AO2 T01060060 CYZU 051500Z 29010G16KT 15SM BKN060 BKN080 BKN220 10/M03 A3005 RMK SC5AC1CI1 SLP187 EHSC 051525Z AUTO 06010G13KT 9999 ///////// 15/01 Q1019 W10/H3 KEMV 051535Z AUTO 36007KT 10SM OVC010 12/11 A2960 RMK AO2 CYZV 051500Z 11009KT 30SM FEW005 FEW060 FEW110 BKN180 09/03 A3008 RMK SF1CU1AC1CI5 SF TR CU TR AC TR SLP189 KEOE 051555Z AUTO 30008G17KT 10SM BKN050 BKN060 16/05 A2969 RMK AO2 KFDW 051555Z AUTO 32009G16KT 284V354 10SM SCT050 17/05 A2964 RMK AO1 CYZW 050000Z 28013G18KT 30SM VCSH SCT041TCU BKN050 08/M08 A2991 RMK TCU4SC3 CLIMAT 9.7/5.6/0.0/LAST OBS/NEXT 051600 UTC SLP160 CYZX 051500Z 07019G24KT 12SM -DZ FEW009 OVC013 06/04 A2983 RMK SF2SC6 WNDY HILL 09019G24KT SLP102 KFDY 051553Z AUTO 02010G17KT 10SM SCT018 SCT045 BKN110 13/08 A2983 RMK AO2 SLP099 T01330078 KFEP 051555Z AUTO 36007KT 10SM CLR 12/04 A3007 RMK AO2 T01160043 CZRP 051500Z AUTO 12005KT M10/M12 RMK AO1 SLP198 T11011124 58003 CYZY 051500Z AUTO VRB02KT 9SM CLR 04/M02 A3016 RMK SLP235 KDYA 051555Z AUTO 34009G18KT 10SM 19/01 A2996 RMK AO2 T01940008 CZSJ 051500Z AUTO VRB02KT 9SM BKN150 15/03 A2965 RMK SLP050 DENSITY ALT 1500FT KDYB 051435Z AUTO 30009G17KT 10SM CLR 17/09 A2964 RMK AO1 KFET 051555Z AUTO 00000KT 10SM CLR 18/06 A3010 RMK AO2 T01840055 KEOK 051555Z AUTO 01008KT 10SM CLR 14/04 A3008 RMK AO2 CZTB 051500Z AUTO 06006KT 11/03 RMK AO1 2PAST HR 8016 SLP144 P0001 T01090028 50002 KFFL 051555Z AUTO 01009KT 10SM CLR 14/03 A3009 RMK AO2 KENV 051555Z AUTO 00000KT 10SM CLR 17/05 A2991 RMK AO1 KFFM 051554Z AUTO 20011KT 10SM CLR 22/04 A2992 RMK AO2 CZSM 051500Z AUTO 01007KT 10/03 RMK AO1 PK WND 02017/1421 SLP100 T00980026 51015 KENW 051553Z 02010KT 10SM CLR 12/04 A3003 RMK AO2 SLP173 T01170044 KFEW 051458Z AUTO 29011KT 10SM CLR 19/00 A3019 RMK AO2 SLP169 T01861005 52004 $ KDWX 051555Z AUTO 00000KT 10SM CLR 16/03 A3021 RMK AO2 T01610031 KFFO 051558Z 33007KT 10SM OVC010 08/07 A2983 RMK AO2A SLP108 T00830070 VHHH 051530Z 20010KT 160V230 9999 FEW012 SCT028 29/24 Q1010 NOSIG PLCH 051600Z VRB02KT 9999 FEW019 26/25 Q1010 CZSP 051500Z AUTO 05008KT 03/02 RMK AO1 2PAST HR 8009 SLP143 P0001 T00280022 50007 KEPH 051553Z AUTO 02006KT 10SM FEW047 BKN065 OVC095 16/13 A2992 RMK AO2 SLP129 T01610128 ZUUU 051500Z 08002MPS 040V120 9999 -TSRA FEW040CB SCT040 28/19 Q1005 BECMG TL1630 NSW KDXR 051553Z 03014G18KT 10SM OVC020 11/05 A2972 RMK AO2 SLP063 T01060050 KH78 051042Z 28017KT 12SM SKC 23/12 A2990 RMK SEAS 2-4 KEQA 051555Z AUTO 33004KT 10SM CLR 21/03 A3012 RMK AO2 KFFT 051553Z AUTO 36008KT 10SM BKN027 OVC033 09/03 A2984 RMK AO2 SLP105 T00940028 KDZB 051555Z AUTO 06003KT 10SM CLR 24/12 A3012 RMK AO2 T02360118 KFHB 051555Z AUTO 29020G30KT 10SM CLR 23/01 A2973 RMK AO1 CZST 051500Z VRB02KT 15SM BKN018 BKN065 05/05 A3030 RMK SC5SC2 SLP262 KDYL 051554Z AUTO VRB06KT 10SM OVC019 12/07 A2967 RMK AO2 SLP050 T01170072 FABL 051500Z 29002KT CAVOK 23/M05 Q1025 NOSIG FABM 050629Z 01006KT CAVOK 09/03 Q1033 KFGN 051554Z AUTO 16011KT 10SM CLR 10/05 A2976 RMK AO2 KDXX 051554Z AUTO 21007KT 10SM CLR 23/03 A2999 RMK AO2 KFFX 051554Z AUTO 34005KT 10SM CLR 13/08 A2997 RMK AO2 T01320076 EIKN 051530Z 22011KT 170V270 9999 SCT025 BKN270 12/03 Q1016 NOSIG KFFZ 051547Z 10009KT 40SM FEW200 A2986 PKMJ 050955Z 07014KT 15SM FEW015 SCT050 BKN120 OVC300 28/24 A2990 KDYR 051555Z AUTO 35011G17KT 10SM CLR 17/04 A2995 RMK AO1 KDZJ 051555Z AUTO 10SM A2979 RMK AO2 KDYS 051558Z AUTO VRB01KT 10SM CLR 23/11 A3012 RMK AO2 SLP169 T02310111 $ KDYT 051554Z AUTO 23014KT 10SM SCT110 12/04 A2998 RMK AO2 VIAG 050730Z 12012KT 6000 FEW025 SCT250 36/13 Q1008 NOSIG CZUM 051500Z AUTO 24006KT 180V300 9SM CLR 13/M04 A2996 RMK SLP162 EIME 051530Z 25005KT 9999 BKN046 BKN250 14/05 Q1016 KFGX 051555Z AUTO 36009KT 10SM OVC035 09/03 A2984 RMK AO2 T00850030 KFIG 051554Z AUTO 08009KT 10SM OVC041 14/07 A2970 RMK AO2 SLP057 T01440067 $ EIKY 051530Z 27009KT 240V310 9999 FEW049 13/03 Q1017 PKMR 051554Z 06007KT 15SM FEW015 SCT050 BKN300 28/25 A2981 RMK SLP098 T02780247 KFHR 051553Z AUTO 36008KT 310V020 10SM CLR 13/06 A3007 RMK AO2 SLP182 T01280061 KERI 051551Z 05014G21KT 10SM OVC007 11/08 A2979 RMK AO2 SLP091 T01110078 FACT 051500Z 21014KT 9999 FEW006 18/15 Q1016 NOSIG KFHU 051458Z AUTO 12012KT 10SM CLR 23/M01 A3008 RMK AO2 RAB15E24 SLP112 P0000 60000 T02311008 52010 EHVK 051555Z AUTO 11009KT 060V130 9999 NCD 20/05 Q1020 BLU KESC 051555Z AUTO 14008KT 10SM CLR 11/03 A3001 RMK AO1 CZVL 051500Z AUTO 32016G22KT 9SM FEW045 SCT055 OVC067 11/01 A3000 RMK SLP166 KGAD 051556Z AUTO 27012G16KT 10SM SCT050 17/07 A2986 RMK AO2 SLP131 T01670072 EHVL 051555Z AUTO 11007KT 9999 NCD 17/03 Q1022 BLU FACV 050829Z 11012KT CAVOK 22/M05 Q1023 KFIN 051550Z 29010KT 10SM CLR 23/09 A2978 KESF 051553Z AUTO 04007G17KT 020V090 10SM CLR 24/08 A3001 RMK AO2 SLP162 T02440078 KGAF 051555Z AUTO 26022G29KT 10SM CLR 26/09 A2981 RMK AO2 VIAR 051530Z VRB02KT 3000 FU SCT040 SCT100 30/14 Q1008 NOSIG KEQY 051553Z AUTO 10SM BKN035 OVC043 14/07 A2963 RMK AO2 SLP042 T01440067 $ KGAG 051553Z AUTO 20007KT 10SM CLR 23/08 A3014 RMK AO2 SLP188 T02330078 KI16 051555Z AUTO 10SM OVC027 08/02 A2979 RMK AO2 T00820023 KGAI 051555Z AUTO 05004KT 10SM BKN012 OVC018 11/07 A2972 RMK AO1 KFKA 051555Z AUTO 26004KT 10SM BKN090 OVC120 13/01 A3009 RMK AO2 T01290012 KFIT 051552Z AUTO 06010KT 8SM SCT013 OVC020 09/06 A2978 RMK AO2 RAE1453B14E23 SLP087 P0000 T00890061 KI19 051552Z AUTO 34004KT 10SM OVC009 08/05 A2985 RMK AO2 KETB 051530Z AUTO 36005KT 10SM CLR 12/03 A3003 RMK AO2 KETC 051550Z AUTO 04005KT 7SM -RA SCT008 OVC013 14/13 A2956 RMK AO2 P0014 T01370127 FAEL 051500Z 06007KT CAVOK 20/14 Q1020 KGBD 051555Z AUTO 00000KT 10SM CLR 21/05 A3013 RMK AO1 KERV 051555Z AUTO 00000KT 10SM CLR 25/10 A3014 RMK AO2 T02470104 VICG 051330Z 12003KT 6000 FEW030 SCT100 BKN250 31/12 Q1009 NOSIG KESN 051545Z 06008KT 10SM OVC013 A2970 KGAO 051555Z AUTO 35008KT 10SM CLR 25/15 A2995 RMK AO2 T02480148 EINN 051530Z 28007KT 9999 FEW042 BKN200 14/04 Q1017 NOSIG FAEO 050957Z 23009KT CAVOK 19/01 Q1028 VIBR 050600Z 00000KT 7000 BKN030 22/14 Q1018 EHWO 051555Z AUTO 08011KT 060V140 9999 FEW140 19/M01 Q1019 BLU KERY 051554Z AUTO 33007KT 7SM CLR 11/03 A3000 RMK AO2 T01100030 KGBG 051535Z AUTO 35006G14KT 10SM CLR 13/05 A3006 RMK AO2 T01250045 FADY 050641Z 14004KT CAVOK 11/M06 Q1027 KETH 051556Z AUTO 19009KT 10SM CLR 26/07 A2997 RMK AO2 VIDD 051300Z 08003KT 3000 DU FEW040 SCT100 33/20 Q1006 NOSIG KEST 051552Z AUTO 22010KT 10SM CLR 17/01 A3007 RMK AO2 SLP183 T01670006 KGBK 051555Z AUTO 30013G19KT 10SM FEW030 27/18 A3002 RMK A01 KGCC 051553Z AUTO 13006KT 10SM CLR 21/07 A2997 RMK AO2 SLP119 T02110072 KFKL 051555Z 00000KT 10SM FEW025 SCT031 BKN039 13/08 A2975 RMK AO1 KFLD 051553Z AUTO 04007KT 10SM CLR 11/04 A3005 RMK AO2 SLP180 T01110039 KGCD 051535Z AUTO 30003KT 10SM CLR 14/09 A2993 RMK AO2 T01430091 KFKN 051535Z AUTO 06009KT 10SM OVC008 12/10 A2960 RMK AO2 T01230104 KEUF 051458Z AUTO 31007G16KT 290V350 10SM CLR 19/02 A2987 RMK AO2 SLP111 T01890017 51016 $ KEUG 051554Z 01011KT 10SM BKN019 BKN200 13/09 A3000 RMK AO2 SLP157 T01330089 KFLG 051557Z AUTO 21016KT 10SM CLR 16/M03 A3015 RMK AO2 SLP136 T01561033 TSNO KI35 051555Z AUTO 25007KT 10SM SCT017 BKN023 OVC027 08/04 A2977 RMK AO1 FAGG 051500Z 10007KT 8000 NSC 18/13 Q1018 KFKR 051555Z AUTO 35012KT 10SM 09/08 A2995 RMK AO2 T00850076 KFKS 051551Z AUTO 35007KT 10SM CLR 10/06 A3000 RMK AO2 T01040055 KEVB 051550Z 31010G21KT 10SM SKC 23/08 A2979 KGDB 051553Z AUTO 16009KT 10SM CLR 22/03 A3004 RMK AO2 T02200027 KGCK 051554Z 17011KT 10SM CLR 22/07 A3012 RMK AO2 SLP177 T02220072 KI39 051555Z AUTO 35007G14KT 10SM SCT023 OVC031 08/03 A2981 RMK AO2 VIDN 050930Z 24008KT 6000 SCT040 34/12 Q1009 KFLL 051553Z 34012G20KT 10SM CLR 25/10 A2981 RMK AO2 SLP095 T02500100 KEUL 051556Z AUTO 27008KT 10SM CLR 16/08 A2987 RMK AO2 SLP102 T01560083 KGCM 051555Z AUTO 35003KT CLR 20/08 A3012 RMK AO2 P0003 PWINO KFME 051551Z AUTO 06003KT 10SM OVC014 10/08 A2970 RMK AO1 VIDP 051530Z 24012KT 3200 HZ FEW040 FEW040CB SCT100 28/13 Q1010 TEMPO 27020G30KT 0800 DS TS KGCN 051554Z 19009KT 10SM CLR 19/M02 A3011 RMK AO2 SLP118 T01891022 KFLO 051553Z 34013KT BKN041 19/10 A2959 RMK AO2 SLP019 T01890100 $ KFLP 051555Z 32010G16KT 10SM CLR A3001 RMK AO1 KFMH 051555Z 02017G30KT 1 1/4SM +RA OVC006 07/06 A2969 RMK AO2 KGDJ 051555Z AUTO 00000KT 10SM CLR 24/09 A3013 RMK AO2 T02370085 CZZJ 051500Z AUTO 25006KT 06/04 RMK AO1 SLP207 T00620039 52007 KEWB 051553Z 03019G28KT 10SM OVC009 08/06 A2971 RMK AO2 PK WND 01033/1525 SLP060 T00780061 KFNB 051553Z AUTO 00000KT 10SM CLR 19/07 A3010 RMK AO2 SLP188 T01890072 URFF 051530Z 21003MPS CAVOK 12/11 Q1010 R19/290395 NOSIG KGED 051554Z AUTO 05012KT 10SM OVC012 11/08 A2965 RMK AO2 SLP042 T01060078 KEVM 051554Z AUTO 24006KT 10SM CLR 12/00 A2995 RMK AO2 KFMM 051555Z AUTO 22005KT 10SM CLR 18/05 A3012 RMK AO2 T01790051 KFMN 051553Z 10010KT 10SM CLR 21/M05 A3016 RMK AO2 SLP164 T02061050 KGDP 051451Z AUTO 08020KT 10SM CLR 21/M04 A3024 RMK AO2 SLP173 T02111044 50006 KGEG 051553Z 14003KT 10SM FEW009 BKN015 BKN040 BKN200 13/10 A2995 RMK AO2 SLP133 T01330100 KFOA 051555Z AUTO 35009G15KT 10SM OVC023 12/06 A2999 RMK AO2 T01230064 KGFA 051458Z AUTO 23003KT 10SM CLR 15/05 A2991 RMK AO2 SLP113 T01460051 51009 TSNO $ FAHS 051500Z AUTO 03004KT //// // ////// 23/10 Q1022 KEWK 051555Z AUTO 02003KT 10SM CLR 21/02 A3015 RMK AO1 KFNL 051555Z AUTO 17005KT 10SM CLR 18/06 A3013 RMK AO1 FAJB 051600Z AUTO 00000KT //// // ////// 19/05 Q1027 KGDV 051555Z AUTO 20008KT 10SM CLR 22/09 A2989 RMK AO1 KEVV 051554Z 35011G18KT 10SM OVC024 11/04 A2994 RMK AO2 SLP140 T01060044 KFOD 051555Z AUTO 17005KT 10SM CLR 16/02 A3010 RMK AO1 DRRM 051500Z 34010KT 9999 FEW 040 42/13 Q1009 VIGG 050900Z 09008KT 6000 FEW035 32/10 Q1012 KEVW 051553Z AUTO 10003KT 10SM CLR 16/00 A3013 RMK AO2 SLP121 T01560000 KFOE 051553Z 33006KT 10SM CLR 21/06 A3010 RMK AO2 SLP189 T02110061 KEWN 051554Z 02007KT 10SM OVC020 18/13 A2953 RMK AO2 SLP999 T01780128 KI63 051535Z AUTO 36009G16KT 10SM CLR 12/04 A3006 RMK AO2 T01240038 DRRN 051500Z VRB02KT 8000 FEW046 42/10 Q1007 NOSIG KFMY 051553Z 33012G19KT 10SM CLR 26/12 A2984 RMK AO2 SLP107 T02610122 EISG 051300Z 25010KT 9999 SCT049 12/04 Q1015 KEWR 051551Z 02012KT 10SM FEW015 OVC020 11/06 A2970 RMK AO2 SLP057 T01110061 EKAH 051550Z AUTO 16005KT 120V220 9999NDV NCD 16/M01 Q1027 KI67 051555Z AUTO 02004KT 10SM OVC030 10/02 A2986 RMK AO1 FAIR 050740Z 36004KT CAVOK 18/08 Q1029 KGFK 051553Z 27018KT 10SM FEW250 28/06 A2981 RMK AO2 PK WND 26027/1543 SLP093 T02830061 KFOK 051553Z 02012G22KT 10SM OVC015 08/06 A2970 RMK AO2 PK WND 03026/1532 SLP056 T00780061 KFNT 051553Z 35010KT 10SM FEW017 15/08 A2991 RMK AO2 SLP131 T01500078 KI69 051558Z AUTO 32006KT 10SM OVC034 10/03 A2983 RMK AO2 T01030027 KGEU 051549Z 00000KT 20SM FEW200 27/M02 A2987 DRRT 051500Z 14004KT 9999 FEW 040 BKN 300 41/10 Q1009 KGFL 051553Z AUTO 05010KT 10SM OVC035 12/06 A2979 RMK AO2 SLP090 T01220056 KGEV 051550Z AUTO 32011G19KT 10SM BKN024 BKN029 05/00 A2968 RMK AO2 T00540001 KEYE 051553Z AUTO 33008KT 10SM OVC006 09/07 A2991 RMK AO2 SLP130 T00890072 KGGE 051555Z AUTO 28012G19KT 10SM SCT042 20/08 A2958 RMK AO2 KEYF 051600Z AUTO 24010KT 10SM SCT090 SCT110 22/11 A2952 RMK AO2 T02150112 VIGR 051500Z 00000KT 3000HZ NSC 33/21 Q1005 KGGG 051553Z 01008KT 10SM CLR 23/06 A3006 RMK AO2 SLP175 T02280061 KGEY 051553Z AUTO 15003KT 10SM CLR 19/01 A2997 RMK AO2 SLP118 T01890006 KI75 051555Z AUTO 06003KT 10SM CLR 16/02 A3010 RMK AO2 T01570017 KGEZ 051553Z AUTO 35012KT 10SM OVC010 09/06 A2989 RMK AO2 CIG 008V012 SLP124 T00890061 TSNO KGGI 051555Z AUTO 01003KT 10SM SCT120 14/00 A3010 RMK AO2 T01400003 EKBI 051550Z AUTO 12010KT 090V160 9999NDV NCD 16/01 Q1026 FALA 051500Z 36010KT CAVOK 21/07 Q1026 NOSIG KFPK 051555Z AUTO 36006KT 10SM CLR 14/09 A2990 RMK AO2 T01350086 KFOT 051555Z AUTO 27004KT 1 1/4SM OVC002 10/ A2990 RMK AO1 KGHB 051555Z AUTO 31014KT 10SM CLR 25/19 A3000 RMK A01 KFQD 051550Z AUTO 33003KT 10SM SCT050 16/01 A2967 RMK AO2 T01580011 FAKM 051500Z 01004KT CAVOK 23/M00 Q1023 FALE 051500Z 04004KT CAVOK 21/13 Q1021 NOSIG FAKN 051500Z AUTO 05007KT //// // ////// 20/09 Q1023 KEXX 051550Z AUTO 35003KT 10SM BKN036 OVC043 10/08 A2965 RMK AO2 P0001 T01010080 KEZF 051534Z AUTO 03007KT 4SM BR SCT007 BKN012 OVC019 12/12 A2966 RMK AO2 KGGP 051555Z AUTO 35011KT 10SM OVC012 09/07 A2994 RMK AO2 KGHG 051535Z AUTO 05011G21KT 360V070 10SM OVC006 07/06 A2979 RMK AO2 KFOZ 051552Z AUTO 20012G19KT 10SM CLR 21/02 A2989 RMK AO2 WAAA 051530Z 09003KT 050V120 6000 -TSRA FEW018CB BKN019 25/25 Q 1010 KFPR 051553Z 31013G18KT 10SM CLR 24/12 A2980 RMK AO2 SLP091 T02390117 EKCH 051550Z 01007KT CAVOK 15/01 Q1027 NOSIG PKWA 051540Z AUTO 08015G21KT 10SM SCT016 SCT024 BKN049 27/23 A2983 RMK AO2 T02740232 KGIC 051555Z AUTO 04005KT 10SM CLR 15/10 A2993 RMK AO1 KEZM 051535Z AUTO 31009G19KT 260V330 10SM SCT049 19/05 A2981 RMK AO2 T01860046 KGGW 051553Z AUTO 25005KT 10SM CLR 22/08 A2981 RMK AO2 SLP088 T02170078 KEYW 051553Z 34014G20KT 10SM CLR 25/17 A2987 RMK AO2 SLP114 T02500172 KGIF 051553Z AUTO 29012G18KT 10SM FEW049 SCT070 24/14 A2983 RMK AO2 SLP097 T02440139 TSNO KFRG 051553Z 04011G20KT 10SM OVC019 11/06 A2970 RMK AO2 SLP056 T01060056 URKA 051530Z 25003MPS 220V290 9999 FEW///CB 15/11 Q1010 R22/010070 RMK QFE753/1004 KFRI 051458Z AUTO 00000KT 5SM HZ CLR 16/08 A3012 RMK AO2 SLP195 T01620081 52013 KEZS 051555Z AUTO 14003KT 10SM CLR 13/02 A3005 RMK AO2 T01250021 EKEB 051550Z AUTO 23004KT 190V290 9999NDV NCD 16/03 Q1026 VIJO 050400Z 23007KT 1300 DU FEW040 SCT050 30/14 Q1011 NOSIG KFRM 051555Z AUTO 22009KT 10SM CLR 16/00 A3007 RMK AO1 KFSD 051556Z 21007KT 10SM FEW250 19/06 A3005 RMK AO2 SLP176 T01890061 FAMM 051500Z 26004KT CAVOK 24/03 Q1025 NOSIG VIJP 051530Z 05016G26KT 4000 HZ SCT030 FEW035CB BKN090 24/16 Q1009 TEMPO 1500 TSRA KGHW 051554Z AUTO 20013KT 10SM CLR 21/00 A3001 RMK AO2 KFSE 051555Z AUTO 22016KT 10SM CLR 22/03 A2989 RMK AO2 KHAE 051535Z AUTO 34010G14KT 10SM CLR 14/01 A3007 RMK AO2 FALW 051500Z AUTO 21012KT //// // ////// 25/09 Q1014 PMDY 051556Z AUTO 35009KT 10SM SCT035 BKN060 17/10 A3020 RMK AO2 SLP227 T01720100 KHAF 051555Z AUTO 16007KT 4SM BR BKN012 13/13 A2989 RMK AO2 EIWF 051530Z 21008KT 180V280 CAVOK 12/08 Q1017 URKK 051530Z 23002MPS 9999 SCT///CB BKN080 17/13 Q1009 RETS R23C/290060 TEMPO 2000 TSRAGR BKN020CB RMK QFE754 KHAI 051555Z AUTO 36007KT 10SM CLR 14/08 A2993 RMK AO2 T01420083 KFRR 051555Z AUTO 03003KT 5SM BKN006 OVC010 10/10 A2967 RMK AO1 KFSI 051558Z AUTO VRB02KT 10SM CLR 23/06 A3012 RMK AO2 SLP195 T02290059 USCC 051530Z 14002MPS CAVOK 15/M04 Q1014 R27/000060 NOSIG RMK QFE740 VILD 051000Z 12003KT 3000 HZ SCT040 34/20 Q1007 FAOB 051500Z AUTO 17008KT //// // ////// 19/16 Q1018 KFSM 051553Z 26008KT 10SM CLR 21/06 A3008 RMK AO2 SLP182 T02060056 VILH 051230Z 29019G29KT 6000 FEW070 SCT150 17/M12 Q1018 NOSIG RMK AC KHAO 051553Z AUTO 34006KT 10SM OVC027 09/04 A2987 RMK AO2 SLP116 T00940039 KFSO 051555Z AUTO 05007KT 10SM BKN040 OVC048 14/06 A2984 RMK AO2 T01400056 KFTG 050155Z 09011KT 20SM FEW100 SCT220 14/05 A3015 KHBG 051553Z AUTO 35009KT 10SM CLR 22/09 A2997 RMK AO2 SLP147 T02220089 VILK 051530Z 05003KT 4000 HZ NSC 32/18 Q1005 NO SIG KHBI 051550Z AUTO 34006KT 7SM RA SCT009 SCT020 OVC027 09/09 A2966 RMK AO2 P0020 T00870087 KGKJ 051553Z AUTO 04010KT 10SM BKN070 13/07 A2974 RMK AO2 SLP073 T01330072 TSNO WADD 051530Z VRB02KT 9999 SCT019 29/26 Q1009 NOSIG USCM 051530Z 09002MPS 9999 NSC 15/M02 Q1014 R01/090065 NOSIG RMK QFE722 USDD 051500Z 06004MPS 9999 SCT036 M09/M14 Q1022 NOSIG RMK QFE760/1014 KGJT 051553Z 14015KT 10SM CLR 18/M01 A3010 RMK AO2 SLP144 T01831006 KFST 051553Z AUTO 13012KT 10SM CLR 27/00 A3015 RMK AO2 SLP167 T02670000 $ KFTK 051558Z AUTO 35009KT 10SM BKN021 OVC026 09/05 A2985 RMK AO2 BKN V OVC SLP112 T00890047 $ KGLD 051553Z AUTO 18014KT 10SM CLR 23/06 A3010 RMK AO2 SLP164 T02280061 PWINO $ KHCD 051554Z AUTO 18006KT 10SM CLR 18/01 A3006 RMK AO2 T01820014 URMG 051430Z 28002MPS 9999 BKN033 BKN076 17/10 Q1011 R26/000070 NOSIG RMK QFE743/0991 KFTN 051555Z AUTO RMK A01 PNO KFSW 051555Z AUTO 36007KT 330V030 10SM CLR 13/05 A3008 RMK AO2 KGLE 051535Z AUTO 00000KT 10SM CLR 21/06 A3014 RMK AO2 T02140064 FAPE 051500Z 09012KT CAVOK 19/14 Q1018 NOSIG KGLH 051553Z AUTO 32007KT 290V350 10SM CLR 21/06 A3001 RMK AO2 SLP168 T02060061 KHBR 051553Z AUTO VRB03KT 10SM CLR 23/07 A3014 RMK AO2 SLP195 T02280072 URML 051530Z 34009MPS 9999 SCT046CB BKN100 19/09 Q1010 WS R32 R32/01//70 NOSIG RMK QFE757/1010 WADL 051530Z 09002KT 7000 SCT016 27/26 Q1010 NOSIG FAOR 051600Z 30007KT CAVOK 19/03 Q1028 NOSIG DRZA 051500Z 08006KT 8000 NSC 44/02 Q1009 URMM 051530Z 10003MPS 9999 -SHRA BKN033CB 14/11 Q1010 R12/290250 NOSIG RMK QFE730/0973 KGKT 051555Z AUTO 26009KT 10SM SCT028 BKN043 BKN055 10/05 A2978 RMK FBFT 051500Z 12010KT CAVOK 24/06 Q1022 URMN 051530Z 06001MPS 9999 OVC030CB 14/10 Q1011 R24/110060 NOSIG RMK QFE721 KFUL 051553Z VRB04KT 10SM BKN027 OVC049 18/ A2991 RMK AO2 SLP127 T0178 KHDC 051555Z AUTO 35007KT 10SM CLR 24/07 A2996 RMK AO2 URMO 051530Z 06005MPS 9999 BKN026CB OVC100 14/10 Q1010 R10/010070 NOSIG RMK QFE714/0953 KHBV 051535Z AUTO 25005KT 10SM CLR 30/08 A3008 RMK AO2 T02950081 ZWSH 051500Z 33004MPS 9999 SCT040CB SCT040 25/M05 Q1013 RETS NOSIG KFTW 051553Z 00000KT 10SM CLR 24/06 A3011 RMK AO2 SLP190 T02440061 KFVE 051553Z AUTO 08009KT 10SM BKN025 OVC055 08/01 A2995 RMK AO2 SLP146 T00830006 KHDE 051555Z AUTO 20006KT 10SM CLR 20/03 A3011 RMK AO2 T02030028 FAPN 051300Z AUTO 05003KT //// // ////// 24/05 Q1024 KHCO 051554Z AUTO 27013G19KT 10SM CLR 29/04 A2976 RMK AO2 KFTY 051553Z 30012G19KT 10SM SCT050 16/04 A2980 RMK AO2 PK WND 30032/1539 SLP088 T01610044 KGKY 051553Z 00000KT 10SM CLR 25/07 A3011 RMK AO2 SLP189 T02500067 FAPP 051500Z 33004KT CAVOK 23/06 Q1024 NOSIG URMT 051530Z 12002MPS 9999 SCT033CB 14/09 Q1011 R07/290155 NOSIG RMK QFE718 KGLR 051553Z AUTO VRB05KT 10SM CLR 12/07 A2997 RMK AO2 SLP155 T01220067 KGLS 051552Z 01009KT 10SM CLR 24/16 A3004 RMK AO2 SLP173 T02390161 KFWA 051554Z 35010KT 10SM SCT029 15/08 A2989 RMK AO2 SLP122 T01500083 KGNA 051556Z AUTO 24007KT 06/02 A2998 RMK AO1 SLP159 T00560017 KGMJ 051555Z AUTO 32006KT 10SM CLR 20/08 A3011 RMK AO2 KFWB 051535Z AUTO 34013KT 10SM CLR 19/05 A3007 RMK AO2 KGNC 051555Z AUTO 22008KT 10SM CLR 25/00 A3019 RMK AO2 T02510002 KFWC 051535Z AUTO 35009G16KT 10SM BKN023 OVC029 10/05 A2997 RMK AO1 T01030052 KHDN 051555Z AUTO 12009KT 10SM CLR 15/M01 A3020 RMK AO1 KGLW 051535Z AUTO 34010KT 10SM SCT020 BKN025 OVC047 09/05 A2986 RMK AO2 T00860045 KHDO 051551Z AUTO 16005KT 10SM CLR 26/10 A3012 RMK AO2 SLP186 T02610100 KHEF 051545Z 05005KT 10SM OVC016 12/11 A2967 KGLY 051555Z AUTO 01007KT 10SM CLR 18/04 A3009 RMK AO2 ZYCC 051500Z 24003MPS 210V270 5000 -SHRA FEW026TCU BKN026 11/09 Q1005 NOSIG KHEI 051553Z AUTO 18003KT 10SM CLR 21/08 A2993 RMK AO2 SLP124 T02060078 DRZR 051500Z 04010KT CAVOK 43/02 Q1010 FASB 050750Z 04011KT CAVOK 23/M01 Q1022 KGMU 051553Z 28013G19KT 10SM FEW055 16/00 A2969 RMK AO2 SLP049 T01610000 KHFD 051553Z 03016G23KT 10SM OVC023 12/06 A2973 RMK AO2 SLP068 T01170056 KFXE 051553Z 31012G21KT 10SM CLR 23/09 A2982 RMK AO2 SLP100 T02330094 KFWN 051553Z AUTO 06016G21KT 10SM OVC023 12/07 A2970 RMK AO2 SLP060 T01170067 KHFF 051556Z AUTO 31007G20KT 10SM -RA OVC020 13/09 A2960 RMK AO2 LTG DSNT NE-E RAE01RAB45 TSE04 SLP038 T01250094 $ KFVX 051535Z AUTO 03008G14KT 10SM -RA BKN012 BKN019 OVC029 13/13 A2960 RMK AO2 P0001 T01300126 KHEQ 051555Z AUTO 20005KT 10SM CLR 23/07 A3010 RMK AO2 KGNR 051556Z AUTO 05006KT 06/04 A2986 RMK AO1 SLP121 T00610039 KFWS 051549Z 00000KT 20SM SKC 23/10 A3013 KHFJ 051535Z AUTO 32012G15KT 10SM CLR 18/05 A3008 RMK AO2 DTKA 051500Z 04011KT 9999 FEW020 28/05 Q1011 NOSIG EKKA 051550Z AUTO VRB02G18KT 9999NDV NCD 18/02 Q1026 KGOK 051553Z AUTO VRB03KT 10SM CLR 21/07 A3013 RMK AO2 SLP200 T02110072 KGNT 051555Z AUTO 14011G17KT 10SM CLR 20/M04 A3025 RMK AO2 T01951038 FCBB 051500Z 00000KT 9999 FEW016 FEW030CB 31/23 Q1011 NOSIG KGNV 051553Z 31010KT 10SM CLR 23/07 A2980 RMK AO2 SLP088 T02330067 KGON 051556Z 04012G25KT 10SM OVC019 10/09 A2969 RMK AO2 PK WND 04026/1541 SLP054 T01000089 PNO USHH 051530Z 03004MPS 9999 FEW033 03/M03 Q1014 R24/190060 TEMPO SCT005 RMK QFE757 FBKE 051500Z 08014KT CAVOK 29/09 Q1020 KGOO 051600Z AUTO 15007KT 10SM OVC006 10/08 A2987 RMK AO1 KFYG 051535Z AUTO 33010KT 10SM CLR 14/04 A3004 RMK AO2 KGOP 051530Z AUTO 10SM CLR 23/09 A3013 RMK AO2 KGPH 051555Z AUTO 00000KT 10SM CLR 18/01 A3010 RMK AO2 KHEZ 051555Z AUTO 35007KT 10SM CLR 22/08 A3000 RMK AO1 VIPT 051200Z 00000KT 5000 HZ FEW030 32/19 Q1007 KGPI 051555Z 00000KT 10SM FEW120 17/07 A2992 RMK AO2 SLP125 T01670072 KFYJ 051555Z AUTO 03007KT 10SM OVC012 12/10 A2963 RMK AO2 T01230095 KGOV 051555Z AUTO 00000KT 10SM CLR 13/08 A2997 RMK AO2 T01310077 KGPM 051550Z 00000KT 10SM SKC 23/06 A3012 KFYM 051345Z AUTO 28007KT 10SM CLR 12/07 A2984 RMK A01 KHHF 051555Z AUTO 16008KT 10SM CLR 23/09 A3014 RMK AO2 T02290091 KFZG 051555Z AUTO 31015G25KT 10SM CLR 20/02 A2982 RMK AO2 T02020021 KHHG 051555Z AUTO 35009KT 10SM BKN021 14/09 A2989 RMK AO2 T01350086 KFXY 051535Z AUTO 14004KT 10SM CLR 15/M01 A3010 RMK AO2 WAHS 051530Z 19002KT 6000 FEW018 28/24 Q1009 NOSIG UTAA 051500Z 30009KT 9000 FEW050CB BKN050 OVC230 30/13 Q1007 NOSIG KHGR 051553Z 36008KT 10SM FEW017 BKN024 OVC030 12/08 A2968 RMK AO2 SLP062 T01220078 KGPT 051553Z 36006KT 10SM CLR 23/11 A2993 RMK AO2 SLP133 T02330111 $ KGRB 051553Z 08004KT 10SM CLR 12/03 A3004 RMK AO2 SLP177 T01170028 PNO $ KHIB 051553Z AUTO 23011KT 10SM CLR 14/01 A2993 RMK AO2 RAE1454 SLP147 P0000 T01390011 DTMB 051500Z 08016KT CAVOK 21/12 Q1014 KFYV 051553Z 33009KT 10SM CLR 19/07 A3009 RMK AO2 SLP183 T01940067 $ KGRD 051556Z AUTO 30008KT 260V330 10SM SCT050 BKN070 BKN080 17/04 A2970 RMK AO2 SLP052 T01670039 KHIE 051552Z AUTO 08011KT 10SM SCT026 OVC034 10/04 A2982 RMK AO2 SLP105 T01000044 KHIF 051358Z 11013KT 10SM BKN150 15/01 A2996 RMK AO2A SLP099 MIDFLD WND 08015KT T01520010 KGRF 051558Z AUTO 31009KT 10SM SCT023 SCT210 13/09 A3004 RMK AO2 SLP177 T01320086 $ URRR 051530Z 03004MPS 360V060 8000 -SHRA SCT048CB OVC100 14/10 Q1011 R04/290052 NOSIG RMK QFE751/1002 FAUP 051500Z 01004KT CAVOK 30/M03 Q1019 NOSIG KGPZ 051555Z AUTO 20010G18KT 10SM CLR 18/M01 A2994 RMK AO1 WAJJ 051300Z 00000KT 8000 FEW014 26/23 Q1010 UTAK 051500Z 31008KT CAVOK 17/11 Q1009 NOSIG KGRI 051553Z 22005KT 10SM CLR 21/03 A3011 RMK AO2 SLP197 T02110033 KHHR 051553Z VRB03KT 10SM SCT020 OVC055 17/11 A2992 RMK AO2 SLP132 T01670111 KHII 051535Z AUTO 15016G23KT 10SM CLR 28/00 A2977 RMK AO2 VISM 050600Z 00000KT 6000 FEW050 FEW070 24/14 Q1019 UTAM 051500Z 36004KT 6000 FEW066CB SCT066 BKN100 33/09 Q1004 NOSIG ZWWW 051530Z 18003MPS CAVOK 16/04 Q1013 NOSIG KGSB 051535Z AUTO 03007KT 10SM OVC010 15/15 A2952 RMK AO2 RAE33 TSB12E29 $ KGRK 051558Z AUTO VRB02KT 10SM CLR 24/10 A3011 RMK AO2 SLP189 T02370102 KIAB 051558Z AUTO VRB04KT 10SM CLR 21/04 A3012 RMK AO2 SLP195 T02060037 FAWB 051500Z VRB06KT CAVOK 22/05 Q1024 FAUT 051500Z 13007KT CAVOK 20/08 Q1022 KIAD 051552Z 05010KT 10SM FEW008 BKN015 OVC026CB 12/08 A2968 RMK AO2 DZE25 TSB22E43 SLP049 TS DSSPTD CB W MOV NE P0000 T01170078 KHHV 051555Z AUTO 30016KT 10SM FEW027 25/18 A3007 RMK A01 KHHW 051555Z AUTO 02004KT 10SM CLR 22/06 A3009 RMK AO2 T02200056 FBMN 051500Z 12006KT CAVOK 29/09 Q1019 KHIO 051553Z 31007KT 10SM CLR 13/07 A3000 RMK AO2 SLP159 T01330072 VISR 050930Z 27012KT 6000 -RA SCT020 BKN025 FEW030CB 14/11 Q1021 TEMPO TS KIAG 051553Z 05016G21KT 10SM FEW024 BKN029 BKN130 BKN220 14/08 A2981 RMK AO2 SLP099 T01440078 KFZY 051554Z AUTO 02009KT 10SM FEW032 SCT046 16/07 A2979 RMK AO2 SLP087 T01610072 URSS 051530Z 29004MPS 9999 FEW030 16/12 Q1009 WS ALL RWY R02/090070 R06/090070 NOSIG RMK R06/29005MPS MT OBSC QFE755 ZYHB 051500Z 19003MPS 9999 -RA FEW033 13/10 Q1005 NOSIG KGSH 051553Z AUTO 35008KT 10SM CLR 13/08 A2992 RMK AO2 SLP133 T01330083 KIAH 051553Z 04007KT 10SM FEW250 26/09 A3005 RMK AO2 SLP175 T02560094 KHJH 051555Z AUTO 00000KT 10SM CLR 19/00 A3012 RMK AO2 T01920001 UTAT 051500Z 08008KT CAVOK 20/13 Q1007 NOSIG DTNH 051530Z AUTO 09016KT 6000NDV NCD 19/13 Q1014 KGRR 051553Z 34009KT 10SM CLR 16/08 A2995 RMK AO2 SLP143 T01560083 KHKA 051553Z AUTO 36019G24KT 10SM CLR 19/05 A2998 RMK AO2 SLP150 T01940050 $ UTAV 051500Z 29006KT 7000 BKN050 31/10 Q1003 NOSIG KGTB 051558Z AUTO 04011G18KT 10SM BKN027 BKN032 13/07 A2980 RMK AO2 SLP093 T01310071 FAWK 051500Z AUTO 31004KT //// // ////// 22/05 Q1026 EKOD 051450Z 05006KT 360V130 CAVOK 16/03 Q1027 FAVV 051600Z AUTO 28005KT //// // ////// 19/M00 Q1025 KGTF 051553Z 25006KT 10SM CLR 18/06 A2991 RMK AO2 SLP111 T01780056 KHJO 051553Z AUTO 32009KT 10SM FEW049 OVC060 17/09 A2987 RMK AO2 SLP116 T01670089 KGSO 051554Z 34007KT 5SM -RA BR FEW008 OVC048 09/08 A2964 RMK AO2 SLP034 P0023 T00940083 KGSP 051553Z 31010G19KT 10SM BKN095 15/01 A2967 RMK AO2 SLP042 T01500011 KGRY 051555Z AUTO 31009G17KT 10SM CLR 24/19 A2998 RMK A01 WALL 051500Z 32003KT 8000 FEW018CB SCT018 27/26 Q1009RMK CB TO NW UTDD 051530Z 00000MPS 9999 FEW066CB BKN130 23/12 Q1013 R09/CLRD// NOSIG RMK QFE692/0923 KHLC 051553Z AUTO 21007KT 10SM CLR 22/08 A3012 RMK AO2 SLP189 T02220083 KGUC 051555Z AUTO 00000KT 10SM CLR 11/M02 A3036 RMK AO1 VITX 051230Z 29015KT 6000 CTHT FEW060 SCT070 SCT150 19/ M10 Q1020 NOSIG RMK AC KIBM 051555Z AUTO 21012KT 10SM CLR 22/03 A3010 RMK AO2 T02180032 KHLG 051553Z 31006KT 10SM SCT012 BKN020 OVC028 12/09 A2972 RMK AO2 SLP067 T01170089 URWA 051530Z 33004MPS CAVOK 15/08 Q1009 R09/290050 NOSIG RMK QFE759/1012 UTDK 051530Z 02004MPS 9999 FEW060CB SCT120 23/15 Q1013 0109//70 RMK QFE702/0936 KGTR 051550Z 31020KT 10SM FEW050 20/01 A2992 UTDL 051530Z 23002MPS 9999 FEW070CB OVC140 25/11 Q1010 NOSIG RMK QFE720/0960 88CLRD70 KHKS 051553Z 35008KT 310V010 10SM CLR 21/04 A3000 RMK AO2 SLP152 T02110044 KIDA 051553Z 35006KT 10SM FEW120 18/06 A2998 RMK AO2 SLP117 HZ ALQDS T01780061 WAMM 051600Z 06002KT 8000 FEW024 24/24 Q1009 NOSIG KGTU 051553Z 04006KT 10SM CLR 25/09 A3010 KGUL 051555Z AUTO 00000KT 10SM FEW022 27/19 A3004 RMK A01 KICL 051555Z AUTO 10SM 18/03 A3011 RMK AO2 PWINO KHME 051350Z 27010KT 9999 FEW035 BKN200 32/00 Q1009 KHLN 051553Z 00000KT 10SM CLR 17/03 A2995 RMK AO2 SLP129 T01720028 KGVE 051535Z AUTO 03004KT 5SM BR BKN006 OVC013 10/10 A2966 RMK AO1 P0003 T01040102 URWI 051530Z AUTO 05001MPS 9999 // NCD 17/05 Q1011 KGUP 051553Z AUTO 10SM CLR 21/M03 A3019 RMK AO2 SLP086 T02111033 $ KHKY 051553Z 35007KT 310V030 10SM BKN055 BKN070 14/01 A2965 RMK AO2 SLP025 T01390011 UTFA 042100Z 29003KT 5000 BR NSC 15/13 Q1012 R88/09//70 UTDT 051530Z 36003MPS 9999 SCT150 25/13 Q1010 35CLRD70 RMK QFE718/0958 KICR 051553Z AUTO 18012KT 10SM CLR 24/08 A3000 RMK AO2 SLP151 T02390083 KIDI 051555Z AUTO 06008G14KT 10SM SCT031 BKN042 OVC065 14/08 A2972 RMK A01 KHLR 051558Z AUTO 05005KT 9SM CLR 24/10 A3009 RMK AO2 SLP180 T02390104 KGUR 051535Z AUTO 00000KT 10SM CLR 22/09 A3006 RMK AO2 T02150089 PWINO KGUS 051558Z 35012KT 10SM BKN015 OVC021 11/09 A2990 RMK AO2A CIG 015V021 BKN V SCT SLP131 T01130087 KICT 051553Z 36004KT 10SM CLR 22/04 A3012 RMK AO2 SLP194 T02170044 KHNB 051555Z AUTO 02010G15KT 10SM FEW024 OVC031 11/04 A2992 RMK AO1 KGWB 051555Z AUTO 04010G17KT 355V055 10SM -RA CLR 15/07 A2989 RMK AO2 USNN 051530Z 23003MPS 9999 BKN039CB 08/07 Q1004 R21/220255 NOSIG RMK QFE748 KGVL 051553Z AUTO 28009G19KT 10SM BKN047 BKN065 13/03 A2978 RMK AO2 SLP077 T01330028 UTFF 0513200Z 11003KT 050V170 9999 NSC 27/10 Q1010 R18/CLRD70 KHND 051556Z 15012KT 10SM CLR 24/03 A2985 RMK AO2 SLP084 T02390028 KHMN 051458Z AUTO VRB01KT 10SM CLR 21/M06 A3016 RMK AO2 SLP152 T02131061 50011 $ KHLX 051555Z AUTO 34013KT 10SM OVC024 07/03 A2966 RMK AO2 T00650033 KGUY 051553Z AUTO 17014KT 10SM CLR 24/06 A3009 RMK AO2 SLP153 T02390056 KIDP 051555Z AUTO 33006KT 10SM CLR 20/03 A3011 RMK AO2 WBGB 051500Z 24003KT 9999 TS SCT014 FEW015CB BKN150 28/26 Q1009 KGXA 051455Z AUTO VRB03KT 10SM CLR 10/06 A2987 RMK AO2 SLP109 WND DATA ESTMD T01020061 52004 TSNO $ KIFA 051555Z AUTO 00000KT 10SM CLR 15/00 A3012 RMK AO2 T01480002 KHOB 051550Z 20008KT 10SM SKC 25/M01 A3019 KGVT 051535Z AUTO 36004KT 10SM CLR 22/05 A3011 RMK AO2 UTFN 051500Z 03002KT 9999 NSC 24/12 Q1010 R28/CLRD70 NOSIG URWW 051530Z 08002MPS 9999 BKN049CB 17/06 Q1012 R11/010070 NOSIG EKSB 051550Z 12007KT CAVOK 15/02 Q1026 EKRK 051550Z AUTO 03004KT 310V100 9999NDV NCD 16/03 Q1027 WAOO 051530Z AUTO 09002KT 9999NDV VCTS FEW065 SCT075 OVC120 28/26 Q1009 WBGG 051530Z 13002KT 6000 -RA FEW003 SCT020 BKN150 25/25 Q1010 NOSIG KIEN 051552Z AUTO 20010KT 10SM CLR 22/07 A2999 RMK AO2 SLP135 T02170072 KHOE 051535Z AUTO 29019G24KT 10SM CLR 21/07 A2979 RMK AO2 EKRN 051550Z AUTO 28007KT 9999NDV NCD 13/05 Q1027 KGWO 051553Z AUTO 32007KT 10SM CLR 20/03 A2999 RMK AO2 SLP153 T02000033 KGXF 051358Z 16007KT 10SM CLR 24/M01 A2983 RMK AO2A SLP089 T02361013 KHMZ 051535Z AUTO 00000KT 10SM BKN023 OVC029 12/07 A2970 RMK AO2 T01150068 KGWR 051555Z AUTO 22016G21KT 10SM CLR 23/07 A2993 RMK AO1 KIER 051555Z AUTO 03008KT 10SM CLR 23/10 A3004 RMK AO2 T02300099 KHNR 051555Z AUTO 20004KT 10SM CLR 18/M00 A3012 RMK AO2 DTTA 051530Z 05012KT 9999 FEW026 22/11 Q1014 NOSIG KGYB 051555Z AUTO 03004KT 10SM CLR 24/13 A3012 RMK AO2 T02440125 DTTB 051500Z 06016KT CAVOK 21/10 Q1014 FBSK 051500Z VRB02KT CAVOK 25/04 Q1023 NOSIG USPP 051530Z 29005MPS 9999 SCT040CB BKN100 13/07 Q1016 R21/090060 NOSIG RMK QFE751 DTTD 051500Z 10004KT CAVOK 30/M02 Q1013 KGWW 051550Z AUTO 07006KT 10SM -RA SCT013 OVC030 14/14 A2954 RMK AO2 T01420136 KHON 051555Z AUTO 18008KT 10SM CLR 23/08 A2999 RMK AO2 SLP152 T02280083 WBGR 051500Z 17002KT 9999 SCT016 BKN150 28/26 Q1008 DTTF 051500Z 18010KT 150V230 9999 BKN033 27/03 Q1011 NOSIG KIFP 051555Z AUTO 17018G23KT 10SM CLR 28/M02 A2978 RMK AO2 KHOP 051558Z AUTO 33010G17KT 10SM OVC032 12/05 A2991 RMK AO2 SLP130 T01170051 FBSP 051500Z 09010KT CAVOK 25/16 Q1022 WBGS 051500Z 00000KT 9999 SCT018 BKN150 26/25 Q1010 DTTG 051500Z 08013KT 8000 BKN030 23/12 Q1013 NOSIG EKSP 051550Z 11010KT 080V140 CAVOK 15/M01 Q1026 KGYH 051547Z 28005KT 10SM BKN050 16/02 A2969 KHNZ 051550Z AUTO 34009KT 2 1/2SM +RA OVC007 11/11 A2958 RMK AO2 P0001 T01100110 KGYI 051555Z AUTO 00000KT 10SM CLR 21/04 A3013 RMK AO2 T02050041 DTTJ 051530Z 08015KT CAVOK 21/13 Q1013 NOSIG KHOT 051553Z AUTO 04008KT 10SM CLR 21/03 A3005 RMK AO2 SLP173 T02110033 DTTK 051500Z 12002KT 9999 SCT023 27/08 Q1013 KHOU 051553Z 05006KT 10SM FEW250 27/10 A3004 RMK AO2 SLP176 T02670100 KGYL 051556Z AUTO 19009KT 10SM CLR 18/01 A3004 RMK AO2 T01830013 DTTL 051500Z AUTO 13004KT 030V200 NCD 21/12 Q1015 KIGM 051551Z AUTO 11018G24KT 10SM CLR 24/M04 A2989 RMK AO2 SLP055 T02391039 WBGY 051500Z 00000KT 9999 SCT022 BKN150 25/24 Q1010 KHPN 051556Z 02010KT 10SM BKN020 12/06 A2969 RMK AO2 SLP055 T01170056 DTTN 051500Z 04009KT 9999 FEW020 28/13 Q1011 KGXY 051555Z 23003KT 10SM CLR 18/04 A3013 RMK AO1 KHQG 051535Z AUTO 16013G17KT 10SM CLR 23/07 A3012 RMK AO2 T02300069 KGZH 051553Z AUTO 34008KT 300V020 10SM CLR 21/04 A2993 RMK AO2 SLP132 T02110039 TSNO KIGQ 051555Z AUTO 02014G18KT 10SM SCT015 09/04 A3001 RMK AO2 T00860044 KGYR 051547Z 00000KT 10SM SCT250 27/M02 A2986 KHQI 051555Z AUTO 27019KT 10SM CLR A3004 RMK A01 DTTR 051500Z 14006KT CAVOK 32/M02 Q1014 KK88 051555Z AUTO 34005KT 10SM CLR 20/06 A3011 RMK AO1 T01970057 KIIB 051555Z AUTO 03007KT 10SM CLR 15/02 A3009 RMK AO2 KGZL 051555Z AUTO 28004KT 10SM 20/03 A3010 RMK AO2 PWINO TSNO KHQM 051553Z AUTO 15004KT 5SM BR SCT015 11/09 A3006 RMK AO2 SLP183 T01110089 KGZN 051540Z AUTO 05005KT 10SM CLR 23/10 A3013 RMK AO2 FZRANO EKVD 051420Z 14010KT 100V170 CAVOK 16/02 Q1027 KIGX 051556Z AUTO 28011KT 4SM RA BR BKN015 BKN021 OVC028 12/09 A2960 RMK AO2 RAB17 SLP021 P0011 T01170094 TSNO WARR 051530Z 06005KT 7000 FEW018TCU 29/26 Q1009 NOSIG USRR 051530Z 34010G15MPS 7000 SCT012 BKN040CB 01/M01 Q1009 R25/250255 NOSIG RMK QFE752 DTTX 051500Z 10010KT 9999 SCT030 20/13 Q1014 NOSIG KGYY 051545Z 36015G25KT 20SM BKN010 09/07 A3003 EKVG 051550Z AUTO 25013KT 210V280 9999NDV OVC008/// 07/06 Q0999 DTTZ 051500Z 15008KT 120V190 8000 FEW030 31/M03 Q1012 NOSIG KHRI 051553Z AUTO 28007KT 10SM FEW120 16/11 A2992 RMK AO2 SLP128 T01610111 KHSA 051555Z 36008KT 10SM CLR 23/09 A2994 UUBC 051500Z 34002MPS 9999 OVC044 08/06 Q1016 R31/250240 NOSIG RMK QFE745/0994 KHRJ 051550Z AUTO 34008KT 310V040 10SM SCT014 BKN019 OVC026 16/11 A2956 RMK AO2 T01580106 KHSB 051555Z AUTO 36010G16KT 10SM BKN024 OVC030 10/06 A2999 RMK AO2 T01030056 KHRL 051552Z 20007KT 10SM CLR 29/13 A3006 RMK AO2 SLP178 T02940133 KJAC 051551Z 00000KT 10SM CLR 12/M01 A3014 KHQU 051535Z AUTO 30011G18KT 10SM SCT045 SCT050 18/08 A2976 RMK AO1 T01840083 KIJD 051552Z AUTO 03012KT 10SM OVC016 11/05 A2973 RMK AO2 PK WND 02026/1532 SLP066 T01060050 KHSD 051555Z AUTO 10SM CLR 22/06 A3011 RMK A01 KHSE 051551Z AUTO 03011G19KT 10SM OVC005 16/13 A2951 RMK AO2 SLP991 T01560133 TSNO KHRO 051553Z AUTO 33007G19KT 10SM CLR 19/05 A3006 RMK AO2 SLP172 T01890050 ELLX 051550Z 10009KT 050V160 CAVOK 19/05 Q1019 NOSIG KHSG 051535Z AUTO 22004KT 10SM CLR 18/03 A3003 RMK AO2 T01800025 USSS 051530Z 12002MPS CAVOK 15/M04 Q1013 R26R/010060 NOSIG RMK QFE739/0986 KHQZ 051550Z 35003KT 10SM CLR 23/07 A3011 WBKK 051530Z 11003KT 9999 FEW015 BKN290 28/25 Q1008 NOSIG KHSI 051553Z AUTO VRB04KT 10SM CLR 21/03 A3011 RMK AO2 SLP190 T02060028 WBKL 051500Z 21001KT 9999 FEW012 FEW015CB SCT140 BKN290 28/27 Q1009 RETS KL18 051555Z AUTO 09003KT 10SM SCT014 OVC040 14/11 A2993 RMK AO2 KHRT 051558Z AUTO 35009KT 290V030 10SM CLR 23/10 A2988 RMK AO2 SLP120 T02270095 $ UUBP 051530Z 02005MPS 9999 BKN020CB 15/M00 Q1015 R34/CLRD70 NOSIG RMK QFE744/0992 KJAN 051554Z 35007KT 10SM CLR 22/07 A2998 RMK AO2 SLP149 T02170067 KHRX 051555Z AUTO 17003KT 10SM CLR 21/05 A3017 RMK AO2 T02130048 USTR 051530Z 26002MPS CAVOK 15/M04 Q1013 R21/CLRD65 NOSIG RMK QFE750/1000 KHSP 051555Z AUTO 35010G15KT 10SM -RA OVC003 05/05 A2964 RMK AO2 P0002 T00460046 KIIY 051535Z AUTO 33005G19KT 7SM SCT046 15/04 A2973 RMK AO2 WBKS 051500Z 17002KT 9999 FEW015 BKN290 29/26 Q1010 KJAQ 051555Z AUTO 00000KT 10SM OVC011 12/09 A2987 RMK AO1 T01160089 WATT 051500Z 13002KT 5000 -RA FEW014CB BKN014 25/24 Q1011 NOSIG RMK CB OVER THE FIELD WBKT 051500Z 13004KT 9999 FEW015 BKN280 28/26 Q1010 KJCA 051555Z AUTO 33012G21KT 310V010 10SM SCT050 SCT060 14/04 A2976 RMK AO2 KJAS 051555Z AUTO 06005KT 10SM CLR 22/08 A3007 RMK AO2 T02240080 KHUA 051558Z AUTO 33015G19KT 10SM FEW055 17/05 A2985 RMK AO2 SLP108 T01690046 UUDD 051530Z 01006MPS CAVOK 12/04 Q1016 R88/010095 NOSIG KHST 051558Z AUTO 31015G22KT 10SM CLR 25/14 A2983 RMK AO2 SLP105 T02520138 KIKK 051535Z AUTO 02010G15KT 340V040 10SM CLR 12/06 A2999 RMK AO2 T01210055 UUBW 051530Z 36004MPS CAVOK 13/05 Q1016 R30/010060 NOSIG WBKW 051500Z 35003KT 9999 FEW017 SCT140 BKN300 26/25 Q1010 KHTL 051553Z AUTO 32007KT 10SM SCT013 12/07 A2997 RMK AO2 SLP154 T01170067 KHSV 051553Z 31012G22KT 10SM FEW050 18/04 A2986 RMK AO2 SLP107 T01780044 KILE 051556Z AUTO 05005KT 9SM CLR 24/10 A3011 RMK AO2 SLP206 T02390100 KHUF 051553Z 36011KT 10SM R05/4000VP6000FT 10/06 A2995 RMK AO2 SLP144 T01000061 $ KJAX 051556Z 30017G30KT 10SM FEW040 23/04 A2975 RMK AO2 PK WND 29030/1549 SLP075 T02280039 $ KHTO 051555Z AUTO 04009G20KT 10SM OVC015 10/06 A2968 RMK AO2 T00950056 KIJX 051535Z AUTO 01009KT 10SM CLR 13/04 A3004 RMK AO2 T01260035 KILG 051551Z 04009KT 10SM OVC020 11/07 A2969 RMK AO2 RAB32E42 SLP054 P0000 T01110067 KL35 051535Z AUTO 26005KT 10SM CLR 11/M08 A2994 RMK AO2 KJBR 051553Z AUTO 35008G15KT 10SM CLR 18/03 A2999 RMK AO2 SLP155 T01830033 $ UUDL 051530Z 00000MPS CAVOK 13/11 Q1018 R23/290295 NOSIG RMK QFE755 KHTS 051551Z 35007KT 10SM FEW025 BKN035 OVC043 11/03 A2978 RMK AO2 SLP085 T01110033 KL38 051555Z AUTO 35009KT 10SM CLR 24/10 A2996 RMK AO2 T02400095 KIKT 051555Z AUTO 31009G16KT 260V330 10SM CLR 27/17 A2992 RMK A01 UUEE 051530Z 02005MPS 9999 SCT033 12/05 Q1017 R06L/CLRD62 R06R/CLRD62 NOSIG KHUL 051553Z AUTO 02012KT 9SM OVC013 06/03 A2992 RMK AO2 SLP134 T00610033 KILM 051553Z AUTO 12010KT 10SM BKN028 BKN038 BKN095 21/16 A2950 RMK AO2 LTG DSNT N SLP989 T02110156 KHUM 051447Z 35007KT 7SM SKC 23/14 A2996 KJDD 051555Z AUTO 34006KT 10SM CLR 22/09 A3010 RMK AO2 KIKV 051555Z AUTO 00000KT 10SM SCT120 15/01 A3011 RMK AO2 KIKW 051553Z AUTO 33005KT 10SM SCT028 15/08 A2994 RMK AO2 T01500082 KILN 051554Z AUTO 33014KT 10SM OVC022 09/03 A2983 RMK AO2 SLP112 T00890033 KHVE 051555Z AUTO 00000KT 10SM CLR 16/02 A3007 RMK AO2 FCPP 051500Z 17006KT 9999 FEW013 FEW030CB 27/24 Q1010 NOSIG KHUT 051552Z VRB03KT 10SM CLR 21/06 A3013 RMK AO2 SLP191 T02110061 KJCT 051551Z AUTO 00000KT 10SM CLR 25/08 A3013 RMK AO2 SLP174 T02500083 UTNN 051530Z 08005KT CAVOK 16/15 Q1008 R33/250055 NOSIG EKYT 051550Z 11010KT 9999 FEW043 16/05 Q1026 KIML 051553Z AUTO 19013KT 10SM CLR 22/06 A3009 RMK AO2 SLP172 T02220056 KHWD 051554Z 00000KT 10SM BKN022 BKN028 OVC047 17/10 A2986 RMK AO2 SLP122 T01670100 KIND 051554Z 35009KT 8SM -DZ OVC007 09/07 A2990 RMK AO2 DZB01 SLP128 P0000 T00890067 KJDN 051548Z AUTO 27009KT 23/09 A2985 RMK AO1 SLP093 T02330089 KHVN 051553Z 04013G19KT 10SM OVC023 12/06 A2969 RMK AO2 SLP055 T01170061 KJEF 051553Z 33009G19KT 10SM CLR 17/00 A3006 RMK AO2 SLP171 T01670000 KINF 051555Z AUTO 27006KT 10SM CLR 24/12 A2983 RMK AO2 ZYTL 051530Z 13004MPS 0900 R10/P2000D FG SCT002 SCT003 BKN033 10/10 Q1004 NOSIG KHVR 051553Z AUTO 21010KT 10SM CLR 17/07 A2987 RMK AO2 SLP106 T01720072 UTNU 051530Z 05007KT CAVOK 18/14 Q1007 R31/CLRD70 NOSIG KHVS 051555Z AUTO 31005KT 10SM BKN034 OVC040 15/07 A2961 RMK AO2 KIMS 051551Z AUTO 32007KT 10SM BKN023 OVC031 10/03 A2990 RMK AO1 KINJ 051555Z AUTO 00000KT 10SM CLR 23/07 A3012 RMK AO2 T02310065 KIMT 051554Z AUTO VRB04KT 10SM CLR 13/01 A3001 RMK AO2 SLP169 T01280011 TSNO KINK 051553Z AUTO VRB04KT CLR 25/01 A3014 RMK AO2 SLP167 T02500006 TSNO $ KIOB 051535Z AUTO 03009G14KT 10SM BKN018 OVC023 07/05 A2983 RMK AO2 KINL 051555Z AUTO 20011G19KT 10SM CLR 21/03 A2983 RMK AO2 SLP108 T02060028 KHXD 051450Z 29010G23KT 10SM SKC 20/07 A2968 LLWSA KHWO 051553Z 31019G25KT 10SM CLR 26/10 A2984 RMK AO2 PK WND 33027/1542 SLP104 T02610100 KJER 051553Z AUTO 19007KT 10SM CLR 14/07 A2993 RMK AO2 SLP109 T01440067 KHYA 051556Z 02019G27KT 1 1/2SM RA BR OVC005 07/06 A2968 RMK AO2 PK WND 01028/1533 RAB00 SLP050 P0005 T00720061 KINS 051458Z AUTO 12016G23KT 10SM CLR 21/00 A2979 RMK AO2 PK WND 13031/57 SLP044 T02101003 50001 KJES 051555Z AUTO 32018G27KT 10SM CLR 21/07 A2974 RMK AO2 KJFK 051551Z 03014KT 10SM OVC021 12/06 A2971 RMK AO2 SLP059 T01170056 $ KINT 051554Z 36009KT 10SM -RA BKN055 OVC070 10/08 A2965 RMK AO2 SLP037 P0003 T01000078 ZYTX 051530Z 00000MPS 9999 OVC033 11/10 Q1005 NOSIG ENAL 051550Z 19012KT 160V230 9999 SCT062 BKN110 15/04 Q1017 KHWV 051556Z AUTO 02010G22KT 360V060 10SM OVC017 10/06 A2970 RMK AO2 SLP056 T01000056 TSNO KINW 051556Z AUTO 12010KT 10SM CLR 23/M01 A3005 RMK AO2 SLP110 T02281011 ENAN 051550Z 24006KT 9999 -SHRA SCT025 BKN035 OVC045 09/05 Q1019 KHWY 051555Z AUTO 02005KT 7SM SCT009 BKN013 OVC018 12/09 A2967 RMK AO2 P0001 T01170085 KJGG 051555Z AUTO 00000KT 10SM CLR 14/11 A2962 RMK AO1 KHYI 051547Z 04007KT 10SM CLR M/M A3010 FDJR 051500Z AUTO 05003KT //// // ////// 19/M13 Q1023 KIPJ 051550Z AUTO 32005KT 10SM BKN050 BKN070 OVC080 15/02 A2965 RMK AO2 T01480018 FDLB 051500Z AUTO 35001KT //// // ////// 25/09 Q1023 ENAT 051550Z 17006KT CAVOK 11/M01 Q1020 RMK WIND 700FT 20011KT KIPL 051553Z AUTO 27020G30KT 2 1/2SM HZ BKN008 22/08 A2978 RMK AO2 PK WND 27030/1547 SLP083 T02170078 ENBL 051550Z 17018G29KT 9999 BKN045 11/02 Q1019 KIOW 051552Z AUTO 02007KT 10SM CLR 14/04 A3010 RMK AO2 SLP194 T01440039 KHZE 051555Z AUTO 22013KT 10SM CLR 25/05 A2989 RMK AO2 TSNO KIPN 051555Z AUTO 29020KT 10SM FEW027 24/18 A2991 RMK A01 ENBN 051550Z 16007KT 130V190 9999 FEW050 BKN075 12/02 Q1019 KJFX 051555Z AUTO 29010G19KT 260V320 9SM CLR 20/08 A2990 RMK AO2 PWINO ENBO 051520Z 12003KT CAVOK 12/00 Q1020 NOSIG UTSA 051530Z 32014KT 270V360 9999 -TSRA SCT025CB BKN060 OVC083 21/15 Q1010 R07/CLRD70 NOSIG KJFZ 051555Z AUTO 30007KT 10SM OVC034 07/M03 A2972 RMK AO2 T00711033 UTSB 051530Z 04011KT 9999 TS BKN050CB OVC100 21/15 Q1007 R01/290055 NOSIG WBSB 051530Z 08001KT 9999 FEW012 FEW015CB SCT140 BKN300 26/24 Q1009 RETS NOSIG KHYR 051553Z AUTO 21008KT 10SM FEW100 15/M01 A3001 RMK AO2 SLP171 T01501006 ENBR 051550Z 17023KT CAVOK 13/04 Q1020 NOSIG RMK WIND 1200FT 17029G41KT KHYS 051555Z 18004KT 10SM CLR 21/07 A3013 RMK AO1 ENBS 051550Z 23012KT 9999 SCT063 07/01 Q1021 KIPT 051554Z 01011KT 10SM OVC030 14/06 A2971 RMK AO2 SLP061 T01390061 KHZL 051555Z AUTO 03004KT 10SM OVC018 10/06 A2972 RMK AO2 ENBV 051150Z 23014KT 9999 FEW050 10/06 Q1021 KHYW 051555Z AUTO 25006G14KT 7SM BKN032 19/11 A2956 RMK AO2 KJHN 051555Z AUTO 13010KT 10SM CLR 22/08 A3010 RMK AO2 T02160080 ENCN 051550Z 19009KT 9999 FEW040 12/07 Q1026 KHYX 051555Z AUTO 02012KT 10SM OVC015 12/08 A2994 RMK AO2 UTSK 051530Z 08008KT 9999 FEW050CB BKN100 26/12 Q1007 R16/CLRD70 KHZR 051535Z AUTO 35006KT 320V020 10SM CLR 23/11 A3000 RMK AO2 T02270107 KIRK 051555Z AUTO 36010KT 10SM CLR 16/03 A3009 RMK AO2 SLP194 T01560028 KJHW 051555Z AUTO 06008KT 10SM FEW028 SCT042 OVC050 13/06 A2975 RMK AO1 KHZX 051554Z AUTO 20010KT 10SM CLR 15/00 A2998 RMK AO2 KHZY 051553Z AUTO 03009KT 10SM BKN008 OVC013 11/08 A2979 RMK AO2 CIG 007V011 SLP089 T01110083 TSNO UTSS 051530Z 12004KT 080V150 6000 SCT066CB 21/10 Q1010 R88/CLRD70 NOSIG RMK FLASHES W UTST 051530Z 01004KT CAVOK 28/04 Q1009 R88/CLRD70 NOSIG VLLB 051200Z 00000KT 9999 FEW019 33/23 Q1005 NOSIG ENDR 051550Z AUTO 17016KT 150V220 10/04 Q1016 KIRS 051555Z AUTO 35008KT 10SM CLR 13/08 A2991 RMK AO2 T01300076 KJKA 051555Z AUTO 35009KT 310V010 10SM CLR 23/12 A2991 RMK AO2 T02250115 FDMS 051500Z 08006KT CAVOK 22/12 Q1022 NOSIG KM19 051556Z AUTO 36011KT 10SM CLR 19/03 A3002 RMK AO2 T01940033 SLP164 ENEK 051550Z 15025KT CAVOK 09/06 Q1020 W08/S4 ENFB 051550Z AUTO 19034KT 9999NDV BKN012/// 09/07 Q1013 W///S5 KM21 051555Z AUTO 34009G17KT 10SM BKN027 OVC033 09/04 A2992 RMK AO2 T00920039 KISM 051546Z 29012G20KT 10SM FEW050 24/13 A2981 ENDU 051550Z 26005KT 210V300 9999 VCSH FEW040 SCT100 BKN160 11/M01 Q1019 FDMV 051500Z AUTO 07004KT //// // ////// 25/13 Q1027 KISN 051552Z AUTO 19006KT 10SM CLR 23/08 A2984 RMK AO2 SLP100 T02280083 KISO 051456Z 05007KT 7SM OVC012 16/13 A2954 RMK AO2 FEFF 051500Z 14006KT 110V180 9999 BKN020 29/24 Q1010 NOSIG KISP 051556Z 02011G21KT 10SM OVC019 10/06 A2969 RMK AO2 SLP055 T01000056 KM25 051555Z AUTO 33011G18KT 10SM SCT043 A2995 RMK AO2 LBBG 051530Z 04006KT 9999 SCT019 BKN038 14/12 Q1011 NOSIG KITH 051556Z 04007KT 10SM OVC023 11/06 A2977 RMK AO2 SLP083 T01110061 KISQ 051554Z AUTO 34007KT 10SM CLR 12/03 A3001 RMK AO2 T01150025 UTTT 051530Z 09004KT 9999 SCT066CB 25/10 Q1010 R08R/CLRD70 NOSIG KJKJ 051554Z AUTO 20009KT 10SM CLR 22/05 A2991 RMK AO2 KM30 051535Z AUTO 34010G19KT 10SM BKN034 BKN040 13/07 A2996 RMK AO2 T01310066 VLLN 051200Z 22002KT 8000 FEW050 30/24 Q1007 NOSIG KJKL 051553Z AUTO VRB03KT 10SM FEW016 SCT029 OVC037 08/04 A2979 RMK AO2 SLP089 T00830044 ENFL 051550Z 18029KT 9999 FEW040 SCT055 BKN070 13/03 Q1018 ENGC 051550Z 19035KT 7000 FEW010 SCT025 BKN050 08/08 Q1013 W07/S5 ENEV 051550Z 23008KT 9999 BKN062 11/02 Q1020 RMK WIND 1400FT 23015KT KISW 051554Z AUTO 31006KT 10SM CLR 13/01 A3006 RMK AO2 SLP185 T01330006 KM33 051555Z AUTO 33012G19KT 10SM SCT026 OVC033 11/05 A2989 RMK A01 KITR 051553Z AUTO 19013KT 10SM CLR 21/04 A3013 RMK AO2 SLP165 T02110044 KM40 051555Z AUTO 30013G20KT 7SM CLR 20/11 A2994 RMK AO2 FEFT 051000Z 24012KT 9999 BKN017 SCT020 28/24 Q1013 UUMO 051530Z 05006MPS CAVOK 12/04 Q1016 R08/090060 NOSIG RMK QFE747/0996 KJLN 051553Z 31011KT 10SM CLR 20/07 A3009 RMK AO2 SLP186 T02000067 ENGM 051550Z 20014KT CAVOK 14/02 Q1024 NOSIG ENHD 051550Z 17021KT CAVOK 13/03 Q1022 ENHE 051550Z 19025KT 9999 BKN050 09/05 Q1016 W///S5 ENHF 051550Z 26005KT 9999 -RA SCT024 BKN040 08/03 Q1020 RMK WIND 1254FT /////KT FDPP 051200Z AUTO 07004KT //// // ////// ///// Q1026 UUOB 051530Z 25002MPS 9999 BKN043CB 14/07 Q1013 R11/090060 NOSIG KIWA 051547Z 13011KT 45SM SCT250 26/M02 A2989 ENHK 051250Z 13003KT 9999 BKN045 09/02 Q1021 KIWD 051555Z 22008KT 10SM CLR 14/M01 A2997 RMK AO1